Warning: file_exists(): in /var/www/customers/vh-7192/web/home/phpvms/core/classes/TemplateSet.class.php on line 96
Airports - MATRA Airlines
Sign-in with your pilot id or email, or register
´╗┐
ICAO: Name / Country: /
Latitude: Longitude:
Total Arrivals:
Strict Standards: Non-static method AirportData::getarrflights() should not be called statically, assuming $this from incompatible context in /var/www/customers/vh-7192/web/home/phpvms/core/templates/airport_info.tpl on line 18
0
Total Departures:
Strict Standards: Non-static method AirportData::getdeptflights() should not be called statically, assuming $this from incompatible context in /var/www/customers/vh-7192/web/home/phpvms/core/templates/airport_info.tpl on line 21
0
Latest Arrival: (-) Latest Departure: (-)
Metar: AGGH 261500Z 16003KT 9999 FEW015 FEW016CB SCT030 24/23 Q1011 RMK ANYN 261500Z 04003KT 9999 FEW020 26/22 Q1011 AYPY 261500Z 15010KT 9999 FEW025 BKN035 25/24 Q1010 BGBW 261550Z 30002KT 9999 FEW080 BKN120 07/M01 Q0997 BGGH 261550Z 06007KT 9999 FEW015 BKN075 06/01 Q0998 BGJN 261450Z 36007KT 9999 -RASN SCT005 BKN025 BKN040 M00/M01 Q0997 BGKK 261550Z 02002KT 8000 -SHRASN VCFG BKN004 BKN010 OVC030 01/00 Q0993 BGSF 261550Z AUTO 27004KT 9999NDV -SH BKN013/// BKN017/// OVC023/// 03/02 Q0998 BGTL 261556Z AUTO 11005KT 9999 CLR M06/M11 A2952 RMK AO2 SLP984 T10611112 TSNO $ BIAR 261500Z 17013KT 140V200 9999 FEW048 BKN100 13/05 Q1005 BIEG 261500Z 17022KT 9999 SCT040 OVC120 10/04 Q1010 BIIS 261500Z 21005G17KT 180V240 9999 VCSH BKN030 BKN040 10/04 Q1000 BIKF 261530Z 18025KT 2500 R19/1200N -DZRA BR OVC004 09/09 Q1002 BIRK 261524Z 17021KT 4000 -RADZ BR OVC013 10/08 Q1003 BIVM 261600Z 17017KT 0800 RA FG OVC002 09/09 Q1006 BKPR 261600Z 23011KT 9999 SCT050 SCT090 14/06 Q0999 NOSIG CAHR 261500Z AUTO 20011KT 18/06 RMK AO1 SLP210 T01750060 58008 CBBC 261548Z AUTO 18006KT 6SM -RA BR FEW016 BKN045 BKN060 OVC100 10/09 A2989 RMK SLP123 CERM 261500Z AUTO 14004KT 15/07 RMK AO1 SLP167 T01520073 58020 CMFM 261500Z AUTO 22009G15KT 15/12 RMK AO1 SLP179 T01530118 56007 CMGB 261500Z AUTO 20004KT 22/ RMK AO1 SLP160 T0224 58007 CPBT 261500Z AUTO 28017KT 10/00 RMK AO1 PK WND 28027/1407 T01030000 CPEH 261500Z AUTO 31005KT 09/05 RMK AO1 PK WND 00017/1400 T00930046 CPFI 261500Z AUTO 32008KT 09/06 RMK AO1 PK WND 30021/1418 T00920062 CPIR 261500Z AUTO 30005KT 09/04 RMK AO1 T00900040 CPRO 261500Z AUTO 28005KT 08/06 RMK AO1 PK WND 32017/1400 T00830057 CPRY 261500Z AUTO 29017KT 11/01 RMK AO1 PK WND 28029/1419 T01120005 CPST 261500Z AUTO 29008KT 08/03 RMK AO1 T00800029 CPSV 261500Z AUTO 30020KT 10/05 RMK AO1 PK WND 30028/1450 T00970054 CPXL 261500Z AUTO 33010KT 10/05 RMK AO1 PK WND 34023/1459 T01000050 CTCK 261500Z AUTO 23005KT 22/15 RMK AO1 SLP144 T02160152 56014 CTNK 261500Z AUTO 22004KT 21/13 RMK AO1 SLP130 T02090134 58012 CWAE 261500Z 18003KT 12SM SCT008 BKN021 OVC033 07/07 A2999 RMK ST4SC3SC1 WND ESTD SLP163 CWAF 261500Z AUTO 06003KT 09/05 RMK AO1 T00940051 CWAJ 261500Z AUTO 19008KT 20/18 RMK AO1 SLP138 T02020180 58006 CWAQ 261500Z AUTO 26017G23KT 13/02 RMK AO1 PK WND 25025/1447 SLP991 T01290021 55002 CWAV 261500Z AUTO 22002KT 06/02 RMK AO1 SLP070 T00620024 51015 CWBA 261500Z AUTO 16006KT 20/14 RMK AO1 T01980140 CWBE 261500Z AUTO 20002KT 16/14 RMK AO1 SLP098 T01600135 55005 CWBK 261500Z AUTO 20006KT 19/08 RMK AO1 SLP215 T01940077 58008 CWBO 261500Z AUTO 35010KT 10/04 RMK AO1 PK WND 34024/1418 SLP056 T00950035 51041 CWBS 261500Z AUTO 05004KT 13/10 RMK AO1 T01270103 CWBT 261500Z AUTO 08004KT 08/02 RMK AO1 SLP175 T00820020 58009 CWBU 261500Z AUTO 27002KT 07/04 RMK AO1 SLP938 T00650037 53001 CWBV 261500Z AUTO 18008KT 16/10 RMK AO1 T01600104 CWBY 261500Z AUTO 15006KT 10/02 RMK AO1 SLP173 T00950018 58014 CWBZ 261500Z AUTO 23001KT 23/15 RMK AO1 SLP150 T02250146 56012 CWCF 261500Z AUTO 15004KT 12/07 RMK AO1 SLP952 T01230074 56010 CWCI 261500Z AUTO 09006KT 12/12 RMK AO1 SLP050 T01240123 58001 CWCJ 261500Z AUTO 26001KT 14/14 RMK AO1 SLP052 T01420137 50001 CWCO 261500Z AUTO 20007KT 25/14 RMK AO1 T02490143 CWCT 261500Z AUTO 31018G24KT 10/03 RMK AO1 PK WND 31027/1448 SLP037 T01000031 52022 CWDA 261500Z AUTO 10/ RMK AO1 SLP144 T0100 50006 CWDC 261500Z AUTO 06/05 RMK AO1 SLP976 T00600049 53015 CWDJ 261500Z AUTO 24012KT 09/03 RMK AO1 SLP971 T00930028 56005 CWDK 261500Z AUTO 01005KT 10/01 RMK AO1 SLP086 T00980005 53034 CWDM 261500Z AUTO 25010G16KT 11/02 RMK AO1 SLP177 T01120015 50002 CWDO 261500Z AUTO 27015G24KT 11/01 RMK AO1 PK WND 27027/1400 SLP151 T01050009 51012 CWDQ 261500Z AUTO 16004KT 18/ RMK AO1 SLP147 T0176 58012 CWDV 261500Z AUTO 19005KT 14/13 RMK AO1 SLP030 T01420127 58008 CWDZ 261500Z AUTO 33004KT 10/07 RMK AO1 1021 SLP049 T00960069 50013 CWEB 261500Z AUTO 13008KT 11/11 RMK AO1 SLP156 T01120112 53009 CWEF 261500Z AUTO 14/ RMK AO1 SLP212 T0143 50003 CWEH 261500Z AUTO 27011KT 08/M00 RMK AO1 PK WND 26022/1431 SLP023 T00781001 53014 CWEK 261500Z AUTO 14014KT 11/09 RMK AO1 2022 SLP083 T01060086 50008 CWEL 261500Z AUTO 19006KT 15/10 RMK AO1 SLP160 T01460103 53010 CWEP 261500Z AUTO 18012KT RMK AO1 PK WND 21017/1405 58007 CWEQ 261500Z AUTO 24006KT 12/05 RMK AO1 SLP951 T01200048 57004 CWER 261500Z AUTO 24007KT RMK AO1 CWEU 261526Z 33003KT 3SM -SN FEW006 BKN014 BKN100 M06/M07 A2970 RMK ST1ST6AC1 ST TR SLP070 CWEW 261500Z AUTO 32001KT 17/12 RMK AO1 SLP170 T01660117 56006 CWEZ 261500Z AUTO RMK AO1 CWFF 261500Z AUTO 21007KT 13/06 RMK AO1 SLP939 T01260059 53001 CWFJ 261500Z AUTO 27011G19KT 10/M01 RMK AO1 PK WND 27021/1430 T00951009 CWFQ 261500Z AUTO 04005KT 22/15 RMK AO1 SLP163 T02240154 58007 CWGD 261500Z AUTO 19012G18KT 22/14 RMK AO1 PK WND 20018/1458 SLP134 T02180140 56009 CWGH 261500Z AUTO 21003KT 22/14 RMK AO1 SLP161 T02150135 56007 CWGL 261500Z AUTO 18011KT 18/16 RMK AO1 SLP116 T01840159 58012 CWGM 261500Z AUTO 23013G19KT 09/M01 RMK AO1 PK WND 26025/1418 T00891006 CWGR 261500Z AUTO 18011G17KT 15/10 RMK AO1 PK WND 18017/1456 SLP204 T01540095 58010 CWGT 261500Z AUTO 11011KT 13/09 RMK AO1 SLP155 T01340088 53009 CWGW 261500Z AUTO 19002KT 06/02 RMK AO1 SLP123 T00640018 51021 CWGX 261500Z AUTO 25008KT 11/09 RMK AO1 SLP918 T01070087 53002 CWGY 261500Z AUTO 28016G21KT 10/05 RMK AO1 PK WND 29026/1413 SLP021 T01020054 51026 CWGZ 261500Z 03013KT 15SM FEW055 BKN090 M04/M10 A2972 RMK SC1AC6 SLP071 CWHI 261500Z AUTO 27008KT 08/05 RMK AO1 T00840052 CWHL 261500Z AUTO 08006KT 10/08 RMK AO1 2PAST HR 3019 PK WND 13019/1401 SLP087 P0001 T01010075 50002 CWHN 261509Z AUTO 30009G15KT 270V020 9SM -RA FEW048 09/07 A2945 CWHO 261500Z AUTO 07/M01 RMK AO1 22 1018 SLP093 T00731014 CWHP 261500Z AUTO 20006KT 09/07 RMK AO1 SLP191 T00940067 58009 CWHQ 261500Z AUTO 16002KT 17/ RMK AO1 T0168 CWHT 261500Z AUTO 00000KT M01/M01 RMK AO1 SLP038 T10081014 52018 CWHV 261500Z AUTO 12006KT 18/12 RMK AO1 SLP167 T01750121 58015 CWID 261500Z AUTO 34002KT 08/07 RMK AO1 SLP995 T00770072 52014 CWIG 261500Z AUTO 25010KT RMK AO1 CWII 261500Z AUTO 21016G21KT 14/08 RMK AO1 PK WND 21021/1456 SLP981 T01440082 55002 CWIJ 261400Z AUTO 11012KT 02/01 RMK AO1 SLP049 T00210013 52012 CWIK 261500Z AUTO 25009KT 12/04 RMK AO1 SLP972 T01190040 56011 CWIL 261500Z AUTO 09012KT ////SM OVC003 02/02 A2986 CWIS 261500Z AUTO 23005KT 15/11 RMK AO1 SLP169 T01500109 56007 CWIT 261500Z AUTO 10003KT 23/15 RMK AO1 SLP155 T02290148 57009 CWIW 261500Z AUTO 28010G15KT 10/08 RMK AO1 SLP952 T00950080 53002 CWIZ 261500Z AUTO 18010KT 22/15 RMK AO1 T02190150 CWJB 261500Z AUTO 33001KT 16/ RMK AO1 T0159 CWJC 261500Z AUTO 06016G22KT 02/02 RMK AO1 5PAST HR M PK WND 06022/1442 SLP985 P0002 T00150020 CWJD 261500Z AUTO 08001KT 12/07 RMK AO1 SLP935 T01240066 58010 CWJH 261500Z AUTO 29003KT 09/08 RMK AO1 SLP944 T00930078 51002 CWJI 261500Z AUTO 26017G24KT 12/03 RMK AO1 PK WND 27024/1454 SLP988 T01240027 53002 CWJO 261500Z AUTO 10003KT 16/10 RMK AO1 0PAST HR 8021 SLP140 P0004 T01570104 50010 CWJR 261500Z AUTO 10002KT 07/06 RMK AO1 2PAST HR 3021 SLP161 P0001 T00730060 50002 CWJT 261500Z AUTO 19002KT 19/15 RMK AO1 SLP154 T01880148 58008 CWJU 261500Z AUTO 22010G15KT 10/08 RMK AO1 3029 SLP080 T00950075 50010 CWJV 261500Z AUTO 10002KT 09/05 RMK AO1 SLP138 T00910048 53012 CWJW 261500Z AUTO 16004KT 06/03 RMK AO1 SLP089 T00580026 53015 CWJX 261500Z AUTO 32019G28KT 12/04 RMK AO1 PK WND 32028/1458 SLP009 T01170044 51029 CWKG 261500Z AUTO 25004KT 20/12 RMK AO1 SLP222 T01980124 58006 CWKH 261400Z AUTO 10/ RMK AO1 SLP159 T0103 53006 CWKK 261500Z AUTO 18002KT 14/13 RMK AO1 SLP021 T01380127 58005 CWKO 261500Z AUTO 26019G25KT 11/02 RMK AO1 PK WND 27025/1457 SLP006 T01060016 54000 CWKX 261500Z AUTO 21006KT 05/04 RMK AO1 2024 SLP061 T00460042 50017 CWLB 261500Z AUTO 29009KT 08/06 RMK AO1 3016 SLP011 T00840062 50022 CWLC 261500Z AUTO 14016KT 10/09 RMK AO1 PK WND 14018/1409 T01030087 CWLE 261500Z AUTO 28016KT 11/03 RMK AO1 PK WND 27021/1432 SLP975 T01120028 53009 CWLI 261500Z AUTO 35008KT ////SM //// OVC002 02/02 A2955 CWLM 261500Z AUTO 18004KT 10/09 RMK AO1 SLP175 T00950094 53009 CWLP 261500Z AUTO 13015KT 11/ RMK AO1 3009 PK WND 14019/1415 SLP130 T0107 50002 CWLS 261500Z AUTO 19010G17KT 21/15 RMK AO1 PK WND 20017/1458 SLP135 T02080149 57016 CWLY 261500Z AUTO 21013G24KT 190V250 9SM CLR 12/07 A2992 RMK SLP134 CWME 261500Z AUTO 03003KT 09/08 RMK AO1 6PAST HR M P0002 T00900081 50076 CWMJ 261500Z AUTO 18007KT 17/13 RMK AO1 SLP138 T01740126 58009 CWMM 261500Z AUTO 09002KT 12/10 RMK AO1 1PAST HR 3011 SLP177 P0000 T01180104 50001 CWMQ 261500Z AUTO 27010G16KT 10/04 RMK AO1 PK WND 28023/1401 SLP036 T00960037 53031 CWMT 261500Z AUTO 10003KT 06/06 RMK AO1 SLP009 T00630059 52015 CWMZ 261500Z AUTO 19017KT 19/15 RMK AO1 PK WND 18020/1425 SLP107 T01860146 58008 CWNC 261500Z AUTO 18002KT 20/16 RMK AO1 SLP149 T02030163 58006 CWND 261500Z AUTO 34012KT 01/01 RMK AO1 T00060006 51004 CWNE 261500Z AUTO 23011KT 16/10 RMK AO1 SLP187 T01640095 58015 CWNH 261500Z AUTO 23004KT 15/09 RMK AO1 SLP155 T01530093 58012 CWNK 261500Z AUTO 31003KT 18/05 RMK AO1 T01790048 CWNL 261500Z AUTO 19013KT 16/14 RMK AO1 SLP080 T01580135 55008 CWNM 261500Z AUTO 25007KT 08/06 RMK AO1 SLP160 T00800061 52019 CWNP 261500Z AUTO 13004KT 09/07 RMK AO1 SLP145 T00860067 51016 CWNQ 261500Z AUTO 24002KT 16/12 RMK AO1 SLP163 T01610119 58008 CWNZ 261500Z AUTO 20006KT 16/13 RMK AO1 SLP053 T01560131 53005 CWOB 261518Z AUTO ///// ////SM FEW005 M00/M01 A2967 CWOD 261500Z AUTO 17005KT 15/12 RMK AO1 SLP096 T01470117 58014 CWOE 261500Z AUTO 31020G28KT 10/03 RMK AO1 SOG 01 3030 PK WND 31028/1453 SLP046 T00950026 CWOY 261500Z AUTO 16005KT 10/08 RMK AO1 8001 SLP961 T01030079 50009 CWPC 261500Z AUTO 18009KT 18/14 RMK AO1 SLP157 T01800143 57007 CWPD 261500Z AUTO 19007KT 16/13 RMK AO1 SLP148 T01610132 56009 CWPE 261500Z AUTO 18007KT 13/12 RMK AO1 SLP214 T01290121 58002 CWPF 261545Z AUTO 26002KT 11/08 RMK AO1 SLP177 T01070075 53010 CWPK 261500Z AUTO 25007KT 19/13 RMK AO1 SLP123 T01860134 56007 CWPO 261500Z AUTO 20005KT 15/08 RMK AO1 SLP002 T01520075 58007 CWPR 261500Z AUTO 14001KT 05/03 RMK AO1 SLP163 T00460028 52015 CWPS 261500Z AUTO RMK AO1 56004 CWPX 261500Z AUTO 09018KT ////SM //// OVC002 00/M00 A2978 CWPZ 261500Z AUTO 32002KT M00/M01 RMK AO1 SLP096 T10041009 53019 CWQH 261500Z AUTO 26003KT 22/15 RMK AO1 SLP165 T02160150 58011 CWQK 261500Z AUTO 20004KT 11/ RMK AO1 SLP175 T0114 53008 CWQO 261500Z AUTO 03001KT 08/03 RMK AO1 T00750031 CWQP 261500Z AUTO 18012KT 22/17 RMK AO1 PK WND 18018/1411 SLP166 T02160173 56007 CWQR 261500Z AUTO 05010KT 04/02 RMK AO1 T00420021 CWQS 261500Z AUTO 28005KT 12/09 RMK AO1 3023 SLP088 T01150089 50012 CWQV 261500Z AUTO 11007KT 09/05 RMK AO1 T00880046 CWRJ 261500Z AUTO 30019G26KT 13/05 RMK AO1 PK WND 30028/1441 SLP965 T01260054 53014 CWRK 261500Z AUTO 19005KT 20/15 RMK AO1 SLP142 T02020149 58009 CWRM 261500Z AUTO 23002KT 05/04 RMK AO1 SLP061 T00540036 51014 CWRN 261500Z AUTO 19010KT 17/06 RMK AO1 SLP238 T01740064 58001 CWRO 261500Z AUTO 22007KT 08/07 RMK AO1 SLP081 T00760073 53023 CWRT 261500Z AUTO 31007G17KT 07/M00 RMK AO1 PK WND 30017/1459 T00681004 CWRU 261500Z AUTO 10004KT 12/07 RMK AO1 4PAST HR 2009 PK WND 12018/1434 SLP140 P0009 T01190074 50028 CWRX 261500Z AUTO 28011KT ////SM //// FEW005 SCT090 M01/M02 A2981 CWRY 261500Z AUTO 29015G20KT 12/M01 RMK AO1 PK WND 27026/1403 SLP073 T01161010 51029 CWRZ 261500Z AUTO 21007KT 11/05 RMK AO1 SLP180 T01090052 58012 CWSA 261500Z AUTO 18007KT 9SM CLR 17/14 A3026 RMK SLP249 CWSD 261500Z AUTO 19013G19KT 17/07 RMK AO1 PK WND 19019/1457 SLP204 T01710070 58008 CWSF 261500Z AUTO 10006KT 12/01 RMK AO1 SLP158 T01220013 58020 CWSG 261500Z AUTO 15002KT 08/06 RMK AO1 SLP156 T00790057 58014 CWSK 261500Z AUTO 35001KT 10/10 RMK AO1 SLP163 T01000097 53012 CWSL 261500Z AUTO 21002KT 07/07 RMK AO1 SLP149 T00710067 53013 CWSP 261500Z AUTO 09005KT 11/10 RMK AO1 2PAST HR 3007 SLP178 P0001 T01110100 50012 CWSR 261500Z AUTO 30004KT 09/04 RMK AO1 SLP950 T00910035 53009 CWSS 261500Z AUTO 11004KT 20/12 RMK AO1 SLP200 T01950115 58009 CWST 261500Z AUTO 27007KT 15/09 RMK AO1 SLP157 T01520090 55012 CWSW 261500Z 18005KT 20SM FEW040CB SCT060 SCT068 06/02 A2992 RMK CB1SC2AC1 CB E SLP149 CWTA 261500Z AUTO 06001KT 20/13 RMK AO1 7008 SLP160 T01960128 50002 CWTG 261500Z AUTO 22001KT 06/04 RMK AO1 8014 SLP157 T00630042 50004 CWTN 261500Z AUTO 25005KT 17/09 RMK AO1 SLP157 T01690091 58015 CWTT 261500Z AUTO 23005KT 18/15 RMK AO1 T01840150 CWTY 261500Z AUTO 18002KT 14/11 RMK AO1 SLP158 T01380109 58010 CWUS 261500Z AUTO 28002KT 09/03 RMK AO1 SLP167 T00930033 51018 CWUW 261534Z AUTO 36002KT ////SM BKN003 BKN041 OVC060 M05/M06 A2962 CWUX 261500Z AUTO 04002KT 14/07 RMK AO1 SLP132 T01390068 57020 CWVF 261500Z AUTO 18016KT 13/11 RMK AO1 PK WND 19020/1448 T01320107 CWVI 261500Z AUTO 29012KT 08/05 RMK AO1 SLP023 T00800048 53021 CWVN 261500Z AUTO 27022G28KT 12/01 RMK AO1 PK WND 28028/1453 SLP012 T01210007 53006 CWVP 261500Z AUTO 29009G17KT 05/02 RMK AO1 2PAST HR 3023 PK WND 30027/1409 SLP032 P0001 T00540021 50002 CWVQ 261500Z AUTO 33004KT 18/12 RMK AO1 SLP161 T01780122 56008 CWVT 261500Z AUTO 36004KT 08/08 RMK AO1 3015 SLP985 T00820077 50002 CWVU 261500Z AUTO 15016KT 13/13 RMK AO1 PK WND 15020/1456 SLP215 T01270127 58002 CWWA 261500Z AUTO 09002KT 11/10 RMK AO1 SLP171 T01140100 53012 CWWB 261500Z AUTO 10003KT 21/16 RMK AO1 SLP138 T02060155 58011 CWWE 261500Z AUTO 16007KT 17/15 RMK AO1 SLP228 T01660152 50000 CWWF 261500Z AUTO 27009KT 12/03 RMK AO1 SLP982 T01150032 58004 CWWK 261500Z AUTO 06002KT 12/11 RMK AO1 SLP174 T01220106 53009 CWWL 261500Z AUTO 19011KT 11/08 RMK AO1 3020 SLP088 T01130081 50002 CWWS 261500Z AUTO 14/13 RMK AO1 SLP946 T01360126 58009 CWWX 261500Z AUTO 23010G18KT 18/15 RMK AO1 PK WND 21020/1442 SLP093 T01820153 56008 CWWZ 261500Z AUTO 20008KT 23/14 RMK AO1 SLP142 T02320144 58009 CWXA 261500Z AUTO 25006KT 10/M06 RMK AO1 PK WND 28017/1444 SLP061 T00961059 51019 CWXC 261500Z AUTO 19004KT 16/12 RMK AO1 SLP122 T01610120 58015 CWXI 261500Z AUTO 09/02 RMK AO1 SLP144 T00910024 51007 CWXL 261500Z AUTO 33010G19KT 10/05 RMK AO1 PK WND 31021/1408 SLP067 T01040049 53043 CWYJ 261500Z AUTO 18002KT 11/11 RMK AO1 SLP178 T01080108 53010 CWYL 261500Z AUTO 24013KT 03/02 RMK AO1 1018 SLP101 T00270022 50008 CWYY 261500Z AUTO 10002KT 06/03 RMK AO1 SLP169 T00600031 51019 CWZA 261500Z AUTO 04001KT 13/10 RMK AO1 SLP165 T01260099 51013 CWZG 261500Z AUTO 23005KT 06/M01 RMK AO1 SLP097 T00591006 53020 CWZL 261500Z AUTO 26006KT 10/ RMK AO1 SLP100 T0095 53025 CWZN 261500Z AUTO RMK AO1 CWZO 261500Z AUTO 18012KT RMK AO1 CWZQ 261500Z AUTO 22009KT 17/08 RMK AO1 SLP217 T01740078 58005 CWZW 261500Z AUTO 07001KT 04/03 RMK AO1 SLP039 T00420032 52022 CWZZ 261516Z AUTO VRB12G20KT ////SM SCT003 BKN016 M01/M01 A2964 CXAF 261500Z AUTO 28006KT 06/04 RMK AO1 T00590038 CXAG 261500Z AUTO 29010KT 08/05 RMK AO1 T00760053 CXAJ 261500Z AUTO 26008KT 07/05 RMK AO1 T00670051 CXAK 261500Z AUTO 27009KT 08/08 RMK AO1 T00800080 CXAT 261500Z AUTO 26004KT M03/M07 RMK AO1 SLP100 T10291066 51003 CXBA 261500Z AUTO 30014KT 08/08 RMK AO1 1PAST HR M PK WND 30026/1408 P0008 T00830077 50028 CXBI 261500Z AUTO 18007KT 21/15 RMK AO1 SLP135 T02080146 58013 CXBK 261500Z AUTO 25014G19KT 11/06 RMK AO1 PK WND 26019/1454 SLP965 T01140057 58004 CXBO 261500Z AUTO 28002KT RMK AO1 CXBR 261500Z AUTO 25017KT 09/M01 RMK AO1 PK WND 25025/1432 T00901007 CXBW 261500Z AUTO 28012KT 10/06 RMK AO1 PK WND 32021/1411 T00980056 CXCA 261500Z AUTO 00000KT 14/14 RMK AO1 SLP030 T01360135 55006 CXCD 261500Z AUTO 26008KT 07/03 RMK AO1 T00690030 CXCK 261500Z AUTO 00000KT 01/M00 RMK AO1 SLP037 T00081001 51020 CXCP 261500Z AUTO 32008KT 08/02 RMK AO1 T00800023 CXCS 261500Z AUTO 30018KT 09/04 RMK AO1 PK WND 29023/1459 T00900035 CXDB 261500Z AUTO 27022KT 09/M02 RMK AO1 PK WND 26027/1450 T00901015 CXDE 261500Z AUTO 29004KT 03/03 RMK AO1 SLP031 T00330029 53015 CXDI 261500Z AUTO 20008KT 22/16 RMK AO1 SLP149 T02150158 58007 CXDK 261500Z AUTO 08/05 RMK AO1 SLP015 T00800049 52021 CXDP 261500Z AUTO 26009KT 07/04 RMK AO1 T00680037 CXDW 261500Z AUTO 26003KT 18/05 RMK AO1 SLP984 T01750047 58011 CXEA 261500Z AUTO 13002KT 13/12 RMK AO1 SLP982 T01280117 57012 CXEC 261500Z AUTO 27006KT 09/02 RMK AO1 SLP039 T00870023 51018 CXEG 261500Z AUTO 08/03 RMK AO1 T00770026 CXET 261500Z AUTO 18008KT 21/16 RMK AO1 SLP135 T02110157 58014 CXFM 261500Z AUTO 29016KT 08/06 RMK AO1 5PAST HR M PK WND 29025/1424 P0002 T00790057 50005 CXFR 261500Z AUTO 17002KT 03/01 RMK AO1 T00340008 CXGH 261500Z AUTO 23009KT 16/06 RMK AO1 SLP966 T01570061 55003 CXHA 261500Z AUTO 22007KT 21/16 RMK AO1 SLP135 T02130162 58009 CXHD 261500Z AUTO 30014KT 08/04 RMK AO1 PK WND 30021/1455 T00830035 CXHF 261500Z AUTO 16/13 RMK AO1 T01590127 CXHM 261500Z AUTO 19003KT 23/16 RMK AO1 SLP137 T02320156 58011 CXHP 261500Z AUTO 24010KT 07/03 RMK AO1 T00710026 CXHR 261500Z AUTO 31014KT 09/04 RMK AO1 PK WND 32019/1453 T00940041 CXIB 261500Z AUTO 21003KT 20/05 RMK AO1 SLP220 T02000051 58003 CXKA 261500Z AUTO 23008KT 16/14 RMK AO1 SLP047 T01630141 52008 CXKE 261500Z AUTO 22008KT 22/15 RMK AO1 SLP147 T02210147 57012 CXKI 261500Z AUTO 17/13 RMK AO1 SLP081 T01670129 51002 CXKM 261500Z AUTO 29013KT 08/05 RMK AO1 PK WND 29019/1458 T00760050 CXKT 261500Z AUTO 17002KT 17/08 RMK AO1 SLP218 T01740076 58008 CXLB 261500Z AUTO 12007KT 17/15 RMK AO1 SLP221 T01690150 58005 CXLL 261500Z AUTO 02001KT 07/06 RMK AO1 SLP018 T00740055 CXMD 261500Z AUTO 26003KT 18/06 RMK AO1 SLP982 T01780058 58010 CXMG 261500Z AUTO 16003KT 04/04 RMK AO1 T00370037 CXMI 261500Z AUTO 15010KT 16/14 RMK AO1 SLP227 T01630143 58005 CXMM 261500Z AUTO 00026KT 07/ RMK AO1 SLP982 T0066 53013 CXMO 261500Z AUTO 30009KT 08/06 RMK AO1 T00810055 50014 CXMY 261500Z AUTO 17/05 RMK AO1 T01720051 CXNM 261500Z AUTO 25010KT RMK AO1 PK WND 26019/1401 CXNP 261500Z AUTO 18007KT 17/07 RMK AO1 SLP215 T01650066 58006 CXOL 261500Z AUTO 24007KT 06/06 RMK AO1 T00580056 CXOX 261500Z AUTO 02004KT 09/08 RMK AO1 SLP954 T00900084 53007 CXOY 261500Z AUTO 31016KT 10/07 RMK AO1 PK WND 32026/1415 T00990068 CXPA 261500Z AUTO 23005KT 07/04 RMK AO1 T00650041 CXPC 261500Z AUTO 21/14 RMK AO1 SLP101 T02100142 58010 CXPL 261500Z AUTO 29012KT 09/07 RMK AO1 PK WND 28017/1406 T00910066 50006 CXRB 261500Z AUTO 36003KT M13/M14 RMK AO1 SOG 11 1004 SLP140 T11261143 CXRH 261500Z AUTO 26010G18KT 12/02 RMK AO1 19 T01220023 CXRL 261500Z AUTO 29008KT 08/07 RMK AO1 T00750066 50018 CXSC 261500Z AUTO 31018KT 11/05 RMK AO1 PK WND 30024/1459 T01070051 CXSE 261500Z AUTO 35001KT M05/M06 RMK AO1 SOG 10 1002 SLP159 T10451061 CXSH 261500Z AUTO 21002KT 15/10 RMK AO1 SLP163 T01540096 56009 CXSL 261500Z AUTO 29007KT 07/04 RMK AO1 T00660041 CXSP 261500Z AUTO 28008KT 09/08 RMK AO1 0PAST HR M PK WND 29018/1429 P0004 T00880075 50010 CXTD 261500Z AUTO 18007KT 19/03 RMK AO1 SLP232 T01850026 58005 CXTH 261500Z AUTO 29015KT 08/07 RMK AO1 PK WND 29018/1446 T00780068 50029 CXTN 261500Z AUTO 14022KT 03/02 RMK AO1 7PAST HR SOG 01 M PK WND 14026/1454 SLP018 P0003 T00290019 50011 CXTO 261500Z AUTO 20/14 RMK AO1 SLP148 T02020141 58006 CXTP 261500Z AUTO 28012KT 14/M00 RMK AO1 PK WND 28025/1435 SLP172 T01441003 58002 CXTV 261500Z AUTO 32009KT 01/01 RMK AO1 2PAST HR M SLP032 P0001 T00080007 50002 CXVM 261500Z AUTO 30009KT 09/09 RMK AO1 PK WND 31018/1401 T00870086 CXVN 261500Z AUTO 20010G15KT 23/14 RMK AO1 PK WND 21018/1448 SLP141 T02320140 58008 CXVW 261500Z AUTO 21007KT 05/02 RMK AO1 T00500017 CXWB 261500Z AUTO 15006KT 02/M00 RMK AO1 SLP114 T00181001 50002 CXWM 261500Z AUTO 31015KT 11/02 RMK AO1 PK WND 29024/1433 T01080024 CXWN 261500Z AUTO 34001KT 16/07 RMK AO1 SLP980 T01630070 58011 CXYH 261500Z AUTO 00000KT 07/06 RMK AO1 SLP006 T00690062 53020 CXZC 261500Z AUTO 27006KT 15/14 RMK AO1 1027 SLP024 T01540141 50002 CXZV 261500Z AUTO 12004KT 06/01 RMK AO1 SLP170 T00620010 58008 CYAH 261558Z AUTO 08006KT 5SM -RA BR SCT004 OVC009 06/06 A2952 RMK SLP013 CYAM 261500Z VRB02KT 12SM FEW010 BKN037 OVC049 18/16 A2972 RMK CF1CU7SC1 CF TR SLP068 DENSITY ALT 1400FT CYAS 261519Z 32010G//KT 15SM -SHSN BKN010TCU 02/M00 A2982 RMK TCU7 WND ESTD CIG RAG -SHSN INTMT SLP107 CYAT 261500Z AUTO 22006KT 9SM OVC011 15/14 A2952 RMK SLP997 DENSITY ALT 400FT CYAY 261500Z AUTO 26019G27KT 9SM CLR 10/M00 A2992 RMK SLP134 CYAZ 261539Z 15004KT 10SM -SHRA FEW016 SCT034TCU BKN063 11/11 A3002 RMK CF2TCU2SC3 SLP166 CYBC 261500Z AUTO 09006KT 9SM FEW036 BKN060 08/05 A2999 RMK SLP157 CYBD 261500Z 28006KT 260V320 10SM -RA SCT018 OVC060 09/07 A2991 RMK SC3SC5 SLP129 CYBG 261500Z 12009KT 20SM FEW038 BKN250 13/07 A2992 RMK SC2CI6 SLP137 CYBK 261500Z 08013KT 20SM OVC011 03/01 A2973 RMK SC8 SLP071 CYBL 261541Z VRB02KT 20SM BKN004 BKN008 09/09 A3000 RMK SF5SC2 SLP161 CYBN 261500Z AUTO 18011KT 9SM CLR 23/15 A2990 RMK SLP126 CYBR 261500Z 23006KT 15SM BKN098 15/07 A2945 RMK AC7 SLP983 DENSITY ALT 2200FT CYBU 261500Z AUTO VRB02KT 9SM BKN090 BKN110 07/04 A2933 RMK SLP944 CYBW 261500Z AUTO 23004KT 9SM CLR 04/02 A2972 RMK SLP088 CYBX 261500Z 25019G25KT 15SM FEW040 FEW250 09/02 A2994 RMK SC1CI2 SC TR SLP142 CYCA 261500Z AUTO 29015G24KT 9SM BKN042 BKN065 07/M01 A2982 RMK SLP102 CYCB 261500Z 08014KT 15SM FEW006 OVC011 01/M01 A2984 RMK SF1SC7 CIG RAG VIA CYHZ SLP110 CYCD 261500Z 28003KT 240V300 15SM SCT054 BKN084 BKN130 10/08 A3002 RMK SC3AC3AC1 SH S SLP167 CYCG 261500Z 13004KT 100V170 15SM FEW001 FEW010 SCT065 SCT110 07/06 A2999 RMK CF1SC1SC2AC1 CF TR SLP166 CYCK 261500Z AUTO 22011G16KT 9SM CLR 22/18 A2994 RMK SLP139 DENSITY ALT 1500FT CYCO 261500Z 10011KT 15SM FEW012 BKN022 OVC032 05/03 A2964 RMK SF1SC5SC3 SF TR SLP041 CYCP 261548Z 00000KT 10SM -SHRA VCSH FEW002 FEW010 SCT035 BKN055 BKN110 06/06 A2990 RMK SF1SF1SC2CU2AC1 VIS VLY S 4 SLP145 CYCQ 261500Z 22010KT 35SM FEW015 FEW045 SCT080 BKN100 OVC230 09/02 A2959 RMK SC1SC2AC2AC3CI1 SC TR DEW DIST PCPN SE-NW ACSL N-NE+NW SLP036 DENSITY ALT 2200FT CYCS 261500Z 09014G26KT 15SM BKN019 05/01 A2971 RMK SC7 SLP062 CYCX 261500Z AUTO 22008KT 160V230 9SM FEW066 FEW087 20/10 A3012 RMK SLP199 CYCY 261549Z AUTO 30009KT 9SM FEW011 SCT021 BKN031 OVC070 M01/M02 A2970 RMK SLP061 CYDA 261500Z 00000KT 20SM FEW004 SCT006 OVC035 05/04 A2954 RMK ST2ST2SC4 VIS 4 E SLP019 CYDB 261500Z 30003KT 25SM BKN022 BKN035 03/02 A2951 RMK SC5SC2 SLP026 CYDC 261500Z VRB02KT 25SM FEW050 SCT120 05/03 A2999 RMK SC2AC1 SLP166 CYDF 261500Z 25015G21KT 15SM BKN230 13/01 A3008 RMK CI5 SLP190 CYDL 261500Z AUTO 20006KT 9SM OVC004 05/04 A2962 RMK SLP044 CYDN 261500Z AUTO 25015G20KT 9SM FEW070 14/08 A2938 RMK SLP953 DENSITY ALT 1700FT CYDP 261500Z 31022KT 15SM FEW027 FEW100 07/M01 A2976 RMK SC1AC1 TR SC SLP078 CYDQ 261500Z AUTO 24011G18KT 9SM CLR 09/02 A2956 RMK SLP028 DENSITY ALT 2300FT CYED 261500Z AUTO 27006KT 9SM CLR 08/02 A2961 RMK SLP037 CYEG 261500Z 27007KT 20SM FEW170 BKN230 08/02 A2962 RMK AC2CI3 SLP043 DENSITY ALT 2400FT CYEK 261500Z AUTO 08028G34KT OVC007 05/05 A2935 RMK WX MISG VIS MISG PCPN MISG SLP943 CYEN 261500Z AUTO 25013G20KT 9SM CLR 13/04 A2948 RMK SLP990 DENSITY ALT 2600FT CYET 261500Z AUTO 28005KT 9SM CLR 03/01 A2965 RMK SLP062 CYEV 261556Z 30005KT 3/4SM R06/P6000FT/D -RA BR VV002 01/01 A2965 RMK FG8 SLP046 CYFB 261500Z 34016G22KT 30SM BKN012 M02/M04 A2982 RMK SC7 SLP101 CYFC 261500Z AUTO 18008G15KT 9SM CLR 19/08 A3011 RMK SLP197 DENSITY ALT 300FT CYFO 261500Z 05003KT 15SM FEW045 FEW220 10/09 A2933 RMK SC1CI1 SC TR SLP940 DENSITY ALT 1300FT CYFS 261500Z 33004KT 15SM BKN032 BKN081 OVC140 06/05 A2956 RMK SC6AC1AC1 SLP019 CYFT 261500Z 29019G26KT 15SM BKN022 07/M01 A2979 RMK CU7 SLP094 CYGE 261500Z VRB03KT 20SM -RA FEW015 FEW025 BKN060 BKN070 BKN130 06/05 A2987 RMK SC1SC1SC5AC1AC1 SC TR AC TR SLP128 CYGH 261500Z 26008G16KT 5SM -RA BR SCT006 OVC027 02/02 A2960 RMK ST4SC4 CIG LWR E SLP031 CYGK 261500Z 18011G17KT 6SM BR FEW020 FEW230 20/16 A3000 RMK SC1CI2 SC TR SLP161 DENSITY ALT 900FT CYGL 261500Z 08003KT 4SM -RA BR OVC003 09/09 A2950 RMK SF8 SLP999 CYGP 261500Z 09004KT 15SM BKN140 14/03 A3004 RMK AC6 SLP176 CYGQ 261500Z 33003KT 180V340 15SM OVC005 13/12 A2963 RMK ST8 SLP041 DENSITY ALT 1600FT CYGR 261500Z 19011G17KT 20SM SCT045 BKN270 15/10 A3014 RMK SC3CI3 SLP206 CYGV 261500Z AUTO 00000KT 9SM SCT100 BKN120 08/04 A3005 RMK SLP178 CYGW 261556Z AUTO 12010G15KT 9SM BKN019 OVC044 09/08 A2949 RMK SLP990 CYGX 261500Z 25010KT 15SM -RA OVC024 11/09 A2927 RMK SC8 SLP918 DENSITY ALT 900FT CYHA 261500Z 33013KT 15SM BKN014 03/M01 A2982 RMK SC6 CIG RGD SLP101 CYHD 261500Z AUTO 18009KT 9SM OVC130 13/12 A2954 RMK SLP012 DENSITY ALT 1800FT CYHE 261550Z AUTO VRB06KT 9SM -RA BKN049 BKN065 OVC081 12/10 A3003 RMK SLP171 CYHI 261500Z 09022G28KT 15SM VCSH SCT012 BKN048 BKN070 BKN100 BKN180 01/M01 A2974 RMK CU3CU3ACC1AC1AC1 ACC TR AC TR CIG RAG SLP076 CYHK 261553Z AUTO 07011KT 9SM OVC005 01/01 A2985 RMK SLP114 CYHM 261500Z 18012KT 15SM FEW250 22/16 A2995 RMK CI2 SLP143 DENSITY ALT 1800FT CYHU 261559Z AUTO 20012KT 180V240 9SM CLR 24/15 A2998 RMK SLP153 DENSITY ALT 1000FT CYHY 261500Z 06003KT 15SM SCT010 OVC012 09/08 A2949 RMK SC3SC5 SLP993 CYHZ 261500Z 20011KT 140V200 15SM SCT100 BKN250 17/11 A3021 RMK AC3CI2 SLP233 DENSITY ALT 500FT CYIK 261200Z 08004KT 15SM FEW015 FEW040 FEW150 FEW200 SCT250 M00/M07 A2986 RMK ST1SC1AS2CI1CS1 ST TR SC TR CI TR LAST STFD OBS/NEXT 271200UTC SLP115 CYIN 261500Z AUTO VRB02KT 9SM BKN120 BKN140 M00/M02 A2987 RMK SLP140 CYIO 261500Z AUTO 20012KT 9SM CLR M03/M05 A2973 RMK SLP074 CYJT 261500Z 25011KT 15SM BKN240 13/07 A3014 RMK CI6 SLP209 CYKA 261500Z 04002KT 40SM SCT120 06/04 A2993 RMK AC3 SLP146 CYKD 261533Z 31010G16KT 280V340 1SM -SNRA OVC009 00/M00 A2968 RMK ST8 SLP053 CYKF 261500Z AUTO 17011KT 9SM CLR 22/16 A2995 RMK SLP141 DENSITY ALT 2000FT CYKG 261500Z 35010G17KT 15SM FEW030 FEW200 01/M02 A2980 RMK SC1CS1 SLP106 CYKJ 261555Z AUTO 32006KT 9SM -RA SCT012 BKN034 OVC046 07/06 A2936 RMK SLP961 DENSITY ALT 1800FT CYKL 261500Z AUTO 20005KT 160V250 9SM CLR 03/M01 A2984 RMK SLP133 CYKO 261531Z 11013KT 7SM FEW010 FEW200 03/M01 A2978 RMK SF1CC1 SF TR SLP088 CYKP 261500Z AUTO 19006KT 160V250 9SM OVC005 14/13 A2957 RMK SLP013 DENSITY ALT 900FT CYKY 261500Z 30024G34KT 15SM -SHRA SCT015 BKN060 09/07 A2948 RMK SC4SC3 CVCTV CLD EMBD SLP991 DENSITY ALT 2700FT CYLA 261500Z 32005KT 15SM BKN028 BKN050 03/M02 A2984 RMK SC5SC2 SLP107 CYLD 261500Z 18002KT 15SM OVC013 15/14 A2972 RMK SC8 SLP074 DENSITY ALT 2100FT CYLH 261556Z AUTO 21008KT 9SM OVC005 13/12 A2952 RMK SLP006 DENSITY ALT 1100FT CYLJ 261500Z 27005KT 15SM BKN090 OVC210 07/05 A2941 RMK AC5CI3 VIRGA W SLP974 DENSITY ALT 1700FT CYLK 261500Z 07009G16KT 25SM -RA BKN014 OVC036 05/05 A2952 RMK SC6SC2 1.1/R01 AFT 00Z SLP007 CYLL 261546Z 31013G19KT 15SM -RA OVC017 10/08 A2950 RMK SC8 SLP005 DENSITY ALT 2600FT CYLT 261500Z 31003KT 1SM -SN OVC003 M07/M08 A2963 RMK ST8 VIS VRB 3/4-11/4 SLP039 CYLU 261500Z CCA 31009KT 15SM SCT016 BKN026 BKN033 03/M01 A2982 RMK ST3SC2SC2 SLP105 CYLW 261500Z AUTO VRB02KT 9SM SCT110 SCT130 09/06 A2995 RMK SLP150 CYMA 261500Z 00000KT 20SM SCT055 BKN075 04/03 A2953 RMK SC4AC3 SLP021 CYMH 261500Z AUTO 26017G25KT 9SM BKN050 09/M02 A2986 RMK SLP114 CYMM 261559Z AUTO 21004KT 9SM SCT009 OVC027 07/07 A2947 RMK SLP993 CYMO 261559Z AUTO 23012G17KT 9SM BKN012 OVC020 17/15 A2959 RMK SLP022 DENSITY ALT 500FT CYMT 261541Z AUTO 22015G24KT 9SM BKN024 OVC031 17/13 A2971 RMK SLP070 DENSITY ALT 2000FT CYMU 261500Z 09026G31KT 15SM FEW016 BKN040 OVC085 07/04 A2954 RMK ST1SC7AC1 ST TR SLP010 CYMX 261500Z VRB02KT 45SM SCT250 16/10 A3001 RMK CI4 SLP165 DENSITY ALT 400FT CYNA 261500Z AUTO 25007KT 200V260 9SM FEW130 09/04 A3007 RMK SLP185 CYND 261500Z VRB02KT 15SM SCT150 SCT190 17/12 A2997 RMK AC3AC1 SLP152 DENSITY ALT 400FT CYNE 261500Z AUTO VRB02KT 9SM CLR 13/10 A2934 RMK SLP944 DENSITY ALT 1200FT CYNM 261500Z AUTO 22014G19KT 200V280 9SM BKN028 18/13 A2968 RMK SLP056 DENSITY ALT 1800FT CYOC 261500Z 03009G17KT 30SM FEW015 OVC035 M00/M03 A2967 RMK ST1SC7 VIS N 2 1/2 SLP064 CYOD 261528Z 30010KT 15SM -RA FEW040 OVC070 11/08 A2949 RMK SC2AS6 PCPN VRY LGT SUN DIMLY VISBL SLP995 CYOJ 261547Z 14003KT 100V170 8SM BKN007 OVC060 08/08 A2944 RMK SF5SC3 SLP982 DENSITY ALT 1200FT CYOO 261500Z AUTO 18006KT 9SM CLR 18/18 A2995 RMK SLP145 DENSITY ALT 800FT CYOW 261500Z 19009KT 170V240 15SM SCT210 21/15 A2997 RMK CI3 SLP152 DENSITY ALT 1100FT CYOY 261500Z 00000KT 15SM FEW015 BKN250 15/09 A3001 RMK CF1CI5 DA772FT CUFRA TR SLP167 CYPA 261500Z 00000KT 15SM BKN091 OVC270 07/05 A2936 RMK AC6CI2 SLP957 DENSITY ALT 1500FT CYPC 261500Z 00000KT 8SM BR OVC030 03/03 A2955 RMK SC8 VIS S-SE 3FG SLP010 CYPD 261500Z AUTO 20008KT 140V220 9SM CLR 18/01 A3021 RMK SLP233 DENSITY ALT 500FT CYPE 261500Z 27008KT 15SM FEW210 04/02 A2953 RMK CI1 CI TR SLP018 CYPG 261500Z 20002KT 15SM BKN082 14/10 A2945 RMK AC6 SH DIST E SLP976 CYPH 261500Z AUTO 11022G27KT 9SM OVC120 04/M00 A2965 RMK SLP043 CYPL 261508Z AUTO 18008KT 9SM OVC004 12/12 A2953 RMK SLP009 DENSITY ALT 1600FT CYPO 261500Z AUTO 20005KT 9SM CLR 13/11 A2944 RMK SLP972 DENSITY ALT 400FT CYPQ 261500Z AUTO 17007KT 9SM CLR 20/17 A2995 RMK SLP145 DENSITY ALT 1300FT CYPR 261535Z AUTO 14006KT 9SM -RA SCT027 BKN034 BKN050 OVC075 09/08 A2980 RMK SLP095 CYPW 261532Z 11006KT 080V140 25SM -RA FEW035 BKN051 BKN082 12/09 A3001 RMK SC1SC6AC1 SC TR PCPN VRY LGT SLP164 CYPX 261500Z AUTO 09013G18KT 9SM CLR 03/M00 A2977 RMK SLP085 CYPY 261500Z AUTO 32003KT 9SM OVC017 08/08 A2944 RMK SLP979 CYQA 261500Z AUTO 17010KT 9SM FEW180 22/15 A2990 RMK SLP127 DENSITY ALT 1900FT CYQB 261500Z 00000KT 25SM BKN250 16/09 A3002 RMK CI6 SLP169 DENSITY ALT 300FT CYQD 261500Z AUTO 12003KT 9SM CLR 11/06 A2932 RMK SLP935 DENSITY ALT 1300FT CYQF 261500Z 29005KT 15SM FEW100 SCT250 08/03 A2968 RMK AC1CI2 SLP072 DENSITY ALT 3100FT CYQG 261500Z AUTO 21009KT 9SM CLR 22/17 A2993 RMK SLP135 DENSITY ALT 1500FT CYQH 261500Z 00000KT 1/4SM R09/P6000FT/D -RA FG OVC004 VV008 05/05 A2955 RMK ST3FG5 SLP031 CYQI 261517Z 18007KT 6SM BR OVC004 15/15 A3019 RMK SF8 SLP226 CYQK 261550Z 21010G16KT 20SM -RA BKN087 OVC170 14/10 A2954 RMK AC7AC1 SLP008 DENSITY ALT 2000FT CYQL 261500Z 29013G18KT 60SM SCT075 BKN100 BKN180 11/01 A2975 RMK AC3AC2CI2 SLP084 DENSITY ALT 3600FT CYQM 261500Z 17008KT 15SM BKN045 BKN090 BKN250 18/09 A3012 RMK SC5AC1CI1 AC TR CI TR SLP202 DENSITY ALT 400FT CYQQ 261500Z 00000KT 20SM FEW015 BKN075 09/08 A2998 RMK SC1AC7 SLP154 CYQR 261500Z 24013KT 15SM SCT100 BKN180 BKN280 10/04 A2942 RMK AC3AC2CI1 SLP975 DENSITY ALT 2300FT CYQT 261553Z VRB02KT 15SM SCT008 OVC012 16/14 A2963 RMK SC4SC4 SLP037 DENSITY ALT 1300FT CYQU 261500Z 22006KT 25SM FEW050 06/03 A2960 RMK SC2 SLP046 CYQV 261500Z AUTO 23006KT 9SM BKN065 BKN076 BKN089 12/09 A2939 RMK SLP962 DENSITY ALT 2200FT CYQW 261500Z AUTO 30010G16KT 9SM FEW085 11/05 A2942 RMK SLP976 DENSITY ALT 2200FT CYQX 261500Z 27017G28KT 20SM FEW046 FEW200 SCT260 13/01 A3003 RMK CU1CC1CI1 SLP176 CYQY 261500Z 22011KT 15SM SCT250 18/04 A3019 RMK CI4 SLP227 DENSITY ALT 400FT CYQZ 261500Z AUTO 17006KT 9SM SCT095 08/05 A2983 RMK SLP117 CYRB 261520Z 33011KT 3/4SM R35/3500V5000FT/N BR BKN005 M12/M14 A2991 RMK ST7 SLP138 CYRJ 261500Z 21014G20KT 25SM BKN160 BKN210 18/13 A2984 RMK AC6CI1 SLP112 DENSITY ALT 1200FT CYRL 261500Z 17005KT 15SM SCT120 BKN150 BKN240 13/12 A2948 RMK AC4AC2CI1 SLP988 DENSITY ALT 1900FT CYRQ 261500Z AUTO 21003KT 170V280 9SM CLR 16/11 A3000 RMK SLP163 DENSITY ALT 200FT CYRT 261500Z 09025G32KT 10SM BKN016 OVC100 05/01 A2962 RMK SC7AC1 SLP033 CYRV 261511Z AUTO 00000KT 4SM BR OVC003 08/08 A2993 RMK SLP146 CYSB 261500Z 18013KT 20SM OVC200 19/14 A2979 RMK CI8 SLP093 DENSITY ALT 2000FT CYSC 261500Z AUTO 27004KT 180V290 9SM FEW250 22/16 A3004 RMK SLP174 DENSITY ALT 1600FT CYSD 261530Z 32009KT 9SM SCT090 BKN100 09/05 A2969 RMK AC3AC2 DA2784FT SLP058 CYSF 261551Z AUTO 05005KT 010V080 9SM SCT014 BKN055 OVC120 06/04 A2943 RMK SLP977 CYSJ 261500Z 15007KT 15SM FEW040 FEW150 FEW240 15/10 A3015 RMK SC1AC1CI2 SC TR AC TR SLP215 CYSM 261553Z VRB02KT 6SM BR OVC004 07/07 A2946 RMK ST8 SLP986 CYSN 261500Z 19012KT 15SM BKN250 23/14 A2995 RMK CI5 SLP143 DENSITY ALT 1400FT CYSP 261541Z 26004KT 130V300 4SM BR BKN004 OVC016 13/13 A2967 RMK ST7SC1 VIS SW-W 1 SLP055 DENSITY ALT 1400FT CYSY 261500Z 13012KT 15SM FEW015 FEW061 SCT070 OVC098 01/00 A2970 RMK SC1SC1AC3AC4 SC TR SLP067 CYTE 261500Z AUTO 10005KT 9SM M01/M02 A2984 RMK CLD MISG SLP111 CYTH 261500Z 22005KT 15SM FEW006 FEW070 BKN110 09/08 A2930 RMK SF1AC2AC5 SF TR SLP933 DENSITY ALT 900FT CYTL 261500Z AUTO 20005KT 9SM CLR 13/10 A2943 RMK SLP972 DENSITY ALT 1200FT CYTQ 261300Z 31004KT 280V360 15SM BKN027 02/M02 A2985 RMK SC7 LAST OBS/NEXT 271200UTC SLP113 CYTR 261500Z 21006KT 15SM FEW180 SCT220 21/16 A2997 RMK AC1CI3 SLP151 CYTS 261526Z CCA 20003KT 180V250 12SM -DZ FEW007 BKN009 OVC012 16/14 A2974 RMK SF2ST4SC2 SLP076 DENSITY ALT 1500FT CYTZ 261500Z AUTO 19003KT 170V240 9SM CLR 20/17 A2995 RMK SLP143 DENSITY ALT 800FT CYUA 261545Z AUTO 32011KT ////SM OVC005 M00/M01 A2971 CYUB 261536Z 01013KT 3SM -DZ BR OVC003 02/02 A2961 RMK ST8 SLP029 CYUL 261500Z VRB02KT 15SM FEW250 18/13 A3000 RMK CI2 SLP161 DENSITY ALT 500FT CYUS 261500Z AUTO 05010G16KT ////SM //// OVC005 M00/M01 A2987 CYUT 261500Z 23004KT 20SM BKN055 01/00 A2982 RMK SC7 SLP100 CYUX 261500Z 27003KT 10SM -SN FEW005 BKN015 OVC060 M01/M01 A2980 RMK SF1ST4SC3 SLP093 CYUY 261500Z 21007KT 15SM -RA OVC038 16/14 A2978 RMK SC8 SLP090 DENSITY ALT 1500FT CYVC 261500Z 01005KT 15SM FEW250 09/09 A2938 RMK CI1 SLP962 DENSITY ALT 1500FT CYVL 261551Z AUTO 24007KT 9SM BKN005 OVC015 04/04 A2951 RMK SLP010 CYVM 261536Z 01006KT 15SM -SHSN FEW009 FEW015 SCT025 BKN029 OVC035 02/M00 A2968 RMK SF1ST1SC3SC2SC2 SF TR SLP053 CYVO 261500Z 21011G22KT 15SM FEW045 BKN095 OVC220 18/13 A2979 RMK SC2AC4CI1 SLP095 DENSITY ALT 1900FT CYVP 261500Z VRB02KT 15SM FEW013 BKN035 BKN170 BKN220 03/M01 A2985 RMK SC1SC5AC1CI1 CI TR VIS LWR NW QUAD OCNL -SHSN AND -SHRA CVCTV CLD EMBD SLP113 CYVQ 261500Z 27007KT 30SM FEW008 SCT023 BKN037 OVC100 04/03 A2962 RMK ST1SC3SC3AC2 ST TR SLP038 CYVR 261512Z 09007KT 20SM FEW010 SCT058 BKN072 BKN150 12/11 A3003 RMK SC1SC3AC3AC1 SC TR SLP170 CYVT 261500Z AUTO 01004KT 1/4SM FG VV002 08/08 A2941 RMK SLP974 DENSITY ALT 1500FT CYVV 261500Z 20012KT 15SM SCT250 22/15 A2987 RMK CS4 SLP114 DENSITY ALT 1800FT CYWA 261500Z AUTO 14006KT 9SM CLR 16/14 A2991 RMK SLP131 CYWE 261500Z AUTO 09007KT 9SM BKN011 OVC046 04/04 A2956 RMK SLP031 CYWG 261500Z VRB02KT 15SM BKN110 15/08 A2947 RMK AC7 CVCTV CLD EMBD OCNL -SHRA SLP983 DENSITY ALT 1500FT CYWH 261553Z 27003KT 240V310 15SM -SHRA FEW010 BKN040 OVC080 11/08 A3007 RMK CF1CU4AC3 SLP183 CYWJ 261500Z 28004KT 40SM FEW015 SCT055 BKN095 03/03 A2956 RMK SC2SC2AC3 SLP025 CYWK 261546Z 18008KT 12SM -SHRA SCT055 OVC090 07/M00 A2984 RMK CU3AC5 SLP130 CYWL 261500Z 12006KT 15SM SCT080 BKN140 BKN220 04/01 A2986 RMK AC4AC1CI1 SLP131 CYXC 261500Z 19004KT 25SM SCT063 07/04 A2989 RMK SC3 SLP135 CYXE 261500Z 28006KT 12SM -DZ OVC060 11/06 A2936 RMK SC8 SLP955 DENSITY ALT 2200FT CYXH 261555Z 28013G23KT 30SM BKN070 10/06 A2969 RMK AC6 SLP061 DENSITY ALT 2700FT CYXJ 261500Z 23018G25KT 30SM FEW150 SCT230 08/02 A2953 RMK AC2CI1 SLP019 DENSITY ALT 2500FT CYXL 261500Z 19006KT 15SM FEW007 BKN120 OVC180 14/12 A2955 RMK SF2AC4AC2 SLP014 DENSITY ALT 1900FT CYXN 261500Z 08026G35KT 2SM -RA BR BKN012 BKN022 OVC029 05/03 A2954 RMK SC6SC1SC1 SLP006 CYXP 261534Z 26008KT 15SM BKN017 BKN033 02/M01 A2968 RMK SC5SC2 SLP055 CYXR 261546Z AUTO 21014KT 9SM VCTS BKN046 BKN060 OVC074 20/15 A2975 RMK LTNG DIST NE NW SLP078 DENSITY ALT 1700FT CYXS 261500Z AUTO 19010KT 9SM FEW110 07/03 A2978 RMK SLP105 CYXT 261500Z 22006KT 20SM FEW006 FEW030 SCT050 SCT100 08/07 A2980 RMK SF1CU1SC1AC1 SLP098 CYXU 261500Z 19009KT 15SM FEW011 BKN270 22/18 A2994 RMK CU2CI5 SLP140 DENSITY ALT 1900FT CYXX 261542Z 22006KT 15SM -SHRA FEW025 BKN051 BKN067 BKN092 13/10 A3004 RMK CU1SC5AC1AC1 AC TR CVCTV CLD EMBD SLP176 CYXY 261500Z 00000KT 40SM FEW002 FEW059 FEW210 M01/M02 A2955 RMK ST1SC1CI2 ST TR SC TR FROIN SLP039 CYXZ 261537Z VRB02KT 6SM BR OVC005 16/15 A2968 RMK ST8 SLP055 DENSITY ALT 1500FT CYYB 261500Z 21009G15KT 20SM FEW170 OVC260 19/14 A2985 RMK AC1CI8 AC TR SLP111 DENSITY ALT 2100FT CYYC 261500Z 26003KT 40SM FEW030 FEW085 FEW180 SCT230 09/02 A2971 RMK CU1AC1AC1CI1 CU TR SLP074 DENSITY ALT 4100FT CYYD 261500Z 08002KT 25SM FEW060 04/03 A2974 RMK SC1 SLP085 CYYE 261550Z 25005KT 3SM -DZ BR OVC006 07/07 A2946 RMK ST8 SLP989 CYYF 261500Z 16011G18KT 15SM BKN070 10/06 A2997 RMK CU5 SLP154 CYYG 261500Z 19012KT 15SM BKN065 BKN220 16/07 A3016 RMK SC5CI2 SLP214 CYYH 261538Z 06007KT 15SM VCSH BKN009 OVC011 M00/M02 A2988 RMK ST5SC3 VIS NW 10 SLP122 CYYJ 261544Z 16008KT 20SM FEW038 SCT065 BKN100 12/10 A3004 RMK SC1SC2AC4 SLP174 CYYL 261547Z AUTO 33006KT 300V010 6SM BR SCT008 OVC014 07/06 A2931 RMK SLP939 CYYN 261500Z AUTO 28019KT 9SM CLR 09/03 A2949 RMK SLP991 DENSITY ALT 3100FT CYYQ 261521Z 23005KT 15SM BKN005 BKN045 OVC120 06/06 A2922 RMK ST6SC1AS1 SLP897 CYYR 261500Z 27015KT 15SM FEW042 SCT260 BKN300 09/M02 A2992 RMK SC2CI2CI2 SLP133 CYYT 261500Z 28024G35KT 15SM FEW030 FEW130 SCT220 14/03 A3009 RMK SC1AC1CI2 SLP193 CYYU 261500Z 24010KT 15SM OVC015 16/14 A2969 RMK SC8 SLP061 DENSITY ALT 1400FT CYYW 261500Z AUTO 16005KT 9SM OVC008 13/12 A2960 RMK SLP023 DENSITY ALT 1400FT CYYY 261500Z 02006KT 30SM BKN240 10/03 A2998 RMK CI6 SLP156 CYYZ 261500Z 20007KT 150V230 15SM FEW250 21/16 A2995 RMK CI2 SLP141 DENSITY ALT 1400FT CYZE 261559Z AUTO 20008G15KT 9SM VCTS SCT048 18/15 A2976 RMK LTNG DIST NW PRESFR SLP080 DENSITY ALT 1300FT CYZF 261500Z 04007KT 15SM FEW015 BKN110 06/04 A2952 RMK SC2AC5 SLP007 CYZG 261500Z 31002KT 8SM BKN005 M01/M02 A2983 RMK ST6 CIG RAG SLP121 CYZH 261555Z AUTO 27022KT 9SM CLR 11/02 A2956 RMK SLP020 DENSITY ALT 2200FT CYZP 261500Z AUTO 23003KT 9SM BKN130 BKN150 09/08 A2979 RMK SLP089 CYZR 261500Z AUTO 20011G17KT 9SM CLR 22/16 A2990 RMK SLP127 DENSITY ALT 1500FT CYZS 261500Z 08003KT 040V100 15SM BKN230 01/M03 A2984 RMK CI5 SLP111 CYZT 261500Z 00000KT 15SM -SHRA SCT030 BKN062 09/09 A2993 RMK SC4SC3 CVCTV CLD EMBD SLP137 CYZU 261500Z 29006KT 15SM FEW220 04/01 A2963 RMK CI2 SLP052 CYZV 261550Z 11004KT 30SM -RA BKN043 OVC120 07/03 A3001 RMK SC5AC3 SLP165 CYZW 261500Z 05002KT 10SM BKN010 OVC040 04/04 A2957 RMK ST5SC3 SLP039 CYZX 261500Z 02002KT 15SM SCT100 BKN240 16/08 A3017 RMK AC4CC3 SLP218 CYZY 261500Z AUTO 21005KT 140V270 9SM SCT034 OVC095 08/03 A2967 RMK SLP064 CZBF 261500Z AUTO 12003KT 010V170 9SM CLR 15/04 A3007 RMK SLP186 CZCP 261500Z AUTO 09027G33KT ////SM //// OVC003 02/02 A2954 CZCR 261500Z AUTO 09002KT 11/05 RMK AO1 SLP176 T01090049 58021 CZDB 261500Z AUTO 16003KT 15/08 RMK AO1 SLP232 T01520078 58004 CZEL 261500Z AUTO 17009KT 21/15 RMK AO1 SLP147 T02090154 58012 CZEV 261500Z AUTO 31007KT M00/M00 RMK AO1 2PAST HR 3006 SLP044 P0001 T10041003 50005 CZFA 261500Z 12004KT 30SM SCT066 BKN075 M00/M01 A2954 RMK AC4AC2 SLP033 CZFM 261500Z 32002KT 2SM -SN OVC006 00/00 A2968 RMK ST8 SLP055 CZFS 261500Z AUTO 31004KT 06/05 RMK AO1 SLP019 T00550053 53019 CZHY 261500Z AUTO 08003KT 09/07 RMK AO1 SLP989 T00890070 53013 CZMD 261500Z AUTO /////KT 9SM CLR 13/08 A2943 RMK WND MISG SLP973 DENSITY ALT 1400FT CZMJ 261500Z AUTO 27011KT 10/04 RMK AO1 PK WND 27017/1429 SLP984 T01000035 52004 CZMT 261532Z 20005KT 15SM -SHRA FEW004 FEW008 FEW012 SCT095 09/09 A2980 RMK SF1CU1CU1AC1 SF TR SLP092 CZMU 261500Z AUTO 26013KT 08/07 RMK AO1 PK WND 27018/1452 T00770069 CZOL 261500Z AUTO 30006KT 08/04 RMK AO1 T00810039 CZPC 261500Z AUTO 25031KT 9SM 09/M01 A2975 RMK CLD MISG SLP088 DENSITY ALT 4200FT CZPS 261300Z AUTO 28006KT 05/04 RMK AO1 T00520041 CZRP 261500Z AUTO 20002KT M07/M08 RMK AO1 SLP159 T10721078 50000 CZSJ 261500Z AUTO /////KT 9SM CLR 14/07 A2942 RMK WND MISG SLP972 DENSITY ALT 1500FT CZSM 261500Z AUTO 36003KT 07/06 RMK AO1 SLP978 T00660064 52011 CZSP 261500Z AUTO 20012KT 19/05 RMK AO1 PK WND 21017/1451 SLP216 T01860048 58009 CZST 261549Z 00000KT 10SM FEW006 OVC015 08/08 A2980 RMK SC2SC6 SLP094 CZTB 261500Z AUTO 17002KT 15/14 RMK AO1 SLP043 T01510143 58002 CZUM 261500Z AUTO 26003KT 220V330 9SM CLR 06/M02 A2990 RMK SLP143 CZVL 261500Z AUTO 28008KT 9SM CLR 09/02 A2961 RMK SLP035 DENSITY ALT 2300FT CZZJ 261500Z AUTO 29004KT 03/M00 RMK AO1 SLP064 T00251004 51013 DAAD 261500Z 31013KT 9999 BKN030 25/05 Q1014 DAAE 261500Z 33008KT 9999 SCT020 BKN233 23/11 Q1013 DAAG 261530Z 01013KT 9999 FEW026 SCT200 25/13 Q1015 DAAJ 261500Z 23004KT CAVOK 35/03 Q1016 DAAP 261500Z 04005KT CAVOK 31/// Q1011 DAAS 261500Z 29010KT 9999 SCT026 SCT100 18/03 Q1016 DAAT 261530Z 10011KT 070V130 CAVOK 34/00 Q1018 DAAV 261500Z 29007KT 9999 SCT023 FEW026CB 23/13 Q1014 DAAY 261500Z 30018KT 6000 NSC 27/03 Q1020 DABB 261500Z 36007KT 310V080 9999 FEW020 SCT033 23/13 Q1011 DABC 261500Z 34011KT 310V020 9999 SCT030 SCT033 20/08 Q1015 DABS 261500Z 32012KT 9999 SCT040 20/05 Q1014 DABT 261500Z 31010KT 9999 SCT023 SCT233 22/03 Q1015 DAFH 261500Z 36004KT CAVOK 26/06 Q1016 DAOB 261500Z 28013KT 9999 FEW026 22/05 Q1018 DAOF 261500Z 34010KT CAVOK 41/05 Q1011 DAOI 261500Z 32016KT 9999 FEW026 SCT233 26/05 Q1014 DAOL 261500Z 32006KT 8000 SCT026 28/12 Q1015 DAON 261500Z 25014KT 9999 FEW026 27/10 Q1016 DAOO 261500Z 34012KT 9999 FEW023 25/13 Q1015 DAOR 261500Z 30006KT 8000 SCT033 SCT100 33/05 Q1016 DAOV 261500Z 32011KT 9999 FEW020 26/10 Q1016 DAOY 261500Z 32014KT CAVOK 22/M01 Q1019 DATM 261300Z 08015KT CAVOK 41/// Q1010 DAUA 261500Z 08007KT 6000 NSC 42/06 Q1008 DAUB 261500Z 20015KT 9999 FEW040 28/07 Q1011 DAUE 261500Z 35007KT CAVOK 33/// Q1014 DAUG 261500Z 32008KT 9999 FEW046 SCT100 29/04 Q1015 DAUH 261530Z 31011KT 9999 FEW040 SCT233 32/02 Q1011 DAUI 261500Z 05008KT 8000 NSC 42/// Q1008 DAUK 261500Z 31010KT 6000 NSC 29/08 Q1012 DAUL 261500Z 30006KT 9999 FEW040 SCT080 27/10 Q1016 DAUO 261500Z 26010KT 8000 NSC 29/07 Q1010 DAUT 261500Z 07016KT 8000 NSC 38/05 Q1012 DAUU 261500Z 36008KT 9999 FEW046 31/05 Q1012 DAUZ 261500Z 18005KT 090V220 CAVOK 40/01 Q1011 DBBB 261547Z 18006KT 8000 -TSRA SCT009 FEW022CB 22/21 Q1010 NOSIG DFFD 261452Z 14006KT 100V180 9999 FEW026 33/22 Q1010 NOSIG DFOO 261500Z 20008KT 170V240 9999 SCT016 30/23 Q1011 DGAA 261500Z 19015KT 9999 SCT018 27/23 Q1010 NOSIG DGLE 261500Z 18003KT 9999 FEW013 SCT016 FEW030CB 33/24 Q1009 NOSIG DGSI 261500Z 27002KT 9999 SCT017 31/22 Q1011 NOSIG DGTK 261500Z 23012KT 9999 SCT013 27/24 Q1011 NOSIG DIAP 261530Z 21011KT 9999 SCT013 28/24 Q1010 NOSIG DIBK 261500Z 22004KT 9999 BKN013 29/22 Q1013 NOSIG DIYO 261500Z 00000KT 9999 SCT015 BKN100 31/23 Q1011 NOSIG DNAA 261500Z 27005KT 9999 FEW011 26/22 Q1010 NOSIG DNIL 261400Z 00000KT 9999 FEW010 26/21 Q1010 DNJO 261300Z 10003KT 9999 FEW007 26/16 Q1017 DNKA 261400Z 21003KT 9999 FEW010 FEW020CB 26/21 Q1013 DNKN 261400Z 29004KT CAVOK 32/21 Q1012 NOSIG DNMN 261400Z 27009KT 9999 BKN010 26/22 Q1011 DNPO 261500Z 19004KT 6000 BKN007 FEW020CB 24/24 Q1010 NOSIG DRRM 261500Z 28008KT 260V320 CAVOK 31/22 Q1009 DRRN 261500Z 16006KT 120V220 9999 FEW030 35/19 Q1009 NOSIG DRRT 261500Z 22008KT CAVOK 34/21 Q1009 DRZA 261500Z 04006KT 9999 FEW040 38/12 Q1010 DRZR 261500Z 29008KT CAVOK 33/21 Q1010 DTKA 261500Z 30016KT 9999 RA SCT020 SCT030 20/13 Q1012 NOSIG DTMB 261530Z 34016KT 9999 FEW026 22/14 Q1012 DTNH 261530Z 33014KT 9999 FEW026 SCT040 23/08 Q1011 DTTA 261530Z 30012KT 270V330 9999 SCT023 BKN033 21/09 Q1011 DTTB 261500Z 28018G30KT 9999 SCT020 BKN030 23/06 Q1011 DTTD 261500Z 09008KT 020V150 8000 NSC 29/10 Q1011 DTTF 261500Z 33004KT 250V060 9999 SCT026 29/08 Q1011 NOSIG DTTG 261500Z 08010KT 040V120 9999 SCT030 28/08 Q1011 NOSIG DTTJ 261530Z 05008KT 020V080 9999 FEW033 27/09 Q1011 NOSIG DTTK 261500Z 01009G21KT 340V070 9999 SCT023 24/11 Q1011 DTTL 261500Z AUTO 23010KT 160V300 NCD 22/11 Q1011 DTTN 261500Z 32010KT 260V030 9999 SCT020 SCT030 22/09 Q1012 DTTR 261500Z 28011KT 250V310 CAVOK 32/03 Q1011 NOSIG DTTX 261500Z 35010KT 9999 FEW020 SCT030 27/09 Q1010 DTTZ 261500Z 32004KT 240V010 CAVOK 31/06 Q1010 DXNG 261500Z 28005KT 230V330 9999 BKN008 FEW016CB 29/22 Q1012 DXSK 261500Z 00000KT CAVOK 24/22 Q//// DXXX 261500Z 21014KT 9999 SCT013 FEW020CB 29/23 Q1010 NOSIG EBAW 261550Z VRB01KT 9999 BKN024 11/08 Q1001 RESHRA NOSIG EBBE 261553Z AUTO 27011KT 9999 FEW013/// SCT017/// BKN080/// 12/09 Q1001 WHT EBBL 261525Z AUTO 36006KT 9999 FEW036/// SCT057/// BKN220/// 16/08 Q1000 BLU EBBR 261550Z 29009KT 9999 VCSH SCT012TCU 13/10 Q1001 TEMPO 4000 SHRA SCT008 BKN012CB EBCI 261550Z 25009KT 9999 FEW003 BKN006 09/09 Q1002 NOSIG EBDT 261525Z AUTO 26007KT 9999 FEW027/// SCT037/// BKN070/// 14/10 Q1000 BLU EBFN 261553Z AUTO 35018KT 9999 SCT008/// SCT044/// BKN100/// 13/11 Q1003 GRN EBFS 261525Z AUTO 28014KT 9999 BKN005/// BKN008/// 09/08 Q1002 YLO EBLB 261547Z AUTO 31007KT 9000 -RA BKN013/// 08/07 Q1000 GRN EBLG 261550Z 28009KT 9999 -SHRA SCT017 SCT033 12/09 Q1001 NOSIG EBOS 261550Z 34018KT 9000 FEW015TCU 14/10 Q1003 NOSIG EDAC 261550Z 25006KT 9999 -RA OVC041 07/06 Q0996 EDAH 261550Z 06015KT 7000 BKN005 17/16 Q0990 EDDB 261550Z 29014KT 8000 -RA BKN006 BKN039 10/10 Q0989 TEMPO BKN010 EDDC 261550Z 24009KT 210V280 9999 -RA BKN014 OVC020 07/06 Q0995 BECMG BKN015 EDDE 261550Z 27007KT 9999 RA FEW008 OVC011 08/07 Q0996 NOSIG EDDF 261550Z 27014KT 7000 SHRA FEW005 SCT015CB BKN022 11/09 Q0997 TEMPO 4000 EDDG 261550Z 28004KT 9999 -RA NSC 12/09 Q0999 NOSIG EDDH 261550Z 30008KT 9999 -RA BKN021 13/10 Q0995 TEMPO RA BKN012 EDDK 261550Z 33009KT 9999 -DZ SCT008 BKN038 11/10 Q0999 NOSIG EDDL 261550Z 33005KT 9999 FEW022 12/09 Q0999 NOSIG EDDM 261550Z 25021KT 9999 -RA BKN020 07/04 Q1000 NOSIG EDDN 261550Z 24011KT 9999 -RA BKN012 08/07 Q0998 NOSIG EDDP 261550Z 25010KT 200V280 9999 RA FEW007 SCT010 OVC022 08/08 Q0995 NOSIG EDDR 261550Z 26012KT 9999 -SHRA FEW012 BKN020 SCT028CB 09/07 Q1001 NOSIG EDDS 261550Z 24011G22KT 190V280 9999 -RA FEW016 SCT020 BKN029 08/05 Q1000 NOSIG EDDT 261550Z 28011KT 250V320 5000 -RA OVC005 11/10 Q0989 TEMPO RA EDDV 261550Z 28008KT 240V300 9999 RA SCT022 BKN038 10/09 Q0996 TEMPO NSW EDDW 261550Z 31007KT 9999 SCT040 13/09 Q0997 NOSIG EDFH 261550Z 30008KT 260V320 7000 -SHRA BKN014CB 08/07 Q0999 EDFM 261550Z 25010KT 9999 FEW030 BKN034 OVC042 12/07 Q0998 EDHI 261550Z AUTO 31010KT 9999 // BKN028/// OVC034/// 13/10 Q0996 EDHK 261550Z 35012KT 9999 -RA SCT014 OVC018 13/11 Q0996 EDHL 261550Z VRB04KT 9000 RA BKN012 13/12 Q0994 EDJA 261550Z 23017G28KT 9999 -RA BKN017 OVC051 06/04 Q1002 EDLN 261550Z 34006KT 9999 FEW040 13/09 Q0999 EDLP 261550Z 34005KT 290V050 7000 -RA FEW012 SCT015 OVC018 10/08 Q0998 EDLV 261550Z VRB03KT CAVOK 14/07 Q1000 EDLW 261550Z 33009KT 9999 FEW018 BKN039 12/08 Q0999 EDMA 261550Z 24013KT 9999 -RA FEW015 OVC021 07/05 Q1000 EDMO 261550Z AUTO 23021KT 9999 // BKN018/// BKN026/// OVC039/// 06/03 Q1001 EDNY 261550Z 25015KT 9999 BKN025 BKN032 OVC040 08/05 Q1004 EDQM 261550Z 25006KT 8000 RA BKN017 06/05 Q0996 EDSB 261550Z 24012KT 210V280 9000 -RA OVC018 10/07 Q1001 EDTL 261520Z 21012KT 9999 -DZ BKN034 09/05 Q1003 EDTY 261550Z 25014KT 9999 -RA OVC008 07/06 Q0999 EDVE 261550Z 29009KT 9999 -RA FEW006 SCT029 OVC036 10/08 Q0995 EDVK 261550Z 31007KT 9999 RA FEW008 SCT032 OVC038 09/09 Q0997 EDXW 261550Z 01012KT 9999 FEW016 OVC023 14/11 Q0998 EEEI 261550Z 09007KT CAVOK 20/14 Q1009 NOSIG EEKE 261550Z AUTO 11014KT 9999NDV NCD 20/14 Q1006 EETN 261550Z 11010KT CAVOK 19/14 Q1010 NOSIG EETU 261550Z AUTO 11007KT 9999 NCD 19/13 Q1010 EFET 261550Z AUTO 36006KT CAVOK 04/M02 Q1021 EFHA 261550Z AUTO 13007KT CAVOK 17/13 Q1012 EFHK 261550Z 07008KT CAVOK 16/13 Q1011 NOSIG EFIV 261550Z AUTO VRB01KT CAVOK 05/04 Q1020 EFJO 261550Z AUTO 15007KT CAVOK 15/12 Q1015 EFJY 261550Z AUTO 13003KT CAVOK 15/13 Q1013 EFKE 261550Z AUTO 02011KT 9999 -RA BKN005 07/07 Q1017 EFKI 261550Z AUTO 12003KT CAVOK 15/11 Q1014 EFKK 261550Z AUTO 35009KT 1400 R01/2000N BCFG //////CB 11/11 Q1014 EFKS 261550Z AUTO 03004KT 360V060 9999 VCSH OVC002 //////CB 09/08 Q1016 EFKT 261550Z AUTO 35007KT CAVOK 06/01 Q1020 EFKU 261550Z AUTO 11005KT CAVOK 14/12 Q1014 EFLP 261550Z AUTO 11004KT CAVOK 18/13 Q1014 EFMA 261550Z AUTO 07006KT CAVOK 17/13 Q1008 EFMI 261550Z AUTO 09002KT CAVOK 15/13 Q1014 EFOU 261550Z AUTO 01008KT 9999 VCSH OVC003 10/10 Q1015 EFPO 261550Z AUTO 09006KT CAVOK 20/14 Q1009 EFRO 261550Z AUTO 02005KT 340V050 9999 -SHRA BKN003 BKN030 06/06 Q1018 EFSA 261550Z AUTO 11004KT CAVOK 14/12 Q1015 EFSI 261550Z AUTO 03003KT CAVOK 17/14 Q1012 EFTP 261550Z AUTO 10007KT CAVOK 18/13 Q1011 EFTU 261550Z AUTO 11009KT CAVOK 19/13 Q1009 EFUT 261550Z AUTO 11007KT CAVOK 16/12 Q1013 EFVA 261550Z AUTO 03010KT 6000 OVC001 11/11 Q1013 EGAA 261550Z 34007KT 9999 FEW039 13/05 Q1020 EGAC 261550Z AUTO 02011KT 9999 NCD 12/04 Q1019 EGAE 261450Z 03011KT 9999 FEW040 13/06 Q1020 EGBB 261550Z 34015KT 9999 BKN033 12/04 Q1014 EGBJ 261550Z 33013KT 300V360 9999 FEW036 SCT047 13/04 Q1014 EGCC 261550Z AUTO 33009KT 9999 FEW036 OVC042 12/05 Q1016 EGCK 261550Z 02013KT 9999 BKN038 13/06 Q1018 EGCN 261550Z 34015G25KT 9999 FEW027 BKN033 12/07 Q1014 EGDM 261450Z AUTO /////KT 9999 FEW044/// 13/03 Q1012 EGDR 261450Z AUTO 36017KT 9999 // SCT039/// 14/05 Q1016 EGDY 261450Z AUTO 34016KT 9999 NCD 14/01 Q1014 EGEO 261550Z 01015KT CAVOK 13/03 Q1019 EGFF 261550Z AUTO 36011KT 9999 NCD 14/02 Q1015 EGGD 261550Z AUTO 01016KT 9999 FEW042 12/03 Q1015 EGGP 261550Z 34011KT 300V010 9999 FEW025 BKN048 13/06 Q1016 EGGW 261550Z AUTO 32013KT 9999 -RA OVC018 09/07 Q1011 EGHC 261550Z 01017KT 9999 SCT030 13/07 Q1017 EGHE 261550Z 36012KT 9999 FEW032 13/05 Q1018 EGHH 261550Z 35017KT 310V050 9999 FEW048 14/03 Q1013 EGHI 261550Z 33015G29KT 300V010 9999 FEW046 14/03 Q1012 EGHQ 261550Z 36013KT 320V040 9999 SCT038 12/04 Q1017 EGJA 261550Z 34014KT 9999 FEW040 13/04 Q1013 EGJB 261550Z 35010KT 9999 FEW040 13/02 Q1013 EGJJ 261550Z 34013KT 310V010 9999 FEW038 14/03 Q1013 EGKA 261550Z 34016KT 9999 SCT038 13/05 Q1010 EGKB 261550Z 33017G31KT 290V360 9999 BKN025 10/06 Q1010 EGKK 261550Z 33013KT 9999 -RA BKN035 12/06 Q1010 EGLC 261550Z AUTO 31014G25KT 280V350 9999 BKN024 BKN030 OVC046 12/06 Q1011 EGLF 261550Z 34014KT 310V010 9999 OVC036 12/04 Q1012 EGLL 261550Z AUTO 33012G25KT 290V020 9999 BKN031 BKN044 13/06 Q1012 EGMC 261550Z 32018G28KT 280V340 9999 BKN020 11/07 Q1009 EGMD 261550Z 32025KT 9999 OVC024 12/07 Q1008 EGNH 261550Z 36011KT 9999 SCT042 13/05 Q1017 EGNJ 261550Z AUTO 34015KT 9999 SCT018/// BKN023/// BKN029/// 12/09 Q1012 EGNM 261550Z 35017KT 9999 SCT025 11/05 Q1015 EGNR 261450Z 33014KT 9999 FEW024 BKN038 12/05 Q1017 EGNS 261550Z 35009KT 310V030 9999 BKN041 13/03 Q1018 EGNT 261550Z 01018G30KT 9999 BKN035 11/04 Q1016 EGNV 261550Z 36018KT 9000 VCSH FEW015 BKN034 10/06 Q1015 EGNX 261550Z 32012KT 9999 BKN028 11/06 Q1014 EGOM 261450Z AUTO 01015G25KT 9999 BKN032/// 10/05 Q1015 EGOP 261450Z AUTO 01020KT 9999 // SCT047/// 13/04 Q1016 EGOS 261450Z AUTO 34013KT 9999 SCT035/// BKN050/// 12/05 Q1015 EGOV 261450Z AUTO 02013KT 9999 SCT037/// BKN044/// 13/04 Q1018 EGPA 261550Z 01020KT 9999 FEW024 10/05 Q1020 EGPB 261550Z AUTO 03023KT 9999 FEW024/// 09/04 Q1019 EGPC 261550Z AUTO 01016KT 9999 SCT026/// BKN031/// 10/05 Q1020 EGPD 261550Z 34017KT 9999 BKN029 11/04 Q1018 EGPE 261550Z 02011KT 9999 BKN046 12/04 Q1020 EGPF 261550Z AUTO 02008KT 9999 NCD 14/04 Q1018 EGPH 261550Z 01006KT 320V060 9999 FEW047 14/04 Q1018 EGPI 261520Z AUTO 36011KT 340V040 9999 FEW041/// 13/04 Q1020 EGPK 261550Z VRB04KT 9999 FEW035 14/04 Q1018 EGPL 261550Z AUTO 06011KT 9999 BKN039/// 12/05 Q1021 EGPN 261450Z 01008KT 320V070 9999 FEW048 14/02 Q1017 EGPO 261550Z AUTO 05011KT 9999 SCT034/// 12/04 Q1022 EGPU 261520Z AUTO 03013KT 9999 FEW037/// 13/04 Q1020 EGQK 261450Z AUTO 03015KT 9999 BKN034/// 12/06 Q1020 EGQL 261550Z 02016KT 9999 FEW045 13/03 Q1017 BLU EGQM 261550Z AUTO 34020KT 9999 BKN031/// 11/05 Q1015 RERA EGQS 261450Z AUTO 01015KT 9999 // NCD 12/06 Q1020 EGSC 261550Z 33019G29KT 9999 VCSH BKN020 11/08 Q1010 EGSH 261550Z 35016KT 310V020 5000 -DZ SCT015 BKN020 13/10 Q1008 EGSS 261550Z AUTO 33013G23KT 9999 -RA OVC013 10/08 Q1010 EGSY 261520Z 36013KT 330V030 9999 FEW040 15/02 Q1015 EGTC 261550Z 31011KT 9999 BKN026 10/07 Q1012 EGTE 261550Z 33010KT 9999 FEW045 15/02 Q1015 EGTK 261550Z 35018G28KT 9999 -SHRA BKN033 12/05 Q1013 EGUB 261450Z AUTO 33015G27KT //// // ///////// 13/04 Q1012 EGUL 261516Z AUTO 33009G16KT 9999 BKN011 BKN016 BKN023 M A2980 RMK AO2 RAE08DZB08E16 SLPNO ALSTG ESTMD $ EGUN 261556Z 36012G22KT 9000 -RA FEW011 BKN015 BKN022 11/09 A2980 RMK RAB50 SLPNO WND DATA ESTMD ALSTG ESTMD RVRNO PWINO PNO FZRANO VISNO RWY11 CHINO RWY11 $ EGUW 261450Z AUTO 33017KT 2900 -RA BKN005/// SCT013/// BKN016/// 10/10 Q1007 EGVA 261556Z AUTO 34015G22KT 9999 FEW039 13/04 A2993 RMK AO2 SLP140 T01280035 $ EGVN 261550Z 34018KT 9999 SCT037 SCT050 13/04 Q1013 NOSIG RMK BLU BLU EGVO 261450Z AUTO 32016KT 9999 BKN040/// SCT050/// 12/04 Q1012 RERA EGVP 261450Z AUTO 34015KT 9999 SCT044/// 13/03 Q1012 EGWU 261550Z 34018KT 9999 -RA FEW024 BKN032 12/06 Q1011 NOSIG RMK BLU BLU EGXC 261550Z 33015KT 9999 -RA FEW013 BKN022 OVC035 11/09 Q1011 RMK WHT EGXE 261450Z AUTO 35018G29KT 9999 SCT033/// BKN049/// 12/06 Q1014 EGXP 261450Z AUTO 34017KT 8000 // SCT020/// SCT029/// 10/09 Q1012 EGXS 261450Z AUTO 34031KT 9999 // BKN032/// BKN060/// 12/09 Q1010 EGXT 261450Z AUTO 33016KT 9999 BKN022/// 11/07 Q1011 RERA EGXU 261450Z AUTO 35020G30KT 9999 BKN030/// SCT047/// 12/06 Q1014 EGXV 261550Z AUTO 36016G28KT 9999 FEW020/// BKN031/// 12/08 Q1012 RERA EGXW 261450Z AUTO 34016KT 9999 UP FEW010/// SCT020/// BKN042/// 10/08 Q1012 EGXZ 261550Z AUTO 35020G32KT 9999 FEW025/// BKN046/// 12/07 Q1015 RERA EGYD 261450Z AUTO 33018KT 9999 // FEW016/// BKN043/// 10/08 Q1012 EGYM 261450Z AUTO 33017KT 9999 -RA BKN009/// SCT024/// 11/10 Q1009 EGYP 261550Z 23021KT 9999 FEW045 BKN250 13/02 Q1004 NOSIG EHAK 261555Z AUTO 01026KT 340V060 9999 SCT015/// BKN019/// BKN024/// 14/10 Q1004 EHAM 261555Z 35009KT 310V020 9999 FEW027 16/11 Q1001 NOSIG EHBK 261555Z AUTO 01004KT 9999 SCT032 BKN036 14/08 Q1000 NOSIG EHDL 261555Z AUTO 33009KT 270V020 9999 FEW085 OVC097 14/09 Q1000 BLU EHDV 261555Z AUTO 36036KT 9999 FEW018/// SCT022/// BKN028/// 14/10 Q1005 EHEH 261555Z AUTO 36008KT 310V030 9999 OVC100 15/07 Q1000 BLU NOSIG EHFD 261555Z AUTO /////KT 9999 FEW021/// BKN028/// BKN032/// 14/09 Q1003 EHFS 261525Z AUTO 35011KT 310V040 9999 SCT032/// 16/09 Q1001 EHGG 261555Z AUTO 29005KT 250V330 9999 -RA FEW013 BKN021 BKN025 13/11 Q0999 BECMG 01012KT EHGR 261555Z AUTO 35008KT 280V030 9999 FEW035 OVC120 16/09 Q1000 BLU EHHW 261555Z AUTO 03028KT 9999 FEW007/// SCT016/// BKN019/// 15/11 Q1000 EHJA 261555Z AUTO 36027KT 9999 FEW008/// SCT036/// 14/11 Q1004 EHJR 261555Z AUTO 00000KT //// // ///////// 15/11 Q1004 RE// W17/H37 EHKD 261555Z AUTO 34007KT 290V020 9999 FEW026 SCT064 BKN084 16/11 Q1001 BLU NOSIG EHKV 261555Z AUTO 03030KT 9999 -RA FEW006 SCT013 BKN023 15/12 Q1003 EHLE 261555Z AUTO 32006KT 9999 NSC 14/10 Q1000 NOSIG EHLW 261555Z AUTO 34006KT 320V020 2800 +SHRA FEW007 BKN008 BKN010 FEW015CB 13/12 Q1000 YLO EHMA 261555Z AUTO 01033KT 8000 FEW013 SCT022 BKN027 14/11 Q1000 EHMG 261555Z AUTO 36030KT 9999 FEW001 SCT016 BKN020 15/11 Q1002 EHPG 261555Z AUTO 34020G31KT 260V050 4600 -RA FEW001 SCT016 15/13 Q1001 RERA REDZ EHQE 261555Z AUTO 32017KT 9999 NSC 15/12 Q1002 EHRD 261555Z AUTO 35008KT 300V040 9999 NSC 16/10 Q1001 NOSIG EHSA 261555Z AUTO 34021KT 9000 -SHRA ///////// 14/11 Q1002 REDZ W16/H28 EHSC 261555Z AUTO 35023KT 9999 ///////// 15/12 Q1001 W18/H22 EHVK 261555Z AUTO 34007KT 310V010 9999 SCT087 OVC092 15/08 Q1000 BLU EHVL 261555Z AUTO 02017KT 4300 +DZRA FEW011 SCT028 BKN031 13/12 Q1001 GRN EHWO 261555Z AUTO 21001KT 9999 FEW015CB SCT044 BKN048 14/11 Q1001 BLU EICK 261530Z 36010KT 9999 FEW045 SCT260 12/02 Q1020 NOSIG EIDL 261500Z 02011KT 9999 BKN039 13/07 Q1021 EIDW 261530Z 02012KT 9999 FEW040 13/03 Q1019 NOSIG EIKY 261530Z 06003KT 340V110 CAVOK 13/03 Q1021 EIME 261500Z 36008KT 320V040 9999 FEW036 SCT041 13/03 Q1019 EINN 261530Z 36004KT 9999 FEW040 SCT200 13/03 Q1021 NOSIG EISG 261530Z 33007KT 9999 SCT041 13/04 Q1021 EIWF 261530Z 01008KT 340V060 9999 SCT043 13/04 Q1020 EKAH 261550Z AUTO 01007KT 9999NDV BKN010/// 15/13 Q1000 EKBI 261550Z AUTO 36009KT 9999 OVC008/// 13/12 Q0999 EKCH 261550Z AUTO 01015KT 9999 OVC022/// 16/13 Q0997 NOSIG EKEB 261550Z AUTO 36009KT 9999 OVC006/// 13/12 Q0999 EKKA 261550Z 04007KT 9999 FEW007 SCT012 BKN015 13/12 Q1000 EKOD 261450Z 36011KT 9999 FEW014 SCT019 BKN027 14/13 Q0998 EKRK 261550Z AUTO 36009KT 9999 SCT023/// BKN064/// 15/12 Q0997 EKRN 261550Z AUTO 05010KT 010V090 9999 -SHRA OVC064/// 17/17 Q0994 EKRS 261550Z AUTO VRB06KT 9999 FEW036/// SCT049/// BKN088/// 15/12 Q0997 EKSB 261550Z AUTO 36012KT 9999NDV ///////// 15/11 Q0997 EKSP 261550Z 35005KT 320V030 9999 FEW012 BKN020 13/11 Q0998 EKVD 261350Z 35007KT 9999 BKN015 14/12 Q0999 EKVG 261550Z AUTO 15009KT 9999 BKN031/// 09/05 Q1023 EKVJ 261350Z 35008KT 310V030 9999 BKN011 13/13 Q0999 EKYT 261550Z AUTO 03008KT 9999 SCT012/// OVC032/// 15/13 Q1002 ELLX 261550Z 29016KT 260V320 9999 SCT018 BKN023 10/06 Q1001 NOSIG ENAL 261550Z 04024KT 9999 FEW029 10/04 Q1016 ENAN 261550Z 29006KT 9999 FEW042 05/M02 Q1023 ENAT 261550Z 32008KT 9999 FEW022 BKN030 06/02 Q1022 RMK WIND 700FT 33008KT ENBL 261520Z 02010KT CAVOK 12/03 Q1010 ENBN 261550Z AUTO 36014KT 9999NDV NCD 09/03 Q1020 ENBO 261550Z 01006KT 340V050 9999 FEW020 BKN240 08/02 Q1023 ENBR 261550Z 33006KT 300V010 CAVOK 15/08 Q1008 NOSIG RMK WIND 1200FT VRB09KT ENCN 261550Z 03014KT 9999 FEW015 BKN040 12/07 Q1006 ENDU 261550Z 27004KT 9999 VCSH FEW018 SCT030 BKN040 05/02 Q1023 RMK WIND 1100FT 28007KT WIND 2200FT 35010KT ENEV 261550Z 36006KT 9999 FEW046 05/02 Q1023 RMK WIND 1400FT 01012KT ENFB 261550Z AUTO 01042KT 9999NDV BKN025/// ///// Q//// W///S6 ENFL 261550Z 02013KT CAVOK 13/04 Q1012 ENGC 261550Z 04046KT 9999 SCT025 10/05 Q1015 W09/S6 ENGM 261550Z 01014KT 9999 -DZ FEW012 BKN015 08/06 Q1009 TEMPO BKN012 ENHD 261550Z AUTO 01010KT 9999 NCD 16/06 Q1007 ENHE 261550Z 04022KT 9999 BKN035 07/00 Q1023 W///S4 ENHF 261550Z AUTO 24009KT 9999 FEW010/// SCT045/// BKN059/// 04/01 Q1021 REDZ REUP RMK WIND 1254FT 27012KT ENHK 261250Z 27011KT 9999 VCSH FEW030 SCT047 06/03 Q1021 ENHM 261550Z 01045KT 9999 FEW025 BKN032 11/07 Q1010 W12/S6 ENKB 261550Z AUTO 04015KT 9999 FEW025/// 10/03 Q1018 RMK WIND 745FT 05019KT ENKR 261550Z AUTO 25005KT 9999 FEW026/// 06/02 Q1020 RMK WIND 731FT 26009KT ENLA 261550Z AUTO 34029KT 9999NDV BKN017/// 13/09 Q1007 W///S5 ENLE 261550Z 34027KT 9999 BKN018 12/09 Q1007 W14/S5 ENLK 261150Z 01005KT 9999 VCSH FEW015 SCT025 06/02 Q1022 ENML 261550Z 05012KT 9999 FEW040 SCT100 11/03 Q1017 ENMS 261050Z VRB02KT CAVOK 08/04 Q1019 RMK WIND 412FT VRB03KT ENNA 261550Z 35007KT 9999 FEW032 SCT049 06/01 Q1022 RMK WIND 1800FT 28018KT ENNE 261550Z 01016KT 9999 SCT030 07/M01 Q1024 W///S5 ENOA 261550Z 02053KT 9000 SCT023 11/06 Q1010 W///S6 ENOL 261550Z 04009KT 9999 FEW030 SCT130 BKN200 10/04 Q1019 NOSIG ENQA 261550Z AUTO 02040KT 9999NDV NCD 11/07 Q1009 W12/S6 ENQC 261550Z AUTO 02042KT 9999NDV NCD 12/06 Q1009 W///S6 ENQR 261550Z AUTO 03041G51KT 9999NDV BKN025/// 09/05 Q1015 W///S6 ENRA 261250Z 26004KT CAVOK 10/01 Q1020 ENRO 261550Z AUTO 34009KT 9999NDV -RA BKN010/// OVC016/// 03/03 Q1015 ENRY 261550Z AUTO 01011KT 9999NDV OVC011/// 09/07 Q1008 ENSB 261550Z 00000KT 9999 FEW020 SCT090 M02/M05 Q1008 RMK WIND 1400FT 01003KT ENSD 261520Z 09006KT 050V130 9999 FEW060 13/03 Q1012 RMK WIND 1138FT 05017G29KT ENSE 261550Z AUTO 02045KT 9999NDV BKN026/// 09/04 Q1016 W///S6 ENSF 261550Z AUTO 01043KT 9999NDV BKN026/// ///// Q//// W///S6 ENSG 261150Z 07007KT 9999 BKN042 09/04 Q1009 RMK WIND 3806FT 02016KT ENSH 261220Z 33011KT 9999 FEW025 07/02 Q1022 RMK WIND 150FT 31010KT ENSL 261550Z AUTO 36044KT 9000NDV BKN023/// 12/07 Q1010 W11/S6 ENTC 261550Z VRB02KT 9999 FEW026 SCT049 05/00 Q1023 NOSIG RMK WIND 2600FT 28009KT ENTO 261550Z 03013KT 8000 SCT007 OVC010 08/08 Q1007 TEMPO 03015G25KT ENUG 261550Z AUTO 28023KT 9999NDV BKN039/// 07/M02 Q1019 W///S5 ENUN 261550Z AUTO 31009KT 9999NDV FEW044/// 06/M04 Q1024 W09/S/ ENVA 261550Z 23002KT 9999 VCSH FEW033 BKN048 08/04 Q1018 RMK WIND 670FT VRB01KT ENVD 261350Z 18002KT CAVOK 07/02 Q1019 ENWV 261550Z AUTO 35021KT 9999NDV BKN018/// 12/09 Q1006 W///S5 ENZV 261550Z 36010KT CAVOK 15/08 Q1006 NOSIG EPBY 261530Z 14011KT 100V160 9999 -SHRA FEW009 SCT023CB BKN028 19/16 Q0993 EPGD 261530Z 09012KT CAVOK 20/16 Q0995 EPKK 261530Z 27010KT 9999 FEW030 SCT044 14/11 Q0995 EPKT 261530Z 23008KT 9999 FEW018 BKN025 11/08 Q0996 EPLB 261530Z 11003KT 040V180 2800 -SHRA BR SCT021 BKN045CB 18/18 Q0996 RESHRA EPLL 261530Z 20006KT 140V250 9999 FEW024 16/11 Q0995 EPMO 261530Z 13010KT 100V170 9999 SCT025 20/17 Q0995 EPPO 261530Z 15014KT 9999 OVC008 14/12 Q0992 EPRZ 261530Z 09007KT 9999 -SHRA FEW024CB 16/14 Q0996 EPSC 261530Z 06009KT 030V100 9999 -RA FEW003 SCT009 BKN025 17/16 Q0990 EPSY 261530Z 13009KT 090V170 9999 SCT030CB 22/15 Q0996 EPWA 261530Z 14010KT 9999 -SHRA FEW022 SCT033CB 19/17 Q0995 NOSIG EPWR 261530Z 21010KT 170V230 9999 SCT021 13/08 Q0994 EPZG 261530Z 17010KT 130V200 4500 -DZ BR OVC004 11/10 Q0992 EQPH 261530Z AUTO 28018KT 9999 NCD 29/10 Q1012 EQYA 261456Z AUTO 00000KT 1600 -RA BR BKN002 06/06 A2947 RMK AO2 VIS 1600V4400 SLP975 P0005 60008 T00600059 55005 $ EQYB 261456Z AUTO 24004KT 9999 -RA OVC007 07/06 A2947 RMK AO2 SLP970 P0003 60008 T00660060 55006 $ EQYC 261456Z AUTO 00000KT 9999 -RA OVC010 06/06 A2947 RMK AO2 SHRAE05RAB05 SLP983 P0002 60004 T00640058 55003 $ EQYD 261456Z AUTO 24004KT 9999 -RA OVC008 06/05 A2948 RMK AO2 SLP989 P0005 60002 T00600052 55003 $ EQYE 261456Z AUTO 26003KT 9000 -RA OVC011 08/07 A2946 RMK AO2 SLP995 P0004 60009 T00760069 55006 $ EQYF 261456Z AUTO 22005KT 9999 -RA OVC010 07/06 A2946 RMK AO2 SLP960 P0003 60005 T00650058 55003 $ EQYK 261456Z AUTO 18009KT 9999 CLR 30/20 A2980 RMK AO2 SLP091 T03020201 50005 $ EQYL 261456Z AUTO 13011KT 9999 OVC038 22/11 A3033 RMK AO2 SLP272 T02230107 57015 $ EQYT 261456Z AUTO 25004KT 9999 BKN048 07/01 A2959 RMK AO2 SLP035 T00670006 55000 $ EQYV 261456Z AUTO 00000KT 9999 OVC120 17/04 A2949 RMK AO2 RAB02E14DZB14E19 SLP987 P0000 60000 T01670044 52009 $ ESCF 261550Z AUTO 04010KT 9999 BKN009/// BKN013/// OVC016/// 17/15 Q1004 ESCM 261550Z AUTO 02007KT 9999 FEW007/// OVC015/// 15/15 Q1007 ESDF 261550Z AUTO 05014KT 9999 BKN013/// OVC110/// 17/16 Q0998 ESGG 261550Z 03010KT CAVOK 15/12 Q1002 ESGJ 261550Z AUTO 03008KT 9999 OVC012/// 15/13 Q1002 ESGR 261550Z AUTO 02003KT 9999 FEW010/// BKN014/// OVC018/// 16/15 Q1003 ESGT 261550Z AUTO 01014KT 9999 OVC005/// 13/12 Q1004 ESIA 261550Z AUTO 06010KT 9999 SCT011/// OVC014/// 16/15 Q1004 ESIB 261550Z AUTO 03014KT 9999 OVC005/// 13/13 Q1003 ESKN 261550Z 05007KT 9999 BKN009 16/15 Q1004 ESMK 261550Z AUTO /////KT 9999 -RA OVC013/// 17/15 Q0998 ESMQ 261550Z AUTO 02008KT 9999 FEW110/// 17/15 Q1000 ESMS 261550Z 04012KT 9999 OVC013 16/13 Q0996 ESMT 261550Z AUTO 05011KT 9999 BKN019/// 17/13 Q0999 ESMX 261550Z AUTO 04010KT 9999 OVC005/// 16/15 Q1000 ESND 261550Z AUTO 01005KT 340V040 9000 +DZ BKN006/// BKN014/// OVC019/// 05/04 Q1014 REUP ESNG 261550Z AUTO 36005KT 9999 NCD 06/M01 Q1020 ESNK 261550Z AUTO 33007KT 300V360 9999 -RA FEW003/// OVC016/// 08/07 Q1014 ESNL 261550Z AUTO 35005KT 330V040 9999 -RA BKN052/// 06/05 Q1018 ESNN 261550Z AUTO 32007KT 9999 +DZ OVC010/// 08/07 Q1014 ESNO 261550Z AUTO 02010KT 340V060 4300 RA FEW009/// OVC019/// 07/07 Q1015 ESNQ 261550Z AUTO 35005KT 9999 NCD 03/M02 Q1020 ESNS 261550Z AUTO 01008KT 330V040 9999 -DZ FEW040/// OVC092/// 07/05 Q1017 ESNU 261550Z 36010KT 9999 RA OVC009 08/06 Q1015 ESNV 261550Z AUTO 01003KT 350V050 9999 -DZ SCT062/// BKN076/// OVC098/// 06/01 Q1017 RERA ESNX 261550Z AUTO 36004KT 9999 SCT088/// BKN100/// OVC130/// 06/01 Q1018 ESNZ 261550Z AUTO 36006KT 330V030 9999 BKN009/// OVC015/// 05/04 Q1016 ESOE 261550Z AUTO 03013KT 2000 BR VV002 13/12 Q1006 ESOH 261550Z AUTO 01008KT 9999 OVC014/// 09/07 Q1008 ESOK 261550Z AUTO 02014KT 9999 OVC011/// 11/10 Q1006 ESOW 261550Z AUTO 36010KT 4800 BR BKN003/// OVC005/// 15/14 Q1007 ESPA 261550Z 01005KT 350V050 9999 -RA NSC 08/04 Q1018 ESPE 261550Z AUTO 02006KT 340V060 9999 SCT120/// 08/01 Q1019 ESSA 261550Z 06007KT CAVOK 15/14 Q1006 NOSIG ESSB 261550Z AUTO 04006KT 9999 SCT130/// BKN180/// 16/14 Q1006 ESSD 261550Z AUTO 01007KT 9999 OVC007/// 09/08 Q1009 ESSL 261550Z AUTO 06009KT 040V100 9999 OVC011/// 17/15 Q1004 ESSP 261550Z AUTO 05009KT 9999 BKN013/// OVC098/// 17/15 Q1004 ESST 261550Z AUTO 35006KT 320V030 9999 OVC017/// 09/08 Q1009 ESSV 261550Z AUTO 10009KT 9999 NCD 18/15 Q1002 ESTA 261550Z AUTO 03010KT 9999 BKN037/// OVC100/// 16/13 Q0998 ESTL 261550Z AUTO 04006KT 010V070 9999 OVC016/// 17/14 Q0998 ESUP 261550Z AUTO 01005KT 9999 // NCD 07/M00 Q1020 ESUT 261550Z AUTO 30005KT 270V330 9999 NCD 06/M01 Q1019 ETAD 261556Z AUTO 25005KT 9999 -RA BKN013 BKN020 OVC034 09/08 A2952 RMK AO2 RAB1456E11RAB15 CIG 013V019 CIG 010 RWY05 SLP992 P0003 T00890081 $ ETAR 261511Z AUTO 24011G17KT 9999 SCT023 BKN035 OVC046 10/08 A2952 RMK AO2 SLP001 FZRANO $ ETEB 261550Z AUTO 24012KT 9999 -RA BKN006 OVC012 07/07 A2947 RMK AO2 DZE10DZB20E31RAB31 SLP001 $ ETGG 261520Z AUTO ///13KT 9999 // ////// 14/09 Q0997 /// ETHA 261520Z AUTO 26019KT //// // ////// 04/02 Q1001 /// ETHB 261520Z 28008KT 9999 -RA FEW015 SCT045 OVC050 11/09 Q0997 BLU ETHC 261520Z 27005KT 9000 -RA SCT025 BKN040 OVC060 11/10 Q0996 BLU ETHF 261520Z 32004KT 9999 -RA FEW020 BKN027 OVC040 10/07 Q0997 BLU ETHL 261520Z AUTO 24018KT 8000 // ////// 07/04 Q1001 /// ETHN 261520Z 25016KT 9999 -RADZ BKN002 OVC007 07/06 Q0998 AMB ETHS 261520Z 30009KT 9999 -RA FEW040 OVC070 11/08 Q0995 BLU ETIC 261511Z AUTO 24004KT 9999 -RA FEW007 BKN036 OVC045 08/08 A2942 RMK AO2 SLP970 $ ETIH 261456Z AUTO 23005KT 9999 -RA OVC011 07/05 A2947 RMK AO2 SLP989 P0003 60005 T00690052 55003 ETIK 261532Z AUTO 24015G21KT 9999 OVC010 08/08 A2947 RMK AO2 DZB16E32 SLP986 $ ETML 261520Z AUTO 34027KT //// // ////// 15/13 Q0995 /// ETMN 261520Z 34009KT 9999 FEW015 SCT020 BKN035 15/10 Q0997 BLU ETNH 261547Z 35009KT 9999 BKN018 BKN100 14/10 Q0996 WHT ETNL 261550Z 36013KT 4800 RA BR SCT006 BKN012 13/12 Q0992 GRN ETNN 261520Z 28008KT 9999 SCT020 BKN035 12/08 Q0999 BLU ETNS 261520Z AUTO 01012KT 9999 // ////// 14/10 Q0997 /// ETNT 261520Z AUTO 28006KT 7000 // ////// 15/10 Q0998 /// ETNW 261545Z 30008KT 6000 RA SCT023 OVC040 11/10 Q0996 WHT ETOU 261556Z AUTO 30011KT 9999 BKN020 BKN031 OVC044 11/08 A2947 RMK AO2 SLP983 T01110081 $ ETSB 261520Z AUTO 31009KT 4600 // ////// 09/06 Q0999 /// ETSH 261538Z 27013KT 6000 RA BKN006 BKN013 09/08 Q0992 YLO ETSI 261520Z AUTO 25010KT 5000 // ////// 08/06 Q0999 /// ETSL 261520Z AUTO 22016KT 9999 // ////// 07/03 Q1000 /// ETSN 261520Z 25010KT 9999 -RA BKN020 OVC025 08/05 Q1000 WHT EVLA 261550Z AUTO 08008KT 9999 BKN200 22/16 Q1001 EVRA 261550Z 10007KT 070V130 CAVOK 22/15 Q1005 NOSIG EVVA 261550Z AUTO 10008KT CAVOK 22/16 Q1003 EYKA 261550Z 10009KT CAVOK 23/12 Q1003 EYPA 261550Z 11008KT 070V130 CAVOK 23/15 Q1000 EYSA 261550Z 09009KT CAVOK 22/13 Q1004 BLU NOSIG EYVI 261550Z 12012KT CAVOK 22/14 Q1005 NOSIG FABL 261500Z 27016KT CAVOK 19/M11 Q1015 NOSIG FACT 261500Z 26009KT 230V290 9999 SCT040 14/02 Q1019 NOSIG FAEL 261531Z 22024G34KT CAVOK 15/06 Q1013 FAGG 261500Z 22016KT 9999 SCT028 BKN045 13/07 Q1016 FAJB 261400Z AUTO 24004KT //// // ////// 23/M12 Q1014 FAKM 261500Z 22011KT CAVOK 20/M07 Q1015 FAKN 261500Z 06010KT CAVOK 26/12 Q1011 NOSIG FALA 261500Z 19010KT 160V230 CAVOK 24/M09 Q1014 NOSIG FALE 261551Z 16010KT 6000 -RA SCT010 BKN027 OVC038 16/14 Q1012 NOSIG FALW 261500Z AUTO 22009KT //// // ////// 14/04 Q1018 FAMM 261500Z 20008KT CAVOK 25/M09 Q1015 NOSIG FAOB 261500Z AUTO 32015KT //// // ////// 14/03 Q1017 FAOR 261530Z 20008KT CAVOK 20/M14 Q1016 NOSIG FAPE 261500Z 25029G39KT 9999 SCT030 15/04 Q1014 NOSIG FAPP 261500Z 27009KT CAVOK 33/02 Q1009 NOSIG FASI 261500Z AUTO 29003KT //// // ////// 22/M10 Q1018 FAUP 261500Z 19005KT CAVOK 18/M03 Q1016 NOSIG FAUT 261500Z 14015KT 9999 FEW030 15/06 Q1011 FAVV 261600Z AUTO 00000KT //// // ////// 20/M10 Q//// FAWB 261500Z AUTO 22007KT //// // ////// 27/M11 Q1012 FAWK 261500Z AUTO 23008KT //// // ////// 24/M13 Q1015 FBFT 261500Z 28011KT 250V310 CAVOK 36/03 Q1009 FBKE 261500Z 35006KT 320V020 CAVOK 36/04 Q1009 FBMN 261500Z 19008KT CAVOK 35/M02 Q1010 FBSK 261500Z 20010KT CAVOK 29/M17 Q1011 NOSIG FBSP 261500Z 23010KT CAVOK 37/11 Q1007 FCBB 261500Z 20011KT 7000 FEW020 30/20 Q1009 NOSIG FCPP 261500Z 21009KT 180V240 9999 SCT013 BKN023 27/22 Q1009 NOSIG FDMY 261400Z AUTO 02005KT //// // ////// 28/12 Q1016 FDOT 261300Z AUTO 05007KT //// // ////// 30/10 Q1007 FDSK 261400Z 15009KT CAVOK 27/11 Q1007 NOSIG FDST 261400Z AUTO 34013KT //// // ////// 19/10 Q1009 FEFF 261500Z 26008KT 9999 BKN023 SCT040CB 30/22 Q1007 TEMPO 30015G25KT TSRA FGBT 261500Z 20006KT 170V240 8000 BKN008 FEW018CB 25/25 Q1009 FGSL 261500Z 28009KT 250V310 8000 FEW008 BKN050 25/25 Q1010 NOSIG FIMP 261500Z 11009KT 9999 BKN018 22/15 Q1019 FJDG 261555Z 07008KT 9999 FEW018 FEW050 BKN0080 28/24 A2987 RMK SLP112 T02770239 FKKD 261500Z VRB05KT 9999 BKN013 FEW016CB 27/25 Q1009 TEMPO TS FKKL 261400Z /////KT 9999 FEW050 33/24 Q1009 FKKN 261500Z 06010KT 6000 RA BKN015 FEW016CB 26/21 Q1012 FKKR 261500Z 27007KT 240V300 9999 FEW020 FEW023CB 31/23 Q1007 NOSIG FKYS 261500Z 25011KT 220V280 8000 TS BKN010 FEW020CB 23/21 Q1014 NOSIG FLKK 261400Z /////KT 9000 NSC 35/M01 Q1012 FMCZ 261530Z AUTO 02005KT CAVOK 26/20 Q1012 NOSIG FMEE 261530Z AUTO 15014KT 9999 OVC066/// 22/16 Q1018 NOSIG FMEP 261530Z AUTO 01003KT 9999 FEW062 21/14 Q1017 FMMI 261530Z 10014KT 9999 SCT023 21/12 Q1018 NOSIG FMMT 261500Z 05007KT 020V080 9999 FEW017 23/19 Q1015 NOSIG FMNA 261500Z 14010KT 9999 SCT020 24/18 Q1013 FMNM 261500Z 34011KT 9999 FEW040 25/21 Q1011 NOSIG FMNN 261500Z 23002KT 9999 FEW020 27/// Q1012 FMSD 261500Z 06018KT CAVOK 25/19 Q1010 FNCA 261400Z 25007KT 9999 FEW013 BKN020 26/22 Q1010 FNCT 261400Z 27010KT CAVOK 24/19 Q1010 FNGI 261400Z 11008KT CAVOK 36/M00 Q1012 FNHU 261400Z 00000KT 8000 NSC 30/08 Q1017 FNKU 261400Z 21007KT CAVOK 31/M03 Q1019 FNLU 261600Z 25009KT CAVOK 25/20 Q1008 NOSIG FNMA 261100Z 27006KT 8000 BKN010 25/22 Q1014 FNMO 261400Z 23010KT 9999 BKN014 21/15 Q1010 FNSA 261400Z 00000KT 9999 SCT033 31/19 Q1017 FNSO 261200Z 25010KT 9999 BKN016 ///// Q//// FNUB 261500Z 17010KT CAVOK 31/// Q1018 FNUE 261400Z 12007KT 9999 SCT030 32/23 Q1017 FNUG 261400Z 27006KT 9999 OVC025 25/18 Q1012 FOGM 261500Z /////KT 9999 SCT011 OVC025 28/24 Q//// FOGO 261500Z /////KT 7000 TSRA SCT013TCU SCT020CB 24/22 Q//// FOGR 261500Z /////KT 9999 SCT010 OVC030 30/24 Q//// FOOB 261500Z /////KT 9999 TS SCT010 FEW013CB OVC023 25/20 Q1008 FOOG 261500Z 22015KT 9999 SCT013 29/23 Q1010 FOOK 261500Z 20008KT 9999 SCT015TCU FEW020CB 29/20 Q//// FOOL 261530Z 24009KT 210V270 9999 SCT012 28/24 Q1009 NOSIG FOON 261500Z 14006KT 100V180 9999 SCT020 FEW023CB 30/22 Q1009 FOOT 261500Z VRB02KT 9999 SCT010 OVC030 29/22 Q//// FPST 261300Z 10008KT 9999 FEW020 29/23 Q1011 NOSIG FQBR 261500Z 08011KT CAVOK 28/22 Q1003 FQCH 261500Z 15008KT 5000 HZ NSC 34/06 Q1009 FQIN 261500Z 05016KT CAVOK 26/24 Q1005 FQLC 261500Z 26006KT 5000 FU BKN020 27/10 Q1017 NOSIG FQMA 261500Z 11010G25KT 360V170 9999 FEW025 23/16 Q1007 NOSIG FQNC 261200Z 04015KT 9999 FEW020 27/20 Q1010 FQNP 261500Z 05006KT 9999 FEW020 32/09 Q1010 FQPB 261500Z 05014KT 9999 FEW020 26/22 Q1011 FQQL 261500Z 07015KT CAVOK 29/18 Q1004 FQTT 261400Z 23006KT 170V270 CAVOK 40/07 Q1004 FQVL 261500Z 05008KT CAVOK 26/23 Q1005 FSIA 261500Z 14012KT 110V170 9999 SCT018 27/24 Q1010 NOSIG FTTA 261300Z 14004KT 9999 SCT040 FEW050CB 32/21 Q1008 FTTC 261500Z 28004KT 9999 FEW040 SCT150 33/// Q1009 FTTJ 261500Z 21007KT 210V270 8000 NSC 32/22 Q1006 NOSIG FWCL 261200Z 05007KT 9999 FEW045 34/09 Q1010 NOSIG FWKI 261500Z 06015KT CAVOK 27/08 Q1013 NOSIG FXMM 261200Z 25008KT CAVOK 18/M09 Q1017 NOSIG FYKM 261500Z AUTO 20004KT //// // ////// 38/01 Q1008 FYKT 261500Z AUTO 23005KT //// // ////// 22/M05 Q//// FYOA 261500Z AUTO 10001KT //// // ////// 37/M03 Q1010 FYRU 261400Z 18008KT CAVOK ///// Q1013 FYWB 261500Z 36018KT 3000 -SS NSC 22/09 Q1013 RESA FYWE 261500Z 25015KT CAVOK 28/M16 Q1018 FYWH 261500Z 26013KT CAVOK 30/M08 Q1018 NOSIG FYWW 261500Z AUTO 26010G23KT //// // ////// 29/M11 Q1017 FZAA 261500Z 26014KT 8000 FEW020 SCT100 30/19 Q1010 NOSIG FZIC 261400Z 21008KT 8000 TS SCT020 SCT026CB SCT090 26/21 Q1009 NOSIG FZNA 261400Z 18018KT 8000 TSSQ SCT016 FEW020CB BKN100 22/13 Q1016 BECMG TSRA FZRF 261200Z 18007KT 9000 BKN024 FEW030CB 32/23 Q1012 NOSIG FZWA 261500Z 27008KT 9000 TS FEW022 FEW028CB 27/19 Q1010 BECMG NSW GABS 261530Z 22006KT 190V250 9999 FEW018 30/22 Q1013 NOSIG GAKD 261500Z 24008KT 9999 SCT020 34/24 Q1010 GAMB 261500Z 26010KT CAVOK 33/23 Q1010 GANR 261500Z 24008KT 9999 SCT020 35/24 Q1010 GBYD 261600Z 09008KT CAVOK 31/22 Q1009 GCFV 261530Z 04017KT 9999 FEW020 26/21 Q1019 GCGM 261530Z 10005KT 060V140 CAVOK 28/21 Q1019 RMK R09/12005KT 080V190 ARP/14005KT 100V200 GCHI 261530Z 36016KT 9999 FEW020 25/20 Q1020 GCLA 261530Z 36013KT 9999 FEW020 BKN026 26/21 Q1021 GCLP 261530Z 02029KT 9999 FEW020 26/20 Q1018 NOSIG GCRR 261530Z 36019KT 9999 FEW020 28/19 Q1019 GCTS 261530Z 07024KT 9999 FEW020 28/20 Q1019 NOSIG GCXO 261530Z 29011KT 9999 FEW007 28/13 Q1022 NOSIG GEML 261530Z 29010KT 230V320 9999 FEW018 25/13 Q1016 GFLL 261500Z 27006KT SCT012 FEW027CB 29/23 Q1009 RMK CB-NE GGOV 261500Z VRB03KT 9999 SCT014 32/24 Q1010 NOSIG GLRB 261500Z 22008KT 9999 BKN013 FEW023CB 26/25 Q1011 RMK CB-W GMAD 261530Z 22013KT CAVOK 26/17 Q1013 NOSIG GMAG 261500Z 35015KT CAVOK 31/10 Q1015 NOSIG GMAT 261500Z 35017KT 9999 FEW016 24/15 Q1016 NOSIG GMFF 261530Z 29009KT 250V320 CAVOK 28/07 Q1019 NOSIG GMFK 261400Z 17008KT 130V210 9999 FEW030 33/03 Q1018 NOSIG GMFM 261500Z 33012KT 300V360 CAVOK 27/09 Q1019 NOSIG GMFO 261530Z 31014KT 280V340 9999 FEW026 25/09 Q1017 NOSIG GMMB 261500Z 36010KT 330V030 CAVOK 25/14 Q1020 NOSIG GMMC 261500Z 36014KT CAVOK 23/15 Q1019 GMMD 261500Z 26006KT CAVOK 32/06 Q1018 NOSIG GMME 261530Z 34007KT 270V050 8000 SCT020 23/16 Q1019 NOSIG GMMH 261500Z 01024KT 6000 NSC 28/19 Q1013 NOSIG GMMI 261500Z 02022KT 8000 NSC 28/16 Q1016 NOSIG GMML 261500Z 04023KT 6000 NSC 31/17 Q1016 NOSIG GMMN 261530Z 01012KT 340V050 CAVOK 24/14 Q1019 NOSIG GMMW 261500Z 33013KT 300V010 CAVOK 25/08 Q1016 NOSIG GMMX 261530Z 02005KT 320V070 CAVOK 32/09 Q1017 NOSIG GMMZ 261500Z 30012KT CAVOK 34/M05 Q1017 NOSIG GMTA 261500Z 32012KT CAVOK 25/11 Q1017 NOSIG GMTN 261500Z 29014KT 260V320 CAVOK 28/10 Q1017 NOSIG GMTT 261530Z 26008KT 230V290 CAVOK 22/13 Q1018 NOSIG GOBD 261530Z 25011KT 9999 FEW013 28/23 Q1010 NOSIG GOGG 261500Z 20004KT 9999 FEW016 33/26 Q1011 GOGK 261500Z 18004KT 9999 SCT016 31/27 Q1009 RERA GOGS 261500Z 28004KT 9999 FEW013 31/26 Q1010 GOOD 261500Z 28006KT 9999 FEW015 31/25 Q1010 GOOG 261500Z 32006KT 9999 SCT013 33/28 Q//// GOOK 261500Z 28006KT 9999 SCT018 31/23 Q1011 GOOY 261500Z 22004KT 9999 BKN013 27/24 Q1011 GOSM 261500Z 24004KT 9999 FEW016 36/26 Q1008 GOSP 261500Z 24002KT CAVOK 37/25 Q1007 GOSS 261500Z 24006KT 180V310 CAVOK 35/26 Q1009 GOTK 261500Z 22004KT 9999 SCT016 29/24 Q1010 GOTT 261500Z 16017KT 9999 BKN013 29/22 Q1011 GQNO 261500Z 23011KT 1800 BLSA NSC 44/09 Q1006 NOSIG GQPP 261500Z 33016KT 3500 NSC 29/20 Q1009 NOSIG GUCY 261500Z 16006KT 9999 FEW015 BKN110 29/22 Q1010 NOSIG GVAC 261600Z 08010KT 9999 FEW013 SCT200 32/20 Q1012 NOSIG GVBA 261100Z 05012KT 9999 BKN014 29/25 Q1015 NOSIG GVNP 261600Z 09011KT 9999 FEW015 BKN200 30/26 Q1012 NOSIG GVSV 261500Z 05013KT 9999 SCT018 32/24 Q1014 NOSIG HAAB 261600Z 13003KT 9999 BKN024 SCT080 19/12 Q1023 HEAT 261500Z 35010KT CAVOK 34/14 Q1011 NOSIG HEAX 261500Z 36006KT CAVOK 29/20 Q1010 NOSIG HEBA 261500Z 33008KT CAVOK 28/19 Q1010 NOSIG HEBL 261500Z 07006KT CAVOK 38/12 Q1006 NOSIG HECA 261600Z 36010KT CAVOK 31/14 Q1010 NOSIG HECP 261500Z 35010KT CAVOK 30/14 Q1010 NOSIG HEGN 261500Z 34014KT CAVOK 34/10 Q1006 NOSIG HELX 261500Z 00000KT CAVOK 38/11 Q1006 NOSIG HEMM 261500Z 13009KT CAVOK 29/20 Q1010 NOSIG HESG 261500Z 34013KT CAVOK 36/11 Q1007 NOSIG HESH 261500Z 36010KT CAVOK 34/16 Q1007 NOSIG HSSS 261530Z 08013KT 9999 SCT050 BKN140 30/17 Q1008 NOSIG HTAR 261500Z 09007KT 9999 FEW030 23/14 Q1017 NOSIG HTBU 261500Z 26005KT 9999 FEW022 FEW024CB 25/18 Q1012 HTDA 261500Z 06010KT 9999 FEW014 26/20 Q1011 NOSIG HTDO 261500Z 11010KT 9999 FEW030 30/11 Q1013 NOSIG HTIR 261500Z 08011KT 9999 SCT028 26/12 Q1015 HTKA 261500Z 19007KT 9999 FEW025 28/20 Q1009 NOSIG HTKJ 261500Z 08008KT 9999 FEW028 26/15 Q1015 NOSIG HTMG 261500Z 09005KT 9999 SCT026 29/18 Q113 HTMT 261500Z 02005KT 9999 SCT022 26/20 Q1012 NOSIG HTMU 261500Z 33009KT 9999 FEW024 FEW026CB 25/19 Q1014 HTMW 261500Z 32011KT 9999 FEW024 FEW025CB 25/19 Q1012 NOSIG HTSO 261500Z 09015KT 9999 SKC 27/11 Q1013 HTSU 261500Z 00000KT 9999 BKN022 24/15 Q1019 HTTB 261500Z 14005KT 9999 SCT026 FEW027CB 30/14 Q1011 NOSIG HTZA 261500Z 08010KT 9999 FEW022 27/21 Q1011 NOSIG K00U 261555Z AUTO 26015G22KT 10SM CLR 17/04 A2978 RMK A01 K04V 261555Z AUTO 31006KT 10SM CLR 15/M03 A3026 RMK AO2 K04W 261555Z AUTO 00000KT 4SM BR BKN003 BKN050 OVC070 16/16 A2967 RMK AO2 K05U 261555Z AUTO 00000KT 10SM CLR 19/M03 A3023 RMK A01 K06C 261555Z AUTO 21009G14KT 10SM OVC007 18/16 A2983 RMK AO2 T01820162 K06D 261555Z AUTO 22008KT 10SM CLR 18/05 A2948 RMK AO2 K08D 261555Z AUTO 27012KT 10SM FEW110 18/03 A2953 RMK AO2 K0A0 261555Z AUTO 33004KT 10SM CLR 27/02 A3010 RMK AO2 K0A9 261555Z AUTO 00000KT 10SM SCT015 OVC039 21/18 A3008 RMK AO2 K0CO 261555Z AUTO 29039G59KT 10SM CLR 06/M03 A3036 RMK AO2 PWINO K0E0 261530Z AUTO 30015G20KT 10SM CLR 27/M03 A3017 RMK AO2 T02681035 K0F2 261555Z AUTO 18007G15KT 10SM CLR 24/19 A2992 RMK AO2 T02430191 K0J4 261358Z AUTO VRB03KT 10SM CLR 23/20 A3006 RMK AO2 SLP177 T02330200 K0R4 261535Z AUTO 00000KT 10SM CLR 25/19 A3001 RMK AO2 T02470193 K0S9 261555Z AUTO 13005KT 10SM OVC003 10/10 A3006 RMK AO2 K0V4 261555Z AUTO 01003KT 10SM OVC013 21/18 A3006 RMK AO1 T02130178 K0VG 261555Z AUTO 00000KT 10SM OVC018 20/16 A3011 RMK AO2 K11R 261535Z AUTO 18003KT 10SM CLR 23/23 A2999 RMK AO2 T02330228 K12N 261554Z AUTO 21005KT 22/16 A3010 RMK AO1 SLP187 T02220156 K13K 261555Z AUTO 20012G18KT 10SM CLR 24/18 A2983 RMK AO2 T02360184 K14Y 261555Z AUTO 00000KT 10SM -RA SCT055 SCT065 OVC090 15/11 A2963 RMK AO2 K17J 261535Z AUTO 04005KT 10SM SCT026 27/21 A3007 RMK AO2 T02660210 K18A 261555Z AUTO 00000KT 10SM OVC017 21/17 A3009 RMK AO2 T02130172 K19S 261555Z AUTO 21004KT 7SM CLR 25/06 A2980 RMK AO2 T02530057 K1A5 261555Z AUTO 00000KT 10SM OVC027 21/15 A3014 RMK AO2 T02100148 K1A6 261555Z AUTO 00000KT 10SM SCT012 OVC018 19/17 A3010 RMK AO2 T01900167 K1A9 261555Z AUTO 00000KT 10SM CLR 26/18 A3005 RMK AO2 T02570175 K1AN 261556Z AUTO 29012KT 10SM CLR 19/ A2948 RMK AO2 SLP001 $ K1BM 261458Z AUTO 27027G32KT 10SM CLR 11/M01 A2979 RMK AO2 SLP085 T01061011 53018 $ K1BW 261458Z AUTO 27016KT 2 3/4SM HZ CLR 21/M04 A2990 RMK AO2 SLP062 T02141042 53003 $ K1CM 261458Z AUTO 30023G31KT 10SM CLR 11/M04 A2979 RMK AO2 PK WND 27036/04 PRESRR SLP082 T01111042 50013 $ K1CN 261556Z AUTO 28016KT 10SM FEW240 19/03 A2955 RMK AO2 SLP010 T01860033 $ K1CW 261258Z AUTO 26008KT 9SM FEW024 12/M04 A2987 RMK AO2 SLP071 T01231038 $ K1DM 261158Z AUTO 28019KT 10SM FEW150 BKN190 11/01 A2967 RMK AO2 PK WND 28028/1057 SLP050 T01140013 10146 20114 52006 $ K1DN 261556Z AUTO 29011KT 10SM CLR 17/02 A2954 RMK AO2 SLP007 T01700024 $ K1EN 261556Z AUTO 28014KT 10SM CLR 17/02 A2953 RMK AO2 SLP007 T01740017 $ K1F0 261555Z AUTO 14007KT 10SM CLR 23/18 A2992 RMK AO2 K1FN 261556Z AUTO 28015KT 10SM CLR 18/04 A2945 RMK AO2 SLP007 T01780037 $ K1FW 261358Z AUTO 31010KT 2 1/4SM HZ CLR 16/M01 A2984 RMK AO2 SLP062 T01591008 $ K1GM 261459Z AUTO 27027G35KT 10SM CLR 09/M05 A2983 RMK AO2 PK WND 27035/52 SLP101 T00901053 51017 $ K1GN 261556Z AUTO 27014KT 10SM CLR 18/02 A2952 RMK AO2 SLP006 T01750021 $ K1GW 261458Z AUTO 30009KT 1 3/4SM HZ SCT022 SCT049 BKN070 21/M03 A2981 RMK AO2 SLP054 T02051030 55001 $ K1H2 261555Z AUTO 14009KT 10SM BKN017 21/16 A2997 RMK AO2 T02130159 K1HM 261458Z AUTO 27019G24KT 10SM CLR 11/M05 A2980 RMK AO2 SLP090 T01111050 53017 $ K1HN 261556Z AUTO 27010KT 10SM CLR 18/02 A2954 RMK AO2 SLP011 T01780023 $ K1HW 261458Z AUTO 33009KT 9SM FEW220 22/M02 A2979 RMK AO2 SLP053 T02171023 55000 $ K1IM 261458Z AUTO 26017G24KT 10SM CLR 11/00 A2981 RMK AO2 SLP104 T01091005 50016 $ K1IN 261556Z AUTO 29017KT 10SM BKN210 17/02 A2952 RMK AO2 SLP001 T01680021 $ K1J0 261458Z AUTO 04005KT 10SM CLR 27/20 A3006 RMK AO2 SLP138 T02670200 51015 K1JW 261458Z AUTO 23008KT 6SM HZ FEW009 17/00 A2983 RMK AO2 SLP064 T01711004 53002 $ K1K1 261535Z AUTO 19014G23KT 10SM CLR 23/17 A2981 RMK AO2 T02320171 K1KM 261258Z AUTO 28030G40KT 10SM BKN140 10/M01 A2976 RMK AO2 PK WND 28040/46 SLP073 T01021009 $ K1LM 261258Z AUTO 30013KT 10SM BKN170 09/M02 A2978 RMK AO2 SLP085 T00891024 $ K1LW 261458Z AUTO 30014KT 10SM CLR 22/M02 A2988 RMK AO2 SLP059 T02221024 50004 $ K1M4 261556Z AUTO 00000KT 10SM SCT015 OVC030 21/17 A3010 RMK AO2 RAE05 SLP603 P0000 T02060172 K1M5 261555Z AUTO VRB04KT 10SM BKN020 BKN026 OVC036 22/18 A3005 RMK A01 K1MN 261556Z AUTO 26015G22KT 10SM CLR 17/03 A2950 RMK AO2 SLP995 T01710026 $ K1MW 261358Z AUTO 21008KT 10SM CLR 14/04 A2983 RMK AO2 SLP074 T01390036 $ K1NM 261458Z AUTO 27019G26KT 10SM CLR 12/M03 A2972 RMK AO2 PK WND 26026/44 SLP066 T01181027 52018 $ K1NN 261556Z AUTO 29015KT 10SM CLR 17/03 A2949 RMK AO2 SLP988 T01700027 PWINO $ K1NW 261458Z AUTO 29008KT 10SM CLR 22/M02 A2985 RMK AO2 SLP057 T02181019 52004 $ K1OM 261459Z AUTO 28031G37KT 10SM CLR 12/00 A2970 RMK AO2 PK WND 28040/41 SLP059 T01221004 52016 $ K1ON 261556Z AUTO 28012KT 10SM FEW230 18/04 A2948 RMK AO2 SLP989 T01770038 $ K1OW 261458Z AUTO 28009KT 10SM CLR 21/M03 A2989 RMK AO2 SLP061 T02061029 51002 $ K1P1 261555Z AUTO 7SM CLR 22/13 A3008 RMK AO2 T02200131 K1R7 261555Z AUTO 00000KT 10SM SCT015 22/20 A3006 RMK AO2 PWINO K1S5 261555Z AUTO 00000KT 10SM CLR 11/08 A3009 RMK AO2 T01050081 K1U7 261555Z AUTO 35012G21KT 10SM OVC030 12/07 A3011 RMK A01 K1V4 261554Z AUTO 24/13 A3004 RMK AO1 SLP164 T02390133 K1V6 261550Z AUTO 30014G19KT 10SM CLR 27/M02 A2998 RMK AO2 K1YT 261458Z AUTO 17003KT 10SM FEW060 06/03 A3005 RMK AO2 SLPNO T00570033 52015 $ K20U 261555Z AUTO 28016G23KT 10SM FEW075 OVC090 15/02 A2967 RMK AO2 K20V 261555Z AUTO 25014G21KT 10SM CLR 20/M03 A3012 RMK AO2 K21D 261555Z AUTO 00000KT 10SM CLR 17/16 A2964 RMK AO2 K22N 261555Z AUTO 00000KT 2 1/2SM DZ BKN009 OVC015 16/16 A3010 RMK AO2 K24A 261555Z AUTO 00000KT 10SM OVC021 18/15 A3014 RMK AO2 LTG DSNT SE T01820150 K24J 261555Z AUTO 26005KT 10SM BKN024 28/24 A3004 RMK A01 K27K 261615Z AUTO 00000KT SCT012 OVC036 21/17 A3006 RMK AO1 K2A0 261555Z AUTO VRB04KT 10SM BKN017 BKN023 OVC042 23/18 A3006 RMK A01 K2C8 261555Z AUTO 21004KT 10SM CLR 19/06 A2945 RMK AO2 K2D5 261555Z AUTO 01005KT 9SM FEW065 OVC085 14/11 A2962 RMK AO2 K2DP 261556Z AUTO 21015G18KT 10SM BKN018 27/24 A3000 RMK AO2 RAB28E30DZB30E31SHRAB31E43DZB43E43 SLPNO T02700237 $ K2G4 261555Z AUTO 00000KT 10SM 17/12 A3011 RMK AO1 K2G9 261535Z AUTO 00000KT 10SM BKN023 BKN032 OVC048 17/13 A3009 RMK AO2 K2I0 261555Z AUTO 21011G15KT 10SM OVC028 23/16 A3003 RMK AO2 T02290161 K2IS 261555Z AUTO 32009KT 10SM SCT039 SCT048 BKN050 31/25 A3003 RMK AO2 LTG DSNT SE T03100246 K2J3 261555Z AUTO 00000KT 10SM BKN006 OVC010 21/ A3008 RMK AO2 T0207//// K2J5 261535Z AUTO 05007KT 7SM OVC007 21/19 A3007 RMK AO2 T02080193 K2J9 261555Z AUTO 00000KT 10SM FEW025 27/21 A3007 RMK AO2 K2LS 261555Z AUTO 07006KT 9SM BKN014 BKN020 26/23 A3001 RMK AO2 TSNO K2M2 261555Z AUTO 00000KT 10SM FEW020 SCT026 OVC033 22/17 A3007 RMK A01 K2P2 261555Z AUTO 19007KT 10SM CLR 18/15 A2970 RMK AO2 LTG DSNT SE T01800153 K2R9 261555Z AUTO 17007KT 10SM OVC015 27/23 A2998 RMK AO2 T02720231 K2V5 261555Z AUTO 28008KT 10SM CLR 24/03 A2981 RMK AO2 K2V6 261549Z AUTO 25005KT 10SM CLR 21/M05 A2983 RMK AO2 K2W6 261555Z AUTO 00000KT 7SM OVC003 19/18 A3005 RMK AO1 K2WX 261456Z AUTO 27014KT 13/08 A2967 RMK AO1 SLP037 P0002 60002 T01280078 50004 K33N 261555Z AUTO 11006KT 7SM SCT007 BKN014 BKN025 22/21 A3005 RMK A01 K33V 261519Z AUTO 27023G31KT 10SM CLR 17/M07 A3011 RMK AO1 K38S 261545Z AUTO 02005KT 10SM 08/02 A3004 K3AU 261555Z AUTO 18014KT 10SM CLR 24/18 A2981 RMK AO2 K3D2 261555Z AUTO 24010G16KT 10SM CLR 20/16 A2970 RMK AO2 T02040157 K3F3 261555Z AUTO 17003KT 10SM OVC006 21/19 A3005 RMK AO2 T02100194 K3I2 261555Z AUTO 00000KT 10SM CLR 22/19 A3006 RMK AO2 T02200185 K3J7 261555Z AUTO 00000KT 10SM OVC012 22/19 A3007 RMK AO2 K3K3 261555Z AUTO 27010KT 10SM CLR 27/05 A2981 RMK AO2 K3K8 261555Z AUTO 22017G22KT 10SM CLR 28/12 A2980 RMK AO2 K3LF 261555Z AUTO 18012G18KT 10SM CLR 22/15 A2993 RMK AO2 T02210146 K3N8 261555Z AUTO 17008KT 10SM BKN120 18/08 A2956 RMK AO2 T01840081 K3R7 261535Z AUTO 00000KT 10SM CLR 26/21 A3001 RMK AO2 T02550208 K3T5 261535Z AUTO 17010KT 10SM CLR 26/22 A2996 RMK AO2 T02610220 K3U3 261600Z AUTO 28008KT 10SM 06/02 A3003 K40B 261516Z AUTO 20006G12KT 170V260 22/13 A3002 RMK AO1 SLP176 T02170129 58014 K41U 261535Z AUTO 15003KT 10SM CLR 15/M01 A3013 RMK AO1 T01461011 K42J 261555Z AUTO VRB04KT 9SM FEW022 30/25 A3003 RMK A01 TSNO K46D 261555Z AUTO 28014G20KT 9SM CLR 21/04 A2957 RMK AO2 K46U 261555Z AUTO 29014KT 10SM 13/06 A3008 RMK A01 K48A 261555Z AUTO 36003KT 10SM OVC006 21/20 A3007 RMK AO2 T02140201 K49A 261555Z AUTO 00000KT 10SM SCT018 SCT024 OVC034 21/19 A3011 RMK AO2 T02120188 K4A6 261555Z AUTO VRB04KT 10SM OVC042 23/20 A3008 RMK AO2 K4A9 261555Z AUTO 24004KT 10SM 21/18 A3007 RMK AO2 T02140179 K4BM 261555Z AUTO 21011G18KT 10SM CLR 11/M08 A3040 RMK AO2 K4F2 261555Z AUTO 16006KT 10SM OVC008 21/20 A3001 RMK AO2 T02080205 K4I3 261555Z AUTO 22006KT 10SM SCT026 SCT033 SCT047 23/17 A3002 RMK AO2 K4M9 261555Z AUTO 20014KT 23/18 A3000 RMK AO2 PWINO K4MR 261458Z AUTO 29015KT 10SM CLR 23/01 A2998 RMK AO2 SLP092 T02330014 51008 $ K4O4 261555Z AUTO 18004KT 2 1/2SM 17/16 A2998 RMK AO2 K4R5 261555Z AUTO 00000KT 1SM BR OVC003 14/14 A2964 RMK AO2 T01400140 K4S1 261555Z AUTO 00000KT 5SM BR CLR 17/15 A3017 RMK AO2 K4S2 261555Z AUTO 18004KT 10SM RA SCT014 SCT055 OVC070 13/11 A3013 RMK AO2 K4U6 261525Z AUTO 27016G25KT 10SM 17/02 A2961 RMK A01 Circle K54A 261555Z AUTO 25005G10KT 10SM FEW024 30/25 A3003 RMK AO2 K54J 261555Z AUTO 36003KT 10SM CLR 26/19 A3007 RMK AO2 T02590190 K57C 261555Z AUTO 20009KT 10SM CLR 21/17 A2977 RMK AO2 T02110174 K5A6 261535Z AUTO 18003KT 10SM BKN012 BKN018 OVC033 21/19 A3004 RMK AO2 T02090189 K5C1 261555Z AUTO 19006KT 10SM BKN010 OVC021 23/21 A3001 RMK AO1 K5H4 261555Z AUTO 25011G16KT 10SM CLR 20/04 A2954 RMK AO2 K5M9 261535Z AUTO 22008G14KT 10SM OVC017 19/15 A3003 RMK AO2 T01900151 K5R8 261555Z AUTO 00000KT 10SM SCT023 25/20 A3000 RMK AO2 T02510198 K5SM 261535Z AUTO 24010G24KT 190V260 10SM CLR 10/M07 A3040 RMK AO2 K65S 261550Z AUTO 22007KT 180V260 10SM BKN060 09/04 A2999 RMK AO2 K66R 261555Z AUTO 16007KT 10SM CLR 26/20 A3000 RMK AO2 T02600204 K6A1 261555Z AUTO 03004KT 10SM SCT008 SCT012 24/20 A3008 RMK AO2 T02370196 K6A2 261555Z AUTO 00000KT 10SM SCT010 OVC036 22/21 A3008 RMK AO2 K6B0 261555Z AUTO 18007KT 10SM CLR 24/15 A3004 RMK AO2 T02410145 K6B9 261555Z AUTO 21010G15KT 180V240 10SM CLR 23/14 A3001 RMK AO2 K6I2 261545Z AUTO 16006KT 10SM BKN015 22/20 A3006 RMK AO2 K6L4 261555Z AUTO 00000KT 10SM SCT023 OVC041 22/16 A3008 RMK AO2 K6P9 261555Z AUTO 20010KT 10SM CLR 26/19 A2995 RMK AO2 T02600193 K6R3 261555Z AUTO 00000KT 10SM SCT017 26/21 A3001 RMK AO2 T02550207 K6R6 261551Z AUTO VRB06KT 24/18 A2998 RMK AO1 SLP119 T02390178 K6S0 261555Z AUTO 27031G42KT 10SM CLR 13/M01 A2983 RMK A01 K6S2 261555Z AUTO 00000KT 10SM BKN007 OVC060 15/15 A3017 RMK AO2 T01500146 K6S5 261555Z AUTO 07006KT 10SM SCT060 BKN070 BKN090 09/07 A3007 RMK AO2 K6S8 261525Z AUTO 27021G28KT 10SM 16/M00 A2984 RMK A01 LAUREL K74V 261555Z AUTO 24011KT 10SM CLR 21/M02 A3006 RMK AO2 K77S 261555Z AUTO 00000KT 10SM OVC003 13/13 A3018 RMK A01 K79J 261556Z AUTO 00000KT 10SM SCT028 28/18 A3006 RMK AO2 SLP176 T02830183 K79S 261600Z AUTO 21016G20KT 10SM 13/M03 A2981 K7BM 261555Z AUTO 29011G23KT 170V360 10SM CLR 16/M11 A3031 RMK AO2 K7L2 261555Z AUTO 30004KT 10SM CLR A2962 RMK AO2 K7S0 261525Z AUTO VRB05KT 10SM 09/02 A3001 RMK A01 Ronan K7S1 261550Z AUTO VRB04G10KT 10SM CLR 10/02 A3002 RMK AO2 K7S6 261525Z AUTO 28021G31KT 10SM 09/M03 A2991 RMK A01 White Sulphur Spg K7W4 261555Z AUTO 02005KT 10SM OVC010 20/18 A3004 RMK AO1 T01960181 K7W6 261555Z AUTO 18010KT 10SM SCT021 BKN025 OVC035 25/21 A3000 RMK AO2 T02540213 K82C 261555Z AUTO 18004KT 10SM CLR 21/17 A2969 RMK AO2 T02100174 K82V 261555Z AUTO 26008KT 7SM SCT028 BKN033 OVC046 22/M03 A2990 RMK AO2 K8A0 261555Z AUTO 25003KT 10SM SCT012 BKN027 20/17 A3009 RMK AO2 K8A3 261555Z AUTO 00000KT 10SM SCT014 SCT022 BKN037 21/18 A3007 RMK A01 K8B0 261555Z AUTO 27008G3584KT 250V010 10SM CLR 22/12 A3011 RMK AO2 K8D3 261556Z AUTO 12005KT 18/08 A2957 RMK AO1 SLP001 T01830078 K96D 261555Z AUTO 08003KT 10SM CLR 20/09 A2946 RMK AO2 K9A5 261555Z AUTO 00000KT 10SM OVC043 22/18 A3008 RMK AO2 T02160179 K9D7 261555Z AUTO 25014KT 10SM CLR 18/06 A2950 RMK AO2 K9L2 261458Z AUTO 00000KT 9SM CLR 14/07 A2999 RMK AO2 SLP138 T01390068 52007 $ K9MN 261555Z AUTO 12004KT 10SM CLR 19/18 A2962 RMK AO1 T01900180 K9V9 261555Z AUTO 28004KT 10SM CLR 18/11 A2954 RMK AO2 T01830106 KA08 261555Z AUTO 00000KT 10SM CLR 25/17 A3004 RMK AO2 T02520174 KA39 261530Z AUTO 15007KT 10SM CLR 28/05 A2999 RMK AO2 KAAA 261555Z AUTO 20007G15KT 170V240 10SM CLR 23/16 A2987 RMK AO2 T02310155 KAAF 261553Z AUTO 10SM CLR 29/22 A3004 RMK AO2 SLP173 T02890217 KAAO 261554Z AUTO 19012G19KT 10SM CLR 26/17 A2980 RMK AO2 SLP078 T02560172 KAAS 261555Z AUTO 17004KT 10SM BKN008 OVC013 20/18 A3011 RMK AO1 KAAT 261555Z AUTO 00000KT 10SM CLR 13/07 A3022 RMK AO2 SLP206 T01330067 KABE 261551Z 12005KT 10SM OVC021 19/14 A3008 RMK AO2 SLP186 T01890144 KABH 261258Z AUTO 00000KT 10SM CLR 16/M02 A3001 RMK AO2 SLP082 T01621023 KABI 261552Z 20015G24KT 10SM BKN016 24/19 A2994 RMK AO2 SLP113 T02390194 KABQ 261552Z 33004KT 10SM CLR 22/00 A3016 RMK AO2 SLP128 T02170000 KABR 261553Z AUTO 03005KT 10SM CLR 21/06 A2957 RMK AO2 SLP011 T02060061 KABY 261553Z 32007KT 10SM SCT028 SCT034 27/19 A3008 RMK AO2 SLP182 T02720194 KACB 261555Z AUTO 23003G16KT 3SM RA SCT021 BKN048 OVC060 18/16 A2976 RMK AO2 T01810163 KACJ 261530Z AUTO 35005KT 10SM 26/18 A3009 RMK AO2 KACK 261553Z 14009KT 10SM CLR 19/16 A3014 RMK AO2 SLP207 T01940161 KACP 261555Z AUTO 00000KT 10SM CLR 25/20 A3001 RMK AO2 KACQ 261555Z AUTO 11006KT 10SM CLR 18/17 A2961 RMK AO2 KACT 261551Z 20013KT 10SM BKN017 25/19 A2997 RMK AO2 SLP141 T02500194 KACV 261553Z AUTO 00000KT 1 3/4SM R32/5000VP6000FT BR OVC002 17/16 A3018 RMK AO2 SLP222 T01670161 KACY 261554Z 11007KT 4SM RA BR BKN012 OVC036 21/20 A3007 RMK AO2 RAB18 SLP183 P0000 T02110200 KADC 261555Z AUTO 00000KT 10SM BKN100 16/10 A2962 RMK AO2 PWINO KADF 261556Z AUTO 00000KT 10SM SCT005 OVC023 18/18 A3002 RMK AO2 SLP164 T01830183 KADG 261553Z AUTO 23013G20KT 10SM CLR 22/16 A2993 RMK AO2 SLP133 T02220156 TSNO KADH 261555Z AUTO 17011KT 10SM CLR 23/18 A2994 RMK AO2 KADM 261555Z 18005KT 10SM CLR 25/20 A2992 KADS 261547Z 16013KT 10SM FEW009 24/19 A2996 KADU 261555Z AUTO 20016G22KT 10SM CLR 23/18 A2962 RMK AO2 KADW 261556Z AUTO 06005KT 10SM OVC006 19/19 A3004 RMK AO2 CIG 005 RWY19L SLP178 T01870187 FZRANO $ KAEG 261550Z 00000KT 10SM CLR 24/M03 A3019 KAEJ 261555Z AUTO 15011G17KT 10SM CLR 19/M07 A3019 RMK AO2 T01851066 KAEL 261555Z AUTO 15006KT 10SM CLR 20/18 A2958 RMK AO2 KAEX 261553Z VRB03KT 10SM FEW013 24/20 A2999 RMK AO2 SLP159 T02440200 $ KAFF 261458Z AUTO 00000KT 10SM FEW180 20/M04 A3002 RMK AO2 SLP066 T01971039 55000 KAFJ 261556Z AUTO 20004KT 10SM FEW027 BKN055 23/17 A3006 RMK AO2 SLP176 T02330167 KAFK 261555Z AUTO 21011G17KT 10SM CLR 24/19 A2965 RMK AO2 T02390186 KAFN 261552Z AUTO 21006KT 7SM OVC008 17/14 A3014 RMK AO2 CIG 006V011 SLP209 T01720144 KAFO 261535Z AUTO 13007KT 10SM OVC027 11/03 A3010 RMK AO2 KAFP 261555Z AUTO 00000KT 10SM OVC009 21/18 A3005 RMK AO2 T02110180 KAFW 261553Z 18010KT 10SM CLR 26/19 A2993 RMK AO2 SLP123 T02560194 KAGC 261553Z VRB04KT 10SM SCT022 22/16 A3004 RMK AO2 SLP170 T02170161 KAGR 261558Z AUTO 32006KT 7SM CLR M A3003 RMK AO2 LTG DSNT W SLPNO $ KAGS 261553Z 01005KT 10SM OVC012 23/19 A3005 RMK AO2 SLP175 T02280189 KAHN 261551Z 06004KT 10SM OVC012 23/18 A3008 RMK AO2 SLP180 T02280183 KAHQ 261555Z AUTO 21008G21KT 10SM CLR 25/15 A2960 RMK AO2 T02530152 KAIA 261553Z AUTO 27014G23KT 10SM CLR 25/M02 A2975 RMK AO2 SLP032 T02501017 KAID 261335Z AUTO 23009G14KT 7SM OVC006 17/16 A3001 RMK AO2 T01670160 KAIG 261555Z AUTO 00000KT 10SM CLR 19/16 A2971 RMK AO2 T01930158 KAIK 261555Z AUTO 32005KT 10SM OVC012 21/18 A3008 RMK AO2 T02110180 KAIO 261555Z AUTO 19015G22KT 10SM CLR 22/20 A2961 RMK AO2 KAIT 261555Z AUTO 17005KT 10SM CLR 14/13 A2965 RMK AO2 KAIZ 261556Z AUTO 20011G17KT 10SM CLR 24/18 A2991 RMK AO2 SLP121 T02390178 KAJG 261555Z AUTO 23009KT 10SM OVC017 20/15 A3000 RMK AO2 T01950148 KAJO 261556Z AUTO 00000KT 5SM BR OVC006 17/16 A2997 RMK AO2 SLP144 T01720161 KAJR 261555Z AUTO 00000KT 10SM BKN016 OVC029 A3008 RMK AO2 KAJZ 261555Z AUTO 00000KT 10SM CLR 18/01 A3010 RMK AO2 T01810010 PWINO KAKH 261554Z AUTO 36003KT 10SM OVC017 22/17 A3007 RMK AO2 SLP177 T02220172 KAKO 261553Z AUTO 25008KT 10SM CLR 23/01 A2987 RMK AO2 SLP055 T02280006 KAKQ 261554Z AUTO 35005KT 10SM OVC005 21/19 A3001 RMK AO2 RAE32 SLP163 P0002 T02060189 KAKR 261554Z AUTO 20007KT 10SM OVC047 23/17 A2999 RMK AO2 SLP150 T02330167 KALB 261551Z 15008KT 6SM BR SCT015 SCT250 19/16 A3009 RMK AO2 SLP189 T01890156 $ KALI 261553Z AUTO 18011KT 10SM SCT022 BKN030 31/24 A2995 RMK AO2 SLP138 T03060239 KALK 261556Z AUTO VRB05KT 10SM CLR 26/04 A3020 RMK AO2 SLP131 T02610039 KALM 261555Z AUTO 02011KT 10SM CLR 30/01 A3007 RMK AO2 KALN 261550Z 16010KT 10SM CLR 22/17 A2992 KALO 261554Z 18012KT 10SM FEW015 23/18 A2964 RMK AO2 SLP030 T02280178 KALS 261552Z AUTO 15005KT 10SM CLR 15/01 A3023 RMK AO2 SLP160 T01500011 KALW 261553Z 17009KT 10SM CLR 13/08 A3011 RMK AO2 SLP197 T01330078 KALX 261555Z AUTO 22003KT 10SM SCT026 SCT034 SCT040 24/17 A3007 RMK AO2 T02420174 KAMA 261553Z 20014KT 10SM CLR 25/12 A2990 RMK AO2 SLP067 T02500122 KAMG 261553Z AUTO 32005KT 10SM FEW035 28/21 A3004 RMK AO2 SLP170 T02830206 KAMN 261535Z AUTO 20009KT 10SM CLR 22/14 A2984 RMK AO2 KAMW 261553Z AUTO 19016G22KT 10SM CLR 23/18 A2964 RMK AO2 SLP027 T02280178 KANB 261553Z AUTO 00000KT 10SM FEW018 BKN042 24/18 A3007 RMK AO2 SLP175 T02390178 KAND 261556Z AUTO 00000KT 10SM OVC012 20/17 A3008 RMK AO2 SLP180 T02000167 KANE 261545Z 13005KT 7SM VCSH SCT110 OVC150 19/17 A2963 KANJ 261555Z AUTO 12003KT 10SM OVC041 19/16 A2971 RMK AO2 SLP057 T01890161 KANK 261555Z AUTO 21012G17KT 10SM CLR 21/M05 A3025 RMK AO1 T02071055 KANQ 261555Z AUTO 20009G15KT 10SM CLR 23/16 A2991 RMK AO2 KANW 261555Z AUTO 30012KT 10SM CLR 22/05 A2963 RMK AO2 T02180053 KAOH 261553Z AUTO 21011KT 10SM SCT026 23/17 A2996 RMK AO2 SLP141 T02330167 KAOO 261553Z AUTO VRB03KT 10SM OVC010 19/14 A3009 RMK AO2 CIG 009V014 SLP185 T01890144 $ KAPA 261553Z 21012KT 10SM FEW120 SCT150 BKN200 24/M03 A2997 RMK AO2 SLP074 T02391033 KAPC 261554Z 00000KT 10SM CLR 20/12 A3005 RMK AO2 SLP167 T02000122 KAPF 261553Z 28006KT 10SM SCT023 31/26 A3002 RMK AO2 SLP164 T03060261 KAPG 261553Z AUTO 06004KT 1 1/2SM BR OVC004 19/19 A3004 RMK AO2 VIS 1 1/2V8 SLP176 $ KAPN 261554Z AUTO 19010KT 10SM BKN090 OVC110 17/16 A2978 RMK AO2 RAE54 SLP083 P0003 T01720156 KAPS 261555Z AUTO 06005KT 10SM SCT017 BKN070 28/20 A3002 RMK AO2 T02760199 KAPY 261515Z AUTO 17008G15KT 10SM OVC017 29/24 A2995 RMK AO2 T02870235 TSNO KAQO 261555Z AUTO 20009G15KT 10SM OVC023 25/20 A2996 RMK AO2 KAQP 261553Z AUTO 14003KT 10SM CLR 18/09 A2957 RMK AO2 KAQR 261555Z AUTO RMK AO2 PWINO PNO TSNO KAQW 261552Z AUTO VRB03KT 10SM CLR 25/14 A3008 RMK AO2 SLP184 T02500139 KAQX 261555Z AUTO 35004KT 9SM OVC006 21/20 A3005 RMK AO2 KARA 261553Z 00000KT 10SM FEW018 27/22 A3001 RMK AO2 SLP162 T02670217 KARB 261553Z 22011G20KT 10SM CLR 23/16 A2991 RMK AO2 SLP124 T02280156 $ KARG 261556Z AUTO 19014KT 10SM OVC024 22/17 A3000 RMK AO2 SLP159 T02170167 KARM 261555Z AUTO 15005KT 10SM CLR 27/19 A3000 RMK AO2 T02670190 KARR 261552Z 19009KT 6SM BR OVC009 19/17 A2983 RMK AO2 SLP100 T01890167 KART 261556Z AUTO 19007G15KT 10SM CLR 25/10 A2998 RMK AO2 SLP149 T02500100 $ KARV 261535Z AUTO 19006KT 10SM OVC004 17/12 A2971 RMK AO2 T01660121 KARW 261555Z AUTO 01005KT 10SM SCT014 BKN045 BKN055 25/21 A3003 RMK AO2 KASD 261553Z AUTO 05004KT 10SM OVC029 23/21 A3002 RMK AO2 RAB20E35 SLP165 P0000 T02330211 KASE 261553Z 00000KT 10SM CLR 16/M03 A3018 RMK AO2 SLP109 T01611028 KASG 261548Z 22010KT 10SM CLR 22/18 A2998 KASH 261556Z VRB05KT 10SM BR OVC006 16/16 A3013 RMK AO2 SLP207 T01610156 KASJ 261555Z AUTO 29005KT 10SM OVC006 22/22 A3001 RMK AO2 T02240220 KASL 261535Z AUTO 19005KT 7SM OVC004 19/18 A3003 RMK AO1 T01870180 KASN 261555Z AUTO 00000KT 10SM SCT026 OVC042 24/18 A3008 RMK AO2 T02390179 KAST 261555Z AUTO 21006KT 8SM CLR 16/14 A3011 RMK AO2 SLP196 T01560139 KASW 261555Z AUTO 18005KT 10SM CLR 20/15 A2991 RMK AO2 KASX 261553Z AUTO 00000KT 7SM OVC002 14/14 A2965 RMK AO2 SLP041 T01440144 KATL 261552Z 00000KT 10SM BKN025 BKN040 BKN250 24/17 A3007 RMK AO2 SLP174 T02440167 KATS 261555Z AUTO 00000KT 10SM CLR 25/07 A2998 RMK AO2 KATT 261551Z AUTO VRB05KT 10SM BKN017 OVC026 26/19 A2999 RMK AO2 SLP143 T02560194 $ KATW 261545Z 21007KT 10SM BKN120 20/14 A2971 KATY 261553Z AUTO 13011G18KT 10SM FEW100 SCT120 18/07 A2955 RMK AO2 SLP001 T01830067 KAUG 261553Z AUTO 13007KT 10SM BKN008 17/14 A3012 RMK AO2 SLP200 T01670139 KAUH 261555Z AUTO 21011KT 10SM CLR 23/14 A2963 RMK AO2 T02330143 KAUM 261555Z AUTO 17005KT 10SM CLR 20/18 A2962 RMK AO2 KAUN 261555Z AUTO 00000KT 9SM CLR 23/08 A3006 RMK A01 KAUO 261556Z AUTO 32007KT 10SM FEW023 SCT030 OVC038 24/18 A3009 RMK AO2 SLP201 T02390178 KAUS 261553Z 18008KT 10SM BKN018 BKN033 26/21 A2997 RMK AO2 SLP141 T02560211 $ KAUW 261554Z AUTO 15006KT 10SM CLR 20/17 A2966 RMK AO2 SLP041 T02000167 KAVC 261555Z AUTO 33003KT 10SM OVC005 18/17 A3010 RMK AO2 T01820171 KAVK 261555Z AUTO 21015KT 10SM CLR 29/15 A2979 RMK AO2 PWINO TSNO KAVL 261554Z 36005KT 10SM OVC027 21/16 A3010 RMK AO2 SLP174 T02110156 KAVP 261554Z VRB03KT 7SM BKN024 BKN050 OVC060 18/15 A3009 RMK AO2 SLP187 T01780150 KAVQ 261555Z AUTO 11007KT 10SM CLR 25/02 A2999 RMK AO2 T02540024 KAVX 261551Z AUTO 17003KT 8SM CLR 18/16 A2998 RMK AO2 SLP135 T01780156 $ KAWG 261555Z AUTO 20010KT 10SM CLR 23/18 A2972 RMK AO2 KAWM 261553Z AUTO 19009KT 10SM FEW017 OVC024 23/17 A3001 RMK AO2 SLP160 T02280172 KAWO 261556Z AUTO 13005KT 10SM OVC026 13/11 A3009 RMK AO2 SLP194 T01330111 PNO $ KAXA 261555Z AUTO 20011G18KT 10SM CLR 22/21 A2956 RMK A01 KAXH 261555Z AUTO 00000KT 10SM SCT024 SCT033 26/21 A3000 RMK AO2 T02610214 KAXN 261553Z AUTO 00000KT 10SM FEW080 OVC100 17/09 A2962 RMK AO2 SLP030 T01720094 KAXS 261555Z AUTO 17009KT 10SM CLR 25/17 A2988 RMK AO2 T02450171 KAXV 261555Z AUTO 21013G20KT 10SM OVC025 22/16 A2997 RMK AO2 KAXX 261535Z AUTO 25013G18KT 10SM CLR 19/M02 A3030 RMK AO2 T01851024 KAYS 261535Z AUTO 00000KT 10SM SCT024 BKN029 BKN055 29/19 A3004 RMK AO2 T02860189 TSNO KAZC 261555Z AUTO 00000KT 10SM CLR 25/00 A3018 RMK AO2 KAZE 261535Z AUTO 00000KT 10SM SCT025 28/21 A3004 RMK AO2 T02780207 KAZO 261553Z 21011KT 10SM CLR 23/16 A2988 RMK AO2 SLP114 T02280156 KBAB 261458Z AUTO 00000KT 8SM CLR 17/10 A3002 RMK AO2 SLP168 T01680104 53010 $ KBAC 261555Z AUTO 27007KT 10SM SCT090 18/08 A2959 RMK AO2 KBAD 261556Z AUTO 23005KT 10SM OVC007 20/20 A3001 RMK AO2 SLP164 T01980195 KBAF 261553Z 18005KT 10SM CLR 21/16 A3011 RMK AO2 SLP195 T02060156 KBAK 261545Z 20008KT 10SM SCT014 SCT027 20/15 A3001 KBAM 261555Z AUTO 35004KT 10SM SCT060 20/05 A3015 RMK AO1 KBAN 261452Z AUTO 00000KT 10SM CLR 07/M03 A3025 RMK AO2 SLP167 T00671028 50004 $ KBAX 261555Z AUTO 20012G23KT 10SM CLR 23/15 A2985 RMK AO2 T02310151 KBAZ 261551Z 19009KT 10SM BKN015 BKN023 BKN032 28/22 A2997 RMK AO2 SLP140 T02780222 KBBB 261555Z AUTO 17005KT 10SM CLR 17/11 A2959 RMK AO2 KBBD 261555Z AUTO 18011G18KT 10SM OVC014 23/19 A2997 RMK AO2 KBBG 261545Z 13007KT 10SM CLR 20/17 A2999 KBBP 261555Z AUTO 00000KT 10SM OVC016 22/19 A3004 RMK AO2 KBBW 261553Z AUTO 25006KT 10SM CLR 24/10 A2963 RMK AO2 SLP016 T02440100 KBCB 261555Z AUTO 00000KT 10SM OVC015 18/17 A3013 RMK AO2 T01830169 KBCE 261553Z AUTO 26009KT 10SM CLR 21/M07 A3029 RMK AO2 SLP128 T02061072 KBCK 261555Z AUTO 00000KT 10SM CLR 20/17 A2965 RMK AO2 T02000168 KBCT 261547Z 27004KT 10SM SCT029 33/24 A3001 KBDE 261553Z AUTO 20008KT 10SM CLR 18/09 A2953 RMK AO2 SLP002 T01830094 KBDG 261555Z AUTO 00000KT 10SM 19/M02 A3024 RMK AO1 T01851023 KBDH 261555Z AUTO 17003KT 10SM CLR 18/12 A2964 RMK AO2 KBDL 261551Z 17007KT 10SM SCT024 SCT110 22/14 A3010 RMK AO2 SLP193 T02220144 $ KBDN 261555Z AUTO 00000KT 10SM CLR 13/07 A3017 RMK AO2 KBDR 261552Z 09005KT 10SM BKN080 OVC100 22/17 A3011 RMK AO2 SLP196 T02220172 KBDU 261553Z AUTO 17004KT 10SM CLR 25/00 A2990 RMK AO2 KBEC 261555Z AUTO 20012G17KT 10SM CLR 25/17 A2980 RMK AO2 T02490170 KBED 261551Z VRB04KT 9SM BKN012 19/15 A3011 RMK AO2 SLP210 T01940150 KBEH 261553Z AUTO 22010KT 10SM CLR 23/16 A2985 RMK AO2 SLP105 T02330161 KBFD 261553Z AUTO 21006G14KT 10SM CLR 21/12 A3005 RMK AO2 SLP168 T02110122 KBFF 261553Z AUTO 25018G28KT 10SM CLR 27/01 A2976 RMK AO2 PK WND 25036/1532 SLP030 T02670006 KBFI 261553Z 19008KT 10SM SCT014 BKN020 BKN100 14/11 A3009 RMK AO2 SLP190 T01440106 KBFL 261554Z 13004KT 10SM CLR 21/11 A3003 RMK AO2 SLP165 T02110111 KBFM 261553Z 03005KT 10SM BKN060 26/21 A3004 RMK AO2 SLP173 T02610206 KBFW 261455Z AUTO 00000KT 10SM 16/14 A2964 RMK AO2 KBGD 261551Z AUTO 22009G18KT 10SM CLR 28/10 A2986 RMK AO2 SLP060 T02830100 KBGE 261555Z AUTO 05003KT 10SM BKN027 27/20 A3007 RMK AO2 T02660204 KBGF 261555Z AUTO 24003KT 10SM BKN045 23/17 A3006 RMK A01 KBGM 261553Z 20007KT 10SM CLR 20/12 A3008 RMK AO2 SLP179 T02000122 $ KBGR 261553Z 18010KT 10SM CLR 18/13 A3011 RMK AO2 SLP194 T01830133 KBHB 261556Z AUTO 22007KT 10SM FEW009 16/13 A3014 RMK AO2 SLP209 T01610133 PNO $ KBHC 261535Z AUTO 00000KT 10SM SCT020 BKN032 27/22 A3004 RMK AO2 KBHK 261551Z AUTO 24016KT 10SM -RA OVC070 14/07 A2970 RMK AO2 RAB30 SLP046 P0000 T01440072 KBHM 261553Z 00000KT 10SM SCT023 BKN037 OVC060 24/17 A3009 RMK AO2 SLP181 T02390172 KBID 261556Z AUTO 16009KT 10SM FEW006 BKN110 21/17 A3014 RMK AO2 SLP206 T02060172 KBIE 261555Z AUTO 22019G26KT 10SM CLR 27/15 A2965 RMK AO2 T02680148 KBIF 261458Z AUTO 00000KT 10SM CLR 22/01 A3004 RMK AO2 SLP109 T02170007 52014 $ KBIH 261556Z AUTO 31003KT 4SM HZ CLR 18/M02 A3010 RMK AO2 SLP148 T01831017 KBIJ 261555Z AUTO 01004KT 10SM SCT029 BKN035 26/18 A3007 RMK AO2 KBIL 261553Z 28014G22KT 10SM FEW080 FEW140 16/M01 A2984 RMK AO2 SLP083 T01611011 KBIS 261552Z 26004KT 10SM CLR 18/05 A2958 RMK AO2 SLP015 T01830050 KBIV 261553Z AUTO 21015G22KT 10SM CLR 23/16 A2983 RMK AO2 SLP100 T02330161 KBIX 261556Z AUTO 02003KT 10SM BKN034 24/21 A3002 RMK AO2 RAB28E40 SLP169 P0000 T02360209 $ KBJC 261548Z 15005KT 10SM BKN150 24/M01 A2994 KBJI 261555Z AUTO 19007KT 10SM CLR 17/09 A2959 RMK AO2 T01650088 KBJJ 261556Z AUTO 20010KT 10SM CLR 23/17 A3000 RMK AO2 SLP156 T02280167 KBKB 261554Z AUTO 00000KT 10SM CLR 25/19 A2998 RMK AO2 SLP178 T02500194 KBKD 261555Z AUTO 20013G19KT 5SM HZ CLR 28/19 A2991 RMK AO2 T02790193 KBKE 261553Z AUTO 00000KT 10SM SCT060 12/06 A3016 RMK AO2 SLP205 T01220061 KBKF 261458Z 19012KT 10SM SCT130 BKN220 21/M02 A2994 RMK AO2A SLP066 T02091016 53000 KBKL 261553Z 19007KT 10SM CLR 25/16 A2995 RMK AO2 SLP139 T02500156 $ KBKN 261555Z AUTO 17011G18KT 10SM CLR 26/19 A2983 RMK AO2 KBKT 261555Z AUTO 31006KT 10SM OVC004 19/19 A3005 RMK AO1 T01850185 KBKV 261553Z 31006KT 10SM FEW028 SCT033 BKN044 30/23 A3004 RMK AO2 SLP168 T03000233 KBKW 261551Z AUTO 01005KT 10SM FEW024 OVC033 21/15 A3011 RMK AO2 SLP174 T02060150 TSNO KBKX 261556Z AUTO 12003KT 10SM CLR 18/09 A2958 RMK AO2 SLP025 T01830089 KBLF 261552Z AUTO 00000KT 10SM BKN014 OVC024 17/15 A3013 RMK AO2 SLP183 T01720150 KBLH 261552Z AUTO 00000KT 10SM CLR 29/05 A2988 RMK AO2 SLP110 T02940050 KBLI 261553Z 22006KT 6SM -RA FEW029 FEW047 OVC055 13/10 A3006 RMK AO2 RAB38 SLP187 P0002 T01280100 KBLM 261556Z AUTO 10010KT 10SM OVC020 21/18 A3011 RMK AO2 SLP196 T02110178 KBLU 261552Z AUTO 34003KT 10SM CLR 17/06 A3024 RMK AO2 SLP166 T01720056 KBLV 261556Z AUTO 19005KT 10SM CLR 23/18 A2992 RMK AO2 SLP133 T02280175 $ KBMC 261530Z AUTO 34013KT 10SM SCT085 BKN110 19/04 A3007 RMK AO1 T01880038 KBMG 261553Z 20007KT 10SM OVC013 20/16 A3000 RMK AO2 SLP153 T02000156 KBMI 261556Z 21015KT 10SM BKN014 21/18 A2988 RMK AO2 SLP112 T02110178 KBML 261552Z AUTO 00000KT 10SM CLR 26/13 A3007 RMK AO2 SLP181 T02560128 KBMQ 261553Z AUTO 17006KT 10SM SCT015 BKN022 BKN027 24/20 A3000 RMK AO2 SLP143 T02440200 KBMT 261530Z AUTO 00000KT 10SM SCT025 27/21 A2999 RMK AO2 T02650207 KBNA 261553Z 00000KT 10SM FEW020 OVC039 23/17 A3007 RMK AO2 SLP177 T02330167 KBNL 261555Z AUTO 00000KT 10SM OVC008 21/19 A3006 RMK AO2 KBNO 261553Z AUTO 26004KT 10SM BKN050 13/06 A3017 RMK AO2 SLP200 T01280061 $ KBNW 261555Z AUTO 21014G19KT 10SM CLR 23/21 A2962 RMK AO2 KBOI 261553Z 30009KT 10SM OVC100 13/11 A3012 RMK AO2 SLP187 T01330106 KBOK 261556Z AUTO VRB03KT 10SM BKN049 BKN065 OVC090 16/16 A3020 RMK AO2 SLP226 T01610161 KBOS 261554Z 12005KT 10SM FEW250 21/14 A3013 RMK AO2 SLP201 T02060144 KBOW 261550Z 29004KT 10SM BKN030 30/23 A3004 KBPC 261555Z AUTO 22016G20KT 10SM CLR 28/10 A2984 RMK AO2 KBPG 261555Z AUTO 19015KT 10SM CLR 25/18 A2993 RMK AO2 T02490177 KBPI 261553Z AUTO 31015G21KT 10SM CLR 13/03 A3007 RMK AO2 SLP117 T01330033 KBPK 261553Z AUTO 22008KT 10SM CLR 22/15 A2998 RMK AO2 SLP145 T02170150 KBPT 261553Z 14005KT 10SM BKN025 28/22 A2998 RMK AO2 SLP152 T02780217 KBQK 261555Z AUTO 36003KT 5SM HZ BKN024 BKN033 OVC055 29/23 A3003 RMK AO2 T02880233 KBQP 261555Z AUTO 19003KT 10SM SCT021 BKN031 BKN035 23/17 A3003 RMK AO2 T02310173 TSNO KBRD 261553Z AUTO 00000KT 10SM FEW070 OVC090 16/13 A2967 RMK AO2 SLP048 T01560128 KBRL 261553Z AUTO 20014G20KT 10SM CLR 24/18 A2978 RMK AO2 SLP080 T02440178 KBRO 261553Z 15013KT 10SM SCT028 SCT036 31/24 A2995 RMK AO2 SLP140 T03060239 KBRY 261555Z AUTO 19004KT 10SM SCT020 22/17 A3003 RMK AO1 KBTA 261555Z AUTO 20016G21KT 10SM CLR 24/15 A2959 RMK AO2 T02390150 KBTL 261553Z 20011KT 10SM CLR 23/17 A2988 RMK AO2 SLP114 T02330167 KBTM 261553Z AUTO 30011KT 10SM SCT049 BKN055 08/00 A3000 RMK AO2 SLP136 T00830000 KBTP 261556Z AUTO 17003KT 10SM SCT023 BKN033 22/16 A3004 RMK AO2 SLP173 T02220161 PNO $ KBTR 261553Z 07004KT 10SM CLR 27/19 A3001 RMK AO2 SLP162 T02670194 $ KBTV 261554Z 18013G21KT 10SM BKN150 25/13 A3001 RMK AO2 SLP164 T02500133 KBUF 261554Z 23007KT 10SM SCT250 24/11 A2997 RMK AO2 SLP145 T02390111 KBUR 261553Z 00000KT 4SM BR OVC009 18/16 A2996 RMK AO2 SLP135 T01780156 $ KBUU 261555Z AUTO 21011G17KT 10SM CLR 22/17 A2978 RMK AO2 T02190172 PWINO KBUY 261554Z AUTO VRB03KT 10SM OVC009 20/17 A3006 RMK AO2 CIG 005V013 SLP175 T02000172 KBVI 261555Z AUTO 18003KT 10SM SCT023 25/15 A3003 RMK AO2 T02470153 KBVN 261555Z AUTO 23006KT 10SM CLR 22/15 A2959 RMK AO2 T02170147 KBVO 261553Z AUTO 17011G16KT 10SM CLR 24/18 A2988 RMK AO2 SLP108 T02390183 KBVS 261555Z AUTO 00000KT 10SM BKN075 BKN080 13/13 A3007 RMK A01 KBVU 261555Z AUTO 00000KT 10SM CLR 26/M05 A2997 RMK AO2 KBVX 261556Z AUTO 21014G21KT 10SM BKN022 22/16 A3001 RMK AO2 SLP161 T02170161 KBVY 261553Z 30004KT 5SM HZ FEW009 19/15 A3012 RMK AO2 SLP195 T01890150 KBWD 261515Z AUTO 18012KT 10SM CLR 25/19 A2995 RMK AO1 KBWG 261553Z AUTO 22006KT 10SM FEW026 OVC034 23/17 A3005 RMK AO2 SLP171 T02280172 KBWI 261554Z 07006KT 10SM BKN005 BKN012 OVC020 19/17 A3004 RMK AO2 DZE52 SLP172 P0000 T01940172 KBWW 261555Z AUTO 27019KT 10SM FEW070 FEW085 15/06 A2969 RMK AO2 KBXA 261555Z AUTO 07003KT 10SM SCT005 OVC050 22/20 A3004 RMK AO2 T02220200 KBXK 261555Z AUTO 13007KT 7SM CLR 30/09 A2993 RMK A01 KBYG 261553Z AUTO 34013G24KT 6SM -RA BR FEW008 BKN046 OVC060 08/06 A2989 RMK AO2 PK WND 35036/1526 SLP093 P0002 T00830061 KBYI 261553Z AUTO 25016KT 10SM OVC065 14/08 A3010 RMK AO2 SLP167 T01390078 KBYL 261555Z AUTO 00000KT 10SM OVC006 18/18 A3009 RMK AO1 KBYS 261458Z AUTO 05005KT 10SM CLR 19/05 A2997 RMK AO2 SLP127 T01890054 53004 $ KBYY 261555Z AUTO 00000KT 10SM CLR 27/19 A2998 RMK AO2 T02690202 KBZN 261556Z 29013G20KT 10SM FEW065 13/01 A2996 RMK AO2 SLP127 T01330006 KC07 261555Z AUTO 29009G18KT 260V320 10SM CLR 10/M04 A3030 RMK AO2 KC09 261555Z AUTO 20009G15KT 10SM OVC011 19/17 A2984 RMK AO2 T01940174 KC29 261555Z AUTO 18011KT 10SM OVC013 21/16 A2973 RMK AO1 T02070162 KC35 261555Z AUTO 18008KT 10SM SCT015 20/17 A2971 RMK AO2 T02010168 PWINO KC62 261555Z AUTO 21009KT 10SM 21/16 A2992 RMK AO2 T02190162 KC65 261555Z AUTO 21008G15KT 8SM CLR 23/16 A2989 RMK A01 KC75 261555Z AUTO 21009G14KT 10SM OVC011 20/17 A2982 RMK AO2 T01950168 KC83 261555Z AUTO 26007KT 10SM CLR 26/11 A3002 RMK AO2 KC99 261548Z AUTO 27018G37KT 10SM CLR 11/M09 A3029 RMK AO2 KCAD 261555Z AUTO 21013G18KT 10SM CLR 22/16 A2978 RMK AO2 T02170163 KCAE 261556Z 00000KT 10SM OVC008 20/17 A3006 RMK AO2 SLP176 T02000172 KCAG 261553Z AUTO 32003KT 10SM CLR 18/01 A3010 RMK AO2 SLP123 T01780011 KCAK 261551Z 20009KT 10SM BKN046 23/17 A3000 RMK AO2 SLP155 T02280172 KCAO 261555Z AUTO 34014G20KT 10SM CLR 31/M02 A2994 RMK AO2 SLP058 T03111022 KCAR 261554Z AUTO 17009KT 10SM CLR 22/10 A3001 RMK AO2 SLP168 T02220100 KCAV 261555Z AUTO 18014KT 10SM CLR 23/21 A2959 RMK A01 KCBE 261555Z AUTO 00000KT 10SM SCT020 OVC050 20/15 A3011 RMK AO2 T02020150 KCBF 261555Z AUTO 20016G23KT 9SM CLR 23/17 A2960 RMK AO2 KCBG 261455Z AUTO 00000KT 7SM CLR 18/13 A2963 RMK AO2 KCBK 261555Z AUTO 31004KT 10SM CLR 24/05 A2979 RMK AO2 PWINO KCBM 261556Z AUTO 00000KT 10SM OVC033 23/18 A3004 RMK AO2 SLP174 T02280183 $ KCCA 261555Z AUTO 21006KT 9SM OVC013 18/16 A3002 RMK AO2 KCCB 261555Z AUTO 00000KT 6SM HZ CLR 19/14 A2997 RMK AO2 KCCO 261535Z AUTO 00000KT 10SM SCT012 OVC039 23/21 A3008 RMK AO2 T02300209 KCCR 261553Z 14003KT 10SM CLR 21/13 A3004 RMK AO2 SLP159 T02110133 KCCU 261555Z AUTO 26010G22KT 10SM CLR 12/M09 A3043 RMK AO2 KCCY 261555Z AUTO 18010KT 10SM OVC013 21/18 A2964 RMK AO2 KCDA 261555Z AUTO 13006KT 10SM CLR 22/14 A3009 RMK AO2 T02220135 KCDC 261553Z AUTO VRB06KT 10SM CLR 21/M06 A3015 RMK AO2 SLP137 T02061061 KCDD 261553Z AUTO 18006KT 10SM CLR 15/14 A2962 RMK AO2 KCDH 261555Z AUTO VRB04KT 9SM BKN031 23/19 A3001 RMK AO2 KCDI 261555Z AUTO 18004KT 10SM OVC050 22/18 A3003 RMK AO2 T02160178 KCDJ 261552Z AUTO 19010G20KT 23/18 A2978 RMK AO1 SLP073 T02330183 KCDN 261555Z AUTO 00000KT 10SM OVC011 20/18 A3006 RMK AO2 KCDR 261553Z AUTO 06006KT 10SM CLR 21/02 A2974 RMK AO2 SLP046 T02060022 KCDS 261553Z AUTO 21012G17KT 10SM CLR 28/16 A2987 RMK AO2 SLP085 T02780161 KCDW 261553Z 15008KT 110V170 10SM FEW027 BKN090 OVC110 24/16 A3010 RMK AO2 SLP195 T02390156 KCEC 261556Z AUTO 00000KT 1/4SM FG VV002 17/16 A3019 RMK AO2 SLP223 T01670161 KCEF 261556Z 17005KT 10SM BKN020 22/14 A3010 RMK AO2A SLP198 T02150141 KCEU 261554Z AUTO 11004KT OVC014 19/16 A3009 RMK AO2 SLP182 T01890161 $ KCEW 261553Z AUTO VRB03KT 10SM FEW021 BKN050 27/20 A3007 RMK AO2 SLP180 T02670200 KCEY 261555Z AUTO 19008KT 10SM FEW021 OVC026 21/17 A3003 RMK AO1 KCEZ 261553Z AUTO VRB03KT 10SM CLR 18/02 A3019 RMK AO2 SLP163 T01830017 KCFD 261555Z AUTO 19007KT 10SM CLR 26/19 A3000 RMK AO2 T02550190 KCFE 261555Z 10SM CLR 18/15 A2964 RMK AO2 T01750150 KCFJ 261555Z AUTO 20011KT 10SM OVC007 17/15 A2996 RMK AO2 T01660145 KCFO 261553Z 21013KT 10SM BKN220 26/M03 A2993 KCFS 261555Z AUTO 18013G19KT 10SM CLR 24/16 A2984 RMK AO2 T02430155 KCFV 261552Z AUTO 19014KT 10SM CLR 23/18 A2987 RMK AO2 SLP107 T02280178 KCGC 261555Z AUTO 30004KT 10SM SCT024 30/23 A3004 RMK AO2 KCGE 261555Z AUTO 13008KT 9SM FEW008 SCT032 BKN041 22/22 A3003 RMK A01 P0002 KCGF 261545Z 23010KT 10SM SCT040 24/17 A2997 KCGI 261553Z 22007G17KT 10SM OVC023 21/16 A3000 RMK AO2 SLP156 T02110161 KCGS 261555Z AUTO 02003KT 10SM OVC007 18/17 A3004 RMK AO1 T01830172 KCGZ 261556Z AUTO 16004KT 10SM CLR 29/06 A2996 RMK AO2 SLP129 T02940061 KCHA 261553Z 00000KT 10SM FEW015 SCT020 OVC043 23/18 A3007 RMK AO2 SLP176 T02330183 KCHD 261547Z 00000KT 10SM CLR 29/06 A2994 KCHK 261555Z AUTO 18012KT 10SM CLR 25/18 A2986 RMK AO2 T02480179 KCHO 261553Z VRB03KT 10SM BKN022 22/17 A3005 RMK AO2 SLP171 T02220167 KCHS 261556Z 01007KT 10SM SCT012 BKN016 BKN024 26/22 A3002 RMK AO2 SLP166 T02560217 KCIC 261550Z 00000KT 25SM SCT150 BKN200 21/11 A3005 KCID 261552Z 18014G21KT 10SM CLR 21/17 A2970 RMK AO2 SLP053 T02110172 KCII 261535Z AUTO 28022G33KT 10SM 12/M04 A2980 RMK A01 Choteau KCIN 261555Z AUTO 21013G20KT 10SM CLR 25/20 A2959 RMK AO2 KCIR 261555Z 10SM OVC025 20/16 A3001 RMK AO2 T02030164 KCIU 261556Z AUTO VRB05KT 10SM BKN017 OVC043 20/17 A2971 RMK AO2 SLP059 T02000167 KCJR 261555Z AUTO 01003KT 10SM OVC014 20/18 A3006 RMK AO2 T02010176 KCKB 261553Z 26004KT 10SM OVC055 21/15 A3007 RMK AO2 SLP169 T02110150 KCKC 261555Z AUTO 15003KT 1/4SM FG OVC001 12/11 A2966 RMK AO2 KCKF 261535Z AUTO 35004KT 10SM BKN029 26/19 A3007 RMK AO2 T02630185 KCKI 261555Z AUTO 00000KT 10SM OVC010 21/21 A3005 RMK AO2 KCKM 261555Z AUTO 00000KT 10SM 22/19 A3004 RMK A01 KCKN 261555Z AUTO 21012G16KT 10SM CLR 20/07 A2952 RMK AO2 KCKP 261555Z AUTO 20013KT 10SM CLR 22/18 A2956 RMK AO2 T02200182 KCKV 261552Z AUTO 22006KT 10SM OVC029 21/18 A3004 RMK AO2 SLP170 T02110183 KCKZ 261555Z AUTO 12004KT 10SM OVC016 19/18 A3009 RMK AO2 KCLE 261551Z COR 22009KT 10SM FEW030 24/17 A2996 RMK AO2 SLP155 T02390172 KCLI 261555Z AUTO 19006KT 10SM CLR 22/16 A2969 RMK AO2 T02150161 KCLK 261555Z AUTO 19011KT 10SM CLR 25/17 A2986 RMK AO2 KCLL 261553Z 16011G17KT 10SM CLR 26/19 A2999 RMK AO2 SLP149 T02560194 KCLM 261553Z AUTO 00000KT 10SM SCT065 OVC085 14/08 A3006 RMK AO2 SLP178 T01390078 KCLS 261555Z AUTO 15006KT 10SM BKN008 BKN070 14/13 A3013 RMK AO2 KCLT 261552Z 33003KT 10SM FEW010 BKN014 21/17 A3007 RMK AO2 SLP178 T02110172 KCLW 261555Z AUTO 30009KT 10SM BKN019 BKN029 BKN075 27/24 A3004 RMK AO2 KCMA 261555Z 10005KT 4SM HZ OVC007 19/16 A2995 RMK AO2 SLP151 T01940156 KCMD 261555Z AUTO 00000KT 10SM SCT013 BKN019 BKN024 20/16 A3011 RMK AO2 T01970160 KCMH 261551Z 22009KT 10SM SCT026 23/17 A3000 RMK AO2 SLP154 T02330172 KCMI 261553Z 17013KT 10SM OVC013 21/16 A2991 RMK AO2 SLP125 T02060161 KCMR 261555Z AUTO 23009G16KT 10SM CLR 23/M00 A3029 RMK AO2 KCMX 261553Z AUTO 12004KT 10SM CLR 16/13 A2966 RMK AO2 SLP042 T01610133 KCMY 261555Z AUTO 13006KT 10SM CLR 19/16 A2965 RMK AO2 T01930160 KCNB 261555Z AUTO 00000KT 10SM SCT120 18/09 A2960 RMK AO2 T01750091 KCNC 261555Z AUTO 19015KT 10SM CLR 21/20 A2969 RMK AO2 KCNI 261510Z AUTO 00000KT 10SM SCT009 SCT013 OVC037 22/20 A3010 RMK AO2 KCNK 261555Z AUTO 23014G23KT 10SM CLR 28/13 A2969 RMK AO2 PK WND 23029/1507 SLP035 T02830128 KCNM 261553Z AUTO 10SM CLR 26/08 A2994 RMK AO2 SLP081 T02610078 $ KCNO 261553Z 00000KT 2SM HZ FU OVC003 18/16 A2998 RMK AO2 SLP147 T01830156 KCNU 261552Z AUTO 20015G25KT 10SM CLR 23/18 A2985 RMK AO2 SLP100 T02330178 KCNW 261555Z 19014KT 10SM SCT017 25/20 A2997 KCNY 261553Z AUTO 08004KT 10SM CLR 23/M04 A3002 RMK AO2 SLP105 T02331039 KCOD 261556Z AUTO 25016G22KT 210V270 10SM CLR 13/04 A2990 RMK AO2 SLP097 T01280039 KCOE 261556Z AUTO 18007KT 10SM CLR 09/04 A3007 RMK AO2 SLP200 T00940039 KCOF 261556Z AUTO 09005KT 10SM CLR 30/22 A3002 RMK AO2 SLP170 T03020223 $ KCOM 261535Z AUTO 21015G23KT 10SM SCT015 24/18 A2996 RMK AO2 T02420181 KCON 261551Z AUTO 13005KT 10SM OVC007 16/13 A3012 RMK AO2 SLP199 T01610128 KCOQ 261555Z AUTO 22006KT 2SM BR OVC002 16/14 A2965 RMK AO2 TSNO KCOS 261554Z 33004KT 10SM BKN220 27/M03 A3002 RMK AO2 SLP057 T02721028 KCOT 261553Z AUTO 17009KT 10SM CLR 29/22 A2994 RMK AO2 SLP131 T02890222 KCOU 261554Z 20010KT 10SM CLR 23/17 A2988 RMK AO2 SLP111 T02280172 KCPF 261555Z AUTO 00000KT 10SM CLR 21/16 A3009 RMK AO2 KCPK 261555Z AUTO 00000KT 7SM BKN013 BKN029 OVC049 24/22 A3000 RMK AO2 T02360221 KCPR 261553Z 23023G31KT 10SM -RA CLR 20/02 A2983 RMK AO2 PK WND 23031/1550 RAE1458B46 SLP033 P0000 T02000017 KCPS 261553Z 20009KT 10SM CLR 23/16 A2992 RMK AO2 SLP128 T02330161 KCPT 261555Z AUTO 18011KT 10SM CLR 24/21 A2996 RMK A01 KCPU 261555Z AUTO 00000KT 10SM CLR 16/08 A3004 RMK AO2 T01620080 KCPW 261534Z AUTO 23011G17KT 10SM CLR 08/M05 A3057 RMK AO2 KCQB 261535Z AUTO 17012G17KT 10SM CLR 23/18 A2989 RMK AO2 T02300180 KCQC 261553Z AUTO 32017G28KT 10SM CLR 22/M03 A3020 RMK AO2 PK WND 31028/1546 SLP129 T02221033 KCQF 261535Z AUTO 11004KT 10SM SCT060 SCT070 26/20 A3003 RMK AO2 KCQM 261555Z AUTO 15006KT 10SM CLR 16/14 A2961 RMK AO2 KCQT 261552Z AUTO 00000KT 6SM HZ OVC012 21/16 A2995 RMK AO2 SLP140 T02060161 KCQW 261555Z AUTO 00000KT 10SM OVC016 23/19 A3004 RMK AO2 KCQX 261552Z AUTO VRB03KT 6SM HZ OVC002 19/16 A3016 RMK AO2 SLP212 T01890161 KCRE 261553Z 32008KT 10SM OVC012 26/22 A3001 RMK AO1 SLP164 T02610222 KCRG 261553Z 35006KT 10SM CLR 31/23 A3003 RMK AO2 SLP167 T03060233 KCRP 261551Z 17012KT 10SM FEW022 SCT028 SCT035 30/23 A2995 RMK AO2 SLP141 T03000233 KCRQ 261553Z 00000KT 7SM OVC007 18/16 A2995 RMK AO2 SLP140 T01830156 KCRS 261553Z AUTO 19009KT 10SM CLR 25/20 A2999 RMK AO2 SLP150 T02500200 KCRW 261554Z 22004KT 10SM FEW025 OVC048 22/14 A3006 RMK AO2 SLP173 T02170139 $ KCRX 261555Z AUTO 22007KT 10SM FEW025 OVC035 22/18 A3005 RMK AO2 KCSG 261551Z 25004KT 10SM SCT045 OVC050 26/17 A3005 RMK AO2 SLP171 T02610167 KCSM 261553Z AUTO 19012G22KT 10SM CLR 25/17 A2986 RMK AO2 SLP090 T02500167 KCSQ 261555Z AUTO 20018G23KT 10SM CLR 21/20 A2967 RMK AO2 KCSV 261553Z AUTO 00000KT 10SM BKN031 OVC035 20/16 A3010 RMK AO2 SLP179 T02000161 KCTB 261556Z AUTO 27024G33KT 10SM CLR 11/M02 A2979 RMK AO2 PK WND 27033/1551 SLP083 T01111022 KCTJ 261555Z AUTO 30003KT 10SM SCT031 OVC040 22/16 A3011 RMK AO2 T02190156 KCTY 261555Z AUTO 32008KT 10SM SCT035 SCT049 30/22 A3004 RMK AO2 T03030224 KCTZ 261555Z AUTO 26003KT 10SM SCT015 BKN022 26/23 A3002 RMK AO2 T02590229 KCUB 261553Z AUTO VRB03KT 10SM OVC008 21/18 A3007 RMK AO2 SLP180 T02060178 TSNO KCUH 261535Z AUTO 18009G19KT 10SM CLR 23/18 A2987 RMK AO2 T02260179 KCUL 261535Z AUTO 10SM OVC019 21/16 A2999 RMK AO2 KCUT 261553Z AUTO VRB05KT 10SM BKN075 OVC100 16/01 A2980 RMK AO2 SLP029 T01610011 KCVB 261535Z AUTO 14006KT 7SM OVC014 26/21 A2999 RMK AO2 T02570212 KCVC 261535Z AUTO 00000KT 10SM SCT012 BKN018 OVC039 22/18 A3007 RMK AO2 KCVG 261552Z 19006KT 10SM FEW012 OVC037 22/17 A3003 RMK AO2 SLP161 T02170172 $ KCVN 261556Z AUTO 27011KT 10SM CLR 28/03 A2995 RMK AO2 SLP096 T02830028 KCVO 261556Z AUTO 30004KT 10SM FEW004 BKN060 13/13 A3018 RMK AO2 SLP222 T01280128 KCVS 261258Z AUTO 28008KT 10SM CLR 16/04 A2996 RMK AO2 SLP087 T01600041 $ KCVX 261555Z AUTO 21008G14KT 180V240 10SM BKN028 21/17 A2974 RMK AO2 T02130168 KCWA 261547Z 13005KT 10SM SCT250 19/16 A2969 KCWC 261555Z AUTO 21008G19KT 10SM CLR 26/18 A2991 RMK AO2 T02610181 KCWF 261546Z 13004KT 10SM SCT060 26/21 A3000 KCWI 261556Z AUTO 19011KT 10SM CLR 22/18 A2976 RMK AO2 SLP075 T02220183 KCWN 261458Z AUTO 13006KT 10SM CLR 24/M06 A3002 RMK AO2 SLP965 T02441063 55000 PWINO $ KCWV 261555Z AUTO 00000KT 5SM HZ SCT019 BKN038 28/21 A3004 RMK AO2 T02760213 KCXE 261555Z AUTO 32004KT 10SM OVC009 19/17 A3006 RMK AO1 T01870172 KCXO 261553Z VRB03KT 10SM FEW007 A3000 RMK AO2 SLPNO $ KCXP 261550Z AUTO 00000KT 10SM CLR 17/02 A3020 RMK AO2 KCXU 261555Z AUTO 00000KT 10SM SCT028 27/20 A3007 RMK AO1 T02670200 KCXW 261555Z AUTO 18010KT 10SM OVC018 20/17 A3000 RMK A01 KCXY 261556Z VRB03KT 2 1/2SM HZ OVC009 19/16 A3008 RMK AO2 RAE03 SLP185 P0000 T01890161 KCYD 261555Z AUTO 23007KT 10SM CLR 32/22 A3003 RMK A02 T03200223 KCYS 261553Z 23011KT 4SM HZ CLR 21/M04 A2995 RMK AO2 SLP055 T02111044 $ KCZL 261555Z AUTO 31003KT 10SM SCT011 OVC044 22/20 A3009 RMK AO2 KCZT 261555Z AUTO 17007KT 10SM OVC021 28/22 A2994 RMK AO2 KCZZ 261552Z AUTO 00000KT 21/06 A2998 RMK AO1 SLP126 T02060061 KD07 261556Z AUTO 33018G25KT 19/03 A2966 RMK AO1 PK WND 33027/1537 SLP034 T01940033 $ KD25 261555Z AUTO 19004KT 4SM BR OVC002 15/15 A2970 RMK AO2 T01510151 KD39 261555Z AUTO 00000KT 10SM BKN100 16/12 A2963 RMK AO2 T01600118 KD50 261555Z AUTO 26018KT 10SM SCT100 SCT120 16/03 A2950 RMK AO2 KD55 261555Z AUTO 24008G14KT 10SM CLR 19/07 A2948 RMK AO2 KD60 261555Z AUTO 27022G27KT 10SM CLR 17/03 A2953 RMK AO2 KD73 261530Z AUTO 04003KT 10SM BKN017 BKN024 BKN038 23/20 A3008 RMK AO2 T02300197 KD95 261555Z AUTO 19012G15KT 170V230 10SM CLR 25/16 A2989 RMK AO2 T02500157 KDAA 261556Z AUTO 34005KT 10SM OVC008 20/17 A3004 RMK AO2 DZB11E18 SLP175 P0000 T01980174 $ KDAB 261553Z 07004KT 10SM SCT031 SCT250 31/25 A3002 RMK AO2 SLP165 T03060250 KDAG 261550Z AUTO 30011KT 10SM CLR 23/07 A2997 RMK AO2 SLP126 T02280072 KDAL 261553Z 16009KT 10SM FEW018 24/19 A2995 RMK AO2 SLP135 T02440194 KDAN 261553Z AUTO 06006KT 10SM BKN015 OVC022 22/17 A3006 RMK AO2 SLP170 T02170167 KDAW 261551Z AUTO 24004KT 10SM FEW008 19/13 A3011 RMK AO2 SLP195 T01940133 KDAY 261556Z 21014KT 10SM SCT022 OVC032 23/17 A3001 RMK AO2 CIG 021 RWY 6L SLP157 T02280167 KDBN 261535Z AUTO 00000KT 10SM OVC007 21/20 A3009 RMK AO2 KDBQ 261553Z 19013G20KT 10SM CLR 21/17 A2972 RMK AO2 SLP060 T02060167 KDCA 261552Z 03004KT 10SM OVC009 20/18 A3005 RMK AO2 SLP176 T02000178 KDCM 261555Z AUTO 01004KT 10SM OVC009 18/18 A3009 RMK AO2 LTG DSNT SE KDCU 261553Z AUTO 22006KT 10SM OVC037 21/18 A3007 RMK AO2 SLP179 T02110178 KDCY 261555Z AUTO 23006KT 10SM OVC016 19/16 A3000 RMK AO2 T01920156 KDDC 261552Z AUTO 22011G24KT 8SM CLR 27/08 A2978 RMK AO2 PK WND 21033/1505 SLP048 T02670078 KDDH 261554Z AUTO VRB04KT 10SM FEW034 23/14 A3008 RMK AO2 SLP182 T02330144 KDEC 261554Z 19014KT 10SM CLR 22/17 A2990 RMK AO2 SLP120 T02220172 KDED 261535Z AUTO 29005KT 10SM CLR 31/24 A3003 RMK AO2 T03090235 KDEH 261555Z AUTO 17005G14KT 10SM BKN014 21/19 A2964 RMK AO2 KDEN 261553Z 22016G21KT 10SM SCT140 BKN220 25/M02 A2992 RMK AO2 SLP044 T02501022 KDEQ 261553Z AUTO 10003KT 6SM BR OVC006 19/18 A2999 RMK AO1 SLP150 T01940183 KDET 261553Z 21009KT 10SM CLR 23/17 A2991 RMK AO2 SLP127 T02280167 KDEW 261553Z AUTO 18005KT 10SM CLR 08/03 A3005 RMK AO2 SLP182 T00780033 KDFI 261553Z AUTO 20014G21KT 10SM CLR 24/16 A2992 RMK AO2 SLP129 T02390156 KDFW 261553Z 17012KT 10SM FEW010 25/20 A2993 RMK AO2 SLP128 T02500200 KDGW 261553Z AUTO 28029G44KT 10SM CLR 23/02 A2977 RMK AO2 PK WND 26044/1548 SLP016 T02280017 KDHN 261553Z 00000KT 10SM FEW026 27/20 A3010 RMK AO2 SLP185 T02720200 $ KDHT 261553Z AUTO 17004KT 10SM CLR 28/06 A2990 RMK AO2 SLP058 T02780056 KDIJ 261556Z AUTO 05005KT 4SM -RA BR FEW009 BKN029 OVC037 07/06 A3012 RMK AO2 SLP167 P0020 T00670056 KDIK 261556Z AUTO 26013KT 10SM CLR 19/03 A2960 RMK AO2 SLP011 T01890033 KDKB 261535Z AUTO 19015KT 7SM OVC006 18/18 A2984 RMK AO2 T01820175 KDKK 261553Z AUTO 19008KT 10SM CLR 24/12 A2997 RMK AO2 SLP145 T02440122 $ KDKX 261555Z AUTO 00000KT 10SM FEW017 OVC023 21/17 A3008 RMK A01 KDLH 261555Z 26008KT 3SM SCT004 OVC018 16/14 A2965 RMK AO2 SFC VIS 8 SLP042 T01610144 $ KDLL 261555Z AUTO 19007KT 10SM SCT014 19/16 A2972 RMK AO2 T01910157 KDLN 261553Z AUTO 22016KT 10SM SCT075 09/03 A3002 RMK AO2 SLP138 T00940033 KDLO 261555Z AUTO 21003KT 10SM 20/11 A3003 RMK AO2 T01950105 KDLP 261555Z AUTO 23007G12KT 10SM FEW019 30/23 A2999 RMK A01 KDLS 261553Z AUTO 00000KT 10SM SCT080 14/09 A3011 RMK AO2 SLP197 T01440094 KDLZ 261555Z AUTO 22006KT 10SM SCT026 BKN032 BKN042 23/16 A3000 RMK AO2 KDMA 261458Z AUTO 15006KT 10SM CLR 25/06 A3004 RMK AO2 SLP128 T02510058 52008 FZRANO $ KDMN 261553Z AUTO 00000KT 10SM CLR 26/04 A3011 RMK AO2 SLP120 T02560039 KDMO 261553Z AUTO 20013G22KT 10SM CLR 25/17 A2986 RMK AO2 RAE50 SLP103 P0000 T02500172 KDMW 261555Z AUTO 07004KT 10SM OVC006 19/17 A3007 RMK AO2 KDNA 261555Z AUTO 35007KT 10SM CLR 27/01 A3009 RMK AO2 KDNL 261553Z AUTO 00000KT 10SM OVC009 22/18 A3007 RMK AO2 SLP179 T02170178 KDNN 261555Z AUTO 00000KT 10SM OVC044 22/18 A3008 RMK AO2 KDNS 261555Z AUTO 22015G24KT 10SM CLR 24/18 A2959 RMK AO2 KDNV 261555Z AUTO 18010G14KT 7SM OVC005 18/17 A2994 RMK AO2 T01750172 KDOV 261552Z AUTO 12010KT 10SM FEW007 BKN019 OVC038 23/22 A3004 RMK AO2 SLP176 $ KDPA 261552Z 20011KT 8SM OVC009 19/16 A2982 RMK AO2 SLP095 T01890161 KDPL 261535Z AUTO 01004KT 10SM SCT012 OVC021 25/22 A3002 RMK AO2 P0001 KDQH 261555Z AUTO 00000KT 10SM SCT030 SCT040 28/20 A3006 RMK AO2 T02790201 KDRA 261553Z AUTO 00000KT 10SM CLR 23/M05 A3002 RMK AO2 SLP122 T02281050 KDRI 261555Z AUTO 00000KT 10SM CLR 25/19 A3003 RMK AO2 T02460190 KDRM 261555Z AUTO 19005KT 10SM SCT037 18/14 A2973 RMK AO2 T01830140 KDRO 261553Z AUTO VRB03KT 10SM CLR 16/M01 A3023 RMK AO2 SLP166 T01611006 KDRT 261553Z AUTO 13011KT 9SM BKN016 OVC023 26/22 A2993 RMK AO2 SLP118 T02610222 TSNO KDSF 261600Z AUTO 10SM FEW018 29/24 A3001 RMK A01 KDSM 261554Z 18014KT 10SM FEW016 OVC250 21/17 A2965 RMK AO2 SLP034 T02110172 KDSV 261554Z AUTO VRB06KT 10SM CLR 25/13 A2998 RMK AO2 SLP157 T02500133 KDTA 261534Z AUTO 18005KT 10SM CLR 21/M06 A3009 RMK AO1 KDTL 261555Z AUTO 18011KT 10SM CLR 16/08 A2961 RMK AO2 KDTN 261553Z 22005KT 10SM OVC008 21/18 A3002 RMK AO2 SLP162 T02060178 KDTO 261553Z 17008KT 10SM CLR 26/19 A2994 RMK AO2 SLP130 T02560189 $ KDTS 261553Z 06005KT 10SM FEW070 27/21 A3005 RMK AO2 SLP176 T02670206 KDTW 261553Z 21013G19KT 9SM FEW030 FEW250 23/16 A2992 RMK AO2 SLP126 T02330156 KDUA 261555Z AUTO 18012KT 10SM SCT011 23/21 A2996 RMK AO2 KDUB 261535Z AUTO 29015G21KT 7SM DZ SCT029 BKN048 OVC080 08/05 A2996 RMK AO2 KDUC 261555Z AUTO 21010KT 180V240 10SM CLR 25/19 A2991 RMK AO2 T02500187 KDUH 261555Z AUTO 20008KT 10SM CLR 24/17 A2992 RMK AO2 T02390168 KDUJ 261553Z AUTO VRB06KT 10SM CLR 21/14 A3005 RMK AO2 SLP167 T02110139 KDUX 261555Z AUTO 00000KT 10SM CLR 26/03 A2989 RMK AO2 T02600033 KDVK 261530Z AUTO 22003KT 10SM OVC004 18/18 A3008 RMK AO2 KDVL 261556Z AUTO 24013KT 10SM CLR 19/06 A2952 RMK AO2 SLP580 T01890056 KDVN 261552Z AUTO 18015G21KT 10SM CLR 23/17 A2977 RMK AO2 SLP071 T02330172 KDVO 261555Z AUTO 32008KT 10SM CLR 23/16 A3005 RMK AO2 KDVP 261553Z AUTO 07005KT 7SM CLR 18/13 A2959 RMK AO2 T01840128 KDVT 261553Z VRB04KT 10SM CLR 30/06 A2995 RMK AO2 SLP116 T03000061 KDWA 261555Z AUTO 32003KT 10SM CLR 21/12 A3004 RMK AO2 KDWH 261553Z VRB05KT 4SM HZ SCT018 26/19 A2999 RMK AO2 SLP154 T02610194 KDWU 261556Z AUTO 00000KT 10SM OVC055 23/20 A3004 RMK AO2 SLP171 T02280200 PNO $ KDWX 261530Z AUTO 08011KT 350V260 10SM CLR 11/M02 A3012 RMK AO2 T01111021 KDXR 261553Z 13008KT 10SM FEW022 FEW060 OVC090 22/16 A3012 RMK AO2 SLP196 T02170161 KDXX 261555Z AUTO 18003KT 10SM CLR 18/10 A2959 RMK AO2 PWINO KDYA 261555Z AUTO 00000KT 10SM BKN026 BKN034 24/18 A3004 RMK AO2 T02430183 KDYB 261555Z AUTO 10SM SCT014 BKN024 25/22 A3003 RMK AO2 KDYL 261554Z AUTO VRB03KT 10SM BKN017 OVC050 21/16 A3007 RMK AO2 SLP180 T02110161 KDYR 261556Z AUTO 20008KT 10SM FEW019 OVC031 22/18 A3003 RMK AO2 SLP174 T02170183 PNO $ KDYS 261556Z AUTO 17020G23KT 10SM BKN015 24/17 A2991 RMK AO2 SLP091 T02430170 KDYT 261555Z AUTO 25004KT 7SM OVC004 15/14 A2965 RMK AO2 KDZB 261537Z AUTO 21007G17KT 10SM OVC019 26/21 A2998 RMK AO2 KDZJ 261555Z AUTO 22004KT 10SM OVC031 20/17 A3010 RMK AO2 T02010168 KE11 261535Z AUTO 21005KT 10SM CLR 26/15 A2996 RMK AO2 T02620145 KE16 261550Z AUTO 00000KT 10SM CLR 16/10 A3008 RMK AO2 PWINO PNO KE38 261535Z AUTO 24008KT 10SM CLR 29/05 A3011 RMK AO2 T02900045 KE41 261555Z AUTO 18015G23KT 10SM SCT015 23/18 A2997 RMK AO2 T02340183 KEAN 261530Z AUTO 28012G20KT 10SM CLR 23/00 A2980 RMK AO2 T02311001 KEAR 261556Z AUTO 21006KT 10SM CLR 22/13 A2966 RMK AO2 SLP032 T02170133 KEAT 261555Z AUTO 00000KT 10SM CLR 09/05 A3005 RMK AO2 SLP178 T00940050 KEAU 261556Z 13005KT 9SM CLR 19/16 A2965 RMK AO2 SLP038 T01890161 KEBG 261555Z AUTO 17012G15KT 10SM SCT026 29/21 A2995 RMK AO2 T02860211 KEBS 261515Z AUTO 19015KT 9SM CLR 22/19 A2960 RMK AO2 KECG 261554Z 19006KT 10SM SCT014 BKN019 OVC042 27/23 A3000 RMK AO2 RAE23 SLP158 P0000 T02670233 KECP 261553Z VRB03KT 10SM CLR 28/22 A3005 RMK AO2 SLP186 T02830217 KECS 261600Z AUTO 00000KT 10SM CLR 16/00 A2976 RMK AO2 KECU 261555Z AUTO 16013G18KT 10SM SCT009 BKN017 OVC021 22/20 A3005 RMK AO2 KEDC 261555Z AUTO 20009KT BKN021 OVC032 22/22 A2999 RMK AO2 KEDE 261555Z AUTO 23005KT 10SM CLR 27/23 A3001 RMK AO2 T02680233 KEDJ 261535Z AUTO 22008G15KT 10SM BKN023 22/19 A3001 RMK AO1 KEDN 261555Z AUTO 31003KT 10SM CLR 25/19 A3007 RMK AO2 T02520191 KEDU 261600Z AUTO 35003KT 9SM CLR 20/12 A3003 RMK AO1 KEDW 261458Z 00000KT 15SM FEW000 14/06 A2998 RMK AO2A FU FEW000 SLP137 T01380064 52007 KEED 261556Z AUTO 00000KT 10SM CLR 28/M02 A2990 RMK AO2 SLP095 T02831017 KEEN 261556Z AUTO 16008KT 10SM OVC015 18/16 A3010 RMK AO2 SLP198 T01830156 PNO $ KEEO 261553Z AUTO 00000KT 10SM CLR 17/M01 A3011 RMK AO2 SLP109 T01671006 $ KEET 261553Z AUTO VRB03KT 10SM SCT024 BKN037 25/18 A3006 RMK AO2 SLP172 T02500183 KEFD 261550Z 16005KT 10SM SCT025 27/20 A2999 KEFK 261521Z AUTO 20008KT 10SM CLR 23/14 A3006 RMK AO2 KEFT 261555Z AUTO 18013G21KT 10SM OVC011 20/16 A2975 RMK AO2 T01960161 KEGE 261556Z 30003KT 10SM CLR 13/M01 A3013 RMK AO2 SLP157 T01331011 PNO $ KEGI 261556Z AUTO 00000KT 10SM FEW150 FEW170 FEW200 27/ A3005 RMK AO2 SLP175 $ KEGV 261555Z AUTO 00000KT 10SM OVC005 17/17 A2970 RMK AO2 T01660166 KEHA 261535Z AUTO 30008KT 10SM CLR 30/05 A2982 RMK AO2 T03030054 KEHO 261515Z AUTO 03003KT 10SM OVC012 18/16 A3009 RMK AO2 T01840161 KEHR 261556Z AUTO 22013KT 10SM OVC018 20/16 A3002 RMK AO2 SLP163 T02000161 KEHY 261535Z AUTO 10SM CLR 16/M08 A2997 RMK AO2 PWINO KEIK 261555Z AUTO 00000KT 10SM CLR 26/M03 A2989 RMK AO2 T02611030 PWINO KEKM 261552Z 20007KT 10SM CLR 22/17 A2988 RMK AO2 KEKN 261551Z AUTO VRB03KT 10SM BKN027 23/14 A3009 RMK AO2 SLP182 T02280139 KEKO 261556Z AUTO 22011KT 10SM CLR 18/04 A3015 RMK AO2 SLP169 T01780039 KEKQ 261556Z AUTO VRB06KT 10SM OVC005 18/18 A3010 RMK AO2 SLP186 T01830183 PNO $ KEKS 261550Z AUTO VRB06KT 10SM SCT043 OVC055 10/01 A3006 RMK AO2 KEKX 261555Z AUTO 23007KT 10SM SCT019 BKN033 23/17 A3004 RMK AO2 T02290173 KEKY 261556Z AUTO 01003KT 10SM 23/19 A3007 RMK AO2 SLP031 T02330189 PNO $ KELA 261555Z AUTO 20006KT 10SM CLR 27/20 A2999 RMK AO2 T02650202 KELD 261553Z AUTO VRB03KT 10SM FEW006 FEW013 21/19 A3002 RMK AO2 SLP164 T02110194 KELK 261555Z AUTO 20011KT 10SM CLR 26/16 A2985 RMK AO2 T02580162 KELM 261553Z VRB04KT 10SM CLR 24/14 A3003 RMK AO2 SLP166 T02390139 KELN 261553Z AUTO 27006KT 10SM CLR 13/06 A3006 RMK AO2 SLP179 T01280056 KELO 261555Z AUTO 18005KT 10SM CLR 16/14 A2963 RMK AO2 KELP 261551Z 00000KT 10SM CLR 26/02 A3006 RMK AO2 SLP102 T02610017 KELY 261553Z AUTO 19007KT 10SM CLR 16/M06 A3021 RMK AO2 SLP156 T01561056 KELZ 261556Z AUTO 22007KT 180V250 10SM CLR 21/13 A3006 RMK AO2 SLP170 T02110128 $ KEMM 261535Z AUTO 28022G36KT 10SM CLR 13/02 A3010 RMK AO2 KEMP 261553Z AUTO 19016G23KT 10SM CLR 26/18 A2979 RMK AO2 SLP079 T02560183 KEMT 261545Z 00000KT 5SM HZ OVC013 19/17 A2998 RMK TFR KEMV 261555Z AUTO 10SM OVC006 19/18 A3004 RMK AO2 T01920184 TSNO KEND 261556Z AUTO 18014KT 10SM CLR 27/23 A2982 RMK AO2 SLP087 T02650233 $ KENL 261555Z AUTO 17010G15KT 10SM SCT022 23/17 A2995 RMK AO2 T02290165 KENV 261556Z AUTO 00000KT 10SM CLR 22/03 A3007 RMK AO2 SLP145 T02220033 KENW 261553Z 21016KT 10SM CLR 22/17 A2979 RMK AO2 SLP082 T02220167 KEOD 261458Z AUTO 21003KT 9SM OVC028 19/18 A3005 RMK AO2 SLP176 T01930181 52006 KEOE 261555Z AUTO 01005KT 10SM OVC009 19/17 A3010 RMK AO2 KEOK 261555Z AUTO 19012G19KT 10SM CLR 23/19 A2979 RMK AO2 KEPH 261553Z AUTO 23003KT 10SM CLR 12/04 A3004 RMK AO2 SLP173 T01170044 KEQA 261555Z AUTO 20014KT 10SM CLR 26/18 A2981 RMK AO2 KEQY 261553Z AUTO VRB03KT 10SM OVC014 21/17 A3006 RMK AO2 SLP182 T02060172 KERI 261551Z 18010KT 10SM CLR 26/14 A2996 RMK AO2 SLP143 T02560139 KERV 261555Z AUTO 18008G11KT 10SM OVC013 23/20 A3001 RMK AO2 T02330201 KERY 261555Z AUTO 20010KT 10SM SCT010 SCT035 19/17 A2968 RMK AO2 T01910167 KESC 261556Z AUTO 16008KT 10SM FEW021 21/17 A2969 RMK AO2 SLP053 T02110167 KESF 261553Z AUTO 10SM CLR 26/19 A3001 RMK AO2 SLP160 T02560194 $ KESN 261550Z 14006KT 8SM BKN008 BKN014 26/22 A3006 KEST 261552Z AUTO 18009KT 10SM CLR 19/17 A2956 RMK AO2 SLP007 T01890167 KETB 261555Z AUTO 20011KT 10SM CLR 21/17 A2975 RMK AO2 KETC 261555Z AUTO 32004KT 10SM SCT012 24/21 A3001 RMK AO2 P0001 T02360213 KETH 261553Z AUTO 14006KT 10SM CLR 18/07 A2960 RMK AO2 KETN 261555Z AUTO 19015G21KT 10SM CLR 26/19 A2993 RMK AO2 T02550188 KEUF 261458Z AUTO RMK AO2 SLPNO 6//// PWINO TSNO PNO $ KEUG 261554Z 16004KT 10SM FEW004 FEW020 BKN060 BKN180 15/13 A3018 RMK AO2 SLP219 T01500133 KEUL 261556Z AUTO 30005KT 10SM FEW049 SCT065 OVC100 14/11 A3013 RMK AO2 SLP195 T01440111 KEVB 261547Z 10SM SCT030 RMK AWOS OTS. KEVM 261555Z AUTO 19005KT 10SM BKN007 BKN095 BKN120 15/14 A2966 RMK AO2 T01470139 PWINO KEVU 261555Z AUTO 20012G17KT 10SM CLR 23/18 A2970 RMK AO2 T02410185 KEVV 261554Z 21010KT 10SM OVC017 20/15 A3001 RMK AO2 SLP159 T02000150 $ KEVW 261553Z AUTO 28016G22KT 10SM CLR 16/00 A3015 RMK AO2 PK WND 25028/1504 SLP131 T01610000 KEWB 261553Z 19007KT 10SM SCT015 23/16 A3013 RMK AO2 SLP201 T02280161 KEWK 261556Z AUTO 20014G22KT 10SM CLR 25/17 A2979 RMK AO2 SLP072 T02500172 KEWN 261554Z 16008KT 10SM FEW015 SCT041 BKN050 27/23 A3000 RMK AO2 SLP160 T02720233 KEWR 261551Z 13009KT 10SM BKN027 BKN049 OVC120 23/14 A3010 RMK AO2 SLP191 T02280144 KEXX 261555Z AUTO 00000KT 10SM OVC010 18/18 RMK AO2 T01830183 KEYE 261553Z AUTO 20009G17KT 10SM OVC010 19/16 A2997 RMK AO2 SLP145 T01890156 KEYF 261555Z AUTO 33003KT 10SM OVC012 24/21 A3003 RMK AO2 T02350213 KEYW 261553Z 24008KT 10SM FEW018 31/26 A3003 RMK AO2 SLP167 T03060261 KEZF 261555Z AUTO 00000KT 10SM OVC007 20/19 A3004 RMK AO2 T01950190 KEZM 261530Z AUTO 27003KT 10SM BKN009 24/21 A3009 RMK AO2 T02360207 KEZS 261555Z AUTO 23006KT 10SM CLR 22/17 A2970 RMK AO2 T02170172 KEZZ 261555Z AUTO 20012KT 10SM CLR 25/17 A2977 RMK AO2 T02470173 KF00 261555Z AUTO 16012KT 10SM BKN011 23/19 A2997 RMK AO2 T02270191 KF05 261555Z AUTO 21008G16KT 10SM CLR 26/17 A2988 RMK AO1 T02580171 KF44 261535Z AUTO 18006KT 5SM BR OVC006 21/18 A2999 RMK AO2 KF45 261550Z AUTO 27008KT 10SM 33/23 A3003 RMK AO2 KF46 261555Z AUTO 22009KT 10SM SCT009 23/21 A2997 RMK AO2 T02290211 KF70 261535Z AUTO 00000KT 10SM CLR 18/13 A2997 RMK AO1 KFAF 261556Z AUTO 29006KT 10SM SCT008 SCT014 BKN030 24/23 A2998 RMK AO2 RAB30E41 SLP155 P0001 T02400229 $ KFAM 261556Z AUTO 20013KT 10SM BKN014 21/16 A2998 RMK AO2 SLP156 T02060161 KFAR 261553Z 17008KT 10SM SCT110 18/08 A2955 RMK AO2 SLP007 T01780083 KFAT 261553Z 30003KT 10SM FEW080 20/11 A3002 RMK AO2 SLP161 FU FEW080 T02000106 KFAY 261553Z 03004KT 10SM OVC027 26/19 A3002 RMK AO2 SLP159 T02610194 KFBG 261556Z AUTO 33006KT 10SM BKN018 OVC023 24/22 A3002 RMK AO2 CIG 016V023 SLP167 T02370221 $ KFBL 261555Z AUTO 13004KT 10SM CLR 19/17 A2962 RMK AO2 KFCI 261556Z AUTO 35005KT 10SM OVC004 18/18 A3004 RMK AO2 SLP182 P0001 T01830183 KFCM 261553Z VRB03KT 7SM CLR 18/16 A2961 RMK AO2 SLP025 T01830156 KFCS 261524Z AUTO 28013G26KT 10SM CLR 27/M10 A2996 RMK AO2 WSHFT 15 SLP074 $ KFDK 261447Z 06003KT 3SM BR OVC008 18/17 A3008 KFDR 261553Z AUTO 18009KT 10SM CLR 26/18 A2985 RMK AO2 SLP090 T02610178 KFDW 261555Z AUTO 00000KT 10SM OVC008 17/17 A3006 RMK AO1 KFDY 261553Z AUTO 20012G20KT 10SM CLR 24/17 A2995 RMK AO2 SLP133 T02440167 KFEP 261535Z AUTO 19012KT 10SM BKN013 20/17 A2979 RMK AO2 T01960170 KFET 261555Z AUTO 20010G15KT 10SM CLR 24/16 A2959 RMK AO2 T02390163 KFEW 261503Z AUTO 25011KT 10SM BKN026 18/M05 A2997 RMK AO2 BKN V SCT SLP072 $ KFFA 261555Z AUTO 00000KT 10SM SCT013 BKN020 OVC039 24/21 A3000 RMK AO2 T02400213 KFFC 261553Z AUTO 15003KT 10SM FEW015 SCT021 OVC043 23/19 A3008 RMK AO2 SLP180 T02280189 KFFL 261555Z AUTO 19015KT 10SM CLR 22/21 A2974 RMK A01 KFFM 261555Z AUTO 00000KT 10SM BKN090 18/11 A2960 RMK AO2 KFFO 261556Z AUTO 22011KT 10SM BKN024 OVC033 23/16 A3000 RMK AO2 SLP157 T02290164 KFFT 261553Z AUTO 21005KT 10SM SCT011 23/18 A3004 RMK AO2 SLP164 T02280178 KFFX 261555Z AUTO 20012G16KT 10SM OVC016 22/17 A2980 RMK AO2 T02210169 KFFZ 261554Z 11003KT 10SM CLR 31/06 A2995 RMK AO2 SLP115 T03060056 KFGN 261555Z AUTO 16007KT 15/10 A2951 RMK AO2 PWINO KFGX 261515Z AUTO 00000KT 10SM SCT011 OVC034 21/18 A3008 RMK AO2 T02090183 KFHB 261555Z AUTO 31005KT 10SM 30/24 A3002 RMK AO2 T02990236 KFHR 261553Z AUTO 15005KT 10SM -RA OVC055 12/11 A3007 RMK AO2 RAB26 SLP183 P0000 T01170106 TSNO KFHU 261358Z AUTO 23006KT 10SM CLR 22/03 A3017 RMK AO2 SLP141 T02160032 KFIG 261554Z AUTO VRB03KT 10SM FEW023 22/14 A3006 RMK AO2 SLP174 T02170139 KFIN 261550Z VRB03KT 10SM CLR 31/23 A3002 KFIT 261552Z AUTO 13008KT 7SM CLR 19/14 A3012 RMK AO2 SLP200 T01940144 KFKA 261555Z AUTO 16008KT 10SM CLR 20/17 A2964 RMK AO2 T01950170 KFKL 261556Z AUTO 19006KT 10SM SCT019 20/16 A3004 RMK AO2 SLP169 T02000156 KFKN 261555Z AUTO 29004KT 10SM OVC005 22/21 A3002 RMK AO2 T02160213 KFKR 261555Z AUTO 20011G16KT 10SM OVC011 21/16 A2996 RMK AO2 T02110158 KFKS 261555Z AUTO 21011G19KT 10SM SCT033 OVC065 21/17 A2974 RMK AO2 T02140166 KFLD 261553Z AUTO 21009KT 10SM CLR 22/17 A2972 RMK AO2 SLP060 T02220167 KFLG 261557Z 28007KT 10SM CLR 21/01 A3031 RMK AO2 SLP157 T02110006 KFLL 261553Z 25005KT 10SM SCT029CB SCT034 BKN045 32/26 A3001 RMK AO2 SLP160 CB NW-NE MOV NE T03220256 KFLO 261553Z 04005KT 10SM BKN008 OVC014 22/19 A3005 RMK AO2 SLP171 T02170194 KFLP 261556Z AUTO 17006KT 10SM FEW011 22/16 A2999 RMK AO2 SLP149 T02170161 KFLY 261555Z AUTO 29004KT 10SM CLR 24/M08 A3008 RMK AO2 T02431077 KFME 261555Z AUTO 00000KT 10SM OVC005 18/17 A3007 RMK AO1 KFMH 261545Z 19010KT 10SM SCT010 21/16 A3014 KFMM 261535Z AUTO 00000KT 10SM CLR 19/02 A2986 RMK AO2 T01910021 KFMN 261553Z 09006KT 10SM CLR 17/M01 A3016 RMK AO2 SLP171 T01671011 KFMY 261553Z 27008KT 10SM CLR 30/24 A3001 RMK AO2 SLP165 T03000244 KFNB 261553Z AUTO 19012G20KT 10SM CLR 24/17 A2968 RMK AO2 SLP042 T02440172 KFNL 261556Z 03004KT 10SM CLR 19/07 A2989 RMK AO2 SLP066 T01890072 KFNT 261553Z 22011G20KT 10SM CLR 23/16 A2988 RMK AO2 SLP116 T02280156 $ KFOA 261535Z AUTO 20012KT 10SM BKN020 21/16 A2998 RMK AO2 KFOD 261556Z AUTO 19013G20KT 10SM CLR 22/18 A2959 RMK AO2 SLP041 T02220183 KFOE 261553Z 20019G27KT 10SM CLR 26/18 A2975 RMK AO2 PK WND 19027/1552 SLP062 T02560183 KFOK 261553Z 14008KT 10SM FEW026 22/13 A3013 RMK AO2 SLP203 T02220133 KFOT 261555Z AUTO 00000KT 1/4SM OVC002 16/16 A3018 RMK AO1 KFOZ 261553Z AUTO 20003KT 10SM CLR 16/14 A2965 RMK AO2 KFPK 261555Z AUTO 22007KT 10SM CLR 24/16 A2986 RMK AO2 T02380162 KFPR 261553Z 29008KT 10SM FEW020 29/25 A3002 RMK AO2 SLP163 T02940250 KFPY 261535Z AUTO 00000KT 10SM CLR 28/25 A3005 RMK AO2 T02820250 KFQD 261555Z AUTO 00000KT 10SM OVC010 17/16 A3011 RMK AO2 KFRG 261553Z 14013KT 10SM BKN026 BKN037 23/14 A3011 RMK AO2 SLP194 T02280144 KFRH 261555Z AUTO 22006KT 10SM OVC020 20/15 A3002 RMK AO1 KFRI 261556Z AUTO 22015G20KT 10SM CLR 27/17 A2971 RMK AO2 SLP049 T02720171 KFRR 261555Z AUTO 04003KT 10SM BKN009 OVC013 19/17 A3007 RMK AO1 KFSD 261556Z 10004KT 10SM OVC220 19/13 A2955 RMK AO2 SLP003 T01890133 KFSE 261555Z AUTO 18014KT 10SM CLR 19/05 A2956 RMK AO2 KFSI 261556Z AUTO 20009KT 10SM CLR 25/19 A2987 RMK AO2 SLP107 T02520191 $ KFSM 261553Z VRB04KT 10SM BKN009 20/17 A2998 RMK AO2 SLP150 T02000172 KFSO 261555Z AUTO 20007KT 10SM CLR 25/14 A3001 RMK AO2 T02530141 KFST 261553Z AUTO 23010KT 10SM CLR 31/09 A2993 RMK AO2 SLP083 T03110094 KFSW 261555Z AUTO 19008KT 170V230 10SM CLR 23/18 A2979 RMK AO2 KFTK 261556Z AUTO 22006KT 10SM FEW021 SCT026 OVC035 23/17 A3003 RMK AO2 SLP168 T02340171 KFTW 261553Z 17010KT 10SM CLR 25/20 A2993 RMK AO2 SLP127 T02500200 KFTY 261553Z 33004KT 10SM BKN023 BKN030 OVC039 23/17 A3006 RMK AO2 SLP173 T02330172 KFUL 261553Z 14004KT 8SM OVC012 21/16 A2995 RMK AO2 SLP140 T02060156 KFVE 261553Z AUTO 17005KT 10SM CLR 18/09 A3002 RMK AO2 SLP165 T01780094 KFVX 261555Z AUTO 02004KT 10SM OVC008 19/17 A3004 RMK AO2 T01860167 KFWA 261554Z 21017G20KT 10SM FEW007 BKN015 20/16 A2994 RMK AO2 SLP138 T02000161 KFWB 261535Z AUTO 00000KT 10SM CLR 20/19 A2998 RMK AO2 KFWC 261535Z AUTO 21006KT 10SM OVC022 21/15 A2998 RMK AO1 T02100150 KFWN 261553Z AUTO 00000KT 10SM -RA BKN046 OVC060 21/16 A3010 RMK AO2 RAB00E06B34 SLP191 P0000 T02060161 $ KFWS 261556Z 18010KT 7SM CLR 26/21 A2995 KFWZ 261555Z AUTO 25031G48KT 10SM CLR 10/02 A2991 RMK AO2 KFXE 261553Z 25008KT 10SM SCT065 32/24 A3001 RMK AO2 SLP164 T03170239 KFXY 261555Z AUTO 18011G14KT 10SM SCT012 21/20 A2960 RMK AO2 KFYE 261555Z AUTO 19006KT 10SM FEW009 BKN014 OVC027 22/19 A3003 RMK A01 KFYG 261515Z AUTO 19006KT 10SM CLR 22/17 A2991 RMK AO2 KFYJ 261555Z AUTO 00000KT 3SM OVC003 20/20 A3003 RMK AO1 P0001 T02030198 KFYV 261553Z 19013KT 10SM CLR 22/16 A2998 RMK AO2 SLP141 T02170161 KFZG 261535Z AUTO 34005KT 10SM SCT028 SCT036 28/21 A3008 RMK AO2 T02760207 KFZY 261554Z AUTO VRB05KT 10SM CLR 24/13 A2999 RMK AO2 SLP155 T02390133 KGAD 261556Z AUTO 00000KT 10SM OVC036 22/19 A3008 RMK AO2 SLP187 T02220189 PNO $ KGAF 261555Z AUTO 20009G14KT 8SM CLR 19/07 A2950 RMK AO2 PWINO KGAG 261553Z AUTO 20014KT 10SM CLR 28/14 A2982 RMK AO2 SLP067 T02780139 $ KGAI 261556Z AUTO 00000KT 10SM OVC005 18/17 A3008 RMK AO2 SLP196 T01780167 KGAO 261538Z AUTO 02006KT 10SM BKN009 BKN014 OVC033 26/23 A3000 RMK AO2 KGBD 261556Z AUTO 22015G21KT 10SM CLR 27/14 A2975 RMK AO2 SLP054 T02670139 KGBG 261535Z AUTO 18010G15KT 10SM BKN012 20/17 A2981 RMK AO2 T02030167 KGBK 261555Z AUTO VRB03KT 10SM CLR 29/22 A3001 RMK A01 KGCC 261553Z AUTO 33021G28KT 10SM FEW018 BKN023 OVC037 12/07 A2986 RMK AO2 PK WND 35034/1523 SLP086 T01170067 KGCD 261555Z AUTO 00000KT 10SM SCT047 OVC060 11/09 A3016 RMK AO2 T01140091 KGCK 261554Z 25003KT 10SM CLR 23/07 A2978 RMK AO2 SLP051 T02280067 KGCM 261555Z AUTO 18010KT 10SM SCT016 22/14 A2993 RMK AO2 KGCN 261554Z 25011G16KT 10SM CLR 22/01 A3028 RMK AO2 SLP153 T02170006 KGCY 261555Z AUTO 00000KT 10SM BKN021 OVC034 20/16 A3009 RMK A01 KGDB 261535Z AUTO 05005KT 10SM SCT120 17/12 A2961 RMK AO2 T01700116 KGDJ 261555Z AUTO 17008KT 10SM CLR 27/20 A2995 RMK AO2 T02650197 KGDP 261551Z AUTO 21010KT 8SM CLR 24/01 A3013 RMK AO2 SLP114 T02390011 KGDV 261556Z AUTO 28020G25KT 10SM OVC080 16/03 A2966 RMK AO2 SLP033 T01610028 KGED 261554Z AUTO 11009KT 10SM SCT024 BKN030 26/21 A3004 RMK AO2 SLP172 T02610206 $ KGEG 261553Z 22011KT 10SM FEW080 FEW120 09/04 A3005 RMK AO2 SLP177 T00890039 KGEU 261547Z 00000KT 10SM SKC 28/08 A2994 KGEV 261555Z AUTO 03005KT 10SM BKN019 19/15 A3013 RMK AO2 T01880149 KGEY 261553Z AUTO 33011KT 10SM BKN110 14/06 A2984 RMK AO2 RAB1454E05 SLP079 P0000 T01390056 KGEZ 261553Z AUTO 22014G24KT 10SM OVC018 22/16 A2998 RMK AO2 SLP149 T02170156 KGFA 261459Z AUTO 25018G25KT 10SM CLR 11/M03 A2981 RMK AO2 PK WND 25026/44 SLP101 T01111027 52023 $ KGFK 261553Z 21015KT 10SM BKN100 BKN200 22/06 A2950 RMK AO2 SLP987 T02170061 KGFL 261553Z AUTO 20010KT 8SM CLR 21/16 A3007 RMK AO2 SLP183 T02060156 KGGE 261555Z AUTO 34003KT 10SM OVC006 21/21 A3004 RMK AO2 KGGG 261553Z 20010KT 10SM BKN009 23/18 A2999 RMK AO2 SLP151 T02280183 KGGI 261555Z AUTO 19016G21KT 10SM CLR 24/18 A2970 RMK AO2 T02390180 KGGP 261536Z AUTO 21009KT 10SM CLR 22/16 A2994 RMK AO2 KGGW 261553Z AUTO 27024G38KT 10SM CLR 17/01 A2959 RMK AO2 PK WND 29038/1548 SLP015 T01670011 KGHG 261535Z AUTO 14007KT 10SM CLR 22/17 A3012 RMK AO2 KGHW 261555Z AUTO 00000KT 10SM CLR 17/11 A2963 RMK AO2 KGIC 261535Z AUTO 26003KT 10SM SCT060 10/07 A3010 RMK AO1 KGIF 261553Z AUTO 35005KT 10SM FEW029 SCT037 32/23 A3004 RMK AO2 SLP170 T03170233 KGJT 261553Z 27004KT 10SM CLR 18/02 A3005 RMK AO2 SLP119 T01830022 KGKJ 261553Z AUTO 19006KT 10SM CLR 21/15 A3001 RMK AO2 SLP155 T02110150 KGKT 261555Z AUTO 33003KT 10SM FEW009 OVC018 20/18 A3008 RMK A01 KGKY 261553Z 16011KT 10SM CLR 26/20 A2994 RMK AO2 SLP131 T02610200 $ KGLD 261553Z AUTO 30007KT 10SM CLR 26/04 A2980 RMK AO2 SLP052 T02560044 KGLE 261535Z AUTO 17011KT 10SM CLR 24/19 A2995 RMK AO2 T02370190 PWINO KGLH 261553Z VRB05KT 10SM OVC030 23/18 A3002 RMK AO2 SLP172 T02330183 KGLR 261553Z AUTO 22010KT 1 1/2SM +TSRA BR SCT050 BKN075 OVC100 16/15 A2978 RMK AO2 LTG DSNT E AND SE AND W TSB25 SLP082 P0018 T01610150 KGLS 261552Z VRB06KT 10SM SCT024 28/21 A2999 RMK AO2 SLP155 T02780206 KGLW 261555Z AUTO 19003KT 10SM SCT011 OVC035 21/18 A3006 RMK AO2 T02140184 KGLY 261555Z AUTO 20011KT 10SM CLR 24/18 A2985 RMK AO2 KGMJ 261555Z AUTO 18009KT 10SM CLR 22/17 A2994 RMK AO2 KGMU 261553Z 04006KT 10SM OVC010 19/17 A3009 RMK AO2 SLP184 T01940167 KGNA 261556Z AUTO 00000KT 12/11 A2966 RMK AO1 SLP044 T01170111 KGNB 261552Z AUTO 26013G16KT 10SM CLR 17/M04 A3016 RMK AO2 T01691043 KGNC 261535Z AUTO 00000KT 10SM CLR 25/16 A3000 RMK AO2 T02470155 KGNR 261556Z AUTO 15007KT 22/11 A3006 RMK AO1 SLP180 T02170106 KGNT 261555Z AUTO 01008KT 10SM CLR 22/M01 A3026 RMK AO2 T02241014 KGNV 261553Z VRB03KT 10SM SCT024 30/24 A3005 RMK AO2 SLP174 T03000239 KGOK 261553Z AUTO 18012KT 10SM CLR 25/18 A2985 RMK AO2 SLP101 T02500178 KGON 261556Z 15009KT 10SM FEW014 22/18 A3012 RMK AO2 SLP199 T02170178 KGOO 261550Z AUTO 00000KT 10SM CLR 20/08 A3012 RMK A01 KGOP 261555Z AUTO 19010KT 10SM BKN012 24/20 A2998 RMK AO2 KGOV 261458Z AUTO 22005KT 10SM CLR 18/15 A2979 RMK AO2 LTG DSNT W SLP091 T01790148 55004 $ KGPC 261535Z AUTO 20009KT 10SM OVC006 17/16 A2998 RMK AO2 T01730158 KGPH 261555Z AUTO 19011G16KT 10SM CLR 24/16 A2979 RMK AO2 KGPI 261555Z 18008KT 10SM BKN070 11/03 A2996 RMK AO2 SLP150 T01060033 $ KGPM 261550Z 17008G14KT 10SM SKC 25/19 A2996 KGPT 261553Z 00000KT 10SM SCT029 BKN037 OVC055 24/20 A3002 RMK AO2 SLP165 T02390200 KGPZ 261556Z AUTO 19006KT 10SM -RA FEW047 SCT060 BKN080 16/13 A2965 RMK AO2 RAB02 SLP043 P0000 T01560128 KGRB 261553Z 20008G14KT 10SM CLR 22/16 A2970 RMK AO2 SLP057 T02220161 $ KGRD 261556Z AUTO 05004KT 10SM OVC013 19/17 A3009 RMK AO2 SLP184 T01940172 KGRF 261458Z AUTO 14006KT 10SM BKN080 12/12 A3009 RMK AO2 SLP194 60000 T01170117 53007 $ KGRI 261553Z 22009KT 6SM CLR 24/14 A2963 RMK AO2 SLP025 T02440139 KGRK 261558Z AUTO 17010KT 10SM OVC016 24/20 A2996 RMK AO2 SLP137 T02410200 KGRN 261555Z AUTO 31007KT 10SM CLR 21/01 A2974 RMK AO2 T02050005 KGRR 261553Z 21016KT 10SM BKN190 BKN250 23/17 A2985 RMK AO2 SLP104 T02280167 KGRY 261555Z AUTO VRB06KT 10SM SCT025 SCT035 SCT041 30/22 A3002 RMK A01 KGSB 261556Z AUTO 00000KT 10SM FEW014 26/22 A3000 RMK AO2 SLP161 T02590217 $ KGSH 261553Z AUTO 20014KT 10SM CLR 22/16 A2990 RMK AO2 SLP120 T02170156 KGSO 261554Z 07007KT 10SM BKN007 OVC012 18/17 A3006 RMK AO2 SLP173 T01830167 KGSP 261553Z 05003KT 10SM OVC009 18/16 A3009 RMK AO2 SLP183 T01830161 KGTB 261556Z AUTO 19012KT 10SM CLR 26/08 A2998 RMK AO2 SLP150 T02570078 KGTF 261553Z 26027G36KT 10SM CLR 13/M05 A2982 RMK AO2 PK WND 26038/1534 SLP091 T01331050 $ KGTR 261556Z 06003KT 10SM FEW015 OVC035 24/19 A3005 RMK AO2 SLP181 T02390194 KGTU 261556Z 19012KT 10SM BKN017 OVC024 24/20 A2999 RMK AO2 SLP151 T02440200 KGUC 261556Z AUTO 00000KT 10SM CLR 10/M02 A3027 RMK AO2 SLP195 T01001022 KGUL 261555Z AUTO 25006KT 10SM CLR 27/20 A2999 RMK A01 KGUP 261553Z AUTO 23007KT 10SM CLR 21/M01 A3026 RMK AO2 SLP107 T02111011 KGUR 261458Z AUTO 21005KT 10SM SCT150 22/M01 A2982 RMK AO2 SLP055 T02191009 55007 KGUS 261556Z AUTO 19014KT 10SM CLR 22/19 A2992 RMK AO2 SLP132 T02180193 $ KGUY 261553Z AUTO 20008KT 10SM CLR 26/07 A2981 RMK AO2 SLP046 T02610072 KGVE 261555Z AUTO 01005KT 10SM OVC013 20/18 A3005 RMK AO1 T01980180 KGVL 261553Z AUTO 35005KT 10SM BKN014 BKN024 OVC035 21/18 A3010 RMK AO2 SLP180 T02110178 KGVQ 261556Z AUTO VRB05KT 10SM CLR 23/14 A2998 RMK AO2 SLP147 T02330139 KGVT 261510Z AUTO 18006KT 10SM BKN010 23/20 A2999 RMK AO2 KGWB 261555Z AUTO 22010G16KT 10SM CLR 21/16 A2993 RMK AO2 KGWO 261553Z AUTO VRB03KT 10SM FEW015 BKN030 OVC036 22/19 A3004 RMK AO2 SLP169 T02220189 KGWR 261555Z AUTO 10004KT 8SM FEW040 FEW049 SCT085 14/13 A2961 RMK A01 KGWW 261555Z AUTO 00000KT 10SM BKN015 OVC023 25/23 A3001 RMK AO2 T02470225 KGXA 261358Z AUTO 18004KT 10SM CLR 13/04 A2999 RMK AO2 SLP130 WND DATA ESTMD T01270043 KGXF 261358Z AUTO 00000KT 8SM CLR 24/01 A2988 RMK AO2 SLP105 T02410013 KGXY 261556Z AUTO 33003KT 10SM CLR 23/04 A2988 RMK AO2 SLP081 T02280039 KGYB 261555Z AUTO 18005KT 10SM CLR 22/20 A2999 RMK AO2 T02240201 KGYF 261555Z AUTO 16006KT 10SM CLR 28/22 A2997 RMK AO2 T02840222 KGYH 261547Z 04005KT 10SM OVC011 19/17 A3009 KGYI 261555Z 15012KT 10SM SKC 24/20 A2996 KGYL 261555Z AUTO 00000KT 7SM CLR 17/15 A2963 RMK AO2 T01700150 KGYR 261547Z 03005KT 10SM SKC 29/07 A2993 KGYY 261545Z 19009KT 7SM OVC006 18/16 A2988 KGZH 261553Z AUTO VRB03KT 10SM SCT027 27/19 A3005 RMK AO2 SLP174 T02720194 KGZL 261555Z AUTO 18008KT 10SM 23/17 A2996 RMK AO2 KGZN 261520Z AUTO 19013G20KT 10SM CLR 24/19 A2992 RMK AO2 KGZS 261555Z AUTO 00000KT 10SM FEW026 OVC039 23/18 A3006 RMK A01 KH71 261555Z AUTO 18011G21KT 150V210 10SM CLR 24/19 A2990 RMK AO2 KHAE 261555Z AUTO 20015G20KT 5SM HZ CLR 23/15 A2984 RMK AO2 KHAF 261555Z AUTO 34016G23KT 3SM BR OVC003 15/14 A3007 RMK AO2 KHAI 261555Z AUTO 20011KT 10SM CLR 22/16 A2989 RMK AO2 T02190161 KHAO 261553Z AUTO 26004KT 10SM BKN021 23/18 A3003 RMK AO2 SLP164 T02330178 KHBG 261553Z AUTO 16003KT 10SM FEW042 OVC050 22/19 A3006 RMK AO2 SLP177 T02170189 KHBI 261555Z AUTO 02004KT 10SM OVC005 18/17 A3009 RMK AO2 T01750171 KHBR 261553Z AUTO 20012KT 10SM CLR 26/18 A2987 RMK AO2 SLP098 T02560178 KHBV 261535Z AUTO 18012G16KT 10SM SCT016 BKN021 28/21 A2996 RMK AO2 T02760211 KHCD 261555Z AUTO 10004KT 10SM 17/15 A2963 RMK AO2 T01650154 KHCO 261555Z AUTO 18007KT 10SM CLR 19/07 A2947 RMK AO2 KHCR 261555Z AUTO 00000KT 10SM CLR 14/M01 A3009 RMK AO2 KHDC 261555Z AUTO 13005KT 10SM CLR 25/20 A3002 RMK AO2 KHDE 261535Z AUTO 00000KT 10SM BKN050 OVC065 23/13 A2967 RMK AO2 T02270129 KHDN 261556Z AUTO 29006KT 10SM CLR 16/M02 A3012 RMK AO2 SLP127 T01561022 KHDO 261551Z AUTO 17008KT 10SM BKN015 OVC020 26/21 A2998 RMK AO2 SLP136 T02560206 TSNO $ KHEF 261556Z 01005KT 10SM OVC008 19/17 A3006 RMK AO2 CIG 007V012 SLP184 T01940172 KHEG 261555Z AUTO VRB03KT 10SM CLR 29/24 A3005 RMK AO2 KHEI 261553Z AUTO 27016KT 10SM SCT080 OVC100 17/06 A2966 RMK AO2 SLP033 T01670056 KHEQ 261550Z AUTO 00000KT 10SM OVC007 20/08 A2979 RMK AO2 KHEY 261558Z AUTO 35004KT 10SM FEW030 SCT055 27/19 A3005 RMK AO2 SLP176 T02700192 KHEZ 261556Z AUTO 00000KT 10SM CLR 26/18 A3003 RMK AO2 SLP167 T02560183 KHFD 261553Z VRB04KT 10SM BKN025 BKN200 22/15 A3011 RMK AO2 SLP195 T02170150 KHFF 261556Z AUTO 33004KT 10SM FEW013 SCT015 24/19 A3003 RMK AO2 SLP182 T02350191 $ KHFJ 261555Z AUTO 19010KT 10SM CLR 21/17 A2994 RMK AO2 KHFY 261555Z AUTO 23010G15KT 10SM OVC012 18/16 A3000 RMK AO2 T01840157 KHGR 261553Z 33004KT 4SM HZ BKN008 BKN014 OVC020 19/16 A3008 RMK AO2 SLP193 T01890161 KHHF 261555Z AUTO 22013G18KT 10SM CLR 31/12 A2982 RMK AO2 T03050119 KHHG 261555Z AUTO 21007KT 10SM OVC011 18/16 A2995 RMK AO2 T01840161 KHHR 261553Z 11004KT 8SM FU OVC014 19/16 A2996 RMK AO2 SLP143 T01940161 KHHW 261555Z AUTO 18006KT 7SM OVC005 17/17 A2999 RMK AO2 KHIB 261553Z AUTO 17004KT 7SM BKN006 BKN065 OVC090 14/14 A2964 RMK AO2 RAB40E53 SLP039 P0000 T01440139 KHIE 261552Z AUTO 30004KT 10SM CLR 25/12 A3006 RMK AO2 SLP179 T02500122 KHIF 261458Z AUTO 31005KT 10SM BKN160 BKN200 18/02 A3006 RMK AO2 SLP128 T01830022 52017 KHII 261535Z AUTO 00000KT 10SM CLR 27/00 A2989 RMK AO2 KHIO 261553Z 34003KT 1/4SM R13R/1200V1400FT FG VV002 12/12 A3015 RMK AO2 SLP208 T01220122 KHJH 261535Z AUTO 23013G20KT 10SM CLR 26/14 A2968 RMK AO2 T02550138 KHJO 261553Z AUTO 34006KT 9SM CLR 20/12 A3003 RMK AO2 SLP167 T02000122 KHKA 261553Z AUTO 21011G16KT 10SM OVC029 23/16 A3002 RMK AO2 SLP163 T02330156 $ KHKS 261553Z 26004KT 10SM BKN030 23/16 A3004 RMK AO2 SLP163 T02330161 KHKY 261553Z 00000KT 10SM OVC021 20/16 A3008 RMK AO2 SLP169 T02000161 KHLB 261555Z AUTO VRB04KT 10SM OVC030 22/18 A3001 RMK A01 KHLC 261553Z AUTO 18003KT 7SM BKN050 23/12 A2973 RMK AO2 SLP048 T02280117 $ KHLG 261553Z 22008KT 10SM SCT060 23/15 A3003 RMK AO2 SLP166 T02280150 KHLN 261553Z 27017G30KT 10SM CLR 12/00 A2994 RMK AO2 PK WND 26032/1530 SLP143 T01220000 KHLR 261558Z AUTO 19010KT 10SM OVC015 24/20 A2997 RMK AO2 SLP140 T02400203 KHLX 261555Z AUTO 02003KT 10SM BKN014 18/16 A3011 RMK AO2 T01770157 KHMN 261458Z AUTO 32005KT 10SM CLR 23/04 A3005 RMK AO2 SLP111 T02300035 52012 $ KHMP 261555Z AUTO 24003KT 10SM BKN019 OVC026 23/19 A3011 RMK AO2 T02260188 KHMT 261535Z AUTO 03003KT 10SM SCT120 18/09 A2998 RMK AO2 T01840091 KHMZ 261535Z AUTO 13003KT 10SM BKN016 OVC046 19/15 A3007 RMK AO2 T01930152 KHNB 261556Z AUTO 21013G17KT 10SM OVC021 21/17 A3001 RMK AO2 SLP161 T02060167 KHND 261556Z 00000KT 10SM CLR 27/M02 A3000 RMK AO2 SLP148 T02721017 KHNR 261555Z AUTO 20014G21KT 10SM CLR 23/17 A2960 RMK AO2 KHNZ 261535Z AUTO 36004KT 7SM OVC003 16/16 A3006 RMK AO2 T01630162 KHOB 261550Z 23008KT 10SM SKC 25/14 A2997 KHOE 261535Z AUTO 33003KT 10SM SCT020 SCT029 27/21 A3005 RMK AO2 KHON 261555Z AUTO 14005KT 10SM CLR 18/10 A2954 RMK AO2 SLP999 T01830100 KHOP 261556Z AUTO 20008KT 10SM OVC031 22/19 A3004 RMK AO2 SLP171 T02160191 KHOT 261553Z AUTO 11003KT 10SM OVC021 19/16 A3002 RMK AO2 SLP161 T01940161 KHOU 261553Z 22004KT 10SM SCT025 27/19 A2998 RMK AO2 SLP158 T02670194 KHPN 261556Z 14006KT 10SM FEW028 SCT050 BKN100 21/14 A3011 RMK AO2 SLP192 T02110139 KHPT 261555Z AUTO 18012G15KT 10SM SCT014 22/18 A2962 RMK AO2 KHQG 261530Z AUTO 00000KT 10SM CLR 25/06 A2981 RMK AO2 T02490061 KHQM 261553Z AUTO 10004KT 10SM FEW032 BKN080 OVC090 13/12 A3010 RMK AO2 SLP197 T01280117 KHQZ 261550Z 17010G15KT 10SM BKN010 24/20 A2996 KHRI 261553Z AUTO 24012G18KT 10SM CLR 17/08 A3009 RMK AO2 SLP187 T01670078 KHRJ 261555Z AUTO 00000KT 10SM OVC005 20/20 A3004 RMK AO2 T02040204 KHRL 261552Z 18014KT 10SM FEW026 31/24 A2994 RMK AO2 SLP137 T03060239 KHRO 261553Z AUTO 15011KT 10SM CLR 21/16 A2999 RMK AO2 SLP144 T02060156 $ KHRT 261556Z AUTO 08005KT 10SM FEW026 SCT039 30/22 A3003 RMK AO2 SLP171 T03020218 $ KHRX 261535Z AUTO 22010KT 10SM CLR 25/08 A2993 RMK AO2 T02480077 KHSA 261550Z 04004KT 7SM FEW006 22/21 A3003 KHSB 261555Z AUTO 22012G17KT 10SM OVC020 21/14 A3000 RMK AO2 T02080144 KHSD 261555Z AUTO 18015KT 10SM CLR 25/18 A2987 RMK A01 KHSE 261551Z AUTO 17006KT 7SM OVC044 26/22 A3001 RMK AO2 SLP160 T02560222 $ KHSG 261535Z AUTO 34016G19KT 10SM BKN075 BKN085 12/05 A2988 RMK AO2 T01180053 KHSI 261553Z AUTO 22010KT 10SM CLR 24/13 A2966 RMK AO2 SLP029 T02390128 KHSP 261555Z AUTO 36005KT 10SM OVC009 17/14 A3015 RMK AO2 T01670137 KHST 261556Z AUTO 18005KT 10SM FEW065 32/25 A3001 RMK AO2 SLP166 T03190247 KHSV 261553Z 25004KT 10SM SCT015 BKN026 OVC037 22/18 A3007 RMK AO2 SLP177 T02220178 $ KHTH 261555Z AUTO 00000KT 10SM CLR 19/04 A3016 RMK A01 KHTL 261553Z AUTO 21008KT 10SM CLR 21/14 A2981 RMK AO2 SLP092 T02060144 KHTO 261535Z AUTO 13010KT 10SM CLR 21/17 A3012 RMK AO2 T02110167 KHTS 261551Z AUTO 00000KT 10SM OVC048 21/18 A3005 RMK AO2 SLP169 T02110178 KHUA 261548Z AUTO 23005KT 10SM SCT013 SCT021 OVC036 22/18 A3006 RMK AO2 SLP176 KHUF 261553Z 19009KT 10SM OVC014 20/16 A2997 RMK AO2 SLP144 T02000156 $ KHUL 261553Z AUTO 22007KT 10SM CLR 22/11 A3006 RMK AO2 SLP179 T02170106 KHUM 261550Z 09007KT 7SM SCT015 SCT032 27/22 A3001 KHUT 261552Z 19015G23KT 10SM CLR 27/16 A2976 RMK AO2 SLP053 T02670161 KHVE 261555Z AUTO 00000KT 10SM CLR 21/M05 A3006 RMK AO2 KHVN 261553Z 15008KT 10SM SCT010 BKN014 BKN070 23/19 A3012 RMK AO2 SLP198 T02280189 KHVR 261553Z AUTO 27023G32KT 10SM BKN100 13/01 A2970 RMK AO2 PK WND 26036/1500 SLP056 T01280011 KHVS 261555Z AUTO 00000KT 10SM OVC011 21/19 A3005 RMK AO2 KHWD 261554Z 00000KT 10SM CLR 19/14 A3005 RMK AO2 SLP186 T01890139 KHWO 261553Z 25007KT 10SM SCT034 BKN046 32/25 A3003 RMK AO2 SLP168 T03170250 KHWV 261556Z AUTO 14009G16KT 10SM SCT030 BKN070 OVC100 23/12 A3012 RMK AO2 SLP198 T02280122 KHWY 261535Z AUTO 03006KT 10SM OVC007 20/18 A3005 RMK AO2 T01980177 KHXD 261550Z 03008KT 9SM BKN012 BKN070 26/23 A3004 KHYA 261556Z 20008KT 160V220 8SM OVC003 18/17 A3013 RMK AO2 CIG 002V006 SLP203 T01830167 KHYI 261556Z 18007KT 10SM BKN015 OVC029 26/22 A2999 RMK AO2 SLP146 T02560222 KHYR 261553Z AUTO 19007KT 10SM FEW095 SCT120 17/14 A2967 RMK AO2 SLP047 T01720144 KHYS 261556Z AUTO 23015KT 10SM CLR 24/11 A2974 RMK AO2 SLP054 T02440106 KHYW 261555Z AUTO 00000KT 10SM OVC012 23/21 A3003 RMK AO2 KHYX 261555Z AUTO 20010KT 10SM CLR 23/15 A2982 RMK AO2 KHZD 261555Z AUTO 21005KT 10SM OVC032 22/18 A3004 RMK A01 KHZE 261555Z AUTO 24012KT 10SM CLR 18/05 A2959 RMK AO2 KHZL 261555Z AUTO 12004KT 4SM -RA OVC006 16/14 A3014 RMK AO2 P0002 KHZR 261535Z AUTO 00000KT 10SM CLR 24/21 A3002 RMK AO2 KHZX 261555Z AUTO 19004KT 10SM SCT075 OVC090 16/15 A2967 RMK AO2 KHZY 261553Z AUTO 18009KT 10SM CLR 23/18 A2999 RMK AO2 SLP150 T02330178 KI16 261555Z AUTO 10SM SCT017 23/16 A3013 RMK AO2 T02260163 KI19 261459Z AUTO 25005KT 10SM CLR 22/16 A3004 RMK AO2 KI23 261555Z AUTO 19010KT 10SM BKN029 BKN040 BKN047 25/16 A3002 RMK AO1 KI35 261555Z AUTO 14003KT 10SM SCT018 21/16 A3010 RMK AO2 T02110156 KI43 261555Z AUTO 20003KT 10SM SCT060 24/18 A3005 RMK AO2 KI63 261535Z AUTO 21012G17KT 10SM CLR 22/18 A2984 RMK AO2 T02210178 KI67 261555Z AUTO 19004KT 10SM SCT014 OVC037 22/16 A3002 RMK AO1 KI68 261535Z AUTO 22006KT 10SM BKN019 BKN036 22/21 A3003 RMK AO1 T02190213 KI69 261555Z AUTO 21005KT 10SM BKN018 OVC034 22/18 A3004 RMK AO2 T02210175 KI74 261555Z AUTO 20008KT 10SM SCT023 BKN028 23/17 A3001 RMK AO2 KI75 261555Z AUTO 18011G17KT 7SM CLR 22/18 A2969 RMK AO2 T02180175 KIAB 261556Z AUTO 22015KT 10SM CLR 25/16 A2980 RMK AO2 SLP081 T02500164 KIAD 261552Z 34006KT 10SM OVC008 19/17 A3006 RMK AO2 SLP176 T01890172 $ KIAG 261553Z 22009KT 10SM CLR 22/13 A2996 RMK AO2 SLP143 T02220128 $ KIAH 261553Z 14005KT 10SM SCT020 BKN040 26/21 A2999 RMK AO2 SLP155 T02610206 $ KIBM 261555Z AUTO 28012G16KT 7SM SCT030 BKN036 OVC055 23/M02 A2987 RMK AO2 T02301023 KICL 261555Z AUTO 19011KT 10SM CLR 22/19 A2967 RMK AO2 KICR 261553Z AUTO 29011G18KT 10SM CLR 20/05 A2958 RMK AO2 SLP006 T02000050 KICT 261553Z 19015KT 10SM SCT170 SCT220 25/18 A2979 RMK AO2 SLP075 T02500178 KIDA 261553Z COR 26006KT 10SM OVC050 13/06 A3006 RMK AO2 SLP151 T01280056 KIDI 261555Z AUTO 20006KT 10SM OVC050 21/15 A3009 RMK A01 KIDP 261535Z AUTO 19013KT 10SM SCT014 22/19 A2988 RMK AO2 T02200186 KIEN 261552Z AUTO 32005KT 10SM CLR 21/01 A2974 RMK AO2 SLP039 T02060006 $ KIER 261555Z AUTO 00000KT 10SM BKN006 OVC044 22/20 A3002 RMK AO2 T02210196 KIFA 261555Z AUTO 18016KT 10SM CLR 23/17 A2963 RMK AO2 T02280165 KIFP 261550Z 00000KT 20SM SKC 26/M03 A2989 KIGM 261551Z AUTO VRB04KT 10SM CLR 28/04 A3005 RMK AO2 SLP107 T02780039 KIGQ 261555Z AUTO 20014KT 7SM OVC007 18/16 A2988 RMK AO2 T01750162 KIIB 261555Z AUTO 19014G17KT 10SM SCT014 24/17 A2967 RMK AO2 T02350173 KIIY 261555Z AUTO 00000KT 10SM OVC005 20/18 A3008 RMK AO2 TSNO KIJD 261552Z AUTO 17008KT 10SM CLR 22/14 A3012 RMK AO2 SLP199 T02220144 KIJX 261535Z AUTO 20010G19KT 10SM CLR 22/17 A2986 RMK AO2 T02220171 KIKG 261535Z AUTO 15008KT 10SM BKN019 BKN032 28/24 A2996 RMK AO2 T02810242 KIKK 261536Z AUTO 21008G16KT 10SM OVC008 18/16 A2991 RMK AO2 KIKV 261555Z AUTO 19013G20KT 10SM CLR 21/18 A2966 RMK AO2 KIKW 261555Z AUTO 22008KT 10SM CLR 23/17 A2981 RMK AO2 T02340165 KILE 261556Z AUTO 18011KT 10SM OVC014 24/21 A2998 RMK AO2 SLP140 T02390206 PNO $ KILG 261551Z 07007KT 5SM BR OVC005 19/18 A3006 RMK AO2 RAE24 SLP180 P0002 T01940178 $ KILM 261553Z 36006KT 10SM OVC011 26/22 A3000 RMK AO2 SLP159 T02610222 KILN 261554Z AUTO 25010KT 10SM BKN020 BKN028 BKN038 23/17 A3002 RMK AO2 SLP159 T02280172 $ KIML 261553Z AUTO 29005KT 10SM CLR 24/08 A2975 RMK AO2 SLP048 T02390083 KIMM 261435Z AUTO 28006KT 10SM 31/24 A3001 RMK AO2 PWINO KIMS 261555Z AUTO 19005KT 10SM SCT018 SCT025 SCT035 22/18 A3004 RMK AO1 KIMT 261554Z AUTO 26003KT 10SM OVC010 19/16 A2968 RMK AO2 SLP047 T01940161 KIND 261554Z 21012KT 10SM OVC010 18/16 A2998 RMK AO2 SLP149 T01830156 KINF 261555Z AUTO 00000KT 10SM SCT025 BKN033 BKN044 30/26 A3004 RMK AO2 KINJ 261555Z AUTO 17013G18KT 10SM CLR 26/22 A2995 RMK AO2 T02570218 KINK 261553Z AUTO 00000KT 10SM CLR 26/14 A2992 RMK AO2 SLP086 T02610144 KINL 261555Z AUTO 00000KT 10SM FEW100 18/13 A2956 RMK AO2 SLP010 T01780133 KINS 261458Z AUTO 00000KT 10SM CLR 17/M07 A3000 RMK AO2 SLP118 T01701068 52006 $ KINT 261554Z 09005KT 10SM OVC013 19/17 A3007 RMK AO2 SLP177 T01940172 KINW 261556Z AUTO 11006KT 10SM CLR 22/02 A3017 RMK AO2 SLP147 T02170017 KIOB 261555Z AUTO 23004KT 10SM BKN014 BKN027 23/18 A3008 RMK AO2 KIOW 261552Z AUTO 17008KT 10SM CLR 22/18 A2973 RMK AO2 SLP064 T02170178 KIPJ 261555Z AUTO 02003KT 10SM OVC018 21/16 A3008 RMK AO2 T02080160 KIPL 261553Z AUTO 24003KT 7SM CLR 27/19 A2984 RMK AO2 SLP107 T02670189 KIPT 261554Z 10004KT 10SM OVC021 19/13 A3007 RMK AO2 SLP181 T01940133 $ KIRK 261555Z AUTO 20017G23KT 10SM CLR 22/17 A2980 RMK AO2 SLP088 T02220172 KIRS 261555Z AUTO 19011G16KT 10SM CLR 21/16 A2989 RMK AO2 T02110161 KISM 261556Z VRB04KT FEW028 31/24 A3004 RMK AO2 SLP171 T03110239 $ KISO 261556Z 27003KT 10SM SCT017 BKN036 26/22 A3001 KISP 261556Z 14012KT 10SM FEW029 BKN050 BKN095 BKN150 22/14 A3011 RMK AO2 SLP196 T02220144 KISQ 261555Z AUTO 21008KT 10SM OVC028 18/16 A2969 RMK AO2 T01790155 KISW 261554Z AUTO 18008KT 10SM CLR 21/16 A2970 RMK AO2 SLP053 T02060161 KITH 261556Z 14012KT 10SM CLR 22/14 A3004 RMK AO2 SLP168 T02220144 KITR 261553Z AUTO 29007KT 9SM CLR 26/02 A2985 RMK AO2 SLP055 T02560022 KIWA 261547Z 14006KT 10SM SKC 29/06 A2996 KIWD 261556Z AUTO 18004KT 10SM BKN007 16/15 A2967 RMK AO2 SLP046 T01610150 KIWI 261553Z AUTO 14003KT 10SM OVC004 15/13 A3014 RMK AO2 SLP204 T01500133 KIXA 261555Z AUTO 00000KT 10SM OVC004 18/18 A3003 RMK AO2 KIXD 261553Z 19015KT 10SM CLR 24/17 A2981 RMK AO2 SLP084 T02440172 KIYA 261555Z AUTO 00000KT 10SM SCT021 25/19 A3001 RMK AO2 T02540192 KIZA 261555Z AUTO 21003KT 7SM CLR 13/11 A2998 RMK AO2 KIZG 261554Z AUTO VRB03KT 10SM CLR 22/11 A3010 RMK AO2 SLP193 T02220111 KJAC 261556Z 32010KT 7SM -RA BKN030 OVC035 08/05 A3004 RMK AO2 PK WND 25031/1501 RAE00B21 SLP148 P0001 T00830050 KJAN 261554Z 00000KT 10SM FEW021 BKN029 24/18 A3003 RMK AO2 SLP165 T02390178 KJAQ 261555Z AUTO 33006KT 10SM CLR 21/08 A3005 RMK AO1 T02070077 KJAS 261555Z AUTO 00000KT 10SM SCT012 SCT017 24/21 A3003 RMK AO2 T02430214 KJAU 261555Z AUTO 00000KT 10SM OVC012 19/17 A3012 RMK A01 KJAX 261556Z 30006KT 10SM FEW030 FEW070 SCT250 30/23 A3002 RMK AO2 SLP164 T03000233 KJBR 261553Z AUTO 22013G19KT 10SM OVC027 22/16 A3002 RMK AO2 SLP165 T02170156 TSNO $ KJCA 261535Z AUTO 00000KT 10SM OVC009 20/18 A3009 RMK AO2 T01960184 KJCT 261551Z AUTO 19015G24KT 10SM SCT023 26/20 A2997 RMK AO2 PK WND 18026/1539 SLP116 T02610200 KJDD 261535Z AUTO 19007KT 10SM OVC011 21/19 A2999 RMK AO2 KJDN 261548Z AUTO 28019G37KT 17/M01 A2968 RMK AO1 PK WND 27037/1539 SLP045 T01721006 KJEF 261553Z 20009KT 10SM CLR 23/16 A2988 RMK AO2 SLP105 T02280161 KJER 261553Z AUTO 26015KT 10SM OVC070 14/08 A3011 RMK AO2 SLP171 T01390083 KJES 261535Z AUTO 07004KT 10SM BKN012 BKN036 OVC055 28/23 A3004 RMK AO2 KJFK 261551Z 11011KT 10SM BKN025 BKN037 BKN075 22/14 A3011 RMK AO2 SLP196 T02220139 $ KJFX 261555Z AUTO 00000KT 10SM OVC035 25/18 A3007 RMK AO2 PWINO KJFZ 261535Z AUTO 00000KT 10SM SCT012 19/15 A3013 RMK AO2 T01850149 KJGG 261555Z AUTO 00000KT 1 3/4SM OVC004 21/21 A3001 RMK AO1 VIS 1 1/4V3 P0005 KJHN 261555Z AUTO 30012G18KT 10SM CLR 30/07 A2980 RMK AO2 T03030073 KJHW 261556Z AUTO 19009KT 10SM CLR 20/14 A3002 RMK AO2 SLP165 T02000139 KJKJ 261555Z AUTO 16013KT 10SM -DZ CLR 18/07 A2956 RMK AO2 KJKL 261553Z AUTO 00000KT 10SM CLR 22/17 A3008 RMK AO2 SLP173 T02220167 KJLN 261553Z 19015KT 10SM CLR 24/17 A2991 RMK AO2 SLP119 T02440172 KJMR 261555Z AUTO 34003KT 5SM -RA BKN001 15/15 A2968 RMK AO2 KJMS 261556Z AUTO 20010KT 10SM CLR 20/07 A2955 RMK AO2 SLP005 T02000067 KJNX 261555Z AUTO 00000KT 7SM OVC003 04/04 A3003 RMK AO2 KJOT 261535Z AUTO 20009KT 7SM OVC010 20/17 A2986 RMK AO2 T01970174 KJQF 261550Z 36004KT 10SM OVC012 21/17 A3010 KJRB 261556Z AUTO 13006KT 10SM OVC027 23/14 A3011 RMK AO2 SLP195 T02280139 KJSL 261520Z AUTO 00000KT 10SM CLR 30/22 A3000 RMK A01 KJSO 261555Z AUTO 21007KT 10SM BKN006 OVC010 21/20 A3002 RMK AO2 T02180198 KJST 261554Z AUTO VRB03KT 10SM SCT019 OVC047 19/13 A3008 RMK AO2 SLP180 T01940133 KJSV 261555Z AUTO 14005KT 10SM OVC013 21/17 A2997 RMK AO2 KJSY 261555Z AUTO 00000KT 10SM CLR 09/05 A3014 RMK AO2 T00910050 KJTC 261555Z AUTO 31013G18KT 10SM CLR 23/01 A3033 RMK AO2 KJVL 261545Z 21011KT 10SM SCT012 BKN200 22/17 A2976 KJVW 261555Z AUTO 24003KT 10SM FEW016 FEW023 BKN031 24/23 A3003 RMK AO2 KJWG 261555Z AUTO 20015KT 10SM CLR 26/17 A2986 RMK AO2 T02590173 KJWN 261555Z AUTO 19004KT 10SM OVC037 21/18 A3004 RMK A01 KJWY 261555Z AUTO 17009KT 10SM SCT018 25/21 A2997 RMK AO2 T02500206 KJXI 261555Z AUTO 20007KT 10SM BKN008 OVC014 20/19 A3000 RMK AO2 T02020187 KJXN 261556Z 20013G20KT 10SM CLR 23/16 A2989 RMK AO2 SLP118 T02330156 KJYG 261555Z AUTO 06004KT 18/15 A2958 RMK AO2 PWINO KJYL 261555Z AUTO 00000KT 10SM OVC005 22/21 A3007 RMK AO2 T02220206 KJYM 261555Z AUTO 19012G15KT 10SM BKN110 22/16 A2990 RMK AO2 T02230162 KJYO 261555Z AUTO 00000KT 10SM OVC006 15/14 A3008 RMK AO2 KJYR 261535Z AUTO 22014KT 10SM CLR 22/14 A2963 RMK AO2 KJZI 261555Z AUTO 34006KT 6SM HZ OVC010 25/23 A3003 RMK AO2 KJZP 261535Z AUTO 00000KT 10SM SCT012 OVC036 21/18 A3012 RMK AO2 T02100179 KK82 261555Z AUTO 22009KT 10SM CLR 24/11 A2970 RMK AO2 KK88 261535Z AUTO 19012KT 10SM CLR 22/18 A2986 RMK AO1 T02240175 KKLS 261556Z AUTO 14007KT 10SM BKN006 BKN029 13/12 A3015 RMK AO2 SLP213 T01330122 KKY8 261555Z AUTO 20008G14KT 180V240 10SM OVC028 21/21 A3002 RMK A01 KL08 261555Z AUTO 00000KT 10SM CLR 27/02 A2988 RMK AO2 KL18 261555Z AUTO 00000KT 1 1/4SM BR OVC002 16/16 A2997 RMK AO2 KL35 261555Z AUTO 00000KT 10SM CLR 12/M07 A3027 RMK AO2 KL52 261555Z AUTO 00000KT 3SM HZ CLR 20/14 A2997 RMK A01 KLAA 261553Z AUTO 24011KT 10SM CLR 25/02 A2984 RMK AO2 SLP056 T02500017 KLAF 261554Z 19008G17KT 10SM OVC010 19/16 A2993 RMK AO2 SLP133 T01940161 KLAL 261547Z 00000KT 10SM SCT024 29/23 A3004 KLAM 261535Z AUTO 04003KT 10SM CLR 18/M02 A3025 RMK AO2 T01761017 KLAN 261553Z 21010KT 10SM CLR 23/16 A2987 RMK AO2 SLP111 T02280156 KLAR 261553Z AUTO 27017G24KT 10SM CLR 19/M05 A3001 RMK AO2 SLP047 T01941050 KLAS 261556Z 18004KT 10SM CLR 27/M02 A2997 RMK AO2 SLP122 HZ AND FU VC ALQDS T02671022 KLAW 261553Z 18009KT 10SM CLR 26/18 A2988 RMK AO2 SLP107 T02560178 $ KLAX 261553Z 00000KT 7SM OVC014 20/16 A2996 RMK AO2 SLP142 T02000161 KLBB 261553Z 23013KT 10SM CLR 26/15 A2993 RMK AO2 SLP085 T02560150 KLBE 261553Z 00000KT 10SM OVC055 21/15 A3006 KLBF 261553Z AUTO 28012G24KT 10SM CLR 29/09 A2969 RMK AO2 SLP028 T02940089 KLBL 261556Z AUTO 21011KT 10SM CLR 26/06 A2981 RMK AO2 SLP059 T02610056 KLBO 261555Z AUTO 20011G15KT 10SM CLR 22/16 A2995 RMK AO2 KLBX 261553Z AUTO 18004KT 10SM FEW023 27/20 A2999 RMK AO2 SLP154 T02720200 KLCG 261535Z AUTO 21012KT 10SM CLR 20/15 A2955 RMK AO2 T02030152 KLCH 261453Z 11004KT 10SM SKT039 SKT055 23/22 A3000 KLCI 261556Z AUTO 06005KT 10SM CLR 21/14 A3010 RMK AO2 SLP193 T02060144 KLCK 261555Z AUTO 19008KT 10SM SCT029 24/17 A3000 RMK AO2 T02440165 KLCQ 261535Z AUTO 31004KT 10SM BKN013 BKN041 OVC055 27/23 A3005 RMK AO2 KLDJ 261515Z AUTO 13008KT 10SM SCT024 BKN031 OVC041 22/13 A3010 RMK AO2 T02220129 KLDM 261555Z AUTO 19014G22KT 10SM BKN014 22/17 A2976 RMK AO2 T02160171 KLEB 261553Z 25008KT 6SM HZ SCT009 19/14 A3009 RMK AO2 SLP184 T01890144 KLEE 261553Z VRB03KT 10SM FEW065 32/24 A3004 RMK AO2 SLP170 T03170239 KLEW 261556Z AUTO 13006KT 10SM CLR 17/14 A3011 RMK AO2 SLP204 T01670144 KLEX 261554Z 24005KT 10SM FEW015 FEW030 SCT035 22/17 A3005 RMK AO2 SLP169 T02170172 KLFI 261556Z 11006KT 9SM SCT025 BKN043 25/23 A3000 RMK AO2A SLP165 T02460234 $ KLFK 261553Z AUTO 00000KT 10SM BKN005 22/19 A3001 RMK AO2 CIG 003V008 SLP158 T02170189 KLFT 261553Z 00000KT 10SM BKN019 26/19 A3000 RMK AO2 SLP159 T02610194 KLGA 261551Z 15009KT 10SM BKN029 BKN039 BKN055 23/14 A3009 RMK AO2 SLP190 T02330139 KLGB 261553Z 09004KT 8SM OVC013 20/17 A2995 RMK AO2 SLP143 T02000167 KLGC 261535Z AUTO 00000KT 10SM SCT014 OVC040 22/19 A3008 RMK AO2 T02200190 KLGD 261556Z AUTO 00000KT 10SM SCT050 12/07 A3015 RMK AO2 SLP210 T01170067 KLGF 261458Z AUTO 09003KT 10SM CLR 26/03 A2986 RMK AO2 SLP107 T02610034 52009 $ KLGU 261551Z AUTO 35012KT 10SM OVC080 16/07 A3009 RMK AO2 SLP152 T01610067 KLHB 261555Z AUTO 16004KT 10SM SCT007 24/21 A3000 RMK AO2 T02370208 KLHM 261555Z AUTO 00000KT 10SM CLR 19/11 A3002 RMK AO1 KLHQ 261553Z AUTO VRB06KT 10SM FEW029 24/17 A3001 RMK AO2 SLP158 T02390167 KLHW 261556Z AUTO 03004KT 10SM OVC011 25/23 A3002 RMK AO2 SLP168 T02530228 $ KLHX 261553Z AUTO 22011KT 10SM CLR 27/01 A2989 RMK AO2 SLP050 T02720006 TSNO KLHZ 261555Z AUTO 31005KT 2SM +RA OVC003 18/18 A3007 RMK AO2 VIS 1 3/4V3 KLIC 261555Z AUTO 25007KT 10SM CLR 27/M03 A2993 RMK AO2 SLP054 T02721033 KLIT 261553Z 24008KT 10SM SCT017 BKN030 21/16 A3002 RMK AO2 SLP166 T02110161 KLJF 261555Z AUTO 14003KT 10SM CLR 18/15 A2963 RMK AO2 KLKR 261555Z AUTO 00000KT 10SM OVC010 21/19 A3007 RMK AO2 KLKU 261555Z AUTO 01007KT 10SM OVC007 18/17 A3009 RMK AO2 T01820168 KLKV 261553Z AUTO 15005KT 10SM OVC046 12/06 A3022 RMK AO2 SLP214 T01170061 $ KLLJ 261555Z AUTO 15004KT 10SM OVC060 11/03 A3006 RMK AO2 SLP146 T01110028 KLLQ 261553Z AUTO 15005KT 10SM SCT018 OVC030 22/17 A3002 RMK AO2 SLP164 T02220172 KLMO 261535Z AUTO 21003KT 7SM CLR 26/01 A2990 RMK AO2 T02600010 KLMT 261553Z 13003KT 10SM BKN037 12/07 A3022 RMK AO2 SLP209 T01220072 KLNA 261555Z AUTO 27005KT 10SM SCT030 31/25 A3002 RMK AO2 LTG DSNT NE T03130250 PNO KLNC 261555Z AUTO 19007KT 10SM CLR 25/20 A2997 RMK AO2 T02470197 KLND 261553Z AUTO 27024G39KT 10SM CLR 18/02 A2986 RMK AO2 PK WND 28041/1535 SLP048 T01780022 KLNK 261554Z 22018G25KT 10SM CLR 26/14 A2962 RMK AO2 PK WND 23027/1540 SLP018 T02560144 KLNL 261555Z AUTO 17004KT 10SM OVC005 16/16 A2971 RMK AO2 T01560156 KLNN 261535Z AUTO 20004KT 10SM CLR 24/15 A2996 RMK AO1 T02390152 KLNP 261555Z AUTO 00000KT 10SM CLR 18/15 A3014 RMK AO2 KLNQ 261533Z AUTO 10SM CLR 29/23 A3001 RMK AO2 T02920226 KLNR 261556Z AUTO 17008KT 10SM CLR 22/17 A2970 RMK AO2 SLP047 T02170172 KLNS 261553Z 07005KT 7SM OVC008 18/16 A3007 RMK AO2 RAB35E53 SLP180 P0000 T01830161 KLOL 261553Z AUTO 29007KT 10SM CLR 21/08 A3014 RMK AO2 SLP172 T02110078 KLOM 261535Z AUTO 10006KT 5SM RA BR BKN015 OVC044 20/17 A3009 RMK AO2 T01960172 KLOR 261458Z AUTO 03003KT 10SM CLR 25/19 A3006 RMK AO2 SLP161 T02470189 52012 KLOT 261535Z AUTO 21013G18KT 10SM OVC009 19/17 A2985 RMK AO2 T01880170 KLOU 261553Z 22007KT 10SM FEW040 24/17 A3002 RMK AO2 SLP163 T02390167 KLOZ 261553Z AUTO 11003KT 10SM 18/16 A3009 RMK AO2 SLP180 T01780161 $ KLPC 261556Z AUTO 10SM BKN006 13/11 A2998 RMK AO2 SLP153 T01280106 $ KLPR 261553Z AUTO 23009KT 10SM CLR 24/15 A2997 RMK AO2 SLP145 T02440150 KLQK 261555Z AUTO 00000KT 10SM OVC011 20/18 A3008 RMK AO2 T01960182 KLRD 261556Z 17011KT 10SM OVC017 27/23 A2994 RMK AO2 SLP136 T02720233 KLRF 261556Z AUTO 20007KT 10SM OVC027 22/16 A3001 RMK AO2 SLP164 T02150160 KLRJ 261555Z AUTO 18012KT 9SM CLR 21/17 A2952 RMK AO2 KLRO 261555Z AUTO 00000KT 9SM SCT009 OVC013 25/23 A3002 RMK AO2 KLRU 261555Z AUTO 32006KT 10SM CLR 29/00 A3011 RMK AO2 T02861002 KLRY 261555Z AUTO 23008G15KT 10SM CLR 25/17 A2986 RMK AO2 KLSE 261553Z 18007KT 10SM CLR 22/17 A2964 RMK AO2 SLP027 T02170172 KLSF 261556Z AUTO 35003KT 10SM CLR 24/20 A3005 RMK AO2 DZB1456E06RAB13E14DZB14E23 SLP180 P0000 T02400195 CHINO RWY15 $ KLSV 261258Z 00000KT 10SM CLR 23/02 A2991 RMK SLPNO WND/ALSTG DATA ESMTD $ KLTS 261556Z AUTO 19009KT 9SM CLR 25/ A2987 RMK AO2 SLP102 $ KLUA 261555Z AUTO 00000KT 10SM BKN014 OVC022 19/16 A3007 RMK AO2 KLUD 261555Z AUTO 7SM CLR 24/19 A2993 RMK AO2 T02440189 KLUF 261458Z AUTO 00000KT 10SM CLR 26/06 A2991 RMK AO2 SLP115 T02610062 52012 $ KLUG 261555Z AUTO 00000KT 10SM FEW018 FEW024 OVC035 22/18 A3006 RMK A01 KLUK 261553Z 17007KT 10SM FEW020 OVC039 23/18 A3002 RMK AO2 SLP163 T02280178 KLUL 261555Z AUTO 00000KT 10SM SCT060 OVC075 22/19 A3005 RMK A02 T02230190 KLUM 261555Z AUTO 06004KT 5SM BR CLR 16/15 A2965 RMK AO2 T01560152 KLUV 261555Z AUTO 21009KT 10SM BKN100 BKN120 25/16 A2995 RMK AO2 KLUX 261555Z AUTO 00000KT 10SM OVC009 18/17 A3008 RMK AO2 KLVJ 261553Z AUTO 17006KT 10SM FEW025 27/19 A3000 RMK AO2 SLP158 T02670189 KLVK 261553Z 00000KT 10SM CLR 17/12 A3006 RMK AO2 SLP176 T01720117 KLVM 261553Z AUTO 25022G32KT 10SM OVC070 14/M01 A2991 RMK AO2 PK WND 24032/1549 SLP099 T01441006 $ KLVN 261555Z AUTO 00000KT 7SM CLR 17/16 A2963 RMK AO2 KLVS 261553Z AUTO 02004KT 10SM CLR 26/M05 A3013 RMK AO2 SLP082 T02561050 $ KLWA 261555Z AUTO 21009KT 10SM CLR 22/17 A2984 RMK AO2 T02220166 KLWB 261553Z 00000KT 10SM SCT012 OVC034 18/15 A3011 KLWC 261552Z AUTO 20013G20KT 10SM CLR 26/18 A2977 RMK AO1 SLP073 T02610178 KLWD 261553Z AUTO 19014G23KT 10SM CLR 21/17 A2971 RMK AO2 SLP053 T02110167 KLWM 261554Z VRB03KT 4SM BR OVC005 17/15 A3015 RMK AO2 SLP207 T01670150 KLWS 261556Z 35004KT 10SM CLR 14/08 A3009 RMK AO2 SLP186 T01390083 $ KLWT 261554Z AUTO 28030G40KT 10SM CLR 12/M04 A2981 RMK AO2 PK WND 28040/1554 SLP076 T01221039 KLWV 261553Z AUTO 22011KT 10SM OVC017 20/16 A3000 RMK AO2 SLP155 T02000156 KLXL 261555Z AUTO 00000KT 10SM -RA SCT049 BKN080 OVC100 15/14 A2964 RMK AO2 KLXN 261535Z AUTO 24003KT 10SM SCT090 17/12 A2968 RMK AO2 T01720116 KLXT 261553Z AUTO 21015G22KT 10SM CLR 24/17 A2981 RMK AO2 SLP085 T02440172 $ KLXV 261553Z AUTO 36011KT 10SM CLR 14/M06 A3031 RMK AO2 SLP092 T01441061 KLXY 261555Z AUTO 19009G17KT 10SM CLR 23/21 A2997 RMK AO2 T02320207 KLYH 261554Z 00000KT 10SM SCT015 OVC034 22/17 A3006 RMK AO2 SLP173 T02220167 KLYO 261555Z AUTO 20018G23KT 10SM CLR 29/14 A2975 RMK AO2 T02900138 KLZU 261558Z 26004KT 10SM SCT027 BKN033 23/18 A3007 RMK AO2 KLZZ 261535Z AUTO 20009G14KT 10SM SCT018 24/19 A2996 RMK AO2 T02430192 KM02 261555Z AUTO 21005KT 10SM FEW020 OVC027 20/18 A3005 RMK A01 KM04 261555Z AUTO 22005KT 10SM SCT022 OVC028 22/18 A3003 RMK A01 KM08 261555Z AUTO 20005KT 10SM FEW016 SCT026 OVC031 22/18 A3003 RMK A01 KM19 261556Z AUTO 20014KT 10SM OVC024 22/16 A3001 RMK AO2 SLP160 T02170161 KM21 261555Z AUTO 22006KT 10SM OVC027 21/19 A3003 RMK AO2 T02050194 KM25 261555Z AUTO 19009KT 10SM BKN018 OVC028 21/17 A3003 RMK AO2 PWINO KM40 261555Z AUTO 00000KT 10SM OVC035 22/19 A3006 RMK AO2 KM54 261550Z AUTO 00000KT 10SM FEW020 FEW031 OVC040 22/18 A3004 RMK A01 KM75 261550Z AUTO 29030G35KT 10SM CLR 16/01 A2960 RMK A01 KM91 261555Z AUTO 20006G12KT 10SM FEW017 OVC035 22/19 A3004 RMK A01 KMAE 261553Z AUTO 29006KT 8SM CLR 19/12 A3002 RMK AO2 SLP162 T01940117 KMAF 261553Z 18012KT 10SM CLR 26/16 A2993 RMK AO2 SLP088 T02610156 KMAI 261553Z AUTO VRB04KT 10SM CLR 27/19 A3005 RMK AO2 SLP176 T02670194 KMAN 261555Z AUTO 33005KT 10SM SCT045 BKN050 OVC100 15/14 A3013 RMK A01 KMAO 261555Z AUTO 03003KT 10SM OVC010 22/20 A3004 RMK AO2 KMAW 261555Z AUTO 21010G16KT 10SM BKN025 22/16 A3002 RMK AO2 KMBG 261552Z AUTO 34008KT 10SM -RA FEW075 OVC095 19/07 A2959 RMK AO2 RAB51 SLP013 P0000 T01890072 KMBL 261556Z AUTO 19010KT 10SM BKN019 BKN050 22/18 A2975 RMK AO2 SLP074 T02170183 KMBO 261555Z AUTO 00000KT 10SM OVC033 22/18 A3004 RMK AO2 KMBS 261553Z 19012KT 10SM CLR 23/13 A2982 RMK AO2 SLP096 T02330128 KMBT 261555Z AUTO 00000KT 10SM OVC040 22/17 A3005 RMK A01 KMBY 261555Z AUTO 19011G16KT 10SM CLR 24/16 A2985 RMK AO2 KMCB 261553Z AUTO 00000KT 10SM FEW017 24/19 A3003 RMK AO2 SLP165 T02440189 KMCD 261555Z AUTO 22006KT 10SM OVC035 19/15 A2972 RMK AO2 T01860152 KMCE 261553Z AUTO 35010KT 10SM CLR 21/11 A3000 RMK AO2 SLP159 T02110111 KMCF 261556Z AUTO 22003KT 10SM FEW028 SCT120 SCT160 SCT190 30/25 A3003 RMK AO2 SLP172 T03000246 FZRANO $ KMCI 261553Z 20016G22KT 10SM FEW090 SCT140 SCT200 24/18 A2977 RMK AO2 SLP070 T02440183 KMCJ 261555Z AUTO VRB06KT 10SM BKN022 BKN028 25/20 A2998 RMK A01 KMCK 261553Z AUTO 22005KT BKN042 19/10 A2972 RMK AO2 SLP047 T01890100 $ KMCN 261553Z VRB04KT 10SM BKN014 BKN019 24/19 A3007 RMK AO2 SLP178 T02440194 KMCO 261553Z VRB04KT 10SM FEW030 FEW250 31/23 A3002 RMK AO2 SLP164 T03110233 KMCW 261553Z AUTO 15011G18KT 10SM FEW009 21/18 A2960 RMK AO2 PRESFR SLP013 T02060183 KMCX 261555Z AUTO 21011KT 10SM SCT015 21/16 A2992 RMK AO2 T02110159 KMDD 261555Z AUTO 19011KT 10SM CLR 27/16 A2993 RMK AO2 T02650160 KMDH 261552Z 20013KT 10SM -RA BKN022 22/16 A2998 RMK AO2 SLP150 P0000 T02220156 KMDJ 261555Z AUTO RMK A01 PNO KMDQ 261535Z AUTO 24005KT 10SM SCT024 OVC037 22/18 A3008 RMK A02 T02170184 KMDS 261515Z AUTO 11004KT 10SM CLR 15/10 A2959 RMK AO2 KMDT 261556Z 04004KT 5SM BR OVC009 18/16 A3007 RMK AO2 CIG 006V012 SLP181 T01780161 KMDW 261553Z 20011KT 8SM OVC010 19/16 A2984 RMK AO2 SLP097 T01890156 KMDZ 261555Z AUTO 00000KT 10SM BKN120 17/16 A2969 RMK AO2 T01700155 KMEB 261552Z AUTO VRB03KT 10SM OVC019 24/19 A3004 RMK AO2 SLP169 T02440194 KMEH 261556Z AUTO 00000KT 10SM SCT028 OVC036 08/06 A3014 RMK AO2 SLP205 T00830056 KMEI 261556Z 00000KT 10SM FEW022 24/18 A3004 RMK AO2 $ KMEM 261554Z 20008KT 10SM BKN028 22/17 A3003 RMK AO2 SLP166 T02220172 KMER 261545Z 31007KT 10SM CLR 21/13 A3001 KMEV 261555Z AUTO 31003KT 10SM CLR 15/02 A3019 RMK AO2 KMEZ 261555Z AUTO 00000KT 5SM OVC011 20/18 A3001 RMK AO2 KMFD 261552Z 19010KT 10SM FEW029 24/17 A3000 RMK AO2 SLP150 T02440167 KMFE 261553Z 16015G18KT 10SM CLR 31/22 A2994 RMK AO2 SLP138 T03060217 KMFI 261554Z AUTO 15008KT 10SM FEW015 20/17 A2968 RMK AO2 SLP048 T02000167 KMFR 261553Z COR 01004KT 3SM BR OVC004 14/12 A3020 RMK AO2 SLP224 T01390122 KMFV 261535Z AUTO 13007KT 10SM OVC015 25/20 A3002 RMK AO2 T02490203 KMGC 261555Z AUTO 20010G14KT 10SM OVC011 18/18 A2988 RMK AO2 KMGE 261556Z 33005KT 7SM BKN030 BKN040 BKN250 24/17 A3007 RMK AO2A SLP176 T02370169 $ KMGG 261555Z AUTO 00000KT 10SM 18/16 A2964 RMK AO2 T01750160 KMGJ 261554Z AUTO 17005KT 10SM BKN044 OVC060 21/16 A3009 RMK AO2 SLP189 T02060161 KMGM 261553Z 00000KT 10SM CLR 27/18 A3005 RMK AO2 SLP174 T02670178 KMGN 261555Z AUTO 22009KT 190V250 10SM SCT033 21/16 A2974 RMK AO2 T02090166 KMGR 261530Z AUTO 32003KT 10SM SCT027 26/20 A3007 RMK AO2 KMGW 261553Z VRB03KT 10SM SCT040 OVC060 23/14 A3007 RMK AO2 SLP174 T02280139 KMGY 261553Z AUTO 23008KT 10SM BKN019 OVC037 22/17 A3001 RMK AO2 SLP156 T02220167 KMHE 261553Z AUTO 11007KT 10SM CLR 16/09 A2954 RMK AO2 SLP999 T01610094 KMHK 261552Z 23016G27KT 10SM CLR 28/17 A2971 RMK AO2 PK WND 23027/1549 SLP051 T02780167 KMHL 261555Z AUTO 20011G16KT 10SM CLR 23/18 A2984 RMK AO2 KMHP 261535Z AUTO 00000KT 10SM SCT017 SCT035 26/21 A3005 RMK AO2 T02550206 KMHR 261445Z 00000KT 10SM FEW250 15/09 A3001 KMHS 261556Z AUTO 30005KT 10SM CLR 14/09 A3018 RMK AO2 SLP222 T01390089 KMHT 261553Z 18005KT 7SM OVC006 16/13 A3011 RMK AO2 SLP209 T01560128 KMHV 261520Z AUTO 00000KT 8SM CLR 20/07 A3002 RMK A01 KMIA 261553Z 25007G15KT 10SM SCT039 BKN250 32/23 A3002 RMK AO2 SLP165 T03220228 KMIB 261556Z AUTO 28014G20KT 10SM CLR 19/04 A2948 RMK AO2 SLP986 T01890039 $ KMIC 261553Z 11003KT 8SM CLR 19/16 A2961 RMK AO2 SLP024 T01890156 KMIE 261553Z 20015G23KT 10SM OVC014 21/16 A2996 RMK AO2 SLP137 T02110161 KMIO 261515Z AUTO 19016KT 10SM FEW017 22/18 A2990 RMK AO2 KMIV 261554Z AUTO 11006KT 10SM SCT013 BKN023 OVC060 23/19 A3006 RMK AO2 SLP176 T02280194 KMIW 261553Z AUTO 19015KT 10SM CLR 22/18 A2965 RMK AO2 SLP033 T02170178 KMJD 261555Z AUTO 00000KT 10SM BKN033 OVC050 22/21 A3003 RMK AO2 KMJQ 261555Z AUTO 14006KT 10SM CLR 18/15 A2957 RMK AO2 PWINO KMJX 261556Z AUTO 08007KT 10SM OVC015 22/18 A3009 RMK AO2 SLP194 T02170178 KMKC 261554Z 20012G21KT 10SM CLR 24/17 A2978 RMK AO2 SLP076 T02440172 KMKE 261552Z 22011KT 10SM FEW150 SCT200 OVC250 22/17 A2977 RMK AO2 SLP076 T02170172 KMKG 261555Z 19015G23KT 10SM OVC009 21/16 A2982 RMK AO2 SLP095 T02110161 KMKJ 261555Z AUTO 00000KT 10SM SCT012 20/16 A3014 RMK AO2 T01990164 KMKL 261553Z 23006KT 10SM BKN018 BKN026 OVC033 22/17 A3005 RMK AO2 SLP172 T02220172 KMKN 261555Z AUTO 20012G17KT 10SM CLR 27/20 A2995 RMK AO2 T02650200 KMKO 261553Z AUTO 15012G18KT 10SM FEW014 23/19 A2994 RMK AO2 SLP134 T02280189 KMKS 261555Z AUTO 01007KT 10SM BKN009 OVC015 23/22 A3003 RMK AO2 KMKT 261556Z AUTO 10005KT 10SM CLR 19/17 A2961 RMK AO2 SLP026 T01890172 KMKY 261556Z AUTO 28008KT 10SM SCT022 31/25 A3003 RMK AO2 SLP169 T03110250 TSNO $ KMLB 261553Z VRB03KT 10SM FEW023 30/26 A3001 RMK AO2 SLP163 T03000256 KMLC 261553Z AUTO 19008G15KT 10SM FEW100 FEW110 23/18 A2996 RMK AO2 SLP138 T02280178 KMLE 261535Z AUTO 18008KT 10SM CLR 24/17 A2961 RMK AO2 T02400174 KMLF 261556Z AUTO 18013KT 10SM CLR 22/M06 A3011 RMK AO2 WSHFT 1542 T02171056 KMLI 261552Z 19011G18KT 10SM CLR 23/18 A2975 RMK AO2 SLP071 T02330178 KMLJ 261537Z AUTO 00000KT 10SM OVC013 22/19 A3008 RMK AO2 KMLP 261553Z AUTO VRB06KT 10SM BKN013 01/M02 A3004 RMK AO2 SLP130 T00111017 $ KMLS 261553Z AUTO 27016KT 10SM OVC070 16/04 A2969 RMK AO2 PK WND 26028/1528 SLP043 T01610044 KMLT 261553Z AUTO 18007KT 10SM CLR 22/12 A3008 RMK AO2 SLP189 T02170117 KMLU 261553Z 16005KT 10SM BKN017 24/19 A3003 RMK AO2 SLP168 T02390189 KMMH 261538Z AUTO 00000KT 5SM HZ OVC012 11/M04 A3030 RMK AO2 KMMI 261555Z AUTO 00000KT 10SM FEW016 SCT021 BKN028 22/17 A3009 RMK A01 KMMK 261553Z AUTO 20009KT 10SM BKN026 BKN031 22/15 A3011 RMK AO2 SLP196 T02220150 TSNO KMML 261556Z AUTO 06003KT 10SM CLR 17/09 A2959 RMK AO2 SLP021 T01670094 KMMT 261556Z 00000KT 10SM OVC009 21/20 A3005 RMK AO2A SLP177 T02080196 $ KMMU 261545Z 19006KT 10SM SCT027 BKN035 OVC085 23/18 A3010 KMMV 261553Z AUTO 25004KT 10SM OVC070 13/13 A3015 RMK AO2 SLP209 T01330128 KMNE 261555Z AUTO 22004KT 10SM OVC003 17/17 A3003 RMK AO2 T01720172 KMNH 261535Z AUTO 23009G14KT 10SM CLR 20/M03 A3009 RMK AO2 KMNI 261555Z AUTO 06003KT 10SM BKN006 OVC010 21/20 A3005 RMK AO2 KMNM 261556Z AUTO VRB06KT 10SM CLR 22/17 A2969 RMK AO2 SLP052 T02220172 $ KMNN 261553Z AUTO 21010KT 10SM CLR 23/17 A2999 RMK AO2 SLP152 T02330167 $ KMNV 261555Z AUTO 36004KT 10SM FEW016 OVC023 21/18 A3008 RMK A01 KMNZ 261555Z AUTO 19012G16KT 7SM CLR 26/20 A2997 RMK AO2 T02580200 KMOB 261556Z 03007G15KT 350V110 10SM SCT060 BKN080 BKN250 25/19 A3004 RMK AO2 SLP168 T02500194 KMOD 261553Z 34006KT 10SM CLR 21/12 A3001 RMK AO2 SLP159 T02060122 KMOP 261555Z AUTO 21008KT 10SM CLR 23/16 A2982 RMK AO2 T02320159 KMOR 261555Z AUTO 31005KT 10SM OVC015 19/18 A3008 RMK A01 KMOT 261554Z 26014KT 10SM CLR 19/03 A2950 RMK AO2 SLP987 T01940033 KMOX 261555Z AUTO 10004KT 10SM CLR 17/08 A2960 RMK AO2 KMPO 261553Z AUTO 12007KT 10SM BKN008 OVC016 16/13 A3012 RMK AO2 SLP197 T01560133 KMPV 261551Z AUTO 17012KT 10SM CLR 23/13 A3010 RMK AO2 WSHFT 1522 SLP190 T02280128 KMPZ 261535Z AUTO 20011KT 10SM CLR 23/18 A2977 RMK AO2 KMQB 261535Z AUTO 19011G17KT 10SM SCT014 21/17 A2984 RMK AO2 T02120174 TSNO KMQE 261551Z AUTO 17008KT 22/14 A3012 RMK AO1 SLP206 T02220139 KMQI 261555Z AUTO 18009KT 10SM SCT018 SCT025 BKN040 24/23 A3000 RMK AO2 P0003 T02390225 KMQJ 261555Z AUTO 20008G14KT 10SM OVC010 18/18 A2999 RMK AO1 KMQS 261535Z AUTO 08007KT 2SM BR OVC002 17/17 A3008 RMK AO2 KMQY 261556Z 00000KT 10SM SCT018 OVC040 22/18 A3007 RMK AO2 SLP188 T02220178 KMRB 261553Z 00000KT 10SM OVC016 20/16 A3006 RMK AO2 SLP178 T02000156 KMRC 261555Z AUTO 00000KT 10SM FEW017 OVC037 22/20 A3004 RMK A01 KMRF 261556Z AUTO 19006KT 10SM CLR 25/10 A3012 RMK AO2 SLP141 T02500100 KMRJ 261555Z AUTO 18009KT 10SM BKN012 21/16 A2972 RMK AO2 KMRN 261555Z AUTO 00000KT 10SM OVC010 19/17 A3013 RMK AO2 T01920165 KMRT 261519Z AUTO 20007KT 10SM SCT024 23/16 A3001 RMK AO1 KMRY 261554Z 29003KT 10SM CLR A3006 RMK AO2 SLPNO $ KMSL 261553Z AUTO 16003KT 10SM OVC037 23/16 A3006 RMK AO2 SLP172 T02330156 KMSN 261553Z 18010KT 10SM FEW015 BKN190 OVC230 20/17 A2972 RMK AO2 SLP060 T02000172 KMSO 261553Z 26011KT 10SM BKN055 12/02 A3003 RMK AO2 SLP169 T01170022 KMSP 261553Z VRB06KT 7SM R30L/5000VP6000FT OVC160 18/16 A2962 RMK AO2 SLP027 T01830156 $ KMSS 261553Z AUTO 21012KT 10SM CLR 25/14 A2997 RMK AO2 SLP149 T02500144 KMSV 261556Z AUTO 18006KT 10SM OVC034 19/13 A3012 RMK AO2 SLP196 T01940133 KMSY 261553Z 06006KT 10SM FEW020 SCT035 BKN075 26/20 A3001 RMK AO2 SLP167 T02560200 $ KMTC 261456Z 19007KT 10SM FEW170 BKN210 22/18 A2991 RMK AO2A SLP131 T02220182 55006 $ KMTH 261553Z AUTO 27008KT 10SM SCT020 BKN028 32/26 A3002 RMK AO2 SLP164 T03220261 KMTJ 261553Z AUTO 00000KT 10SM CLR 21/02 A3013 RMK AO2 SLP128 T02060022 KMTK 261600Z AUTO 27003KT 10SM CLR 27/24 A3001 RMK A01 KMTN 261558Z 00000KT 5SM BR OVC004 18/18 A3006 KMTO 261553Z AUTO 18012G20KT 10SM OVC011 19/16 A2993 RMK AO2 SLP133 T01940161 KMTP 261554Z AUTO VRB05KT 23/18 A3013 RMK AO1 SLP202 T02280183 KMTV 261555Z AUTO 09003KT 10SM BKN018 OVC027 22/17 A3009 RMK AO2 T02240174 KMTW 261556Z AUTO 22008KT 10SM CLR 23/18 A2972 RMK AO2 SLP063 T02280178 KMUI 261556Z AUTO 06004KT 4SM BR OVC007 17/17 A3008 RMK AO2 SLP189 T01670167 KMUO 261358Z AUTO 28008KT 10SM OVC090 14/13 A3007 RMK AO2 SLP168 T01350133 $ KMUT 261555Z AUTO 18012G18KT 10SM CLR 23/18 A2974 RMK AO2 KMVE 261555Z AUTO 25003KT 10SM CLR 17/09 A2961 RMK AO2 KMVH 261555Z AUTO 29023G38KT 10SM CLR 12/M04 A2977 RMK AO2 KMVL 261554Z AUTO 16005KT 10SM CLR 24/14 A3004 RMK AO2 SLP172 T02440144 KMVN 261556Z AUTO 19013G18KT 10SM OVC020 23/16 A2998 RMK AO2 SLP152 T02280161 KMVY 261553Z 20010KT 10SM BKN011 23/16 A3014 RMK AO2 SLP204 T02330161 $ KMWA 261545Z 21015KT 10SM BKN020 22/16 A2998 KMWC 261545Z 19008KT 10SM CLR 21/15 A2976 KMWH 261552Z 20004KT 10SM CLR 13/06 A3005 RMK AO2 SLP175 T01280056 KMWK 261235Z AUTO 00000KT 10SM OVC022 16/15 A3010 RMK AO2 T01640151 KMWL 261553Z AUTO 16006KT 10SM CLR 25/20 A2991 RMK AO2 SLP117 T02500200 KMWM 261555Z AUTO 07006KT 10SM CLR 19/16 A2957 RMK AO2 KMWN 261556Z 21008G15KT 30SM FEW005 SCT180 12/06 RMK HZ DSNT ALQDS KMWO 261535Z AUTO 23009KT 10SM BKN019 OVC039 22/17 A3003 RMK AO2 T02210174 KMWT 261553Z AUTO VRB03KT 10SM OVC014 20/17 A2999 RMK AO2 SLP148 T02000172 KMXF 261556Z AUTO 06004KT 10SM CLR 27/17 A3005 RMK AO2 SLP177 T02660171 KMXO 261555Z AUTO 18010G17KT 10SM CLR 22/19 A2970 RMK AO2 KMYF 261553Z 27003KT 5SM HZ OVC009 20/16 A2996 RMK AO2 SLP142 T02000161 KMYJ 261555Z AUTO 21008KT 10SM CLR 22/17 A2987 RMK AO2 KMYL 261551Z AUTO 16004KT 10SM BKN011 OVC018 08/04 A3010 RMK AO2 SLP188 T00780044 KMYP 261555Z AUTO 24028G34KT 10SM CLR 07/M07 A3055 RMK AO2 KMYR 261556Z 35009KT 10SM OVC008 24/22 A3003 RMK AO2 SLP167 T02390217 PNO $ KMYV 261553Z AUTO 00000KT 10SM CLR 21/11 A3003 RMK AO2 SLP171 T02060106 KMYZ 261555Z AUTO 22013G20KT 10SM CLR 27/16 A2969 RMK AO2 KMZH 261555Z AUTO 21004KT 1 3/4SM BR OVC002 16/15 A2965 RMK AO2 KMZZ 261535Z AUTO 20011KT 7SM OVC007 18/16 A2996 RMK AO2 T01800164 KN03 261555Z AUTO 18008KT 10SM CLR 22/11 A3005 RMK AO2 KN38 261555Z AUTO 17010KT 10SM OVC008 16/14 A3007 RMK AO2 KN60 261552Z AUTO 27012KT 18/04 A2955 RMK AO1 SLP004 T01830039 KNAK 261554Z AUTO 36005KT 10SM OVC007 19/19 A3004 RMK AO2 SLP175 T01890189 PNO $ KNBC 261556Z 01005KT 10SM FEW019 BKN050 27/22 A3003 RMK AO2 SLP171 T02720222 KNBG 261455Z 05007KT 10SM SCT035 BKN045 BKN250 25/23 A3001 RMK AO2 SLP160 6//// T02500233 51009 PNO $ KNBT 261456Z AUTO 17010KT 10SM BKN017 BKN022 26/23 A3000 RMK AO2 SLP164 T02560228 51010 KNCA 261556Z AUTO 11010KT 10SM CLR 27/23 A2998 RMK AO2 SLP156 T02720228 KNDZ 261456Z AUTO VRB05KT 10SM CLR 25/21 A3005 RMK AO2 SLP161 T02500211 53013 $ KNEL 261500Z AUTO 10009G18KT 10SM OVC019 A3009 RMK AO2 SLPNO 60000 51003 FZRANO $ KNEW 261553Z AUTO A3002 RMK AO2 SLP160 PWINO $ KNFE 261556Z AUTO 19005KT 10SM BKN046 26/20 A2999 RMK AO2 RAB1459E08 SLP158 P0000 T02610200 KNFG 261555Z AUTO 00000KT 6SM HZ OVC005 19/15 A2996 RMK AO2 SLP143 T01890150 KNFL 261556Z 34005KT 6SM HZ SCT200 OVC250 19/05 A3015 RMK AO2 SLP175 T01890050 KNFW 261552Z 18011KT 10SM CLR 26/20 A2994 RMK AO2 SLP122 T02610200 $ KNGP 261556Z AUTO 18010KT 10SM FEW060 31/25 A2995 RMK AO2 SLP142 T03060250 KNGU 261524Z VRB03KT 10SM BKN017 26/22 A3001 RMK AO2 T02610217 $ KNHK 261552Z 03006KT 3SM -RA BR OVC004 21/19 A3003 RMK AO2 SLP168 T02110194 PNO $ KNID 261556Z AUTO A2999 RMK AO2 SLPNO PWINO $ KNIP 261553Z 03005KT 10SM FEW018 SCT250 29/24 A3003 RMK AO2 SLP165 T02890244 KNJK 261556Z 14003KT 10SM CLR 26/12 A2986 RMK SLP128 T02610117 KNJM 261557Z AUTO 11005KT 10SM BKN014 BKN021 OVC028 26/23 A3000 RMK AO2 RAE54 SLP163 P0000 T02560228 $ KNJW 261557Z AUTO 00000KT 10SM CLR 24/17 A3001 RMK AO2 SLP966 T02390172 TSNO $ KNKT 261554Z 16010G17KT 10SM SCT016 BKN025 OVC043 26/22 A3001 RMK AO2 RAB34E45 SLP158 T02560217 PNO $ KNKX 261455Z 00000KT 5SM BR OVC007 19/17 A2995 RMK AO2 SLP135 T01890172 53004 $ KNLC 261556Z AUTO 33009KT 10SM CLR 22/10 A3002 RMK AO2 SLP164 T02220100 KNMM 261556Z AUTO 03003KT 10SM BKN023 OVC033 23/18 A3004 RMK AO2 SLP180 T02330183 KNOG 261515Z AUTO 19012KT 10SM FEW016 BKN024 BKN034 A2996 RMK AO2 TSNO PNO KNOW 261535Z AUTO 00000KT 10SM SCT080 OVC100 10/09 A3005 RMK AO2 T01030087 KNOZ 261459Z AUTO 15007KT 10SM CLR 27/07 A2986 RMK AO2 SLP062 T02670067 53008 PWINO KNPA 261556Z 09009KT 10SM FEW040 FEW070 SCT190 BKN250 27/22 A3004 RMK AO2 SLP173 T02720217 PNO $ KNQA 261550Z 20006KT 10SM SCT020 OVC028 22/18 A3003 KNQI 261556Z AUTO 18012KT 10SM FEW027 FEW032 SCT040 29/23 A2995 RMK AO2 SLP138 T02940228 $ KNQX 261553Z 22010KT 10SM FEW020 SCT250 33/26 A3002 RMK AO2 SLP165 T03280261 $ KNRB 261552Z AUTO 06004KT 10SM CLR A3002 RMK AO2 SLP166 $ KNRN 261555Z AUTO 26005KT 10SM OVC041 20/12 A2975 RMK AO2 KNRS 261556Z AUTO 5SM HZ OVC012 A2997 RMK AO2 SLP150 $ KNSE 261556Z AUTO 10004KT 10SM FEW018 BKN047 BKN055 26/21 A3005 RMK AO2 SLP162 T02560211 $ KNSI 261553Z AUTO 06004KT 6SM BR OVC004 17/16 A2995 RMK AO2 SLP137 T01720161 $ KNTD 261552Z AUTO 03007KT 5SM HZ CLR 19/16 A2996 RMK AO2 SLP145 T01940161 PWINO $ KNTU 261556Z 11007KT 10SM BKN019 BKN033 BKN040 26/22 A2999 RMK AO2 SLP158 T02610217 KNUC 261556Z 07005KT 8SM OVC008 19/16 A2996 RMK AO2 SLP144 T01940156 $ KNUI 261553Z AUTO 01004KT 9SM -RA OVC005 21/ A3001 RMK AO2 RAE31B52 CIG 003V009 SLP163 T0206 PNO $ KNUQ 261355Z AUTO 00000KT 10SM CLR 15/12 A3004 RMK AO2 KNUW 261556Z 13011KT 10SM FEW040 SCT070 BKN100 13/11 A3010 RMK AO2 SLP191 T01330106 KNXP 261556Z AUTO 32005KT 10SM CLR 25/03 A3004 RMK AO2 SLP135 T02500028 $ KNY0 261536Z AUTO 19004KT 10SM CLR 21/14 A3008 RMK AO2 KNYC 261551Z AUTO 17004KT 10SM OVC028 22/15 A3012 RMK AO2 SLP192 T02170150 $ KNYG 261556Z AUTO 01005KT 9SM OVC009 20/17 A3005 RMK AO2 SLP177 T02000172 KNYL 261557Z AUTO 16009KT 10SM CLR 29/12 A2987 RMK AO2 SLP110 T02890122 $ KNZY 261552Z 21003KT 7SM OVC010 19/16 A2995 RMK AO2 SLP143 T01940156 KO32 261545Z AUTO 09005KT 10SM CLR 21/14 A3003 RMK AO2 KO69 261555Z AUTO 25007KT 10SM CLR 21/15 A3006 RMK A01 KOAJ 261556Z 34003KT 10SM SCT011 OVC019 26/23 A3000 RMK AO2 SLP161 T02610228 PNO $ KOAK 261553Z 13004KT 10SM FEW008 FEW015 21/15 A3006 RMK AO2 SLP177 T02060150 KOBE 261555Z AUTO 00000KT 10SM SCT020 SCT025 30/24 A3002 RMK AO2 LTG DSNT E KOCF 261551Z VRB03KT 10SM FEW028 SCT050 30/23 A3004 RMK AO2 SLP172 T03000233 $ KOCH 261556Z AUTO VRB06KT 10SM BKN014 23/21 A3001 RMK AO2 SLP166 T02330206 KOCQ 261555Z AUTO 24009KT 10SM CLR 23/17 A2969 RMK AO1 T02270166 KOCW 261555Z AUTO 18003KT 10SM SCT015 SCT075 28/22 A3000 RMK AO2 T02750220 KODO 261553Z AUTO 20012KT 10SM CLR 27/14 A2994 RMK AO2 SLP090 T02670144 KODX 261553Z AUTO 21004KT 10SM CLR 19/14 A2961 RMK AO2 SLP021 T01890139 $ KOEB 261555Z AUTO 21010G15KT 10SM CLR 23/15 A2989 RMK AO2 T02300152 KOEL 261535Z AUTO 33004KT 10SM CLR 23/08 A2978 RMK AO1 T02330076 KOEO 261555Z AUTO 00000KT 10SM CLR 18/18 A2967 RMK AO2 T01780178 KOFF 261556Z AUTO 19012KT 10SM CLR 23/18 A2961 RMK AO2 SLP024 T02330175 $ KOFK 261556Z AUTO 22010KT 10SM CLR 23/14 A2956 RMK AO2 SLP001 T02280144 KOFP 261554Z AUTO VRB04KT 10SM OVC005 19/18 A3005 RMK AO2 SLP175 T01940178 KOGA 261535Z AUTO 23006KT 10SM CLR 21/08 A2974 RMK AO2 T02100077 KOGB 261553Z AUTO 33005KT 10SM OVC009 22/19 A3006 RMK AO2 SLP177 T02170194 KOGD 261553Z 31008KT 10SM OVC110 20/04 A3006 RMK AO2 SLP133 T02000044 KOGS 261535Z AUTO 21010G17KT 10SM CLR 23/15 A2996 RMK AO2 KOIN 261555Z AUTO 23004KT 10SM CLR 24/11 A2977 RMK AO1 T02400106 KOJA 261555Z AUTO 20014KT 10SM CLR 25/17 A2986 RMK AO2 T02520172 KOJC 261553Z 19013G22KT 10SM CLR 23/18 A2980 RMK AO2 SLP082 T02330183 $ KOKB 261552Z AUTO 00000KT 5SM BR OVC006 18/18 A2995 RMK AO2 SLP142 T01830178 KOKC 261552Z 19013KT 10SM CLR 24/17 A2988 RMK AO2 SLP105 T02390172 KOKK 261556Z AUTO 20016KT 10SM BKN014 21/17 A2995 RMK AO2 SLP140 T02060167 KOKM 261555Z AUTO 18015G21KT 10SM CLR 24/18 A2991 RMK AO2 T02360180 KOKV 261555Z AUTO 00000KT 10SM OVC013 17/15 A3007 RMK AO2 KOKZ 261535Z AUTO 01004KT 10SM OVC005 20/19 A3008 RMK AO2 T02040194 KOLE 261555Z AUTO 20007KT 10SM CLR 18/12 A3004 RMK AO2 KOLF 261553Z AUTO 28023G30KT 10SM CLR 18/01 A2958 RMK AO2 PK WND 29034/1541 SLP015 T01780006 KOLG 261555Z AUTO 23003KT 10SM BKN004 BKN120 15/15 A2966 RMK AO1 KOLM 261557Z 21009KT 10SM SCT004 13/12 A3011 RMK AO2 T01330122 KOLS 261554Z AUTO 00000KT 10SM CLR 26/08 A3014 RMK AO2 SLP134 T02610078 KOLU 261556Z AUTO 21012KT 10SM CLR 23/15 A2960 RMK AO2 SLP016 T02280150 KOLV 261550Z 20005KT 10SM SCT019 BKN025 OVC031 23/19 A3003 KOLY 261535Z AUTO 20005KT 10SM OVC018 21/15 A2999 RMK AO2 T02070147 KOLZ 261555Z AUTO 19010G18KT 10SM BKN014 21/18 A2966 RMK A01 KOMA 261552Z 18013KT 10SM FEW180 OVC250 24/17 A2960 RMK AO2 SLP016 T02390172 KOMH 261555Z AUTO 00000KT 10SM OVC015 18/16 A3006 RMK AO2 KOMK 261553Z AUTO 16003KT 10SM CLR 09/03 A3003 RMK AO2 SLP170 T00890028 KOMN 261550Z 00000KT 10SM CLR A3002 KONA 261555Z AUTO 13006KT 10SM CLR 19/18 A2963 RMK AO2 KONL 261535Z AUTO 25008KT 10SM CLR 21/12 A2957 RMK AO2 T02050120 KONM 261535Z AUTO 34012G20KT 310V010 10SM CLR 27/M01 A3011 RMK AO2 T02741012 KONO 261553Z AUTO 00000KT 10SM FEW100 A3014 RMK AO2 SLPNO $ KONP 261555Z AUTO 21003KT 5SM BR SCT028 SCT036 OVC050 15/14 A3019 RMK AO2 KONT 261553Z 20004KT 3SM BR FEW006 19/16 A2997 RMK AO2 SLP136 T01890156 KONX 261555Z AUTO 21007KT 10SM SCT020 BKN046 OVC080 25/23 A2999 RMK AO2 T02530227 KONZ 261555Z AUTO 19009KT 10SM CLR 21/19 A2992 RMK AO2 T02090185 KOOA 261555Z AUTO 20013KT 10SM CLR 23/18 A2972 RMK AO2 T02320176 KOPF 261553Z 24008KT 10SM SCT034 BKN041 32/24 A3002 RMK AO2 SLP166 T03170239 KOPL 261535Z AUTO 00000KT 10SM SCT065 24/20 A3001 RMK AO2 T02420199 KOPN 261535Z AUTO 00000KT 10SM OVC008 21/19 A3010 RMK AO2 KOQN 261555Z AUTO 08005KT 4SM BR OVC006 18/17 A3007 RMK AO2 P0003 KOQT 261553Z AUTO 00000KT 10SM OVC018 20/16 A3009 RMK AO2 SLP180 T02000161 KOQU 261550Z 20011KT 10SM OVC007 20/17 A3013 KORB 261553Z AUTO 16005KT 10SM CLR 16/13 A2959 RMK AO2 KORD 261551Z 20013G20KT 10SM OVC010 19/16 A2983 RMK AO2 SLP096 T01940161 KORE 261552Z AUTO 15005KT 6SM BR OVC007 18/16 A3013 RMK AO2 SLP205 T01780156 KORF 261551Z 15007KT 10SM FEW018 SCT043 27/22 A2999 RMK AO2 SLP156 T02720217 KORG 261555Z AUTO 00000KT 10SM SCT020 SCT027 SCT031 27/21 A3001 RMK AO2 T02730206 KORH 261554Z 19004KT 10SM CLR 19/15 A3014 RMK AO2 SLP204 T01940150 KORK 261550Z AUTO 22008KT 10SM OVC024 19/15 A3001 RMK AO2 KORL 261553Z VRB03KT 10SM FEW065 32/23 A3003 RMK AO2 SLP170 T03220233 KORS 261555Z AUTO 17008KT 5SM -RA BR FEW040 BKN050 OVC060 12/11 A3006 RMK AO2 P0001 KOSA 261535Z AUTO 19005KT 7SM OVC006 20/19 A3002 RMK AO1 T01990194 KOSC 261555Z AUTO 19009KT 10SM CLR 19/15 A2980 RMK AO2 T01910152 KOSH 261553Z 21008KT 10SM CLR 22/17 A2971 RMK AO2 SLP048 T02170167 KOSU 261553Z 19003KT 10SM SCT029 SCT045 24/17 A3000 RMK AO2 SLP153 T02440167 KOTG 261556Z AUTO 10005KT 10SM CLR 19/15 A2958 RMK AO2 SLP016 T01940150 KOTH 261556Z 13004KT 10SM SCT006 OVC055 16/16 A3019 RMK AO2 SLP222 T01610161 KOTM 261553Z AUTO 19015G20KT 10SM CLR 21/17 A2972 RMK AO2 SLP060 T02110172 KOUN 261545Z 17013KT 10 SM CLR 23/18 A2988 KOVE 261553Z AUTO 00000KT 7SM CLR 21/12 A3004 RMK AO2 SLP175 T02060117 $ KOVL 261555Z AUTO 11005KT 10SM CLR 16/12 A2960 RMK AO2 KOVS 261553Z AUTO 19009KT 10SM CLR 23/18 A2968 RMK AO2 SLP047 T02330178 KOWA 261553Z AUTO 13005KT 10SM CLR 19/17 A2962 RMK AO2 KOWB 261556Z 21009KT 10SM OVC025 21/17 A3002 RMK AO2 SLP165 T02110167 KOWD 261553Z 18007KT 10SM CLR 24/14 A3011 RMK AO2 SLP195 T02390139 KOWI 261555Z AUTO 20017G22KT 10SM CLR 25/18 A2980 RMK AO2 PWINO KOWP 261535Z AUTO 18008KT 10SM CLR 24/19 A2989 RMK AO2 T02440191 PWINO KOWX 261535Z AUTO 20011G17KT 10SM CLR 25/14 A2997 RMK AO1 KOXB 261553Z AUTO 12007KT 10SM FEW037 SCT060 23/20 A3006 RMK AO2 SLP177 T02280200 KOXC 261551Z 17009KT 10SM BKN022 BKN065 22/17 A3013 RMK AO2 SLP210 T02220167 KOXD 261555Z AUTO 20008KT 10SM BKN017 BKN026 OVC032 22/20 A3002 RMK AO2 T02220204 KOXI 261555Z AUTO 22009KT 10SM BKN014 22/16 A2989 RMK AO1 KOXR 261551Z 11003KT 5SM BR SCT004 19/17 A2995 RMK AO2 SLP140 T01890167 KOXV 261555Z AUTO 19015KT 10SM CLR 22/17 A2968 RMK AO2 KOYM 261535Z AUTO 15005KT 10SM CLR 21/15 A3010 RMK AO2 KOZA 261535Z AUTO 19016G24KT 10SM OVC016 23/18 A3001 RMK AO2 KOZR 261556Z AUTO 34003KT 10SM SCT029 27/19 A3006 RMK AO2 SLP179 T02650186 KOZS 261555Z AUTO 17009KT 10SM CLR 23/15 A2991 RMK AO2 KOZW 261555Z AUTO 20010KT 10SM CLR 24/16 A2988 RMK AO2 T02350162 KP28 261456Z AUTO 18010KT 22/17 A2979 RMK AO1 SLP074 T02220167 50000 KP53 261556Z AUTO 00000KT 18/16 A2968 RMK AO1 SLP048 T01830156 KP58 261551Z AUTO 21006KT 23/14 A2983 RMK AO1 SLP094 T02330144 KP59 261551Z AUTO 00000KT 18/15 A2965 RMK AO1 SLP036 T01780150 $ KP60 261456Z AUTO 27006KT 03/02 A3003 RMK AO1 SLP125 P0001 60011 T00330017 51025 KP68 261553Z AUTO 00000KT 18/M02 A3021 RMK AO1 SLP168 T01781017 KP69 261552Z AUTO 00000KT 12/10 A3011 RMK AO1 SLP193 T01220100 KP92 261459Z AUTO VRB04KT 26/22 A2999 RMK AO1 SLP153 T02560222 51005 KPAE 261553Z 18010KT 10SM OVC008 13/11 A3008 RMK AO2 SLP188 T01280106 KPAH 261553Z 23010G17KT 10SM SCT020 OVC028 22/16 A3000 RMK AO2 SLP157 T02220161 KPAM 261556Z AUTO 00000KT 10SM CLR 28/21 A3004 RMK AO2 SLP175 T02780208 $ KPAN 261555Z AUTO 18003KT 10SM CLR 24/02 A3021 RMK AO2 KPBF 261553Z AUTO 20004KT 10SM OVC030 21/16 A3002 RMK AO2 SLP163 T02110156 KPBG 261553Z AUTO 15009KT 10SM CLR 22/16 A3001 RMK AO2 SLP160 T02220156 KPBH 261555Z AUTO 08003KT 10SM BKN005 BKN120 16/16 A2967 RMK AO2 T01610161 KPBI 261553Z 26007KT 10SM SCT023 31/24 A3002 RMK AO2 SLP164 T03110239 KPBX 261535Z AUTO 00000KT 10SM SCT011 BKN043 18/18 A3010 RMK AO2 T01790179 KPCD 261555Z AUTO 25013KT 10SM CLR 22/15 A2996 RMK AO2 T02160154 KPCM 261555Z AUTO 00000KT 10SM SCT026 32/24 A3005 RMK AO2 KPCW 261555Z AUTO 22012KT 10SM CLR 24/17 A2994 RMK AO2 KPCZ 261555Z AUTO 16007KT 10SM CLR 22/17 A2971 RMK AO2 T02230174 KPDC 261555Z AUTO 14007KT 10SM SCT015 22/16 A2966 RMK AO2 T02160162 KPDK 261553Z 31004KT 10SM BKN027 OVC033 23/17 A3007 RMK AO2 SLP172 T02280172 KPDT 261553Z 26017KT 10SM FEW048 14/07 A3011 RMK AO2 SLP188 T01440072 KPDX 261553Z 15003KT 10SM FEW011 BKN080 15/14 A3015 RMK AO2 SLP208 T01500139 KPEA 261555Z AUTO 19012G19KT 10SM CLR 22/17 A2970 RMK AO2 T02160167 KPEO 261553Z AUTO 20008KT 10SM CLR 23/13 A3002 RMK AO2 SLP159 T02280128 KPEQ 261535Z AUTO 00000KT 10SM CLR 23/13 A2992 RMK AO2 T02310126 KPEX 261535Z AUTO 15005KT 10SM OVC110 18/13 A2964 RMK AO2 KPEZ 261555Z AUTO 14003KT 10SM BKN009 OVC014 26/23 A2997 RMK AO2 T02640232 KPGA 261553Z AUTO 06003KT 10SM CLR 26/M03 A3009 RMK AO2 SLP120 T02561028 TSNO KPGD 261553Z 27005KT 10SM SCT025 32/24 A3003 RMK AO2 SLP168 T03170244 KPGV 261555Z AUTO 00000KT 10SM CLR 26/22 A3002 RMK AO2 KPHD 261553Z AUTO VRB04KT 10SM OVC050 23/17 A3002 RMK AO2 SLP161 T02280172 KPHF 261554Z 14006KT 10SM BKN015 BKN023 26/21 A3000 RMK AO2 RAB35E44 SLP157 P0000 T02610211 KPHL 261554Z 09006KT 10SM -RA FEW014 BKN020 OVC035 22/19 A3007 RMK AO2 SLP180 P0002 T02170189 KPHN 261557Z AUTO 19010G14KT 10SM CLR 23/17 A2991 RMK AO2 KPHP 261555Z AUTO 33018G27KT 10SM -RA CLR 24/02 A2963 RMK AO2 PK WND 31027/1547 RAB37 SLP015 P0000 T02390022 KPHT 261555Z AUTO 21009KT 10SM FEW019 OVC030 21/17 A3003 RMK A01 KPHX 261551Z 10008KT 10SM CLR 30/07 A2992 RMK AO2 SLP111 T03000072 KPIA 261554Z 19011KT 10SM BKN014 22/17 A2982 RMK AO2 SLP095 T02170172 KPIB 261556Z AUTO 00000KT 10SM OVC050 21/20 A3006 RMK AO2 SLP178 T02110200 KPIE 261553Z 34009KT 5SM RA FEW027 BKN035 OVC085 29/27 A3003 RMK AO2 RAB46 SLP167 P0002 T02940267 KPIH 261553Z 23023G35KT 10SM SCT023 BKN080 OVC090 14/07 A3007 RMK AO2 PK WND 23035/1553 SLP151 T01390072 KPIL 261553Z AUTO A2994 RMK AO2 SLP140 PWINO $ KPIM 261555Z AUTO 27004KT 10SM SCT019 SCT028 OVC039 23/18 A3008 RMK AO2 T02320178 KPIR 261553Z AUTO 32009KT 10SM CLR 19/07 A2955 RMK AO2 SLP998 T01940072 KPIT 261551Z 20003KT 10SM SCT026 BKN034 BKN048 23/16 A3003 RMK AO2 SLP170 T02280156 KPKB 261553Z COR 00000KT 10SM BKN019 BKN050 23/17 A3005 RMK AO2 SLP170 T02280167 KPKD 261553Z AUTO 16004KT 10SM SCT065 OVC110 15/11 A2962 RMK AO2 RAB1454E15 SLP031 P0000 T01500111 KPKV 261555Z AUTO 13006KT 10SM CLR 29/21 RMK AO2 T02920214 KPLD 261555Z AUTO 21014G20KT 10SM OVC016 20/14 A2996 RMK AO2 KPLN 261554Z AUTO 21009G18KT 10SM FEW020 BKN034 22/17 A2973 RMK AO2 SLP067 T02170167 KPLR 261555Z AUTO 00000KT 10SM FEW024 OVC041 23/21 A3008 RMK A01 KPLU 261535Z AUTO 00000KT 10SM OVC065 13/12 A3011 RMK AO2 KPMD 261553Z 28006KT 10SM CLR 22/08 A3003 RMK AO2 SLP143 T02220078 KPMH 261459Z AUTO 15004KT 10SM SCT004 BKN055 A3006 RMK AO2 KPMP 261553Z 25005KT 10SM FEW049 FEW060 SCT090 31/24 A3001 RMK AO2 SLP163 T03110244 KPMU 261535Z AUTO 21004KT 10SM FEW014 SCT027 OVC034 22/19 A3004 RMK AO2 KPMV 261555Z AUTO 18011G15KT 10SM CLR 23/18 A2963 RMK AO2 T02300177 KPNA 261530Z AUTO 30012KT 10SM SCT042 BKN048 OVC055 11/03 A3008 RMK AO2 KPNC 261553Z AUTO 18007G14KT 10SM CLR 25/18 A2983 RMK AO2 SLP090 T02500178 KPNE 261554Z VRB04KT 10SM OVC018 23/18 A3008 RMK AO2 SLP187 T02280178 KPNM 261555Z AUTO 00000KT 10SM CLR 17/16 A2963 RMK AO2 KPNS 261553Z 07007KT 10SM FEW035 BKN070 26/21 A3004 RMK AO2 SLP174 T02610211 KPNT 261535Z AUTO 18009G17KT 10SM OVC010 19/17 A2988 RMK AO2 T01940170 KPO1 261600Z AUTO 28024G30KT 8SM 17/01 A2956 KPOB 261556Z AUTO 01004KT 10SM OVC009 22/19 A3003 RMK AO2 SLP171 T02230191 $ KPOC 261547Z 00000KT 03SM BR SCT010 17/16 A2997 KPOE 261458Z AUTO 00000KT 10SM OVC050 21/20 A3003 RMK AO2 SLP169 T02050203 50006 KPOF 261553Z AUTO 21011G18KT 10SM OVC022 21/16 A2999 RMK AO2 SLP154 T02110156 KPOU 261553Z 25009KT 10SM FEW042 BKN050 23/16 A3008 RMK AO2 SLP181 T02280156 KPOV 261555Z AUTO 23005KT 10SM CLR 23/16 A3000 RMK AO2 T02300158 PWINO KPOY 261535Z AUTO 36008KT 10SM CLR 11/02 A2987 RMK AO2 KPPA 261535Z AUTO 22020G23KT 10SM CLR 28/12 A2988 RMK AO2 T02770120 KPPF 261552Z AUTO A2988 RMK AO2 SLPNO PWINO FZRANO PNO $ KPPO 261555Z AUTO 21013G16KT 10SM OVC008 18/16 A2990 RMK AO2 T01810160 KPPQ 261535Z AUTO 20009G14KT 170V230 10SM CLR 23/19 A2987 RMK AO2 T02250187 KPQI 261556Z AUTO 16007KT 10SM CLR 22/10 A3003 RMK AO2 SLP195 T02170100 KPQL 261553Z 08005KT 10SM FEW048 BKN070 27/21 A3002 RMK AO2 SLP167 T02720211 KPQN 261555Z 13008KT 10SM 20/13 A2957 RMK AO2 KPRB 261553Z AUTO 00000KT 10SM CLR 17/11 A3005 RMK AO2 SLP170 T01670111 KPRC 261553Z 05004KT 10SM CLR 23/02 A3018 RMK AO2 SLP141 T02330022 KPRG 261535Z 7SM OVC007 19/17 A2997 RMK AO2 T01910170 KPRN 261458Z AUTO 35007KT 10SM FEW024 26/17 A3005 RMK AO2 SLP123 T02560167 53008 KPRO 261555Z AUTO 19012G19KT 10SM CLR 23/17 A2963 RMK AO2 T02330170 KPRS 261555Z AUTO 11003KT 10SM CLR 27/12 A3001 RMK AO2 T02730116 KPRX 261556Z AUTO 16009KT 8SM OVC003 18/18 A3000 RMK AO2 SLP171 T01830178 PNO $ KPSC 261553Z 00000KT 10SM CLR 16/09 A3009 RMK AO2 SLP187 T01610089 KPSF 261554Z AUTO 21007KT 10SM CLR 21/13 A3010 RMK AO2 SLP175 T02110133 KPSK 261555Z AUTO 34003KT 10SM OVC016 20/17 A3012 RMK AO2 T02010168 KPSM 261556Z 21003KT 2SM BR OVC004 15/15 A3011 RMK AO2A SLP199 T01520152 KPSN 261535Z AUTO 17005KT 5SM BR OVC005 20/20 A3001 RMK AO2 T02060206 KPSO 261555Z AUTO 00000KT 10SM CLR 17/M03 A3029 RMK AO2 T01691026 KPSP 261553Z 15004KT 10SM CLR 28/10 A2989 RMK AO2 SLP118 T02830100 KPSX 261552Z AUTO 16008KT 10SM CLR 28/22 A2998 RMK AO2 SLP150 T02780217 TSNO $ KPTB 261555Z AUTO 36003KT 7SM OVC004 18/17 A3005 RMK AO2 T01810168 KPTD 261555Z AUTO 20008KT 10SM CLR 26/13 A2998 RMK AO2 KPTK 261553Z 21010G19KT 10SM FEW250 23/15 A2989 RMK AO2 SLP117 T02280150 $ KPTN 261556Z AUTO 10005KT 10SM CLR 27/23 A3001 RMK AO2 SLP163 T02670228 $ KPTS 261555Z AUTO 20012G17KT 10SM CLR 23/19 A2988 RMK AO2 T02300186 KPTT 261555Z AUTO 20019G24KT 10SM CLR 28/12 A2977 RMK AO2 T02780122 KPTV 261556Z AUTO 19003KT 10SM CLR 19/12 A3004 RMK AO2 SLP172 T01890122 KPTW 261554Z AUTO 00000KT 3SM -RA BR BKN015 OVC035 18/17 A3009 RMK AO2 RAB18 SLP185 P0002 T01780167 KPUB 261553Z 30015KT 10SM CLR 28/M03 A2991 RMK AO2 SLP061 T02831028 KPUC 261553Z AUTO 00000KT 10SM CLR 21/M03 A3010 RMK AO2 SLP125 T02061028 KPUJ 261555Z AUTO 03003KT 10SM BKN014 BKN021 OVC034 21/19 A3008 RMK AO2 KPUW 261553Z AUTO 24012KT 8SM BKN014 OVC021 12/07 A3011 RMK AO2 SLP193 T01170072 TSNO KPVB 261555Z AUTO 17011KT 10SM OVC010 20/19 A2972 RMK AO1 T02030190 KPVC 261556Z AUTO 19012KT 10SM CLR 21/17 A3014 RMK AO2 SLP204 T02060167 KPVD 261551Z 14012KT 10SM FEW016 SCT130 SCT250 22/16 A3013 RMK AO2 SLP202 T02170161 KPVE 261555Z AUTO VRB04KT 10SM SCT015 SCT019 OVC037 22/19 A3004 RMK A01 KPVF 261535Z AUTO 02004KT 10SM CLR 20/02 A3011 RMK AO1 KPVG 261556Z AUTO 00000KT 10SM BKN013 OVC019 24/22 A3000 RMK AO2 SLP162 T02440217 PNO $ KPVJ 261555Z AUTO 16005KT 10SM CLR 24/19 A2991 RMK AO2 T02350192 KPVU 261556Z 00000KT 10SM SCT200 20/07 A3007 RMK AO2 SLP137 T02000067 KPVW 261535Z AUTO 22011G18KT 10SM CLR 24/15 A2992 RMK AO2 T02420145 KPWA 261553Z 20016KT 10SM CLR 26/18 A2986 RMK AO2 SLP099 T02560178 KPWC 261201Z AUTO 00000KT 7SM CLR 12/12 A2968 RMK AO2 KPWD 261525Z AUTO 28022G31KT 10SM CLR 15/02 A2952 RMK A01 Plentywood KPWG 261556Z AUTO 20012KT 10SM OVC011 23/21 A2998 RMK AO2 SLP146 T02330206 $ KPWK 261552Z 20012G18KT 10SM OVC012 19/17 A2983 RMK AO2 SLP098 T01940167 KPWM 261551Z 17006KT 10SM BKN006 17/14 A3013 RMK AO2 SLP202 T01670139 KPWT 261556Z AUTO 23009KT 10SM OVC003 12/11 A3009 RMK AO2 SLP195 T01170111 KPXE 261555Z AUTO 10003KT 10SM SCT008 SCT015 24/20 A3007 RMK AO2 T02390202 KPYM 261552Z AUTO 16007KT 120V200 10SM CLR 22/16 A3012 RMK AO2 SLP200 T02170156 KPYX 261555Z AUTO 22019G22KT 10SM CLR 27/10 A2983 RMK AO2 T02740099 KPZQ 261555Z AUTO 21006KT 10SM CLR 20/14 A2976 RMK AO2 T01950144 KQA8 261455Z AUTO VRB04KT 9999 CLR 33/09 A3004 RMK AO2 SLP078 WND DATA ESTMD T03300092 52002 $ KQAJ 261458Z 09008KT 9999 CLR 39/06 A2966 RMK SLP052 WND DATA ESTMD T03860055 53002 KQAL 261456Z 36006KT 9999 CLR 36/08 A2973 RMK AO2A SLP036 WND DATA ESTMD T03640082 55001 KQAY 261456Z AUTO 00000KT 9999 CLR 37/12 A2965 RMK AO2 SLP041 WND DATA ESTMD T03660122 53002 KQAZ 261456Z AUTO 08008G11KT 9999 CLR 38/05 A2982 RMK AO2 SLP091 WND DATA ESTMD T03840048 KQB3 261455Z AUTO VRB03KT 9999 CLR 33/08 A2975 RMK AO2 SLP048 WND DATA ESTMD T03290077 54000 PWINO $ KQBG 261456Z AUTO 17012G18KT 9999 CLR 29/19 A2981 RMK AO2 SLP092 WND DATA ESTMD T02920193 KQBL 261556Z AUTO 00000KT 10SM CLR 28/22 A3008 RMK AO2 SLPNO WND DATA ESTMD T02760221 KQD3 261556Z AUTO 06006KT 9000 HZ CLR 32/26 A2966 RMK AO2 SLPNO WND DATA ESTMD T03200260 KQDG 261556Z AUTO 00000KT 9999 OVC046 15/13 A2985 RMK AO2 SLP110 T01450131 $ KQEI 261550Z AUTO 17001KT 9999 CLR 12/12 A3012 RMK A02 TSNO KQEJ 261550Z AUTO 13001KT 9999 BKN033 13/12 A3012 RMK A02 TSNO KQEK 261550Z AUTO 04004KT 9999 BKN037 18/15 A3008 RMK A02 KQEN 261550Z AUTO 25002KT M0400 -SHRA FG CLR 12/14 / RMK A02 TSNO KQEO 261455Z AUTO 00000KT 10SM CLR 14/12 A3009 RMK AO2 SLP187 WND DATA ESTMD T01350118 52006 KQEP 261550Z AUTO 35001KT 9999 CLR 14/12 A3012 RMK A02 TSNO KQEQ 261550Z AUTO 04003KT 9999 CLR 14/13 A3014 RMK A02 TSNO KQER 261550Z AUTO 00000KT 9999 CLR 11/11 A3009 RMK A02 TSNO KQES 261550Z AUTO 9999 CLR 21/13 / RMK A02 TSNO KQEV 261550Z AUTO 11001KT 9999 CLR 16/13 A3004 RMK A02 TSNO KQEW 261550Z AUTO 00000KT 9999 SCT060 14/13 A3007 RMK A02 TSNO KQEX 261550Z AUTO 35003KT 9999 OVC041 18/13 A2999 RMK A02 TSNO KQEY 261550Z AUTO 08001KT 9000 CLR 14/13 A2978 RMK A02 TSNO KQFB 261550Z AUTO 18001KT 9999 BKN029 18/14 A3010 RMK A02 TSNO KQFL 261456Z AUTO 00000KT 9999 CLR 15/10 A3012 RMK AO2 SLP201 T01500104 402410114 51005 $ KQFT 261550Z AUTO 17001KT / // BKN090 14/12 A3009 RMK A02 TSNO KQFU 261550Z AUTO 35001KT 9999 FEW085 14/12 A3015 RMK A02 TSNO KQFV 261550Z AUTO 00000KT 9999 CLR 10/09 A3017 RMK A02 TSNO KQFW 261550Z AUTO 16001KT 9999 CLR 13/14 A3012 RMK A02 TSNO KQFX 261550Z AUTO 12002KT 9999 CLR 13/12 A3008 RMK A02 TSNO KQGE 261556Z AUTO 14005KT 10SM FEW070 27/21 A3005 RMK AO2 SLPNO T02680208 $ KQGX 261456Z 33009KT 9999 CLR 34/20 A2964 RMK AO2A SLP037 WND DATA ESTMD ALSTG/SLP ESTMD $ KQHB 261456Z AUTO 00000KT 9000 BR OVC009 18/16 A2988 RMK AO2 CIG 009V010 SLP121 60001 T01770162 402020176 51003 $ KQHC 261556Z AUTO 00000KT 10SM FEW012 21/15 A3012 RMK AO2 SLPNO WND DATA ESTMD T02090152 KQHG 261458Z AUTO 00000KT 7SM OVC006 16/15 A3012 RMK AO2 SLPNO T01630149 57007 KQHK 261455Z AUTO 05002KT 10SM CLR 29/04 A2979 RMK AO2 SLP047 WND DATA ESTMD T02920038 55000 KQHS 261455Z 27006KT 5SM HZ CLR 23/06 A2994 RMK SLP112 KQHT 261457Z 00000KT 6SM HZ CLR 21/03 A2996 RMK AO2 SLPNO KQHY 261556Z AUTO 14004KT 10SM CLR 27/21 A3005 RMK AO2 SLPNO T02690214 $ KQIK 261355Z 00000KT 3/4SM BR SCT002 BKN005 OVC007 03/02 A2944 RMK AO2A SLP985 WND DATA ESTMD T00300020 KQJZ 261255Z VRB06KT 1/2SM FG BKN002 18/18 A3003 RMK SLP168 WND DATA ESTMD ALSTG/SLP ESTMD KQM2 261456Z AUTO VRB05KT 9999 FEW013 27/23 A2986 RMK AO2 SLP114 WND DATA ESTMD T02660230 53009 KQMK 261456Z AUTO 12007G13KT 030V160 9999 CLR 27/23 A2984 RMK AO2 SLP107 WND DATA ESTMD T02650226 KQN3 261456Z AUTO 00000KT 9999 CLR 35/21 A2981 RMK AO2 SLP083 WND DATA ESTMD T03460214 KQRD 261458Z AUTO 00000KT 10SM CLR 26/21 A3004 RMK AO2 SLPNO T02560206 52015 $ KQRH 261556Z AUTO 06007KT 9999 CLR 32/27 A2977 RMK AO2 SLP084 WND DATA ESTMD T03150272 KQSI 261455Z AUTO VRB03KT 5SM HZ CLR 34/22 A2965 RMK AO2 SLP038 WND DATA ESTMD T03360222 52003 PWINO $ KQTA 261456Z AUTO 30003KT 9999 CLR 33/05 A2976 RMK AO2 SLP059 WND DATA ESTMD T03300047 55001 KQTZ 261455Z VRB06KT 9999 SKC 37/08 A2962 RMK SLP031 56005 KQWM 261456Z 00000KT 9000 HZ CLR 40/08 A2966 RMK SLPNO WND DATA ESTMD $ KQX2 261455Z AUTO 33004KT 9999 CLR 30/07 A2990 RMK AO2 SLP073 T03010072 55000 PWINO $ KQXH 261456Z AUTO 32014KT 9999 CLR 30/08 A2987 RMK AO2 SLP097 WND DATA ESTMD T03000084 53003 $ KQXT 261456Z VRB03KT 9000 HZ CLR 27/M12 A2977 RMK AO2A SLP030 WND DATA ESTMD T02701118 52009 KRAC 261553Z AUTO 22008KT 10SM CLR 22/17 A2979 RMK AO2 SLP086 T02220172 KRAL 261553Z 00000KT 1/4SM FG VV001 16/15 A2997 RMK AO2 SLP135 T01560150 KRAP 261552Z 33014G25KT 10SM FEW120 18/02 A2972 RMK AO2 PK WND 33028/1532 SLP048 T01830022 $ KRAS 261555Z AUTO 14011KT 10SM SCT038 29/24 A2998 RMK AO2 T02910244 KRBD 261553Z 19010G19KT 10SM CLR 25/19 A2994 RMK AO2 SLP132 T02500194 KRBG 261553Z AUTO 00000KT 10SM BKN003 OVC011 16/14 A3018 RMK AO2 CIG 002V006 SLP220 T01610144 KRBL 261554Z AUTO 36008KT 10SM -RA CLR 24/09 A3006 RMK AO2 SLP175 P0000 T02440094 KRBW 261535Z AUTO 36006KT 10SM BKN009 OVC014 23/21 A3006 RMK AO2 KRCA 261556Z AUTO 35022KT 10SM BKN120 19/03 A2972 RMK AO2 SLP047 T01850031 $ KRCE 261555Z AUTO 20014G19KT 10SM 24/18 A2987 RMK AO2 KRCM 261555Z AUTO 19012G17KT 10SM CLR 22/17 A2983 RMK AO2 KRCR 261555Z AUTO 18010G15KT 10SM CLR 23/16 A2992 RMK AO2 KRCV 261535Z AUTO 24005KT 10SM CLR 17/M03 A3026 RMK AO2 T01701032 KRCX 261555Z AUTO 00000KT 10SM SCT120 17/17 A2970 RMK AO2 T01700170 KRCZ 261555Z AUTO 00000KT 10SM BKN014 BKN022 23/19 A3004 RMK AO2 T02280185 KRDD 261553Z 00000KT 8SM FU CLR 21/11 A3006 RMK AO2 SLP173 T02110111 KRDG 261554Z 03003KT 10SM OVC012 18/17 A3006 RMK AO2 RAE00 SLP185 P0000 T01830167 KRDK 261555Z AUTO 18011KT 9SM CLR 22/18 A2965 RMK AO2 KRDM 261556Z 00000KT 10SM BKN047 13/06 A3016 RMK AO2 SLP204 T01330056 KRDR 261556Z AUTO 25011G22KT 10SM SCT100 SCT210 23/05 A2950 RMK AO2 SLP993 T02270051 $ KRDU 261551Z 02004KT 10SM OVC006 19/18 A3005 RMK AO2 SLP173 T01890178 $ KREG 261555Z AUTO 05003KT 10SM CLR 27/20 A3001 RMK AO2 T02710202 KREO 261552Z AUTO 35003KT 17/04 A3015 RMK AO1 SLP182 T01670044 KRFD 261554Z 19011KT 10SM OVC016 21/17 A2980 RMK AO2 SLP086 T02110167 KRFI 261555Z AUTO 21005KT 10SM SCT012 BKN018 BKN023 22/19 A3002 RMK AO2 T02200187 KRGA 261555Z AUTO 00000KT 10SM BKN010 BKN016 24/19 A3006 RMK AO2 KRGK 261555Z AUTO 11006KT 7SM CLR 19/16 A2960 RMK AO2 KRHI 261553Z AUTO 15004KT 10SM SCT008 18/15 A2970 RMK AO2 SLP053 T01830150 KRHP 261555Z AUTO 00000KT 10SM OVC030 22/15 A3009 RMK AO2 T02200152 KRHV 261550Z 00000KT 10SM SKC 18/12 A3007 KRIC 261554Z 35009KT 10SM OVC005 19/18 A3003 RMK AO2 SLP171 T01940183 KRID 261535Z AUTO 22010KT 10SM BKN010 OVC016 18/18 A3003 RMK AO2 KRIL 261553Z AUTO 02003KT 10SM CLR 15/01 A3009 RMK AO2 SLP135 T01500006 KRIV 261458Z AUTO 00000KT 10SM CLR 17/12 A2997 RMK AO2 SLP140 T01730124 52007 PNO $ KRIW 261553Z AUTO VRB05KT 10SM CLR 16/06 A2987 RMK AO2 SLP062 T01610056 KRKD 261556Z AUTO 19006KT 7SM OVC002 15/14 A3013 RMK AO2 SLP204 T01500144 KRKP 261553Z AUTO 14010KT 10SM CLR A2996 RMK AO2 SLP148 $ KRKR 261535Z AUTO 19009KT 10SM CLR 21/17 A2998 RMK AO2 KRKS 261554Z AUTO 27023G31KT 10SM OVC095 17/00 A3008 RMK AO2 PK WND 27034/1542 SLP113 T01720000 $ KRKW 261555Z AUTO VRB03KT 10SM BKN017 OVC023 21/17 A3009 RMK A01 KRLD 261535Z AUTO 09004KT 10SM CLR 16/09 A3008 RMK AO2 T01570085 KRME 261553Z 13008KT 10SM CLR 24/14 A3003 RMK AO2 SLP167 T02390144 KRMG 261553Z AUTO 00000KT 10SM BKN010 OVC043 23/19 A3007 RMK AO2 SLP173 T02280189 KRMN 261555Z AUTO 01003KT 10SM OVC009 20/20 A3009 RMK AO2 T01960196 KRMY 261555Z AUTO 21008KT 180V240 10SM CLR 23/16 A2988 RMK AO2 T02280160 KRNC 261555Z AUTO 00000KT 10SM FEW021 OVC037 22/17 A3007 RMK A01 KRND 261556Z AUTO 19010KT 10SM OVC012 25/22 A2997 RMK AO2 SLP142 T02520219 KRNH 261555Z AUTO 00000KT 7SM SCT120 17/17 A2964 RMK AO2 T01720172 KRNM 261553Z 00000KT 10SM CLR 19/13 A2997 RMK AO2 SLP138 T01940128 $ KRNO 261555Z 16003KT 10SM SCT000 SCT180 BKN250 16/04 A3019 RMK AO2 SLP178 FU SCT000 FU AND HZ ALQDS T01560039 KRNP 261555Z AUTO 18009KT 10SM CLR 23/15 A2986 RMK AO2 T02300154 KRNT 261553Z 19005KT 10SM OVC100 14/10 A3009 RMK AO2 SLP196 T01440100 KRNV 261555Z AUTO 21005KT 10SM OVC026 22/18 A3003 RMK AO2 T02160181 KROA 261554Z VRB03KT 10SM BKN024 21/16 A3009 RMK AO2 SLP182 T02110156 KROC 261554Z 21009KT 10SM FEW220 BKN280 22/13 A2997 RMK AO2 SLP151 T02220133 $ KROG 261558Z 20010KT 10SM CLR 23/17 A2998 RMK AO2 SLP139 T02280167 KROS 261555Z AUTO 00000KT 4SM BR SCT060 SCT085 OVC110 14/14 A2966 RMK AO2 T01420138 KROW 261551Z 00000KT 10SM CLR 28/03 A2996 RMK AO2 SLP072 T02830033 KROX 261555Z AUTO 18006KT 10SM SCT100 16/ A2950 RMK AO2 TSNO PWINO KRPD 261555Z AUTO 12004KT 7SM SCT002 17/17 A2967 RMK AO2 T01660166 KRPH 261510Z AUTO 20008KT 150V210 10SM CLR 25/19 A2990 RMK AO2 T02450193 KRPJ 261555Z AUTO 20014G18KT 10SM OVC009 19/17 A2982 RMK AO2 T01910173 KRQB 261555Z AUTO 24007G14KT 10SM SCT046 22/16 A2981 RMK AO2 T02160162 KRQE 261553Z AUTO 00000KT 10SM CLR 22/M01 A3027 RMK AO2 SLP135 T02171011 TSNO KRQO 261535Z AUTO 19018KT 10SM CLR 24/18 A2989 RMK AO2 T02370185 KRRL 261555Z AUTO 10008KT 10SM SCT110 19/16 A2964 RMK AO2 T01910161 TSNO KRRT 261546Z AUTO 20003KT 10SM SCT100 17/09 A2952 RMK AO2 KRSL 261553Z AUTO 21018G28KT 10SM CLR 27/10 A2971 RMK AO2 PK WND 21028/1545 SLP042 T02720100 KRSN 261555Z AUTO 00000KT 10SM OVC008 20/18 A3006 RMK AO2 T02000183 KRSP 261554Z AUTO 03004KT 1/2SM FG VV002 16/15 A3010 RMK AO2 SLP192 T01560150 PWINO $ KRST 261554Z 16010KT 10SM CLR 19/17 A2963 RMK AO2 SLP029 T01940172 KRSV 261535Z AUTO 20009KT 10SM OVC014 19/15 A3000 RMK AO2 T01870153 KRSW 261553Z 28003KT 10SM SCT034 29/23 A3002 RMK AO2 SLP163 T02940233 KRTN 261553Z AUTO 08007KT 10SM CLR 23/M02 A3007 RMK AO2 SLP074 T02281017 KRTS 261555Z AUTO 00000KT 5SM HZ CLR 16/04 A3022 RMK AO2 KRUE 261553Z AUTO 20005KT 10SM OVC018 20/16 A2999 RMK AO2 SLP149 T02000161 KRUG 261555Z AUTO 26011KT 10SM CLR 16/05 A2950 RMK AO2 KRUQ 261555Z AUTO 02004KT 10SM OVC006 18/16 A3007 RMK AO2 T01770162 KRUT 261556Z AUTO VRB03KT 10SM CLR 24/14 A3007 RMK AO2 SLP175 T02390144 $ KRVJ 261535Z AUTO 00000KT 10SM BKN013 BKN036 25/22 A3005 RMK AO2 T02500219 KRVL 261555Z AUTO 11003KT 10SM OVC019 20/16 A3007 RMK AO2 KRVS 261553Z 19011KT 10SM CLR 26/18 A2989 RMK AO2 SLP126 T02560183 KRWF 261553Z AUTO 06005KT 10SM CLR 16/12 A2960 RMK AO2 SLP020 T01560117 KRWI 261553Z AUTO 32006KT 10SM OVC004 22/21 A3003 RMK AO2 SLP167 T02170206 KRWL 261553Z AUTO 25031G44KT 10SM -RA CLR 17/M01 A2998 RMK AO2 PK WND 26044/1526 SLP068 P0000 T01721006 KRWV 261555Z AUTO 17009KT 10SM CLR 24/22 A2999 RMK AO2 T02400216 KRXE 261553Z AUTO 00000KT 10SM OVC055 11/05 A3005 RMK AO2 RAB1456E52 SLP149 P0000 T01110050 KRYM 261556Z AUTO 03006KT 10SM OVC080 15/14 A2965 RMK AO2 SLP045 T01500141 $ KRYN 261445Z 11003KT 10SM CLR 28/06 A3004 KRYV 261555Z AUTO 19009KT 10SM SCT015 20/17 A2975 RMK AO2 T02030172 KRYW 261555Z AUTO 17007KT 10SM OVC012 23/21 A3000 RMK AO2 T02330210 KRYY 261550Z COR 00000KT 10SM BKN013 OVC036 22/19 A3009 RMK AO2 SLP908 T02220189 $ KRZL 261555Z AUTO 00000KT 10SM OVC005 17/16 A2991 RMK AO2 PWINO KRZN 261555Z AUTO 00000KT 7SM OVC005 16/16 A2967 RMK AO2 T01610158 KRZR 261555Z AUTO 00000KT 10SM BKN019 OVC041 22/21 A3006 RMK A01 KRZT 261555Z AUTO 00000KT 10SM SCT026 SCT055 24/16 A3002 RMK AO2 PWINO KS21 261555Z AUTO 26007KT 10SM FEW023 BKN034 OVC047 10/07 A3023 RMK AO2 KS25 261555Z AUTO 28016G27KT 9SM CLR 18/02 A2958 RMK AO2 PWINO KS32 261555Z AUTO 25011KT 10SM FEW095 20/05 A2955 RMK AO2 KS33 261555Z AUTO 00000KT 10SM SCT060 13/07 A3016 RMK AO2 KS39 261555Z AUTO 27008KT 10SM 11/06 A3017 RMK AO2 KS52 261555Z AUTO 14003KT 10SM CLR 03/03 A3005 RMK AO2 T00330026 KS59 261600Z AUTO 00000KT 10SM 08/07 A2998 KS71 261600Z AUTO 28014G21KT 9SM 13/02 A2969 KS85 261525Z AUTO 26020G26KT 10SM 16/03 A2954 RMK A01 Culbert on KSAA 261555Z AUTO 26009KT 10SM CLR 17/M02 A3008 RMK AO2 KSAC 261553Z 00000KT 10SM CLR 20/13 A3002 RMK AO2 SLP166 T02000128 KSAD 261551Z AUTO 13004KT 10SM CLR 26/04 A3004 RMK AO2 SLP117 T02560039 KSAF 261553Z 36011KT 10SM CLR 22/M02 A3018 RMK AO2 SLP121 T02221017 KSAN 261551Z 24004KT 7SM OVC014 20/16 A2997 RMK AO2 SLP149 T02000161 KSAR 261539Z AUTO 21009KT 10SM BKN017 21/16 A2997 RMK AO2 KSAT 261551Z 18007G16KT 10SM -RA BKN011 OVC023 24/22 A2999 RMK AO2 RAB41 SLP138 P0000 T02440217 KSAV 261553Z 01005KT 10SM FEW010 SCT015 BKN042 28/22 A3004 RMK AO2 SLP170 T02780222 KSAW 261548Z 00000KT 10SM BKN007 17/15 A2968 KSAZ 261555Z AUTO 00000KT 10SM SCT036 17/12 A2963 RMK AO2 KSBD 261545Z 00000KT 5SM HZ SKC 20/10 A2997 KSBM 261553Z AUTO 19009KT 10SM CLR 23/17 A2972 RMK AO2 SLP061 T02280172 KSBN 261554Z 23012KT 10SM FEW021 23/16 A2989 RMK AO2 SLP118 T02280161 KSBO 261535Z AUTO 07003KT 10SM OVC006 22/21 A3008 RMK AO2 KSBP 261456Z 29004KT 8SM SKC 17/12 A2998 KSBS 261535Z AUTO 00000KT 10SM CLR 10/M01 A3011 RMK AO1 T01031014 KSBY 261554Z 10007KT 8SM -RA SCT025 BKN060 OVC100 22/19 A3004 RMK AO2 RAB10 SLP173 P0007 T02220194 KSCD 261555Z AUTO 00000KT 10SM OVC037 22/19 A3008 RMK AO2 T02240190 KSCF 261515Z AUTO 07010KT 10SM BKN060 25/23 A3000 RMK A01 KSCH 261548Z 16004KT 10SM FEW015 22/16 A3008 KSCK 261555Z 30011KT 10SM CLR 23/13 A3001 RMK AO2 SLP162 T02280133 KSCR 261555Z AUTO 01003KT 10SM OVC006 18/17 A3006 RMK AO2 T01810169 KSCX 261555Z AUTO 00000KT 10SM OVC007 19/17 A3009 RMK A01 KSDA 261555Z AUTO 20015KT 10SM CLR 24/18 A2963 RMK AO2 KSDB 261553Z AUTO 33019G26KT 10SM CLR 18/07 A3012 RMK AO2 PK WND 34026/1526 SLP154 T01830072 $ KSDC 261555Z AUTO 19003KT 10SM CLR 22/13 A2999 RMK AO2 KSDF 261556Z 22010KT 10SM SCT040 BKN120 23/17 A3002 RMK AO2 SLP161 T02330167 KSDL 261553Z 16004KT 10SM CLR 29/07 A2996 RMK AO2 SLP118 T02890067 KSDM 261553Z 00000KT 3SM HZ OVC005 18/15 A2997 RMK AO2 SLP144 T01780150 KSDY 261556Z AUTO 28023G29KT 10SM CLR 18/02 A2959 RMK AO2 PK WND 29029/1555 SLP417 T01780022 KSEA 261553Z 20011KT 10SM FEW014 SCT021 BKN110 13/11 A3010 RMK AO2 SLP197 T01330111 KSEE 261455Z 34003KT 4SM BR OVC010 18/15 A2996 KSEF 261535Z AUTO 33004KT 10SM CLR 30/24 A3004 RMK AO2 T02970241 KSEG 261553Z AUTO 00000KT 1 1/4SM -RA BR BKN010 OVC015 17/16 A3009 RMK AO2 RAB37 CIG 010V013 SLP190 P0002 T01720156 KSEM 261635Z AUTO 35005KT 9SM CLR 26/18 A3005 RMK AO2 KSEP 261555Z AUTO 19007G14KT 10SM CLR 25/19 A2997 RMK AO2 T02520193 KSEQ 261458Z AUTO 15007KT 9SM BKN018 BKN034 OVC050 23/22 A3001 RMK AO2 RAE08 SLP159 P0000 60000 T02320219 50005 KSET 261554Z AUTO 18011KT 10SM CLR 24/17 A2989 RMK AO2 SLP118 T02390167 $ KSEZ 261555Z AUTO 10003KT 10SM CLR 25/02 A3017 RMK AO2 KSFB 261553Z 36005KT 10SM FEW060 32/23 A3002 RMK AO2 SLP164 T03170228 KSFF 261553Z 21004KT 10SM CLR 10/03 A3006 RMK AO2 SLP179 T01000033 KSFM 261556Z AUTO 17006KT 10SM CLR 18/15 A3012 RMK AO2 SLP202 T01780150 KSFO 261556Z 30014KT 10SM FEW006 17/14 A3005 RMK AO2 SLP177 T01670139 KSFQ 261555Z AUTO 28007KT 5SM -RA SCT006 BKN016 OVC024 24/23 A3001 RMK AO2 P0002 T02350226 KSFY 261535Z AUTO 17012G15KT 10SM CLR 21/17 A2976 RMK AO2 KSFZ 261556Z AUTO VRB04KT 10SM FEW025 23/16 A3013 RMK AO2 SLP147 T02330161 KSGF 261552Z 19011KT 10SM CLR 22/16 A2993 RMK AO2 SLP126 T02220161 KSGH 261556Z AUTO 22008G16KT 10SM BKN023 OVC029 23/18 A3001 RMK AO2 SLP159 T02330178 KSGJ 261556Z 27006KT 10SM FEW002 31/22 A3003 RMK AO2 SLP168 T03060222 $ KSGR 261553Z 16008KT 10SM CLR 27/21 A2999 RMK AO2 SLP156 T02720211 KSGS 261555Z AUTO 00000KT 7SM CLR 18/16 A2962 RMK AO2 T01810164 KSGT 261556Z AUTO 20011KT 10SM OVC030 22/16 A3002 RMK AO2 SLP166 T02220156 KSGU 261556Z AUTO 00000KT 10SM CLR 21/M02 A3004 RMK AO2 SLP141 T02111017 KSHD 261555Z AUTO 32006KT 3SM HZ SCT016 BKN022 OVC030 19/15 A3010 RMK AO2 T01900149 KSHL 261555Z AUTO 18007KT 9SM CLR 19/16 A2953 RMK AO2 KSHN 261553Z AUTO 22004KT 5SM -RA BR SCT005 BKN022 OVC075 12/12 A3008 RMK AO2 RAB29 SLP189 P0001 T01170117 KSHR 261553Z AUTO 26005KT 10SM OVC085 12/07 A2985 RMK AO2 RAE31 SLP095 P0007 T01170067 KSHV 261556Z 20004KT 10SM OVC004 20/18 A3001 RMK AO2 SLP160 T02000178 KSIF 261555Z AUTO 00000KT 10SM BKN018 20/16 A3006 RMK AO2 T02010163 KSIK 261555Z AUTO 21009G17KT 10SM BKN022 21/17 A3001 RMK AO2 KSIY 261553Z AUTO 00000KT 10SM CLR 15/10 A3020 RMK AO2 SLP224 T01500100 KSJC 261553Z 00000KT 10SM FEW034 FEW075 19/11 A3006 RMK AO2 SLP179 T01890111 KSJN 261554Z AUTO 08003KT 10SM CLR 23/03 A3022 RMK AO2 SLP139 T02280028 KSJS 261455Z AUTO 00000KT 10SM SCT005 OVC045 19/18 A3010 RMK AO2 6//// T01860176 PNO KSJT 261551Z 20016G23KT 10SM FEW024 26/19 A2994 RMK AO2 SLP117 T02610189 KSJX 261555Z AUTO 22014G20KT 10SM SCT030 21/16 A2970 RMK AO2 T02100163 KSKA 261258Z AUTO 22008KT 10SM CLR 03/03 A2998 RMK AO2 SLP160 T00330033 $ KSKF 261556Z AUTO 16006KT 10SM BKN009 BKN023 24/22 A2997 RMK AO2 SLP143 T02440221 $ KSKX 261556Z AUTO 23004KT 10SM CLR 19/M01 A3025 RMK AO2 SLP184 T01941011 KSLB 261555Z AUTO 22015G23KT 10SM CLR 23/17 A2955 RMK AO2 KSLC 261554Z 30008KT 7SM FEW110 BKN200 21/06 A3005 RMK AO2 SLP131 ACSL DSNT NE T02060061 $ KSLE 261556Z 20007KT 10SM BKN070 15/13 A3015 RMK AO2 SLP209 T01500133 KSLG 261556Z AUTO 19011G18KT 10SM OVC008 20/18 A2997 RMK AO2 SLP142 T02000178 TSNO KSLH 261555Z AUTO 00000KT 10SM SCT033 20/16 A2972 RMK AO2 T02040162 KSLI 261458Z 00000KT 7SM OVC012 21/16 A2994 RMK SLP142 WND DATA ESTMD ALSTG/SLP ESTMD KSLK 261551Z AUTO 21010KT 10SM CLR 23/11 A3003 RMK AO2 SLP166 T02280106 $ KSLN 261553Z 20018G24KT 10SM CLR 28/16 A2973 RMK AO2 PK WND 22027/1536 SLP050 T02830161 KSLO 261555Z AUTO 19009G15KT 160V220 10SM CLR 23/16 A2995 RMK AO2 T02330159 KSLR 261535Z AUTO 20006KT 10SM OVC009 21/19 A3001 RMK AO2 T02100193 KSMD 261535Z AUTO 20011KT 10SM FEW015 21/16 A2995 RMK A01 KSME 261535Z AUTO 13003KT 10SM OVC003 16/16 A3009 RMK AO2 KSMF 261553Z 00000KT 10SM FEW250 19/13 A3002 RMK AO2 SLP163 T01890128 KSMN 261556Z AUTO 21004KT 10SM OVC047 08/06 A3008 RMK AO2 RAE56 SLP185 P0001 T00830061 $ KSMP 261556Z AUTO VRB03KT 1/4SM FG BKN004 BKN011 OVC016 06/05 A3009 RMK AO2 RAE35B36E51 SLP197 P0004 T00560050 KSMQ 261553Z AUTO 09007KT 10SM BKN028 OVC034 24/17 A3007 RMK AO2 SLP182 T02390167 KSMS 261555Z AUTO 35005KT 9SM OVC005 20/19 A3007 RMK AO2 KSMX 261551Z 32008KT 10SM CLR 18/13 A2998 RMK AO2 SLP152 T01780128 KSNA 261553Z 00000KT 10SM OVC012 21/16 A2995 RMK AO2 SLP142 T02060161 KSNC 261435Z AUTO 14005KT 9SM BKN009 BKN014 BKN043 20/17 A3014 RMK AO2 KSNH 261555Z AUTO 00000KT 10SM FEW024 OVC034 22/19 A3004 RMK A01 KSNK 261555Z AUTO 19014KT 10SM CLR 24/17 A2993 RMK AO2 T02350171 KSNL 261535Z AUTO 19012G17KT 10SM CLR 23/17 A2990 RMK AO2 T02300173 KSNS 261553Z 00000KT 8SM CLR 16/12 A3005 RMK AO2 SLP184 T01560117 KSNT 261551Z AUTO VRB03KT 08/04 A3013 RMK AO1 SLP149 T00780039 KSNY 261553Z AUTO 26006KT 1SM BR VV014 A2981 RMK AO2 SLPNO FZRANO $ KSOA 261535Z AUTO 18013G19KT 10SM OVC020 24/19 A3002 RMK AO2 KSOP 261556Z AUTO VRB03KT 10SM OVC004 19/18 A3006 RMK AO2 SLP181 T01890178 PNO $ KSOW 261555Z AUTO 25005KT 10SM CLR 23/01 A3029 RMK AO2 KSPA 261555Z AUTO 06003KT 10SM OVC009 18/15 A3009 RMK AO2 KSPB 261553Z AUTO 00000KT 9SM OVC003 13/12 A3014 RMK AO2 CIG 003V006 SLP206 T01280122 KSPD 261556Z AUTO 32015G23KT 32/M02 A2988 RMK AO1 PK WND 32026/1541 SLP048 T03221017 KSPF 261555Z AUTO 33016KT 10SM SCT042 BKN090 15/05 A2982 RMK AO2 PWINO KSPG 261553Z 12005KT 10SM BKN024 28/26 A3001 RMK AO2 RAB27E38 SLP162 P0000 T02830261 KSPI 261552Z 19011G18KT 10SM CLR 24/16 A2987 RMK AO2 SLP112 T02390161 KSPS 261552Z AUTO 20012KT 10SM CLR 27/19 A2988 RMK AO2 SLP104 T02670189 KSPW 261553Z AUTO 20009KT 10SM CLR 22/16 A2957 RMK AO2 SLP007 T02220161 KSQI 261556Z AUTO 17007KT 130V220 10SM OVC014 22/18 A2979 RMK AO2 SLP951 T02170183 KSQL 261547Z VRB03KT 10SM SKC 18/14 A3007 KSRB 261555Z AUTO 00000KT 10SM SCT021 OVC039 22/18 A3007 RMK A01 KSRC 261556Z AUTO 22007KT 10SM FEW021 BKN028 21/18 A3002 RMK AO2 SLPNO T02110178 KSRE 261555Z AUTO 16009KT 120V190 10SM CLR 24/18 A2991 RMK AO2 KSRQ 261553Z 23009KT 10SM CLR 31/25 A3001 RMK AO2 SLP162 T03060250 KSRR 261535Z AUTO 32013G20KT 10SM CLR 23/M01 A3024 RMK AO2 KSSC 261556Z AUTO 02004KT 10SM OVC007 21/19 A3005 RMK AO2 SLP176 T02080187 $ KSSF 261553Z 19004KT 10SM BKN010 BKN015 OVC024 24/22 A2996 RMK AO2 CIG 009V013 SLP137 T02390222 $ KSSI 261553Z AUTO 09007KT 10SM SCT039 BKN060 27/25 A3003 RMK AO2 SLP169 T02670250 KSTC 261553Z 04005KT 10SM BKN090 BKN110 16/14 A2963 RMK AO2 SLP040 T01560144 KSTE 261555Z AUTO 17003KT 10SM CLR 19/16 A2970 RMK AO2 T01940160 KSTF 261555Z AUTO 00000KT 10SM OVC034 22/18 A3005 RMK AO2 KSTJ 261553Z 19012G21KT 10SM CLR 25/17 A2972 RMK AO2 SLP058 T02500167 KSTK 261555Z AUTO 23007KT 10SM CLR 20/07 A2982 RMK AO2 KSTL 261551Z 19009KT 10SM SCT250 24/16 A2992 RMK AO2 SLP122 T02440156 KSTP 261553Z 12004KT 10SM CLR 19/16 A2962 RMK AO2 SLP026 T01890156 $ KSTS 261553Z 01007KT 10SM FEW250 23/14 A3005 RMK AO2 SLP167 T02280144 KSUA 261547Z 28009KT 7SM SCT024 SCT041 30/24 A3003 KSUE 261556Z AUTO 24011KT 10SM FEW070 22/17 A2971 RMK AO2 SLP057 T02220167 KSUN 261547Z 00000KT 10SM BKN060 12/04 A3009 KSUS 261554Z 20009KT 10SM CLR 24/16 A2990 RMK AO2 SLP119 T02390161 KSUT 261555Z AUTO 36006KT 10SM CLR 27/22 A3000 RMK AO2 T02650216 KSUU 261458Z AUTO 24005KT 10SM CLR 17/12 A3003 RMK AO2 SLP176 T01650116 52009 $ KSUW 261555Z AUTO 27003KT 10SM OVC004 15/15 A2965 RMK AO2 T01490147 KSUX 261552Z 20007KT 10SM CLR 21/17 A2955 RMK AO2 SLP000 T02110167 KSUZ 261555Z AUTO 21007KT 6SM HZ OVC027 21/16 A3001 RMK A01 KSVC 261555Z AUTO 30013KT 10SM OVC110 27/01 A3018 RMK AO2 T02740005 KSVE 261555Z AUTO 00000KT 10SM CLR 15/07 A3020 RMK AO2 KSVH 261555Z AUTO 00000KT 10SM OVC021 21/17 A3007 RMK AO2 T02080167 KSVN 261556Z AUTO 01003KT 10SM BKN010 26/24 A3001 RMK AO2 CIG 010V012 BKN V OVC SLPNO T02550244 $ KSWF 261545Z 16008KT 10SM OVC040 21/17 A3010 KSWO 261553Z 17011KT 10SM CLR 26/18 A2985 RMK AO2 SLP097 T02560183 KSWW 261535Z AUTO 18013KT 10SM CLR 25/18 A2995 RMK AO2 T02480178 KSXK 261555Z AUTO 18008G14KT 9SM CLR 20/19 A2953 RMK AO2 KSXS 261458Z AUTO 03003KT 10SM CLR 25/19 A3005 RMK AO2 SLP175 T02460189 52014 KSXT 261456Z AUTO VRB04KT 10SM BKN020 10/08 A3020 RMK AO2 SLP211 T01000083 53007 KSXU 261555Z AUTO 28012G18KT 10SM CLR 28/00 A2999 RMK AO2 T02780004 KSYF 261555Z AUTO 24007KT 5SM CLR 24/04 A2979 RMK AO2 T02390035 PWINO KSYI 261555Z AUTO 00000KT 10SM BKN016 OVC039 22/18 A3007 RMK A01 KSYM 261555Z AUTO 00000KT 10SM BKN013 BKN023 OVC030 22/18 A3008 RMK AO2 KSYN 261555Z AUTO 00000KT 10SM CLR 19/16 A2961 RMK AO2 T01900161 KSYR 261554Z 16008KT 10SM FEW250 25/12 A3000 RMK AO2 SLP156 T02500122 KSZL 261556Z 20014G24KT 10SM CLR 23/ A2980 RMK AO2A SLP088 $ KSZT 261535Z AUTO 20007KT 10SM CLR 08/03 A3002 RMK AO2 KSZY 261555Z AUTO 00000KT 10SM FEW022 OVC037 21/18 A3004 RMK A01 KT20 261535Z AUTO 17009KT 10SM BKN025 BKN030 BKN035 26/21 A2998 RMK AO2 T02640213 KT35 261535Z AUTO 18008KT 10SM CLR 26/20 A2998 RMK AO2 T02550199 TSNO KT41 261555Z AUTO 15005KT 10SM BKN021 OVC041 26/21 A2999 RMK AO2 T02620213 KT69 261555Z AUTO 16007KT 10SM SCT018 BKN024 BKN028 29/25 A2996 RMK A01 KT74 261555Z AUTO 18011KT 10SM BKN028 24/21 A2998 RMK AO2 T02420208 KT82 261530Z AUTO 20007KT 10SM OVC015 22/19 A3001 RMK AO2 T02230190 KTAD 261554Z AUTO 21004KT 10SM CLR 24/M02 A3002 RMK AO2 SLP080 T02441022 KTAN 261552Z AUTO 15010KT 10SM CLR 24/13 A3011 RMK AO2 SLP197 T02440128 KTAZ 261535Z AUTO 18012G17KT 10SM CLR 23/15 A2991 RMK AO2 T02260154 KTBN 261556Z AUTO 18012G17KT 10SM CLR 23/15 A2993 RMK AO2 SLP129 T02340154 KTBR 261535Z AUTO 35005KT 10SM BKN015 25/20 A3005 RMK AO2 T02490200 KTBX 261535Z AUTO 10SM SCT048 06/02 A3004 RMK AO2 KTCC 261553Z AUTO 27009KT 10SM CLR 29/02 A2990 RMK AO2 SLP056 T02890022 KTCL 261553Z 00000KT 10SM FEW020 FEW026 SCT040 26/19 A3004 RMK AO2 SLP171 T02560194 KTCM 261358Z AUTO 19005KT 10SM OVC070 11/10 A3008 RMK AO2 SLP190 T01110098 $ KTCS 261553Z AUTO 10SM CLR 28/03 A3011 RMK AO2 SLP101 T02830028 KTCY 261555Z AUTO 29010G15KT 10SM CLR 26/11 A3001 RMK A01 KTDR 261556Z AUTO 05003KT 10SM CLR 29/22 A3005 RMK AO2 SLP179 T02900219 $ KTDZ 261553Z AUTO 20011G20KT 10SM FEW030 24/17 A2994 RMK AO2 SLP135 T02440167 KTEB 261551Z 16009KT 10SM SCT030 BKN037 BKN070 23/15 A3008 RMK AO2 SLP187 T02330150 KTEW 261555Z AUTO 19005KT 10SM CLR 23/16 A2988 RMK AO2 T02260155 KTEX 261535Z AUTO 00000KT 10SM CLR 11/M05 A3037 RMK AO2 KTHA 261555Z AUTO 29004KT 10SM SCT018 OVC038 22/17 A3006 RMK A01 KTHV 261553Z AUTO 04004KT 8SM OVC009 18/15 A3007 RMK AO2 SLP184 T01780150 KTIF 261535Z AUTO 28012G17KT 10SM CLR 25/04 A2968 RMK AO2 T02500039 KTIK 261556Z AUTO 19014KT 10SM CLR 24/17 A2988 RMK AO2 SLP115 T02350172 KTIP 261535Z AUTO 19014G19KT 10SM OVC008 18/17 A2991 RMK AO2 T01810171 KTIW 261553Z 19008KT 10SM BKN007 OVC100 12/11 A3011 RMK AO2 SLP196 T01170106 KTIX 261547Z VRB06KT 7SM SCT040 33/25 A3003 KTKC 261555Z AUTO 00000KT 10SM CLR 17/09 A2959 RMK AO2 T01700091 KTKI 261553Z 15012KT 10SM BKN010 23/19 A2995 RMK AO2 SLP142 T02330189 KTKV 261555Z AUTO 00000KT 10SM SCT009 BKN110 18/15 A2970 RMK AO2 T01760147 PWINO KTKX 261555Z AUTO 20007G13KT 10SM OVC027 23/18 A3000 RMK AO2 TSNO KTLH 261553Z 36005KT 10SM FEW030 SCT250 28/20 A3005 RMK AO2 SLP175 T02780200 KTMA 261555Z AUTO 30006KT 10SM SCT028 27/20 A3006 RMK AO2 T02680197 KTMB 261553Z 26006KT 10SM FEW030 32/26 A3002 RMK AO2 SLP163 T03220256 $ KTME 261555Z AUTO 18005KT 10SM CLR 26/21 A3000 RMK AO2 KTMK 261535Z AUTO 00000KT 10SM SCT011 SCT023 BKN028 13/13 A3015 RMK AO2 KTMT 261535Z AUTO 00000KT 10SM CLR 11/M04 A3023 RMK AO2 T01131042 KTNB 261555Z AUTO 00000KT 10SM 19/13 A3014 RMK AO2 T01890127 KTNU 261555Z AUTO 19011G19KT 10SM CLR 22/19 A2967 RMK A01 KTOA 261547Z 09003KT 10SM FEW008 OVC012 20/18 A2996 KTOB 261555Z AUTO 14005KT 10SM CLR 19/16 A2962 RMK AO2 PWINO KTOC 261535Z AUTO 10003KT 10SM OVC008 20/17 A3009 RMK AO2 T02010173 KTOI 261553Z AUTO 23004KT 10SM CLR 27/18 A3007 RMK AO2 SLP178 T02720183 KTOL 261552Z 20009KT 10SM CLR 24/16 A2993 RMK AO2 SLP131 T02440161 KTOP 261553Z 20014G20KT 10SM CLR 26/17 A2974 RMK AO2 SLP064 T02610172 KTOR 261553Z AUTO 26016G24KT 10SM CLR 25/01 A2976 RMK AO2 SLP027 T02500006 KTPA 261553Z 24004KT 10SM SCT036 SCT080 SCT140 31/23 A3003 RMK AO2 SLP168 T03060228 KTPF 261555Z AUTO 20005KT 10SM SCT070 31/25 A3003 RMK AO2 KTPH 261556Z AUTO 00000KT 10SM CLR 18/M08 A3018 RMK AO2 SLP159 T01781078 KTPL 261551Z AUTO 18013KT 10SM FEW011 BKN017 25/21 A2998 RMK AO2 SLP142 T02500211 KTQE 261554Z AUTO 20013G19KT 10SM -RA CLR 25/16 A2957 RMK AO2 RAB33 SLP003 P0000 T02500156 KTQH 261555Z AUTO 16011G15KT 10SM CLR 22/17 A2996 RMK AO2 KTQK 261555Z AUTO 10SM CLR 23/07 A2977 RMK AO1 T02310069 KTRI 261528Z 00000KT 10SM BKN015 OVC021 21/17 A3009 KTRK 261545Z 18003KT 10SM SKC 08/00 A3028 KTRL 261553Z AUTO 18009KT 10SM CLR 23/19 A2997 RMK AO2 SLP145 T02280194 KTSP 261555Z AUTO 30009KT 8SM CLR 17/10 A3016 RMK AO2 KTTA 261555Z AUTO 01004KT 10SM OVC006 19/19 A3005 RMK AO2 T01910191 KTTD 261553Z 00000KT 10SM OVC011 16/13 A3014 RMK AO2 SLP207 T01560128 KTTF 261555Z AUTO 22012G17KT 10SM CLR 25/16 A2991 RMK AO2 T02450162 KTTN 261553Z 10009KT 10SM SCT024 BKN050 OVC075 23/18 A3007 RMK AO2 SLP177 T02280178 KTTS 261556Z AUTO 03005KT 10SM CLR 31/25 A3001 RMK AO2 SLP167 T03130254 $ KTUL 261553Z 18014KT 10SM FEW020 23/18 A2989 RMK AO2 SLP116 T02330183 KTUP 261553Z VRB03KT 10SM OVC036 23/18 A3005 RMK AO2 RAE1457 SLP171 P0000 T02280183 KTUS 261553Z 17003KT 10SM CLR 27/05 A3006 RMK AO2 SLP128 T02720050 KTVC 261553Z 23008KT 10SM -TSRA FEW022 BKN046CB OVC080 22/17 A2975 RMK AO2 LTG DSNT W-NE RAB28 SLP072 OCNL LTGICCG W-NE TS W-NE MOV NE P0000 T02170167 KTVF 261556Z AUTO 20013G19KT 10SM CLR 21/06 A2952 RMK AO2 SLP997 T02110056 KTVI 261535Z AUTO 01005KT 10SM SCT026 SCT033 26/21 A3007 RMK AO2 PWINO KTVK 261515Z AUTO 17004KT 10SM CLR 21/20 A2976 RMK AO2 KTVL 261553Z AUTO 00000KT 10SM CLR 14/03 A3025 RMK AO2 SLP199 T01390033 KTVR 261553Z AUTO 16003KT 10SM OVC043 24/19 A3003 RMK AO2 SLP174 T02390194 KTVY 261555Z AUTO 36008G14KT 10SM CLR 21/07 A3009 RMK AO2 KTWF 261553Z 26014G19KT 10SM OVC065 13/08 A3012 RMK AO2 SLP165 T01280078 KTWM 261555Z AUTO 00000KT 7SM BKN003 14/12 A2964 RMK AO2 KTXK 261553Z 21006KT 9SM OVC003 18/17 A3002 RMK AO2 SLP161 T01780167 KTXW 261535Z AUTO 18013G17KT 10SM SCT023 29/23 A2994 RMK AO2 T02940230 KTYL 261555Z AUTO 00000KT 10SM CLR 23/02 A3025 RMK AO2 KTYQ 261535Z AUTO 20011G14KT 4SM BR OVC007 17/16 A2998 RMK AO2 T01730156 KTYR 261553Z 19008KT 10SM OVC011 22/19 A2999 RMK AO2 SLP151 T02220194 KTYS 261553Z 31004KT 10SM SCT013 OVC023 20/18 A3007 RMK AO2 SLP175 T02000178 KTZR 261545Z 22011G16KT 10SM SCT027 SCT033 25/11 A3001 KU42 261555Z AUTO 31016KT 10SM 22/05 A3008 RMK AO1 T02230048 KU55 261550Z AUTO 00000KT 10SM CLR 14/M04 A3026 RMK A01 KU68 261555Z AUTO 31018G26KT 10SM CLR 15/02 A2985 RMK AO2 KUAO 261553Z 18004KT 10SM SCT042 OVC075 15/13 A3016 RMK AO2 SLP212 T01500133 KUBE 261555Z AUTO 00000KT 5SM BR SCT003 BKN110 16/16 A2966 RMK AO2 KUCP 261556Z AUTO 18005KT 10SM CLR 22/17 A3002 RMK AO2 SLP178 T02220167 KUCY 261555Z AUTO 17010KT 10SM SCT024 OVC031 22/18 A3001 RMK A01 KUDG 261556Z AUTO 00000KT 10SM OVC013 22/19 A3005 RMK AO2 SLP176 T02170189 KUES 261545Z 20010KT 10SM SKC 20/16 A2978 KUGN 261555Z 21011KT 10SM BKN014 21/17 A2980 RMK AO2 SLP081 T02060167 KUIL 261553Z AUTO 00000KT 10SM FEW018 SCT032 BKN095 12/11 A3006 RMK AO2 SLP179 T01220106 KUIN 261554Z AUTO 19014KT 10SM CLR 23/17 A2982 RMK AO2 SLP092 T02330167 KUKF 261535Z AUTO 00000KT 10SM OVC014 20/17 A3013 RMK AO2 KUKI 261556Z AUTO 00000KT 10SM CLR 18/13 A3011 RMK AO2 SLP190 T01830128 KUKL 261535Z AUTO 20018G23KT 10SM CLR 23/17 A2982 RMK AO2 T02270173 KUKT 261555Z AUTO 10007KT 070V130 10SM BKN017 OVC035 20/17 A3008 RMK A01 KULM 261555Z AUTO 09004KT 10SM CLR 17/14 A2960 RMK AO2 KULS 261535Z AUTO 32003KT 10SM CLR 27/08 A2978 RMK AO2 KUNI 261555Z AUTO 18003KT 10SM BKN050 22/19 A3004 RMK AO2 T02200185 KUNO 261553Z AUTO 18006KT 10SM BKN013 19/15 A3000 RMK AO2 SLP151 T01940150 KUNU 261555Z AUTO 18007KT 10SM CLR 20/17 A2975 RMK AO2 T02010166 KUNV 261553Z 21003KT 10SM OVC018 19/14 A3009 KUOX 261555Z AUTO VRB06KT 9SM FEW014 OVC031 21/18 A3006 RMK AO2 PWINO KUTA 261555Z AUTO 21008KT 10SM SCT023 OVC030 21/17 A3004 RMK AO2 TSNO KUTS 261553Z AUTO 19006KT 10SM BKN010 23/19 A3000 RMK AO2 CIG 007V013 SLP155 T02330194 KUUU 261553Z AUTO 17007KT 2 1/2SM BR OVC004 19/17 A3013 RMK AO2 CIG 001V007 SLP203 T01940172 KUVA 261555Z AUTO 17009KT 10SM BKN016 OVC022 25/22 A2999 RMK AO2 T02520217 KUYF 261535Z AUTO 23007KT 10SM SCT025 BKN032 23/16 A3002 RMK AO2 KUZA 261554Z AUTO 00000KT 10SM OVC012 21/17 A3007 RMK AO2 SLP175 T02060172 KVAD 261556Z AUTO 35006KT 10SM BKN024 BKN036 OVC045 28/22 A3004 RMK AO2 CIG 024V039 SLP173 T02750215 $ KVAF 261555Z AUTO 22007KT 10SM CLR 30/19 A2999 RMK A01 KVAY 261554Z AUTO VRB06KT 10SM BKN020 OVC055 23/19 A3007 RMK AO2 SLP180 T02280189 KVBG 261518Z AUTO 32004KT 3/8SM R30/2400FT FG VV001 13/13 A2997 RMK AO2 SLP151 $ KVBT 261556Z AUTO 18008KT 10SM BKN014 22/18 A2998 RMK AO2 SLP147 T02220178 TSNO KVBW 261555Z AUTO 00000KT 10SM OVC030 19/16 A3007 RMK AO1 T01900156 KVCB 261553Z AUTO 00000KT 10SM CLR 23/11 A3003 RMK AO2 SLP168 T02330111 KVCT 261551Z 13008KT 10SM CLR 28/21 A2997 RMK AO2 SLP147 T02830211 KVCV 261546Z 15005KT 10SM SKC A3004 KVDF 261555Z AUTO 00000KT 10SM BKN029 BKN036 BKN041 32/25 A3003 RMK AO2 KVDI 261535Z AUTO 00000KT 10SM OVC010 25/20 A3006 RMK AO2 KVEL 261553Z AUTO 12004KT 10SM CLR 18/M02 A3004 RMK AO2 SLP114 T01831017 KVER 261615Z AUTO RMK AO2 PWINO PNO TSNO KVES 261535Z AUTO 22013G19KT 10SM OVC021 21/15 A3000 RMK AO2 KVGC 261555Z AUTO 17009G16KT 10SM CLR 21/11 A3005 RMK AO2 KVGT 261553Z 00000KT 10SM HZ CLR 27/M02 A2995 RMK AO2 SLP133 T02671022 KVHN 261555Z AUTO 21011KT 10SM CLR 29/04 A3006 RMK AO2 T02880038 KVIH 261553Z AUTO 20013KT 10SM CLR 23/16 A2993 RMK AO2 SLP126 T02280156 KVIS 261556Z AUTO 00000KT 4SM HZ CLR 18/13 A3003 RMK AO2 SLP174 T01830128 KVJI 261555Z AUTO 00000KT 10SM SCT020 SCT027 SCT034 21/14 A3010 RMK AO2 T02050139 KVKS 261555Z AUTO VRB03KT 10SM OVC038 25/18 A3002 RMK A01 KVKY 261555Z AUTO 00000KT 10SM SCT017 BKN021 28/24 A3003 RMK A01 KVLD 261553Z 36007KT 10SM SCT021 28/21 A3005 RMK AO2 SLP181 T02830206 KVLL 261555Z AUTO 21011G15KT 10SM CLR 24/17 A2993 RMK AO2 T02400167 KVNC 261555Z AUTO 00000KT 8SM BKN075 BKN085 28/24 A3004 RMK AO2 KVNW 261555Z AUTO 24010G17KT 10SM SCT024 23/16 A2996 RMK AO2 KVNY 261551Z 11004KT 4SM HZ OVC008 19/16 A2996 RMK AO2 SLP138 T01940156 KVOA 261600Z AUTO 10012KT 10SM FEW018 FEW050 SCT065 28/24 A3002 RMK A01 KVOK 261556Z AUTO 16006KT 7SM SCT170 SCT190 21/20 A2968 RMK AO2 SLP050 T02080196 KVPC 261553Z AUTO 00000KT 10SM BKN012 OVC039 23/19 A3008 RMK AO2 SLP174 T02280189 KVPS 261556Z AUTO 07005KT 10SM BKN042 27/21 A3005 RMK AO2 SLP182 T02660206 $ KVPZ 261556Z AUTO 21012KT 10SM OVC006 17/16 A2990 RMK AO2 SLP124 T01720156 $ KVQQ 261550Z VRB04KT 10SM SCT018 32/23 A3003 KVRB 261553Z 25006KT 10SM BKN020 30/23 A3002 RMK AO2 SLP164 T03000233 KVSF 261554Z AUTO 00000KT 10SM OVC011 18/14 A3011 RMK AO2 SLP196 T01780139 KVTA 261554Z AUTO 18006KT 10SM FEW024 25/18 A3000 RMK AO2 SLP154 T02500178 KVTI 261555Z AUTO 18012G20KT 10SM CLR 23/19 A2968 RMK AO2 T02330186 KVTN 261552Z AUTO 29009KT 9SM CLR 21/04 A2963 RMK AO2 SLP015 T02110044 KVTP 261559Z AUTO 24012G20KT 10SM CLR 14/M06 A3036 RMK AO2 KVUJ 261555Z AUTO 35004KT 10SM OVC009 19/17 A3010 RMK AO2 LTG DSNT E T01930174 KVUO 261553Z AUTO 00000KT 10SM FEW007 FEW012 SCT085 16/12 A3014 RMK AO2 SLP207 T01560122 KVVV 261555Z AUTO 15004KT 10SM CLR 16/10 A2957 RMK AO2 KVWU 261555Z AUTO 18007KT 10SM 18/10 A2955 RMK AO2 KVYS 261535Z AUTO 20011G18KT 7SM OVC010 20/17 A2983 RMK AO2 T01950172 KW13 261555Z AUTO 35004KT 10SM SCT011 SCT017 OVC025 18/16 A3009 RMK AO1 T01800160 KW22 261535Z AUTO 22005KT 10SM FEW020 OVC045 20/17 A3009 RMK AO2 KW29 261555Z AUTO 35004KT 1 1/2SM BR OVC004 19/ A3004 RMK AO2 KW31 261555Z AUTO 33005KT 10SM OVC006 18/18 A3004 RMK AO1 T01830175 KW63 261555Z AUTO 00000KT 10SM OVC006 18/18 A3005 RMK AO1 KW75 261555Z AUTO 30004KT 10SM OVC003 21/21 A3002 RMK AO1 T02060206 KW78 261555Z AUTO 36004KT 10SM OVC013 20/17 A3006 RMK AO1 T02020168 KW81 261555Z AUTO 36003KT 10SM OVC008 17/16 A3005 RMK AO1 T01660155 KW96 261555Z AUTO 29005KT 3SM OVC003 19/19 A3002 RMK AO1 P0005 T01870187 KW99 261555Z AUTO 00000KT 10SM OVC039 21/16 A3008 RMK AO2 T02110157 KWAL 261554Z AUTO 11009KT 10SM BKN024 24/20 A3004 RMK AO2 SLP168 T02390200 KWBF 261605Z AUTO 00000KT 5SM HZ CLR 31/22 A3002 RMK A01 KWDG 261546Z 18016KT 7SM SKC 26/19 A2982 KWDR 261535Z AUTO 00000KT 10SM OVC012 21/18 A3010 RMK AO2 KWHP 261500Z 00000KT 2SM BR OVC005 17/17 A2999 KWJF 261556Z 28009KT 10SM CLR 23/09 A3002 RMK AO2 SLP148 T02330094 KWMC 261556Z AUTO 29007KT 9SM CLR 19/04 A3015 RMK AO2 SLP173 T01940044 $ KWRB 261556Z 36004KT 9SM BKN012 BKN018 OVC033 23/20 A3006 RMK AO2A SLP180 T02330202 KWRI 261556Z 12010KT 10SM SCT020 BKN050 24/18 A3007 RMK BKN V OVC SLP182 T02400177 $ KWRL 261553Z AUTO 35016G23KT 10SM BKN080 BKN095 12/06 A2986 RMK AO2 PK WND 34043/1455 SLP092 T01220061 KWST 261553Z AUTO 15007KT 10SM BKN008 BKN110 20/16 A3014 RMK AO2 CIG 006V010 SLP204 T02000161 KWVI 261553Z AUTO 00000KT 10SM CLR 18/13 A3005 RMK AO2 SLP176 T01780128 KWVL 261556Z AUTO VRB03KT 10SM CLR 18/14 A3009 RMK AO2 SLP216 T01830139 KWWD 261556Z AUTO 14007KT 10SM FEW004 BKN050 OVC065 22/21 A3006 RMK AO2 RAE36 SLP180 P0004 T02220211 KWWR 261535Z AUTO 21018G23KT 10SM CLR 27/12 A2985 RMK AO2 KWYS 261555Z AUTO 00000KT 10SM OVC090 07/03 A3003 RMK AO2 KX07 261555Z AUTO 00000KT 10SM FEW028 OVC037 31/23 A3005 RMK A01 KX26 261555Z AUTO 30004KT 10SM BKN021 30/25 A3003 RMK AO2 LTG DSNT E AND SE P0004 T02990247 KX60 261555Z AUTO 34007KT 320V030 10SM SCT002 BKN032 31/23 A3003 RMK AO2 T03080227 KXBP 261535Z AUTO 19007KT 10SM CLR 26/19 A2993 RMK AO2 T02570189 KXER 261555Z AUTO 22007KT 10SM CLR 29/21 A3001 RMK A01 KXIF 261458Z AUTO 04003KT 3SM BR OVC008 17/16 A3006 RMK AO2 LTG DSNT S SLPNO 60002 T01660160 55002 $ KXLL 261535Z AUTO 05003KT 10SM OVC018 18/15 A3009 RMK AO2 KXMR 261556Z AUTO 14005KT 10SM BKN021 31/25 A3000 RMK AO2 SLP162 T03090250 $ KXNA 261553Z 19014KT 10SM FEW013 21/16 A2997 RMK AO2 SLP137 T02110161 KXNO 261556Z AUTO 36004KT 10SM OVC008 21/21 A3007 RMK AO2 SLP183 T02070207 $ KXNX 261555Z AUTO 00000KT 10SM FEW014 OVC039 22/19 A3008 RMK A01 KXPY 261555Z AUTO 34005KT 10SM 28/23 A3000 RMK A01 KXSA 261555Z AUTO 33005KT 3SM RA BKN003 BKN008 OVC015 19/19 A3004 RMK AO2 P0027 T01870187 KXVG 261553Z AUTO 14003KT 10SM -DZ SCT037 SCT055 BKN065 14/13 A2963 RMK AO2 KXWA 261551Z AUTO 27022G38KT 10SM CLR 17/02 A2954 RMK AO2 PK WND 27038/1542 SLP846 T01720017 KY19 261555Z AUTO 26008KT 10SM CLR 18/06 A2959 RMK AO2 KY23 261555Z AUTO 00000KT 7SM BKN003 16/16 A2966 RMK AO2 T01630163 KY31 261555Z AUTO 21008KT 10SM CLR 22/16 A2980 RMK AO2 T02170156 KY49 261555Z AUTO 19004KT 10SM SCT095 OVC120 15/10 A2961 RMK AO2 T01530098 KY50 261556Z AUTO 18005KT 10SM CLR 21/17 A2971 RMK AO2 SLP054 T02110167 $ KY51 261555Z AUTO 16008KT 10SM BKN010 21/19 A2967 RMK AO1 T02060185 KY70 261530Z AUTO 20010KT 10SM CLR 22/14 A2985 RMK AO2 KYIP 261553Z 19012G19KT 10SM CLR 26/16 A2992 RMK AO2 SLP125 T02610161 KYKM 261553Z 16003KT 10SM SCT065 11/04 A3008 RMK AO2 SLP188 T01060044 KYKN 261556Z AUTO 11003KT 10SM CLR 16/13 A2953 RMK AO2 SLP011 T01610128 KYNG 261551Z 21008KT 10SM FEW024 FEW250 23/16 A3002 RMK AO2 SLP160 T02280156 $ KZPH 261535Z AUTO 31004KT 10SM SCT025 SCT030 SCT038 30/24 A3004 RMK A02 T02980236 KZZV 261553Z AUTO 20005KT 10SM BKN050 21/18 A3002 RMK AO2 SLP161 T02060178 LATI 261550Z 15006KT 100V210 9999 -RA FEW026TCU SCT032 BKN043 17/13 Q1002 RERA NOSIG LBBG 261530Z 22009KT 9999 FEW048 26/16 Q0998 NOSIG LBGO 261530Z AUTO 18015G26KT 150V220 9999 NCD 25/14 Q0995 NOSIG LBIA 261500Z 17010KT 9999 BKN030 BKN100 22/18 Q0998 RERA LBPD 261530Z AUTO 18006KT 150V210 9999 -SHRA FEW064 SCT078 23/14 Q0996 NOSIG LBPG 261500Z 12006KT 9999 SCT050 BKN100 25/11 Q0996 LBPL 261500Z 17016KT 6000 -RA SCT010 OVC040 17/14 Q0997 LBSF 261530Z 11004KT 070V150 9999 -RA FEW015 SCT064 OVC079 14/13 Q0999 RESHRA TEMPO 5000 SHRA SCT030TCU LBWN 261530Z 13010KT 9999 FEW043 25/19 Q0998 NOSIG LCEN 261520Z 36009KT 9999 FEW025 29/19 Q1010 NOSIG RMK RWY11 01009KT LCLK 261530Z 22011KT 9999 FEW028 28/21 Q1009 NOSIG LCPH 261530Z 29012KT 9999 FEW025 27/20 Q1010 LCRA 261521Z 27012KT 9999 FEW030 26/21 Q1010 NOSIG LDDU 261530Z 01009KT 290V080 9999 FEW066 15/08 Q1000 NOSIG LDLO 261530Z 03010KT CAVOK 16/08 Q0999 LDOS 261530Z 03009KT 9999 FEW030 14/09 Q0998 LDPL 261530Z 31005KT 280V340 9999 FEW045 17/09 Q0999 NOSIG LDRI 261530Z 07003KT 9999 FEW034 SCT062 16/06 Q0999 LDSB 261530Z 26011KT 9999 FEW025TCU BKN028 12/08 Q0998 LDSP 261530Z 24014KT 9999 FEW030 BKN040 15/10 Q0997 BECMG 30008KT LDZA 261530Z VRB02KT 9999 FEW035 12/10 Q0999 TEMPO RA LDZD 261530Z 35007KT 320V020 9999 FEW028 SCT035 BKN045 13/11 Q0998 NOSIG LEAB 261530Z 31014KT CAVOK 20/03 Q1017 NOSIG LEAG 261530Z AUTO 28011G21KT 230V340 CAVOK 26/08 Q1017 LEAL 261530Z 08010KT 050V120 CAVOK 24/07 Q1013 NOSIG LEAM 261530Z 21011KT 180V240 CAVOK 24/14 Q1015 LEAS 261530Z 28021G32KT 250V320 9999 BKN030 SCT060 20/14 Q1016 TEMPO 3000 -RA BKN010 LEBA 261530Z 24005KT 170V300 CAVOK 27/06 Q1016 LEBB 261530Z 28007KT 230V330 9999 FEW026 SCT034 BKN040 18/13 Q1014 TEMPO 3000 SHRA SCT030TCU LEBG 261530Z 23011KT 200V260 9999 SCT047 15/07 Q1016 LEBL 261530Z 21014KT 9999 FEW020 22/09 Q1009 NOSIG LEBR 261530Z AUTO 30017KT 9999 BKN047 OVC060 19/08 Q1014 LEBT 261530Z AUTO 24004KT CAVOK 27/04 Q1012 LEBZ 261530Z 32013KT 290V010 CAVOK 26/03 Q1019 LECH 261530Z AUTO 34009KT 300V020 CAVOK 24/04 Q1012 LECO 261543Z 29009KT 250V320 2000 -RADZ FEW008 BKN014 OVC016 17/17 Q1020 TEMPO 6000 NSW LECV 261530Z VRB01KT 9999 FEW040 21/05 Q1018 LEDA 261530Z AUTO 26028KT CAVOK 18/09 Q1011 LEGA 261200Z 29005KT 230V020 CAVOK 23/03 Q1021 LEGE 261530Z 14010KT 9999 FEW090 18/09 Q1009 LEGR 261530Z 33008KT 290V050 CAVOK 26/02 Q1017 LEGT 261530Z 29012KT 250V320 CAVOK 22/05 Q1017 LEHC 261530Z 27018KT 230V300 9999 BKN036 17/08 Q1012 LEIB 261530Z 27008KT 220V320 CAVOK 22/07 Q1013 NOSIG LEJR 261600Z 32008KT 280V350 CAVOK 27/05 Q1017 LELC 261530Z AUTO 21011KT 170V260 CAVOK 26/05 Q1014 LELL 261530Z 16011KT 9999 SCT070 21/09 Q1009 LELN 261530Z 26016KT 220V290 9999 FEW030 SCT045 15/09 Q1018 LELO 261530Z 28015KT 9999 FEW022 SCT050 BKN070 19/09 Q1014 LEMD 261530Z 27013KT CAVOK 21/05 Q1017 NOSIG LEMG 261530Z 17008KT 130V220 CAVOK 26/14 Q1015 NOSIG LEMH 261530Z 27011KT 230V300 9999 FEW042 20/09 Q1012 LEMI 261530Z 21010KT 180V240 CAVOK 25/05 Q1014 LEMO 261600Z VRB05KT CAVOK 27/04 Q1017 NOSIG LEPA 261530Z 32009KT 290V350 9999 FEW025 SCT056 21/10 Q1012 NOSIG LEPP 261530Z 33007KT 300V010 9999 BKN040 14/11 Q1014 LERI 261530Z 35005KT 280V060 CAVOK 27/02 Q1013 NOSIG LERS 261530Z 27016KT 240V320 9999 FEW050 22/08 Q1010 LERT 261530Z 27013KT 240V300 CAVOK 24/13 Q1018 NOSIG LESA 261530Z 31012KT 250V010 9999 FEW040 18/06 Q1020 LESB 261530Z AUTO 30008KT 260V350 9999 FEW042/// BKN048/// OVC054/// 20/10 Q1013 LESO 261530Z 24016G27KT 190V290 9999 BKN027 OVC033 17/13 Q1012 LEST 261549Z 27006KT 220V320 2000 -RADZ BCFG BKN002 15/14 Q1021 NOSIG LESU 261530Z VRB02KT 9999 BKN057 OVC067 16/03 Q1010 LETL 261530Z AUTO 32017KT CAVOK 18/04 Q1016 LETO 261530Z 23006KT CAVOK 21/06 Q1017 NOSIG LETU 261530Z AUTO 34010KT 9999 NSC 19/07 Q1014 LEVC 261530Z 26008KT 210V310 CAVOK 28/04 Q1012 NOSIG LEVD 261530Z 28015KT 9999 BKN048 19/06 Q1018 LEVS 261530Z 28012KT 230V330 CAVOK 21/05 Q1017 LEVT 261530Z VRB02KT 9999 4000E -RA FEW010 OVC040 14/12 Q1015 LEVX 261530Z 26003KT 170V320 2500 RA BR SCT002 BKN005 15/15 Q1022 REDZ NOSIG LEXJ 261547Z 22008KT 190V250 3000 RA SCT015 OVC028 16/15 Q1014 LEZG 261530Z 32014KT 290V350 9999 BKN065 20/08 Q1013 LEZL 261530Z 17003KT CAVOK 28/05 Q1017 NOSIG LFAC 261530Z AUTO 32024KT 9000 -RADZ OVC011/// ///TCU 12/10 Q1005 LFAQ 261530Z AUTO 30018KT 9999 OVC019 10/08 Q1006 TEMPO 3000 SHRA BKN013 BKN025CB BECMG 31020G30KT LFAT 261530Z AUTO 34022KT 9999 -RA OVC021/// ///TCU 11/08 Q1007 TEMPO 33025G40KT 3000 SHRA BKN013 BKN025CB LFBA 261530Z AUTO 06007KT 2000 RA BR BKN005/// OVC009/// ///TCU 12/11 Q1009 TEMPO OVC005 LFBC 261530Z AUTO 28015G25KT 2200 1100 R24/1300D +RA BR BKN006/// OVC012/// ///CB 17/16 Q1007 LFBD 261530Z AUTO 08011KT 6000 -RA BKN006/// BKN012/// BKN017/// ///TCU 12/11 Q1009 TEMPO 2500 RA BKN004 OVC030 BECMG 26005KT LFBE 261530Z AUTO 08004KT 6000 -RA FEW007/// SCT017/// BKN035/// ///TCU 10/10 Q1010 TEMPO 3000 RA BECMG NSC LFBG 261530Z AUTO VRB03KT 9999 SCT007 SCT025 BKN031 11/10 Q1010 LFBH 261530Z AUTO VRB03KT 9999 FEW014 OVC056 12/08 Q1011 BECMG 34015KT LFBI 261530Z AUTO 32012KT 290V350 CAVOK 15/04 Q1009 NOSIG LFBL 261530Z AUTO 26007KT 230V300 9999 FEW019 BKN092 10/06 Q1009 TEMPO 4000 SHRA SCT020TCU LFBM 261530Z AUTO 22003KT 180V290 1600 0900 R27/1200U +RA BCFG OVC005/// ///TCU 15/14 Q1008 TEMPO 3000 SHRA BKN010TCU LFBO 261530Z AUTO 27006KT 5000 RA BR BKN008/// BKN014/// OVC021/// ///TCU 13/12 Q1010 TEMPO 2000 RA BKN004 LFBP 261530Z AUTO 22011KT 9999 BKN013/// OVC020/// ///TCU 14/13 Q1010 TEMPO 27020G35KT 2000 RA OVC005 LFBT 261530Z AUTO 25010KT 9999 -RA FEW034 BKN041 BKN047 15/11 Q1010 TEMPO 27020G35KT 2000 RA OVC005 LFBU 261530Z AUTO 28004KT 260V320 9999 FEW016 OVC056 10/07 Q1010 NOSIG LFBY 261530Z AUTO 25017G29KT 220V290 1300 1200 // ////// 15/15 Q1009 LFBZ 261530Z AUTO 26017G28KT 200V280 9999 OVC018 16/13 Q1011 TEMPO 27030G50KT 1500 +TSRA BKN005 BKN015CB LFCK 261530Z AUTO 35007KT 9999 RA SCT009/// BKN020/// OVC033/// ///TCU 11/10 Q1011 TEMPO 3000 RA OVC004 LFCR 261530Z AUTO 27010KT 9999 -RA BKN012/// BKN031/// OVC043/// ///TCU 08/06 Q1010 BECMG 4000 -RA BKN008 LFGA 261530Z AUTO 22008KT 200V270 9999 BKN031 BKN037 BKN046 10/05 Q1004 LFGJ 261530Z AUTO 29013KT 260V320 CAVOK 14/02 Q1006 TEMPO FEW040TCU LFHP 261530Z AUTO 31012G22KT 280V350 9999 -RA FEW025 SCT031 BKN064 08/03 Q1008 LFJL 261530Z AUTO 27018KT 9999 OVC014 09/07 Q1002 NOSIG LFJR 261530Z AUTO 33007KT 280V020 CAVOK 16/03 Q1010 LFKB 261530Z AUTO 26012KT 9999 BKN086 19/05 Q1000 TEMPO 23017G27KT LFKC 261530Z AUTO 24016G30KT 190V300 9999 FEW033 BKN056 BKN068 19/07 Q1002 NOSIG LFKF 261530Z AUTO 28028G44KT 9999 FEW035 SCT041 BKN049 17/07 Q1002 NOSIG LFKJ 261530Z AUTO 28021KT 250V310 9999 FEW035/// BKN054/// OVC068/// ///CB 18/09 Q1004 TEMPO 27025G35KT BECMG SCT030 BKN043 LFKS 261530Z AUTO 29010G21KT 240V350 9999 FEW021/// SCT052/// BKN064/// ///CB 18/05 Q1001 LFLB 261530Z AUTO 16009KT 9999 SCT043 BKN070 BKN088 09/06 Q1009 TEMPO VRB15G30KT 4000 SHRA BKN040TCU LFLC 261530Z AUTO 04011KT 340V080 9999 FEW030/// BKN056/// BKN070/// ///TCU 11/03 Q1009 TEMPO 4000 SHRA BECMG FEW040 BKN050 LFLL 261530Z 30008KT 9999 FEW033TCU SCT046 11/07 Q1009 NOSIG LFLN 261530Z AUTO 27007KT 230V300 CAVOK 11/05 Q1008 TEMPO 34015G25KT 4000 SHRA BKN014 FEW030CB LFLP 261530Z AUTO 14005KT 9999 BKN020 08/05 Q1008 TEMPO VRB15G30KT 4000 SHRA BKN030TCU LFLS 261530Z AUTO 13006KT 9999 FEW025/// SCT048/// BKN056/// ///TCU 08/05 Q1009 TEMPO 32020G30KT 4000 SHRA BKN025CB LFLU 261530Z AUTO 02011KT 350V050 9999 FEW031 SCT054 BKN090 13/06 Q1008 LFLW 261530Z AUTO 27006KT 230V300 9999 -DZ FEW016/// BKN031/// BKN039/// ///TCU 07/05 Q1009 TEMPO 4000 -RADZ BKN008 LFLX 261530Z AUTO 31012KT 280V360 CAVOK 15/03 Q1009 BECMG 30015G25KT LFLY 261530Z AUTO 29007KT CAVOK 10/05 Q1009 TEMPO 4000 SHRA SCT020CB LFMC 261530Z AUTO 29026G39KT 9999 ////// 18/01 Q1003 LFMD 261530Z AUTO 29015KT 270V330 CAVOK 21/M02 Q0999 NOSIG LFMH 261530Z AUTO 36014KT 9000 -RA BKN037/// OVC044/// ///CB 07/05 Q1009 TEMPO 4000 SHRA BECMG 30010KT FEW040 BKN050 LFMI 261530Z AUTO 31018KT CAVOK 18/02 Q1006 TEMPO 36015G25KT LFMK 261530Z AUTO 30009KT 260V330 9999 -RADZ SCT015 BKN022 OVC029 13/11 Q1010 TEMPO 4000 RA BR BKN005 FEW035CB LFML 261530Z AUTO 32020KT CAVOK 17/05 Q1006 BECMG 32020G30KT LFMN 261530Z 06008KT 9999 FEW030 20/08 Q0999 NOSIG LFMO 261530Z AUTO 01012KT CAVOK 15/05 Q1007 TEMPO 34020G30KT LFMP 261530Z AUTO 31012KT 9999 FEW098 BKN120 18/08 Q1009 TEMPO 4000 RA BKN010 SCT030TCU LFMT 261530Z AUTO 31012KT 270V330 CAVOK 18/03 Q1008 NOSIG LFMU 261530Z AUTO 30012KT 9999 FEW047 BKN054 BKN120 16/07 Q1009 TEMPO 30015G25KT BKN014 FEW040TCU LFMV 261530Z AUTO 01013KT 9999 FEW066 BKN076 BKN088 16/04 Q1007 TEMPO 34015G25KT SCT055TCU BKN065 LFMY 261530Z AUTO 33013KT CAVOK 16/04 Q1007 LFOA 261530Z AUTO 33011KT 9999 ///CB 14/02 Q1008 LFOB 261530Z AUTO 30017KT 260V320 9999 SCT024 BKN036 BKN045 11/06 Q1008 TEMPO 4000 SHRA BKN025TCU BECMG 31020G33KT LFOC 261530Z AUTO 33013KT 9000 NSC 14/M00 Q1009 LFOE 261530Z AUTO 32014KT 280V360 9999 SCT040 BKN082 BKN110 13/03 Q1009 TEMPO 32020G30KT LFOH 261530Z AUTO 33017KT 9999 BKN037/// BKN043/// OVC110/// ///TCU 13/05 Q1011 BECMG 34020G35KT BKN030 LFOJ 261530Z AUTO 33016KT CAVOK 14/02 Q1008 BECMG 32015G25KT LFOK 261530Z AUTO 30018KT 9999 SCT027 BKN036 BKN047 12/06 Q1005 TEMPO 4000 RA BKN013 BKN025CB BECMG 28020G33KT LFOP 261530Z AUTO 32015KT 300V020 9999 BKN033/// OVC040/// ///TCU 11/05 Q1009 BECMG 32017G27KT BKN030 LFOT 261530Z AUTO 34011KT 310V030 CAVOK 15/01 Q1009 TEMPO 30015G25KT LFOV 261530Z AUTO 35013KT CAVOK 15/02 Q1011 LFOZ 261530Z AUTO 33012KT 300V010 CAVOK 15/02 Q1008 LFPB 261530Z AUTO 33014KT 290V350 9999 SCT041 BKN048 OVC056 13/04 Q1008 BECMG 31015G25KT LFPG 261530Z 33016KT 9999 VCSH FEW036 BKN040 13/04 Q1007 NOSIG LFPM 261530Z AUTO 31017KT CAVOK 15/02 Q1007 LFPN 261530Z AUTO 33017KT CAVOK 14/02 Q1008 TEMPO 30017G30KT LFPO 261530Z 32017KT 300V360 CAVOK 14/03 Q1007 NOSIG LFPT 261530Z AUTO 33016KT 9999 BKN040 BKN047 BKN054 12/05 Q1008 LFPV 261530Z AUTO 32016KT 280V340 9999 FEW048 BKN100 13/02 Q1008 BECMG 31015G25KT LFQA 261530Z AUTO 30015KT 270V330 9999 OVC027 11/07 Q1004 LFQB 261530Z AUTO 31018KT CAVOK 13/05 Q1006 LFQG 261530Z AUTO 29010KT 9999 FEW041 14/04 Q1008 LFQQ 261530Z AUTO 29017KT 9999 OVC010 11/10 Q1003 TEMPO 3000 RA BKN008 BKN020CB LFRB 261530Z AUTO 01011KT 340V050 9999 FEW009 SCT050 12/06 Q1015 NOSIG LFRC 261530Z AUTO 34009KT 290V020 9999 FEW044 13/03 Q1012 BECMG 34015G25KT LFRD 261530Z AUTO 35015KT 9999 FEW041 13/04 Q1013 TEMPO 34015G25KT LFRG 261530Z AUTO 32010KT 280V010 9999 BKN034/// BKN040/// ///TCU 12/05 Q1011 TEMPO 33015G30KT SHRA BKN020 LFRH 261530Z AUTO 36013KT 330V040 CAVOK 15/03 Q1013 NOSIG LFRI 261530Z AUTO 33006KT 300V020 9999 FEW044 BKN052 BKN062 15/06 Q1010 NOSIG LFRJ 261530Z AUTO 36013KT 9999 BKN039 12/05 Q1015 LFRK 261530Z AUTO 33013KT 300V010 9999 FEW038 13/04 Q1012 TEMPO SHRA BECMG 34015G25KT LFRL 261530Z AUTO 01011KT 9999 BKN042 14/06 Q1015 LFRM 261530Z AUTO 35005KT 300V060 9999 FEW046 15/04 Q1010 NOSIG LFRN 261530Z AUTO 35016KT CAVOK 14/02 Q1012 TEMPO 34015G25KT LFRO 261530Z AUTO 35010KT 310V030 9999 BKN044 13/04 Q1015 LFRQ 261530Z AUTO 03011KT 340V060 CAVOK 15/03 Q1014 NOSIG LFRS 261530Z AUTO 02009KT 350V070 CAVOK 16/06 Q1011 NOSIG LFRT 261530Z AUTO 36012KT 9999 FEW043 12/03 Q1014 LFRU 261530Z AUTO 02013KT 9999 BKN039 BKN052 13/04 Q1014 LFRV 261530Z AUTO 36010KT 330V030 9999 FEW045 14/05 Q1012 LFRZ 261530Z AUTO 02015KT 9999 FEW047 SCT070 15/06 Q1011 NOSIG LFSB 261530Z 25010KT 9999 -RA FEW026 SCT033 BKN053 09/07 Q1005 NOSIG LFSD 261530Z AUTO 30011KT CAVOK 14/02 Q1006 LFSG 261530Z AUTO 26013KT 9999 -RA BKN018 OVC024 08/07 Q1004 LFSI 261530Z AUTO 30017KT 9999 BKN032/// OVC040/// ///TCU 11/06 Q1005 LFSL 261530Z AUTO 27005KT 180V310 9999 -RA NSC 09/08 Q1010 BECMG BKN008 LFSN 261530Z AUTO 28011KT 240V310 9999 -RA BKN016 BKN023 OVC043 09/07 Q1003 LFSO 261530Z AUTO 28011KT 250V310 9999 -RA BKN014 OVC020 08/07 Q1004 LFST 261530Z AUTO 26013KT 9999 BKN026 OVC031 10/06 Q1002 NOSIG LFSX 261530Z AUTO VRB02KT 9999 -RA BKN029/// OVC034/// ///TCU 09/07 Q1005 LFTH 261530Z AUTO 31021KT CAVOK 19/01 Q1004 BECMG 30025G35KT LFTW 261530Z AUTO 31010KT 280V350 CAVOK 17/03 Q1007 TEMPO 31015G25KT LFVP 261600Z 25015KT 9999 FEW023 SCT260 16/11 Q1022 NOSIG LFYR 261530Z AUTO 34007KT 300V020 CAVOK 15/03 Q1008 LGAD 261550Z 24007KT 9999 FEW018TCU SCT020 23/15 Q1005 LGAL 261550Z 19011KT 9999 FEW020TCU SCT035 25/21 Q0998 LGAV 261550Z 23021G31KT 9999 FEW020 28/13 Q1001 NOSIG LGBL 261550Z 24010KT 9999 SCT030 24/13 Q1000 RMK FEW090 BLU LGEL 261550Z /////KT 9999 FEW020 28/13 Q0999 LGHI 261450Z 19015G25KT 9999 FEW020 27/19 Q1002 LGIO 261550Z AUTO VRB01KT //// -RA ////// 15/13 Q1005 RE// LGIR 261550Z 21020G32KT 9999 FEW080 29/18 Q1005 NOSIG LGKC 261450Z 26020G30KT 9999 FEW014 24/20 Q1006 LGKF 261550Z 30013KT 9999 FEW014 FEW016TCU SCT020 22/15 Q1005 LGKL 261550Z 24004KT 9999 SCT025 24/14 Q1006 LGKO 261550Z 16015KT 9999 FEW016 26/22 Q1006 LGKP 261550Z 19011KT 9999 FEW018 26/22 Q1008 LGKR 261550Z /////KT 9999 SCT018 SCT030 BKN080 19/16 Q1003 NOSIG LGKV 261550Z 00000KT 9999 FEW008 FEW018TCU SCT025 22/20 Q0997 LGKZ 261550Z AUTO 27011KT //// // ////// 15/07 Q1003 RERA LGLM 261550Z 19016G26KT 9999 FEW020 24/20 Q0998 LGLR 261550Z 24013G23KT 9999 FEW030 SCT080 23/10 Q1000 BLU LGMK 261550Z 20016G27KT CAVOK 27/18 Q1003 WS R16 LGMT 261550Z 16017KT 100V200 9999 FEW025 28/21 Q1002 LGNX 261450Z 18010G20KT CAVOK 28/17 Q1003 LGPA 261550Z AUTO 21021KT //// // ////// 26/22 Q1003 RE// LGPZ 261550Z 26018KT 9999 FEW010 FEW016TCU SCT025 22/11 Q1004 RMK SCT070 BLU LGRP 261550Z VRB05G15KT 9999 SCT018 27/22 Q1007 WS ALL RWY NOSIG LGRX 261550Z 00000KT 9999 FEW008 BKN025 19/17 Q1005 BLU LGSA 261550Z 27016G27KT 9999 FEW080 28/20 Q1005 LGSK 261550Z 26005KT 9999 FEW020 25/18 Q0998 LGSM 261550Z 18013KT 9999 FEW020 27/19 Q1004 LGSO 261550Z AUTO 24021G35KT //// // ////// 26/22 Q1002 RE// LGSR 261550Z 25022KT CAVOK 29/19 Q1005 RMK FEW180 BLU LGSY 261550Z 18013G23KT 9999 FEW020 28/19 Q0998 RMK FEW080 BLU LGTG 261550Z 24015KT 9999 FEW030 25/14 Q1001 BLU LGTS 261550Z 25013KT 9999 FEW020TCU BKN025 25/16 Q0998 NOSIG LGZA 261550Z 34004KT 9999 FEW014 SCT018 25/18 Q1005 LHBC 261145Z 29010KT 9999 BKN023TCU SCT100 18/13 Q0996 LHBP 261530Z 32007KT 9999 SCT028 13/06 Q0998 NOSIG LHDC 261515Z AUTO 30003KT CAVOK 15/12 Q0997 LHKE 261545Z 30010KT 280V340 9999 SCT030 BKN200 13/07 Q0998 R12/01//95 NOSIG RMK BLU LHPA 261545Z 35010KT 9999 FEW047TCU 12/05 Q0999 NOSIG RMK BLU LHPP 261515Z 02007KT 9999 SCT030 SCT200 14/08 Q0998 LHPR 261515Z AUTO 32012KT CAVOK 13/08 Q0999 NOSIG LHSM 261515Z AUTO 31004KT CAVOK 14/08 Q0999 NOSIG LHSN 261545Z 33006KT 290V350 9999 SCT027 BKN200 13/08 Q0998 NOSIG RMK BLU LIBA 261455Z 28006KT 9999 FEW030CB SCT050 20/10 Q1000 RETS RMK BKN VIS MIN 9999 WIND THR11 30007KT WIND THR29 /////KT BLU LIBC 261450Z 18012G22KT 150V240 9999 FEW030 19/11 Q1003 LIBD 261550Z 36009KT 330V030 9999 FEW040 19/10 Q1001 LIBF 261450Z 28012KT 9999 SCT040 22/03 Q1000 LIBG 261450Z 30008KT 9999 FEW020 21/06 Q1001 LIBH 261455Z 28011KT 230V320 9999 SCT020 23/05 Q1000 RMK SCT QUK 2 QUL 1 SW VIS MAR 25 KM VIS MIN 9999 LIBN 261455Z 24018KT 9999 SCT050 20/12 Q1001 RMK SCT VIS MIN 9999 WIND THR14 25016KT WIND THR32 24018KT BLU LIBP 261550Z AUTO 08004KT 9999 BKN100/// 18/07 Q1001 LIBQ 261455Z 25009G21KT 210V290 0000 FG VV/// 05/05 Q1004 RMK MON INVIS VAL INVIS VIS MIN 0000 LIBR 261550Z 27012KT CAVOK 21/07 Q1001 LIBV 261455Z 26017KT 9999 SCT040 19/04 Q1000 RMK SCT VIS MIN 9999 WIND THR32 27020KT WIND THR14 26018KT BLU LIBY 261455Z ///18KT 9999 SCT015 20/13 Q1002 RMK SCT QUK 5 QUL 3 NW VIS MAR 20 KM VIS MIN 9999 LICA 261550Z AUTO 28015KT 9999 SCT047/// 20/10 Q1005 LICB 261550Z AUTO 27022G32KT 9999 NCD 20/09 Q1008 LICC 261550Z 26016KT 9999 FEW050 24/06 Q1005 LICD 261550Z AUTO 35016KT 9999 BKN037/// BKN092/// 23/14 Q1011 LICF 261455Z 30012G30KT 9999 FEW025 SCT030 22/05 Q1005 RMK BKN QUK 3 QUL 1 NW VIS MAR 16 KM MON E CIME INC NC MON W LIB NC VIS MIN 9999 LICG 261450Z 27014G29KT 220V300 9999 SCT045 20/10 Q1011 LICJ 261550Z 27025KT 9999 SCT025TCU SCT050 22/12 Q1007 LICL 261455Z 28024KT 9999 FEW050 25/16 Q//// RMK FEW QUK 4 QUL 2 SW VIS MAR 15 KM VIS MIN 9999 LICR 261450Z 30012G24KT 9999 SCT030 22/06 Q1006 LICT 261455Z 29025KT 9999 SCT025 23/11 Q1008 LICZ 261455Z 27020G31KT 9999 FEW020 25/10 Q1006 RMK FEW VIS MIN 9999 WIND THR28 28021KT WIND THR10 28019KT A2972 BLU LIEA 261550Z 30013G24KT 270V340 9999 FEW045 18/07 Q1008 LIEB 261455Z 31017G31KT 9999 FEW030 28/02 Q1003 RMK SCT QUK 2 QUL 0 VIS MAR 30 KM MON LIB VIS MIN 9999 LIEC 261455Z 28043G61KT 9999 FEW018 20/05 Q1004 RMK FEW QUK 5 QUL 0 VIS MAR 20 KM VIS MIN 9999 LIED 261455Z 29018KT 9999 SCT025 20/07 Q1008 RMK SCT VIS MIN 9999 WIND THR35 30021KT WIND THR17 30022KT BLU LIEE 261550Z 33022G36KT 9999 FEW035 20/07 Q1008 LIEO 261550Z 27025G42KT 9999 SCT020 18/05 Q1004 LIMA 261450Z 27016KT 250V310 CAVOK 18/M06 Q0999 LIMC 261550Z 03012KT CAVOK 17/M03 Q0999 NOSIG LIME 261550Z 32008KT 290V020 9999 SCT100 18/M02 Q0998 NOSIG LIMF 261550Z 28005KT 220V320 CAVOK 19/M09 Q0999 LIMG 261450Z 27011KT 9999 -TSRA SCT030CB BKN040 16/05 Q1001 LIMH 261255Z 05023KT 0800 FZFG VV/// M15/M15 Q1001 RMK MON INVIS VAL INVIS VIS MIN 0800 LIMJ 261550Z 23012G26KT 190V260 9999 SCT045 20/12 Q0999 LIML 261550Z 33008KT 270V360 CAVOK 18/M03 Q0999 NOSIG LIMP 261450Z 28016KT CAVOK 21/M01 Q0998 LIMS 261455Z 32012KT 270V350 CAVOK 20/M11 Q0998 LIMU 261455Z 30011KT 9999 TS FEW020CB 19/07 Q0999 RMK BKN SCT060 QUK 3 QUL 1 S VIS MAR 25 KM VIS MIN 9999 LIMW 261520Z AUTO 25015KT 220V280 9999 NCD 15/M06 Q1003 LIMZ 261550Z AUTO 35009KT 9999 ///////// 17/M06 Q1000 LIPB 261550Z VRB02KT 9999 FEW130 16/07 Q0999 LIPC 261455Z 33011KT 9999 FEW040 SCT060 20/01 Q0997 LIPE 261550Z 29011KT 270V330 CAVOK 20/M04 Q0998 LIPF 261455Z /////KT 9999 SCT080 20/01 Q0997 RMK SCT VIS MIN 9999 LIPH 261550Z 06008KT 9999 FEW040 18/10 Q0998 LIPL 261455Z 27009KT 9999 SCT040 20/M05 Q0996 RMK BKN VIS MIN 9999 WIND THR31 27012KT WIND THR13 28010KT BLU LIPO 261550Z AUTO 25011KT 9999 NCD 20/M01 Q0997 LIPQ 261550Z AUTO 16004KT 9999 SCT120/// 16/09 Q0999 LIPR 261550Z 13003KT 080V200 9999 SCT070 19/05 Q0999 LIPS 261455Z 07009KT 9999 SCT030 19/11 Q0997 RMK BKN BKN120 VIS MIN 9999 WIND THR26 03009KT WIND THR08 08010KT BLU LIPX 261550Z 22005KT 190V260 9999 SCT040 20/03 Q0997 LIPY 261550Z AUTO VRB02KT 9999 NCD 17/11 Q0999 LIPZ 261550Z 11007KT 9999 FEW070 18/11 Q0998 NOSIG LIQC 261455Z 26008KT 9999 FEW015 20/08 Q1001 RMK FEW QUK 5 QUL 4 W VIS MAR 20 KM VIS MIN 9999 LIQN 261450Z 19012KT 9999 SCT040TCU 15/07 Q1000 LIQO 261155Z 28020KT 9999 -TSRA BKN005CB 14/M03 Q1000 LIRA 261550Z 13007KT 100V160 9999 FEW025CB SCT040 15/08 Q1002 LIRE 261455Z 07003KT 9999 SCT030 BKN050 14/09 Q1002 RMK BKN VIS MIN 9999 WIND THR13 07005KT WIND THR31 04005KT BLU LIRF 261550Z 14008KT 9999 BKN040 15/09 Q1002 NOSIG LIRI 261450Z 22009KT 9999 SCT030 20/08 Q1003 LIRK 261455Z AUTO VRB05G15KT //// 05/02 Q1003 LIRM 261455Z /////KT 9999 FEW025 SCT050 20/09 Q1002 LIRN 261550Z 29010KT 260V330 CAVOK 20/07 Q1003 NOSIG LIRP 261545Z 26013KT CAVOK 20/06 Q0998 NOSIG LIRQ 261550Z VRB03KT 9999 FEW050 21/01 Q0999 LIRS 261455Z 20004KT 9999 FEW020CB 18/06 Q1000 RETS LIRU 261435Z 19012KT 9999 5000SW -SHRA BKN020CB 12/11 Q1002 RETS LIRV 261455Z 32010KT 9999 SCT025 FEW030CB 16/04 Q1000 LIRX 261455Z 02011KT 9999 SCT020 20/10 Q1000 RMK SCT VIS MIN 9999 VIS MAR 30 KM LIRZ 261550Z AUTO 25004KT 9999 FEW100/// 18/04 Q0999 LIVC 261455Z AUTO 32011KT //// 02/M08 Q1003 LIVD 261455Z /////KT 9999 SCT030 08/M02 Q1002 RMK OVC OVC080 VIS MIN 9999 BLU LIVE 261455Z 01005KT 9999 BKN035 06/M03 Q0996 RMK BKN VIS MIN 9999 LIVM 261455Z AUTO 28004KT //// 21/04 Q0998 LIVO 261455Z 00000KT CAVOK 10/07 Q0998 RMK BKN BKN200 VIS MIN 9999 LIVR 261455Z 35003KT CAVOK 03/M04 Q0994 RMK OVC OVC060 MON LIB VIS MIN 9999 LIVT 261455Z /////KT CAVOK 17/09 Q0998 RMK SCT SCT070 QUK 1 QUL 0 VIS MAR 20 KM VIS MIN 9999 LJCE 261530Z 24005KT 9999 FEW033 SCT070 BKN100 13/08 Q0999 RMK BLU LJLJ 261530Z 17004KT 9999 FEW030TCU BKN120 13/09 Q0999 NOSIG LJMB 261530Z 18002KT CAVOK 14/06 Q0999 LJPZ 261530Z 00000KT CAVOK 18/07 Q0999 LKCV 261530Z 26010KT 9999 SCT025 OVC035 08/06 Q0997 NOSIG LKKB 261530Z 24010KT 9999 -RA FEW011 OVC043 07/06 Q0997 NOSIG LKKV 261530Z 24004KT 190V270 9999 -RA SCT008 OVC028 05/04 Q0996 LKLN 261530Z AUTO 22006KT 9999 -RA FEW020 OVC033 07/07 Q0997 LKMT 261530Z 19010KT 9999 FEW020 BKN040 11/07 Q0997 NOSIG LKNA 261530Z 26013KT 9999 FEW020 SCT026 BKN070 09/05 Q0997 NOSIG LKPD 261530Z 25012KT 9999 BKN017 OVC027 08/06 Q0997 NOSIG LKPR 261530Z 25010KT 9999 -RA FEW012 OVC047 07/05 Q0997 NOSIG LKTB 261530Z 25009KT 9999 BKN045 10/06 Q0997 NOSIG LLBG 261550Z 33007KT 9999 FEW040 28/20 Q1011 NOSIG LLER 261550Z 02012KT CAVOK 33/12 Q1008 LLHA 261550Z 33008KT 9999 FEW028 28/21 Q1010 LMML 261545Z 30020KT 270V340 9999 FEW042 23/13 Q1010 NOSIG LOAN 261500Z 27010G20KT 35KM FEW030CU SCT040SC LOAV 261500Z 28015G28KT 25KM BKN030CU 12/05 LOWG 261550Z 32005KT 290V360 9999 FEW050 13/03 Q0999 NOSIG LOWI 261550Z VRB01KT 9999 FEW015 SCT050 BKN075 08/05 Q1002 NOSIG LOWK 261550Z VRB01KT 9999 FEW015 13/05 Q0999 NOSIG LOWL 261550Z AUTO 25015KT 9999 FEW022 SCT026 BKN032 08/05 Q1000 NOSIG LOWS 261550Z 23004KT 190V270 9999 -RA FEW006 SCT030 BKN038 07/05 Q1002 NOSIG LOWW 261550Z 27019G31KT 9999 FEW035 12/04 Q0999 NOSIG LOXT 261450Z 24019KT 50KM FEW022CU 11/06 Q0999 RMK WIND INFO EST/SCT LOXZ 261550Z 27011KT 30KM FEW045SC SCT055SC BKN110AS 11/02 Q0999 NOSIG LPAZ 261530Z 12015KT 9999 FEW016 BKN035 23/19 Q1026 LPBJ 261500Z 34017KT CAVOK 25/09 Q1020 LPCS 261530Z 34024KT 9999 FEW025 20/13 Q1022 LPFL 261530Z 17013KT 9999 SCT016 SCT034 22/19 Q1025 LPFR 261530Z 34012KT 310V010 CAVOK 28/08 Q1018 LPHR 261530Z 13015KT 9999 FEW016 SCT045 24/20 Q1026 LPLA 261500Z /////KT 9999 FEW015 BKN040 23/18 Q1027 LPMA 261530Z 03012KT 320V050 9999 SCT016 BKN030 23/16 Q1024 LPMR 261500Z 34015KT 9999 SCT020 19/13 Q1023 LPMT 261500Z 35010KT 320V020 9999 FEW035 23/13 Q1022 LPOV 261500Z 34003KT 6000 -DZ SCT009 BKN016 BKN025 17/15 Q1023 LPPD 261530Z 12013KT 9999 FEW016 22/18 Q1027 LPPR 261530Z 28005KT 230V320 2500 RADZ BR BKN006 BKN015 17/15 Q1023 LPPS 261530Z 04008KT 360V080 9999 SCT015 BKN030 23/15 Q1025 LPPT 261530Z 35016KT 320V020 9999 FEW035 22/12 Q1022 LPST 261200Z 36015KT 9999 FEW030 20/12 Q1025 LQBK 261530Z 31003KT 9999 -RA FEW005 FEW027TCU SCT035 13/12 Q0998 NOSIG LQMO 261500Z 34006KT 300V010 9999 FEW010 SCT035 OVC050 13/12 Q0998 LQSA 261530Z 02003KT 320V060 9999 FEW020 SCT055 11/09 Q0998 NOSIG LQTZ 261530Z 11004KT 9999 FEW025 BKN035 14/13 Q0997 LRAR 261530Z 09003KT 060V120 9999 SCT015 BKN030 FEW050CB 15/14 Q0997 R09/19//95 LRBC 261530Z 14009KT 9999 -SHRA FEW010 SCT042CB OVC055 19/19 Q0996 RETS LRBM 261530Z AUTO VRB01KT 9999 RA FEW028/// SCT055/// BKN070/// 13/13 Q0998 LRBO 261600Z 14004KT 9999 SCT060 BKN100 20/18 Q0997 BLU BLU LRBS 261530Z 11009KT 090V180 CAVOK 24/17 Q0995 NOSIG LRCK 261530Z 15015KT CAVOK 24/19 Q0999 NOSIG LRCL 261530Z VRB02KT 9999 -SHRA SCT008 SCT040CB 13/12 Q0997 R07/29//95 LRCT 261600Z 34008KT 8000 SHRA BKN007 SCT025CB OVC040 13/12 Q0997 GRN GRN LRCV 261530Z 00000KT 9999 RA NSC 16/15 Q0995 R27/29//95 LRFT 261600Z 14014KT 9999 SCT070 BKN090 25/15 Q0997 BLU BLU LRIA 261530Z 11024KT 9999 FEW050CB 25/15 Q0996 LROD 261530Z 07003KT 9999 FEW020 SCT042 15/13 Q0997 R01/29//95 LROP 261530Z 12010KT CAVOK 23/18 Q0995 NOSIG LRSB 261530Z 31003KT 230V360 3800 TSRA BR FEW009 SCT033CB OVC040 13/12 Q0997 R27/29//95 LRSM 261530Z 17003KT 140V200 9999 -RA FEW035CB 14/13 Q0997 R01/29//95 LRSV 261500Z 10006KT 7000 -SHRA SCT040CB 17/16 Q0997 R16/29//95 LRTC 261530Z 14016KT CAVOK 24/19 Q0998 LRTM 261530Z 26011KT 220V290 8000 SHRA SCT012 BKN028CB BKN034 15/13 Q0996 RESHRA R07/29//95 LRTR 261530Z 03005KT 9999 FEW050CB 15/14 Q0996 R11/290095 LRTZ 261600Z 12018KT 9999 SCT100 BKN200 24/19 Q0999 BLU BLU LSGC 261550Z 24008KT 200V260 7000 -RA BKN011 BKN013 04/02 Q1005 LSGG 261550Z 12004KT 050V180 9999 VCSH FEW020 FEW030TCU BKN070 08/05 Q1008 RESHRA NOSIG LSGS 261550Z 25012KT 9999 FEW020 BKN080 OVC100 09/03 Q1007 LSMA 261550Z AUTO 21013KT 180V240 9999NDV FEW043 BKN060 OVC081 08/02 Q1006 RMK LSMD 261550Z AUTO 26009KT 230V290 9999NDV RA FEW019 SCT024 BKN027 07/05 Q1005 RMK LSME 261550Z AUTO 24012KT 210V280 9999NDV BKN048 09/01 Q1006 RMK LSMM 261550Z AUTO 30011KT 240V350 9999NDV FEW054 SCT080 09/01 Q1006 RMK LSMP 261550Z AUTO 20011KT 170V230 9999NDV FEW044 SCT086 09/05 Q1007 RMK LSZA 261550Z VRB01KT 9999 FEW100 OVC120 14/01 Q1001 NOSIG LSZB 261550Z VRB03KT 9999 FEW045 BKN070 09/03 Q1006 WS ALL RWY NOSIG LSZC 261550Z AUTO 23015KT 200V260 9999 FEW048 BKN070 09/00 Q1006 LSZG 261550Z 24008KT 9999 -RA FEW033 SCT050 08/05 Q1006 NOSIG LSZH 261550Z 23012KT 200V270 9999 -RA FEW015 BKN030 07/05 Q1005 TEMPO RA LSZL 261550Z AUTO 04004KT 020V080 9999NDV FEW130 14/03 Q1001 RMK LSZR 261550Z 24009G23KT 190V290 9999 -RA SCT040 BKN050 08/04 Q1004 NOSIG RMK K LSZS 261550Z 06012G22KT 9999 SCT050 BKN060 01/M07 Q1002 R03/413095 RMK U TL180 LTAB 261450Z 25005KT 230V350 CAVOK 27/08 Q1010 NOSIG RMK RWY06 24006KT LTAC 261520Z 23004KT 9999 FEW040 24/08 Q1011 NOSIG RMK RWY21L 22007KT RWY03L 23004KT RWY21R 23006KT LTAD 261450Z 24005KT 180V270 CAVOK 27/08 Q1011 NOSIG RMK RWY29 21006KT LTAE 261450Z 18005KT 150V220 CAVOK 26/10 Q1010 NOSIG RMK RWY21 18005KT 140V210 LTAF 261520Z 22007KT 9999 FEW040 28/21 Q1009 NOSIG RMK RWY23 23008KT LTAG 261520Z 16009KT 9999 SCT035 29/20 Q1009 NOSIG RMK 4CU035 LTAI 261520Z 18008KT 9999 FEW030 27/21 Q1009 NOSIG LTAJ 261520Z 24009KT CAVOK 27/14 Q1010 NOSIG RMK RWY10 25008KT 210V290 SKC LTAN 261450Z 23004KT 200V270 9999 FEW040 29/06 Q1011 NOSIG RMK RWY19 31005KT 280V340 LTAP 261520Z 24006KT 9999 SCT040 27/06 Q1008 NOSIG RMK RWY23 24006KT LTAR 261450Z 25008KT 220V280 9999 SCT033 20/07 Q1017 RMK RWY19 25007KT LTAS 261350Z 34006KT CAVOK 29/12 Q1004 LTAT 261520Z 14002KT 9999 FEW040 23/12 Q1012 NOSIG RMK RWY03 00000KT LTAU 261520Z 00000KT CAVOK 23/10 Q1013 NOSIG RMK RWY07 00000KT LTAY 261450Z 22013KT 9999 FEW035 29/06 Q1010 LTAZ 261520Z 21005KT CAVOK 25/08 Q1013 LTBA 261520Z 11004KT 9999 FEW040 SCT100 28/15 Q1001 NOSIG RMK RWY23 12005KT LTBD 261450Z 19005KT 160V240 9999 SCT040 33/12 Q1004 LTBF 261450Z 20013KT 170V240 9999 FEW035 SCT100 33/11 Q1001 NOSIG RMK RWY18 19013KT 170V230 LTBG 261450Z 18013KT 9999 FEW035 SCT100 32/14 Q1000 NOSIG RMK RWY18 19010KT LTBH 261450Z 19016G28KT 160V230 9999 FEW035 SCT100 30/13 Q0999 LTBI 261450Z 23005KT CAVOK 29/08 Q1008 NOSIG RMK RWY08 26004KT 190V310 LTBJ 261520Z 19012KT CAVOK 29/15 Q1004 NOSIG RMK RWY16 19015KT LTBL 261450Z 15014KT CAVOK 31/14 Q1003 NOSIG RMK RWY17 15017KT LTBQ 261450Z 10007KT 080V160 CAVOK 31/15 Q1001 NOSIG RMK RWY09 09004KT LTBR 261520Z 19003KT 140V250 9999 SCT035 31/13 Q1002 BECMG TL1550 31012KT LTBS 261520Z 19006KT 9999 FEW030 26/21 Q1009 NOSIG RMK RWY19 16006KT 120V180 1CU030 LTBU 261520Z 15007KT 9999 FEW040 SCT100 27/13 Q1001 RMK RWY22 13006KT 100V160 LTBY 261450Z 22004KT 160V260 CAVOK 29/08 Q1008 LTCA 261450Z 07005KT 9999 FEW035 SCT100 25/13 Q1012 NOSIG RMK RWY07 09006KT 2CU035 3AC100 LTCB 261450Z 08010KT CAVOK 24/24 Q1008 LTCC 261520Z 32009KT 9999 FEW040 29/08 Q1009 NOSIG RMK RWY16 25008KT LTCD 261450Z 15005KT 070V210 9999 SCT045 22/12 Q1014 NOSIG LTCE 261520Z VRB03KT 9999 SCT035 16/08 Q1018 NOSIG RMK RWY08R VRB02KT RWY26R 34007KT 240V030 RWY08L VRB03KT LTCF 261450Z 27010KT 9999 FEW030CB BKN035 17/08 Q1017 LTCG 261520Z 14005KT 9999 SCT035 25/21 Q1010 NOSIG RMK RWY29 16004KT 140V240 LTCI 261450Z 19011G21KT 130V230 9999 SCT040 20/05 Q1019 BECMG TL1550 09006KT RMK RWY21 16010KT 120V200 4CU040 LTCJ 261520Z 24005KT 9999 FEW040 28/11 Q1009 RMK RWY20 24006KT 2CU040 LTCK 261350Z 34015KT 9999 FEW025CB SCT035 BKN080 21/08 Q1015 RMK RWY11 34013KT LTCL 261250Z 23009KT 9999 SCT040 33/09 Q1009 LTCN 261450Z 29017KT 9999 FEW040 SCT100 28/14 Q1010 NOSIG LTCO 261250Z 24017G27KT 9999 -TSRA FEW025CB BKN040 19/08 Q1016 LTCP 261250Z 22008KT 170V280 9999 SCT040 30/11 Q1009 LTCR 261350Z 26008KT 230V310 9999 FEW040 32/11 Q1009 LTCS 261520Z 24006KT 210V270 9999 FEW040 SCT100 27/10 Q1012 RMK RWY22 26004KT 1CU040 3AC100 LTCT 261250Z 07007KT 040V100 9999 SCT040 BKN080 26/10 Q1011 RETSRA LTCU 261333Z VRB06KT 9999 FEW027CB BKN035 20/14 Q1015 RETSRA LTCV 261350Z 25008KT 200V270 9999 FEW035 32/08 Q1009 LTCW 261350Z 21011KT 190V250 9999 SCT040 21/05 Q1017 LTDA 261450Z 25010KT CAVOK 29/18 Q1009 NOSIG LTFC 261520Z 16016KT 9999 SCT035 26/14 Q1011 LTFD 261450Z 25014KT 210V290 9999 FEW035 30/14 Q1001 LTFE 261520Z 14010KT 100V180 9999 FEW035 BKN200 30/12 Q1006 NOSIG RMK RWY10 14013KT LTFG 261450Z 16004KT 120V220 9999 SCT030 27/23 Q1009 LTFH 261450Z 13006KT 9999 FEW034 25/16 Q1007 NOSIG LTFJ 261520Z 00000KT CAVOK 31/12 Q1001 NOSIG LTFM 261520Z 18010KT 9999 FEW035 SCT180 30/12 Q1001 NOSIG RMK RWY17L 17010KT RWY34L 16009KT RWY16R 16011KT RWY36 16007KT RWY18 16007KT LUKK 261530Z 13015KT CAVOK 24/16 Q1000 R09/D TEMPO 15022G32KT LWOH 261600Z 22009KT 180V260 9999 FEW023 BKN040 13/07 Q1002 LWSK 261600Z 22006KT 160V300 9999 FEW050 SCT100 19/06 Q0998 NOSIG LXGB 261550Z 20014KT CAVOK 24/12 Q1016 NOSIG RMK BLU BLU LYBE 261530Z 32006KT CAVOK 18/08 Q0996 NOSIG LYBT 261530Z 33006KT CAVOK 19/08 Q0996 NOSIG LYKV 261530Z 34005KT 300V100 9999 BKN040 18/10 Q0996 NOSIG LYNI 261530Z 20009KT 130V250 9999 FEW040 SCT050 19/06 Q0997 NOSIG LYPG 261530Z 09007KT 060V120 9999 -RA FEW027TCU BKN033 14/12 Q1000 RETS NOSIG LYTV 261530Z 30009G19KT 9999 FEW040 SCT050 18/09 Q1000 NOSIG LYUZ 261530Z 23004KT 180V280 9999 SCT017 BKN060 09/09 Q0999 LYVR 261530Z 04003KT 350V070 9999 SCT040 15/11 Q0997 LZIB 261530Z 28011KT 9999 FEW032 BKN046 12/06 Q0999 NOSIG LZKZ 261530Z 21006KT 9999 FEW026 14/12 Q0997 NOSIG LZPP 261530Z 30006KT 9999 FEW020 BKN040 13/07 Q0998 LZSL 261530Z 24009KT 9999 FEW010 BKN030 11/07 Q0998 LZTT 261530Z 14006KT 9999 FEW027 12/09 Q0996 NOSIG LZZI 261530Z 24009KT 9999 FEW015 BKN024 OVC035 10/07 Q0998 MBPV 261600Z 12006KT 9999 SCT015 30/23 Q1015 MDAB 261600Z 00000KT 8000-RA FEW016CB SCT017 27/26 Q1017 CB/NW/N MDBH 261600Z 13012KT 9999 FEW020CB FEW023 31/25 Q1015 CB/SE/SW MDCY 261600Z 08007KT 9999 SCT022 30/25 Q1015 MDJB 261600Z 09008KT 9999 SCT020 34/26 Q1015 NOSIG MDLR 261600Z 05008KT 9999 SCT020 33/25 Q1014 MDPC 261600Z 09010KT 020V100 9999 FEW025 31/24 Q1016 MDPP 261600Z 06014KT 9999 SCT020 31/26 Q1015 MDSD 261600Z 07010KT 9999 SCT025 33/24 Q1015 MDST 261600Z 20007KT 9999 SCT026 32/21 Q1015 NOSIG MGCB 261600Z 25008KT CAVOK 25/18 QFE871.8 SCT200 MGES 261600Z 03004KT 9999 SCT018 OVC200 25/21 QFE910.6 MGGT 261600Z 04006KT 9999 SCT018 SCT200 22/17 Q1027 A3033 MGHT 261600Z 00000KT 9999 FEW015 OVC200 21/16 FEW070 MGMM 261600Z 00000KT 9999 BKN014 29/25 Q1015 A2997 MGMT 261600Z 18004KT CAVOK 32/24 OVC200 MGPB 261600Z 36004KT 9999 FEW018 31/25 Q1013 A2991 MGQZ 261600Z 00000KT 9999 FEW020 SCT080 19/13 QFE774/5 FEW200 MGRT 261600Z 18006KT 9999 SCT020 SCT080 29/24 Q1016 A3000 FEW200 VOL SANTA MARIA Y SANTIAGUITO EN ACTIVIDAD MGSJ 261600Z 11012KT 9999 FEW026TCU BKN200 31/25 Q1013 A2991 TCU SE/SSE MGTU 261600Z 05004KT 9999 FEW018TCU SCT200 31/22 TCU S/SSW MGZA 261600Z 00000KT 9999 FEW028 OVC200 31/21 QFE986/1 MHCA 261600Z 36003KT 9999 BKN028 30/21 MHCH 261500Z 00000KT 9999 FEW030 BKN250 28/26 MHGS 261500Z 36008KT 9999 FEW034 SCT250 23/20 MHLC 261600Z 07004KT 9999 FEW030 30/24 Q1013 A2992 MHLE 261500Z 00000KT 9999 FEW022 22/17 MHLM 261600Z 17003KT 9999 FEW030 SCT250 31/22 Q1013 A2992 MHNO 261500Z 18004KT 9999 FEW040 SCT250 25/20 MHPL 261500Z 09004KT 9999 SCT026TCU BKN250 31/26 Q1014 MHRO 261600Z 10008KT 9999 FEW026 BKN250 31/25 Q1014 A2995 MHSR 261500Z 22006KT 9999 SCT020 BKN250 22/19 MHTE 261500Z VRB02KT 9999 FEW024 29/26 Q1010 MHTG 261600Z VRB02KT 9999 BKN028 SCT200 26/23 Q1021 A3015 MHTR 261500Z 35003KT 9999 FEW028 BKN250 31/23 MHYR 261500Z 15004KT 9999 SCT020 SCT080 23/20 MKJP 261500Z 35005KT 9999 FEW022 32/23 Q1015 MKJS 261500Z 06011KT 9999 FEW024 32/26 Q1015 MMAA 261545Z 01004KT 6SM SCT015TCU BKN300 29/24 A2992 RMK 8/202 HZY MMAN 261040Z 00000KT 5SM SKC 20/20 A2996 RMK HZY RTS MMAS 261445Z 36004KT 8SM SKC 17/08 A3031 RMK HZY AC MMBT 261547Z 00000KT 5SM BKN050 OVC200 26/22 A2997 RMK 8/501 MMCB 261555Z 18003KT 6SM SCT020 SCT090 23/20 A3020 RMK 8/170 HZY MMCE 261546Z 15009KT 6SM SCT015 BKN070 28/25 A2994 RMK 8/520 HZY MMCL 261548Z 02005KT 10SM FEW020 29/22 A2993 RMK 8/500 MMCM 261454Z 14012KT 7SM SCT020 BKN100 31/25 A2994 RMK SLP140 5//// 900 8/520 MMCN 261256Z 10003KT 10SM SCT070 25/22 A2987 RMK 8/030 HZY RTS MMCP 261556Z 12006KT 7SM BKN025 BKN300 29/27 A2995 RMK 8/101 MMCS 261548Z 35005KT 10SM FEW250 27/01 A3008 RMK 8/005 MMCU 261140Z 16003KT 10SM SKC 14/04 A3011 RMK SLP096 5//// 953 RTS MMCV 261246Z 18004KT 5SM SKC 23/22 A2994 RMK HZY MMCZ 261547Z 13008KT 8SM FEW015TCU BKN280 31/27 A2996 RMK 8/208 AC MMDO 261545Z 00000KT 10SM SKC 20/09 A3032 RMK HZY MMEP 261445Z 00000KT 8SM BKN250 23/20 A3009 RMK SLP163 52011 904 8/008 ISOL SC MMGL 261553Z 00000KT 2 1/2SM HZ SCT010 BKN030 21/16 A3023 RMK 8/800 MMGM 261545Z 00000KT 10SM SKC 32/26 A2986 MMHO 261220Z RTD 11005KT 10SM SKC 27/23 A2993 RMK SLP123 5//// 911 HZY RTS MMIA 261545Z 00000KT 6SM SCT150 26/22 A3007 RMK 8/030 HZY MMIO 261140Z 18010KT 10SM SKC 15/06 A3015 MMLM 261552Z 09005KT 8SM SKC 30/23 A2992 RMK HZY MMLO 261446Z 00000KT 8SM SKC 15/11 A3034 RMK SLP150 52016 951 HZY MMLP 261548Z 17009KT 10SM SKC 29/22 A2992 RMK HZY MMLT 261240Z 00000KT 8SM SKC 29/22 A2983 RMK HZY RTS MMMA 261545Z 16011G23KT 8SM BKN020TCU 30/26 A2995 RMK 8/200 MMMD 261445Z 09006KT 7SM BKN012 BKN300 29/26 A2996 RMK SLP143 52003 905 8/108 SC MMML 261449Z 11003KT 10SM SKC 23/12 A2985 RMK SLP108 5//// 910 MMMM 261503Z 28003KT 2SM BR HZ SCT015 SCT200 18/16 A3029 RMK 8/508 MMMT 261446Z 00000KT 10SM OVC100 28/24 A2993 RMK SLP211 55000 957 8/05/ MMMX 261557Z 00000KT 4SM SCT020 19/12 A3038 NOSIG RMK 8/800 HZY MMMY 261240Z 00000KT 4SM OVC005 22/21 A2993 RMK 8/6// BR HZ MMMZ 261346Z 30002KT 14SM FEW240 25/23 A2992 RMK 8/003 ISOL CB-TCU 3QUAD MMNL 261446Z 15007KT 7SM OVC015 27/25 A2993 RMK SLP118 52010 972 8/5// HZY MMOX 261548Z 00000KT 10SM SCT020 BKN100 21/15 A3027 RMK 8/530 CU ARND/CI MMPA 261552Z 00000KT 5SM BKN015 30/27 A2999 RMK 8/700 HZY METAR MMPB 261544Z 00000KT 7SM SCT020 BKN080 19/11 A3037 RMK 8/530 HZY MMPB 261448Z 33004KT 7SM BKN080 17/12 A3037 RMK 8/030 HZY MMPE 261506Z RTD 00000KT 10SM SKC 29/05 A2986 RMK RTS MMPN 261345Z 00000KT 3SM BR SKC 17/16 A3020 MMPQ 261413Z RTD 00000KT 5SM BKN015 OVC200 25/24 A2985 RMK 8/508 HZY MMPR 261545Z 02003KT 15SM SKC 29/24 A2993 RMK TCU-NW MMPS 261446Z 06004KT 10SM FEW020 BKN070 OVC240 26/22 A2995 RMK 8/563 HZY MSGTX MMMX MMQT 261514Z 07002KT 3SM HZ SCT008 BKN015 17/14 A3036 RMK 8/500 MMRX 261245Z 13005KT 3SM BR HZ SKC 23/22 A2992 RMK MMSD 261554Z 12002KT 12SM SKC 29/22 A2995 RMK CI MMSL 261546Z 21003KT 8SM FEW020 28/24 A2998 RMK 8/100 SC MMSP 261451Z 00000KT 3SM BR FEW050 14/12 A3030 RMK SLP142 52007 900 8/500 MMTC 261142Z 00000KT 5SM SKC 19/09 A3006 RMK SLP082 5//// 900 HZY RTS MMTG 261545Z 35003KT 5SM SCT010 BKN090 BKN300 26/22 A3001 RMK 8/662 BR DSPTNG HZY MMTJ 261549Z 32004KT 2SM BR BKN006 18/16 A2999 RMK 8/600 MMTM 261549Z 21007KT 7SM SCT015 30/25 A2996 RMK 8/100 HZY MMTO 261550Z 30003KT 1 1/2SM BR FEW010 SCT015 BKN070 OVC200 14/11 A3044 RMK 8/139 BINOVC MMTP 261346Z 00000KT 10SM OVC080 26/26 A2992 RMK 8/06/ HZY MMUN 261545Z 14008KT 7SM SCT015 BKN250 31/26 A2999 RMK 8/108 TCU 2ND QUAD MMVA 261345Z 00000KT 3SM BR BKN050 27/26 A2995 RMK 60001 8/400 HZY MMVR 261445Z 09006KT 5SM BKN015 BKN030 OVC070 26/24 A3000 RMK SLP127 52019 955 8/87/ HZ MMZC 261114Z RTD 00000KT 10SM SKC 10/06 A3026 MMZH 261547Z 22003KT 7SM SCT100 BKN250 31/24 A2993 RMK 8/032 HZY CU MMZO 261150Z 01006KT 10SM -RA SCT030 BKN080 24/23 A2990 RMK SLP101 8/530 RTS MNBL 261500Z 32004KT 4000 BR OVC016 25/24 Q1014 RETS MNCH 261500Z 10004KT 9999 FEW025 30/24 Q1013 1AC090 2CI300 MNJG 261500Z 36006KT 9999 SCT019 23/16 Q1015 MNJU 261500Z 00000KT 9999 FEW020 29/24 Q1014 1AC080 1CI300 MNMG 261600Z 09006KT 9999 FEW023 30/24 Q1014 A2995 NOSIG MNPC 261500Z 00000KT 6000 VCRA FEW014CB SCT016 29/26 Q1013 2CS300 CBRA/SE TCURA/S/SW MNRS 261500Z 12004KT 9999 FEW012CB SCT014 28/24 Q1014 2AC070 1CS200 CB/S MPDA 261500Z VRB02KT 9999 SCT018 26/24 Q1014 MPMG 261500Z 14004KT 9999 FEW018 29/23 Q1015 NOSIG MPPA 261500Z 22006KT 9999 FEW018 29/25 Q1014 MPTO 261500Z 00000KT 9999 SCT020 28/23 Q1014 NOSIG MRLB 261600Z 15004KT 9999 FEW030 SCT200 30/23 A2991 MRLM 261600Z 06004KT CAVOK 30/21 A2997 MROC 261600Z 10010KT 070V140 CAVOK 27/18 A3008 NOSIG MRPV 261600Z 08012KT CAVOK 25/17 A3010 NOSIG MSAC 261550Z 11002KT 9999 SCT030 30/24 Q1011 A2988 MSLP 261550Z 09005KT 050V140 9999 SCT027 30/25 Q1013 A2993 NOSIG MSSA 261550Z 05004KT 9999 SCT027 27/23 Q1017 A3003 MSSM 261550Z 03003KT CAVOK 30/26 Q1013 A2992 MSSS 261550Z 12006KT 9999 SCT020 26/23 Q1018 A3006 MTPP 261351Z 11009KT 080V140 9999 FEW026 30/24 Q1016 A3000 MUCC 261450Z 13005KT 060V180 9000 SCT020 31/25 Q1016 MUCL 261452Z 13006KT 100V170 9000 SCT020 31/25 Q1016 MUCM 261450Z 11004KT 070V140 9000 FEW020 30/24 Q1017 MUCU 261450Z 16005KT 120V230 9000 SCT020 31/25 Q1016 MUGM 261551Z 14011KT 10SM FEW030 FEW280 32/26 A3001 RMK AO2 SLP161 T03170256 $ MUHA 261455Z 19004KT 160V230 9000 SCT030 30/25 Q1017 MUHG 261450Z 13005KT 080V180 9999 SCT025 31/23 Q1017 MUSC 261450Z VRB02KT 9000 FEW020 30/23 Q1017 MUVR 261450Z 20004KT 160V290 9000 SCT020 31/27 Q1017 MWCB 261600Z 11010KT 9999 FEW018 32/25 Q1016 MWCR 261600Z /////KT 9999 SCT018CB 32/26 Q1015 RMK WND SPD AND DIR EST 14008KT MYGF 261600Z 24008KT 9999 VCSH SCT016TCU SCT250 31/27 A3004 MYNN 261500Z 34005KT 9999 SCT020 BKN030 29/26 A3004 MYSM 261500Z AUTO 12008KT 9999 FEW026/// 30/25 A3004 MZBZ 261500Z 13006KT 9999 BKN024 31/27 A2993 Q1013 NOSIG NCAT 261500Z AUTO 11004KT //// ////// ///// Q1010 NCMG 261500Z AUTO 10005KT //// ////// ///// Q1013 NCMH 261500Z AUTO 10005KT //// ////// ///// Q1011 NCMK 261500Z AUTO 13006KT //// ////// 23/23 Q1015 NCMR 261500Z AUTO 08004KT //// ////// ///// Q1015 NCPK 261500Z AUTO 10005KT //// ////// 27/24 Q1011 NCPY 261500Z AUTO 06014KT //// ////// 27/22 Q1012 NCRG 261530Z AUTO 10005KT 070V150 9999 BKN020/// 22/20 Q1017 NCRK 261500Z AUTO 09004KT //// ////// 27/23 Q1011 NFFN 261600Z 12007KT 9999 FEW030 22/18 Q1015 NOSIG NFNA 261500Z 00000KT 9999 FEW022 20/19 Q1015 NFTF 261500Z 09008KT 9999 FEW016 BKN040 23/19 Q1019 NFTL 261200Z 12016KT 9999 FEW010 SCT017 24/20 Q1018 NFTV 261500Z 13009KT 9999 FEW018 24/20 Q1016 NGFU 261600Z 09015KT 9999 VCSH FEW015CB FEW018TCU BKN100 28/24 Q1009 NGTA 261600Z 08006KT 9999 FEW020 27/22 Q1009 NIUE 261500Z AUTO 12012KT //// // ///////// 22/19 Q1017 NLWW 261530Z AUTO 11007KT 080V150 9999 BKN021/// 27/24 Q1011 NOSIG NSFA 261500Z 19003KT 9999 FEW030 22/21 Q1012 NSTU 261200Z 13014KT 10SM FEW019 SCT100 BKN200 27/24 A2994 RMK SLP139 T02700243 402850253 NTAA 261530Z 12004KT 9999 FEW020 23/20 Q1016 NOSIG NVSC 261200Z 00000KT 9999 BKN020 28/25 Q1015 NVSS 261200Z 00000KT 9999 FEW020 25/24 Q1015 NVVV 261500Z 13001KT 9999 FEW020 21/21 Q1015 NWWW 261530Z AUTO 23002KT CAVOK 22/19 Q1015 NOSIG NZAA 261530Z AUTO 01013KT 9999 BKN065/// OVC090/// 17/16 Q1009 TEMPO FM0530 6000 RA BKN012 NZCH 261530Z AUTO 02016KT 9999 NCD 13/09 Q0986 NOSIG NZSP 261150Z 03009KT 3200 IC SCT065 BKN120 M63/ A2867 RMK CLN AIR 04001KT ALL WNDS GRID NZWN 261530Z AUTO 35027G48KT 8000 -RA FEW011/// BKN016/// BKN025/// 16/15 Q0997 RERA TEMPO 3000 +RA BKN012 FEW020CB OAHR 261555Z VRB02KT CAVOK 20/M07 Q1014 RMK A2997 BLU OAIX 261458Z 13011KT 9000 HZ FEW100 FEW200 23/09 A2983 RMK AO2A SLP029 P0000 60000 T02270091 52017 $ OAKB 261550Z 09008KT 9999 FEW100 FEW150 19/09 Q1014 RMK A2996 BLU BLU OAKN 261556Z 21003KT 8000 HZ CLR 21/M08 A2985 RMK AO2A SLP048 WND DATA ESTMD T02131083 $ OAMS 261550Z 21007KT 9999 SKC 24/M04 Q1012 BLU+BLU+ OBBI 261600Z 05008KT CAVOK 34/25 Q1004 NOSIG OEAB 261500Z 02013KT 9999 FEW020 27/M03 Q1020 NOSIG OEAH 261500Z 05011KT CAVOK 37/11 Q1003 NOSIG OEAO 261500Z 27012KT CAVOK 39/M05 Q1009 OEAR 261500Z 26005KT 9999 FEW040 38/19 Q1005 OEBA 261500Z 10008KT CAVOK 29/02 Q1017 NOSIG OEBH 261500Z 07009KT CAVOK 32/02 Q1013 NOSIG OEDF 261500Z 05010KT CAVOK 35/20 Q1003 NOSIG OEDM 261500Z 00000KT CAVOK 36/03 Q1011 NOSIG OEDR 261500Z 03009KT CAVOK 34/22 Q1002 NOSIG OEGN 261500Z 31012KT 9999 FEW030 33/28 Q1004 NOSIG OEGS 261500Z 28002KT CAVOK 37/08 Q1008 OEGT 261500Z 30012KT CAVOK 31/09 Q1010 NOSIG OEHL 261500Z 32014KT CAVOK 35/03 Q1012 OEJN 261500Z 33010KT CAVOK 33/25 Q1003 NOSIG OEKJ 261500Z 02006KT CAVOK 41/00 Q1009 OEKM 261500Z 06012KT CAVOK 27/01 Q1020 NOSIG OEMA 261500Z 30008KT CAVOK 41/M04 Q1009 NOSIG OENG 261500Z 09008KT CAVOK 32/02 Q1013 NOSIG OEPA 261500Z 29004KT CAVOK 40/10 Q1006 NOSIG OEPS 261456Z AUTO 02006KT 9999 CLR 37/M01 A2982 RMK AO2 SLPNO WND DATA ESTMD T03741006 53002 OERF 261500Z 27005KT CAVOK 40/01 Q1005 OERK 261500Z 01005KT CAVOK 37/05 Q1009 NOSIG OERR 261500Z 32009KT CAVOK 36/07 Q1007 OERY 261500Z 36007KT CAVOK 37/M01 Q1009 OESH 261500Z 04006KT CAVOK 36/02 Q1008 NOSIG OESK 261500Z 27012KT CAVOK 33/02 Q1012 OETB 261500Z 32008KT CAVOK 33/02 Q1010 NOSIG OETF 261500Z 01005KT CAVOK 32/M06 Q1017 NOSIG OETR 261500Z 28004KT CAVOK 30/10 Q1012 OEWD 261500Z 04007KT CAVOK 37/07 Q1008 OEWJ 261500Z 30016KT CAVOK 31/27 Q1005 NOSIG OEYN 261500Z 27008KT CAVOK 38/24 Q1001 NOSIG OIAA 261500Z 02002KT CAVOK 39/13 Q1003 OIAD 261500Z 21004KT CAVOK 36/08 Q1004 A2966 OIAG 261400Z 31012KT CAVOK 42/05 Q1003 OIAH 261500Z 00000KT CAVOK 33/13 Q1009 OIAM 261500Z 28006KT CAVOK 29/17 Q1002 OIAW 261530Z 28002KT CAVOK 33/10 Q1002 OIBA 261500Z 28008KT 7000 NSC 32/26 Q1002 OIBB 261500Z 30008KT CAVOK 33/24 Q1002 A2961 OIBH 261500Z 24006KT CAVOK 35/25 Q1002 A2961 OIBJ 261500Z 23006KT 8000 NSC 33/15 Q1009 A2980 OIBK 261500Z 28004KT 8000 NSC 33/26 Q1003 NOSIG OIBL 261500Z 27004KT 8000 NSC 33/26 Q1003 OIBP 261500Z 24004KT CAVOK 33/27 Q1002 A2961 OIBQ 261500Z 28004KT 7000 NSC 33/28 Q1003 OIBS 261500Z 24006KT 5000 HZ NSC 33/26 Q1003 OIBV 261500Z 00000KT 6000 NSC 33/26 Q1003 OICC 261530Z 29008KT CAVOK 27/M02 Q1014 A2996 OICI 261500Z 24004KT CAVOK 28/04 Q1016 A3001 OICK 261200Z 27010KT 9999 FEW045 33/01 Q1012 OICM 261400Z 26006KT CAVOK 41/09 Q1004 OICS 261100Z 25008KT 9999 FEW040 31/M05 Q1014 A2994 OIFM 261530Z 17004KT 9999 FEW040 26/M04 Q1015 A2998 OIFS 261530Z 28008KT CAVOK 21/M12 Q1019 OIGG 261530Z 00000KT 9999 FEW020CB SCT025 BKN070 24/19 Q1010 OIHH 261300Z 25010KT CAVOK 28/M04 Q1016 OIHR 261100Z 24018KT CAVOK 30/M03 Q1016 OIIE 261500Z 14006KT CAVOK 30/M03 Q1010 OIII 261530Z 14004KT CAVOK 29/M02 Q1012 A2989 OIIK 261500Z 09002KT CAVOK 25/01 Q1012 OIIP 261500Z 00000KT 8000 NSC 26/M03 Q1011 A2986 OIKB 261530Z 24006KT CAVOK 33/18 Q1002 A2961 OIKK 261500Z 06010KT CAVOK 26/M06 Q1016 A3002 OIKQ 261500Z 25008KT 7000 NSC 32/26 Q1002 NOSIG OIMB 261500Z 34010KT CAVOK 25/M09 Q1015 OIMC 261500Z AUTO 10004KT //// // ////// 24/03 Q1013 OIMD 261500Z AUTO 08004KT //// // ////// 26/M04 Q1010 OIMM 261530Z 16008KT CAVOK 19/M07 Q1016 A3002 OIMN 261500Z 31004KT CAVOK 22/M01 Q1014 OIMQ 261500Z AUTO 07002KT //// // ////// 24/M05 Q1014 OIMS 261500Z 01006KT CAVOK 25/03 Q1013 OIMT 261500Z AUTO 01002KT //// // ////// 32/M01 Q1008 OINE 261500Z 19006KT 9999 FEW035 26/16 Q1009 OING 261500Z 26010KT 7000 FEW030 SCT080 26/20 Q1011 OINN 261500Z 00000KT 9999 FEW020CB BKN027 BKN090 25/21 Q1010 OINR 261500Z 25002KT 9999 FEW023CB SCT027 24/22 Q1009 OINZ 261500Z 05004KT 9999 FEW080 24/18 Q1010 OISF 261500Z 20004KT CAVOK 28/M01 Q1010 A2985 OISL 261500Z 00000KT CAVOK 34/13 Q1007 A2974 NOSIG OISR 261500Z 30008KT CAVOK 34/11 Q1005 A2970 NOSIG OISS 261530Z 28008KT CAVOK 29/M04 Q1014 A2996 OISY 261500Z 17004KT CAVOK 23/M04 Q1019 OITL 261400Z 07017KT 9999 VCFG FEW007 16/14 Q1015 OITM 261500Z 16004KT CAVOK 25/04 Q1012 OITP 261500Z 07004KT 9999 FEW035CB 24/12 Q1011 OITR 261530Z 34002KT 9999 FEW040 18/08 Q1012 OITT 261530Z 36004KT 9999 FEW030CB 22/M00 Q1014 A2996 OITZ 261500Z 00000KT CAVOK 25/02 Q1013 A2993 OIYY 261530Z 13004KT CAVOK 31/M02 Q1013 OIZB 261500Z 30006KT CAVOK 26/02 Q1008 OIZC 261500Z 21006KT CAVOK 29/25 Q1002 A2960 OIZH 261500Z 03004KT CAVOK 24/M02 Q1015 A2998 NOSIG OIZI 261500Z 34006KT CAVOK 33/M07 Q1006 OIZJ 261500Z 29004KT 7000 NSC 32/26 Q1002 OJAI 261600Z 31010KT 6000 SCT030 25/15 Q1013 NOSIG OJAM 261500Z 29004KT 7000 FEW030 26/11 Q1014 NOSIG OJAQ 261500Z 36011KT CAVOK 35/17 Q1007 NOSIG OKAS 261458Z 08005KT 9999 CLR 41/02 A2964 RMK AO2A VIS 4000 RWY12 SLP031 T04070017 55001 $ OKBK 261600Z 15005KT CAVOK 36/10 Q1004 NOSIG OLBA 261600Z 33004KT 8000 NSC 28/19 Q1012 NOSIG OMAA 261500Z 33015KT CAVOK 33/28 Q1003 NOSIG OMAD 261500Z 34009KT CAVOK 33/27 Q1003 NOSIG OMAL 261500Z 33013KT 8000 NSC 36/18 Q1005 NOSIG OMDB 261500Z 35007KT 320V030 CAVOK 33/25 Q1003 NOSIG OMDW 261500Z 33011KT CAVOK 32/25 Q1004 NOSIG OMFJ 261450Z 12003KT 080V140 7000 NSC 33/23 Q1003 RMK A2964 OMRK 261500Z 32003KT CAVOK 31/23 Q1004 A2965 OMSJ 261500Z 33004KT CAVOK 34/23 Q1003 NOSIG OODQ 261450Z AUTO 20022KT CAVOK ////// 26/22 Q1005 NOSIG RMK RH75? 0 OOMS 261450Z VRB02KT CAVOK 32/21 Q1003 NOSIG OOSA 261450Z 19007KT 9999 BKN030 27/24 Q1007 NOSIG OOSH 261450Z AUTO 14006KT //// ////// 35/16 Q1002 RMK 0999 OPIS 261455Z 23006KT 6000 FEW040 22/18 Q1006 NOSIG OPKC 261459Z 26012KT 6000 SCT020 29/22 Q1004 NOSIG OPLA 261455Z 00000KT 5000 FU NSC 29/23 Q1003 NOSIG RMK QFE975 RMK A29.63 OPMT 261600Z 23004KT 4000 FU NSC 30/22 Q1001 NOSIG OPNH 261600Z 13508KT 5000 HZ NSC 32/23 Q1001 NOSIG OPPS 261500Z 18006KT 4000 HZ SCT040 BKN100 24/17 Q1005 OPSK 261600Z 13004KT 4000 HZ NSC 31/24 Q1000 NOSIG OPST 261600Z 05004KT 4000 FU FEW040 28/22 Q1004 NOSIG RH70 ORBI 261500Z 36006KT CAVOK 37/10 Q1003 NOSIG ORER 261400Z 26006KT 9000 FEW040 35/06 Q1008 NOSIG ORMM 261400Z 34006KT CAVOK 41/07 Q1003 NOSIG ORNI 261400Z 36005KT 8000 NSC 40/13 Q1002 NOSIG ORSU 261600Z 31008KT CAVOK 25/04 Q1012 OSDI 261500Z 22005KT CAVOK 30/06 Q1011 OSKL 261500Z 29008KT CAVOK 32/07 Q1008 OSLK 261500Z 22003KT 9999 FEW030 28/19 Q1010 OTBD 261530Z AUTO 10006KT CAVOK 34/24 Q1003 NOSIG OTBH 261556Z 09007KT 9999 CLR 33/23 A2964 RMK AO2A SLP038 PA +392 DA +2898 T03340225 OTHH 261500Z AUTO 12007KT CAVOK 34/23 Q1003 NOSIG PAAD 261535Z AUTO 00000KT 5SM BR OVC008 M02/M02 A2979 RMK AO2 T10221025 PAAK 261556Z AUTO 29006KT 10SM BKN039 OVC060 06/04 A2967 RMK AO2 RAB26E45 SLP050 P0000 T00560039 PAAQ 261553Z 36007KT 10SM SCT080 BKN100 07/04 A2944 RMK AO2 SLP973 T00720039 PABE 261553Z 34008KT 10SM CLR M02/M03 A2959 RMK AO2 SLP021 T10221028 PABI 261553Z 00000KT 2SM BR OVC006 03/03 A2955 RMK AO2 SLP022 T00330028 PABL 261556Z AUTO 00000KT 10SM CLR M09/M11 A2969 RMK AO2 SLP057 T10891106 FZRANO PABR 261553Z 06007KT 3SM BR SCT009 BKN015 OVC021 00/M02 A2985 RMK AO2 SNE29 SLP110 P0000 T00001022 $ PABT 261453Z 32004KT 10SM -SN BKN020 OVC027 01/00 A2962 RMK AO2 RAE21 SLP043 PCPN VRY LGT P0000 60000 T00110000 51004 PABV 261556Z AUTO 00000KT 10SM FEW065 OVC090 06/06 A2946 RMK AO2 RAE03 SLP982 P0000 T00610061 PACD 261553Z AUTO 30004KT 10SM SCT029 BKN039 02/01 A2954 RMK AO2 RAE1459 SLP006 P0000 T00220011 TSNO PACM 261556Z AUTO 30006KT 10SM FEW036 02/M01 A2970 RMK AO2 RAE1459 SLP054 T00171006 FZRANO PNO $ PACV 261553Z 00000KT 10SM FEW029 BKN065 OVC080 06/05 A2952 RMK AO2 SLP997 T00610050 PACZ 261555Z AUTO 03018G29KT 4SM -SHSN BKN015 01/01 A2964 RMK AO2 PK WND 01030/1504 SHSNB1454E1508B1548SHRASNB1508E1513 SLP042 P0000 T00070010 PADE 261553Z AUTO 20008KT 10SM SCT035 M02/M03 A2966 RMK AO2 SLP044 T10221028 TSNO PADG 261554Z 00000KT 15SM FEW060 M07/M09 A2968 PADK 261556Z AUTO 23005KT 10SM SCT041 03/02 A2970 RMK AO2 SLP058 T00280017 PADL 261556Z 01009G16KT 10SM -RA OVC065 03/00 A2948 RMK AO2 RAB26 SLP987 P0000 T00330000 PADM 261502Z AUTO 05004KT 10SM CLR M04/M06 A2966 RMK AO2 SLP050 T10441061 58004 FZRANO PADQ 261553Z 31005KT 2SM BR OVC012 07/06 A2944 RMK AO2 RAE23 SLP971 P0001 T00720056 PADU 261556Z 30004KT 8SM -RA BKN022 BKN026 BKN032 05/03 A2958 RMK AO2 RAB41 SLP020 P0001 T00500028 PAEC 261453Z 36004KT 10SM BKN030 05/03 A2941 RMK NOSPECI FIRST PAED 261456Z 00000KT 10SM OVC055 07/06 A2943 PAEG 261553Z AUTO 18003KT 10SM OVC005 01/01 A2956 RMK AO2 SLP018 T00110006 TSNO $ PAEH 261555Z AUTO 01019KT 10SM SCT012 BKN130 BKN160 03/01 A2953 RMK AO2 SLP005 T00320005 PAEI 261557Z 00000KT 7SM BCFG BKN005 OVC040 04/03 A2953 RMK AO2A SLP007 VIS SE 3 T00350026 $ PAEL 261445Z 00000KT 15SM OVC035 09/09 A2958 RMK NOSPECI PAEN 261553Z 00000KT 10SM OVC050 07/06 A2943 RMK AO2 RAB21E52 SLP968 P0000 T00720056 PAFA 261553Z 00000KT 10SM BKN013 BKN045 BKN065 04/03 A2954 RMK AO2 SLP009 T00440028 PAFB 261558Z AUTO 05004KT 1 5/8SM BR SCT001 OVC007 04/04 A2955 RMK AO2 CIG 001V007 SLP012 PAFE 261556Z AUTO 11007KT 10SM OVC055 10/09 A2973 RMK AO2 RAE44 SLP080 P0000 T01000089 $ PAFM 261556Z AUTO 28004KT 10SM OVC060 M02/M05 A2969 RMK AO2 SLP061 T10221050 FZRANO PAFR 261558Z AUTO 00000KT 10SM OVC070 06/06 A2942 RMK AO2 SLP969 T00580055 $ PAFS 261557Z AUTO 05003KT 10SM OVC013 03/02 A2951 RMK AO2 PAGA 261556Z AUTO 33003KT 10SM FEW060 OVC080 00/M04 A2962 RMK AO2 SLP033 T00001044 FZRANO PAGH 261556Z AUTO 00000KT 10SM SCT041 OVC060 M02/M04 A2967 RMK AO2 SLP054 T10221039 FZRANO PAGK 261553Z AUTO 00000KT 10SM OVC075 03/02 A2952 RMK AO2 SLP014 T00280017 TSNO PAGL 261556Z AUTO 34004KT 10SM OVC032 M01/M04 A2968 RMK AO2 SLP047 T10061044 FZRANO PAGM 261556Z AUTO 36022G27KT 10SM OVC020 03/M01 A2986 RMK AO2 PK WND 36029/1523 SLP116 T00281006 PAGN 261556Z AUTO 00000KT 6SM BR BKN027 OVC034 09/09 A2970 RMK AO2 RAE1458 SLP046 P0000 T00940089 PAGS 261556Z AUTO 00000KT 10SM OVC046 08/08 A2966 RMK AO2 RAB02E37 SLP042 P0001 T00830078 PAGY 261553Z AUTO 00000KT 10SM OVC015 10/09 A2963 RMK AO2 RAB31E43 SLP034 P0000 T01000094 TSNO PAHL 261556Z AUTO 32004KT 10SM OVC025 M01/M04 A2962 RMK AO2 SLP036 T10061039 FZRANO PAHN 261554Z AUTO 09008KT 10SM OVC013 12/08 A2963 RMK AO2 SLP034 T01170078 TSNO PAHO 261545Z 01005KT 10SM SCT003 BKN026 OVC060 12/12 A2943 PAHP 261556Z AUTO 03007KT SCT018 BKN023 OVC029 01/00 A2968 RMK AO2 SLP050 T00110000 PWINO FZRANO $ PAIG 261556Z AUTO 18003KT 10SM -RA SCT043 OVC060 03/03 A2945 RMK AO2 RAB02 SLP982 P0000 T00330028 $ PAII 261556Z AUTO 07004KT 10SM OVC080 02/01 A2949 RMK AO2 SLP986 T00170006 FZRANO PAIK 261556Z AUTO 00000KT 10SM CLR M09/M10 A2972 RMK AO2 SLP066 T10891100 FZRANO PAIN 261556Z AUTO 00000KT 5SM BR OVC006 02/01 A2950 RMK AO2 SLP015 T00170006 FZRANO PAIW 261556Z AUTO 02020G24KT 10SM FEW026 OVC037 02/M02 A2977 RMK AO2 RAB18E31 SLP082 T00221022 FZRANO PNO $ PAJC 261557Z AUTO 11003KT 10SM CLR 03/M02 A2953 RMK AO2 SLP000 T00331017 PAJN 261453Z 09014KT 10SM FEW008 BKN033 OVC070 10/08 A2963 PAJZ 261556Z AUTO 32007KT 3SM -SN BR SCT003 SCT010 OVC014 00/M01 A2952 RMK AO2 SLP005 P0006 T00001006 FZRANO $ PAKH 261556Z AUTO BKN022 BKN032 OVC043 A2950 RMK AO2 SLPNO PWINO FZRANO $ PAKI 261556Z AUTO 01018KT OVC030 02/M02 A2961 RMK AO2 SLP032 T00171017 PWINO FZRANO $ PAKK 261556Z AUTO 36004KT 10SM CLR M02/M05 A2962 RMK AO2 SLP039 T10221050 FZRANO PAKN 261554Z AUTO 33003KT 10SM OVC036 03/01 A2943 RMK AO2 SLP966 T00280006 TSNO PAKP 261556Z AUTO 03006KT 6SM -SN BR FEW026 OVC065 M04/M06 A2964 RMK AO2 SLP085 P0000 T10441056 FZRANO PAKT 261553Z 14006KT 10SM SCT026 BKN085 09/08 A2979 RMK AO2 SLP087 HARBOR WIND 09006KT T00940083 PAKU 261558Z 05008KT 10SM R06/P6000FT OVC012 M02/M02 A2981 PAKV 261553Z AUTO 00000KT 10SM OVC050 M01/M04 A2964 RMK AO2 SLP041 T10111044 TSNO $ PAKW 261556Z AUTO 23003KT 2 1/2SM -RA BR BKN022 BKN040 OVC050 10/09 A2975 RMK AO2 P0000 T01000089 TSNO PALH 261553Z 00000KT 10SM FEW065 OVC080 07/07 A2945 RMK AO2 SLP974 T00720072 PALJ 261453Z 00000KT 7SM -RA OVC020 05/05 A2941 RMK FIRST NOSPECI PALP 261445Z 05009KT 8SM -SN FEW015 BKN046 OVC050 M01/M03 A2982 PALU 261555Z AUTO 04016KT 10SM -SHRA BKN017 OVC048 02/00 A2983 RMK AO2 SHRAB1416 SLP102 P0000 T00151004 PAMB 261456Z AUTO 04005KT 9SM OVC070 04/M01 A2949 RMK AO2 SLP990 T00391006 56007 $ PAMC 261553Z AUTO 32004KT 10SM OVC026 03/01 A2953 RMK AO2 SLP004 T00280006 TSNO PAMD 261551Z AUTO 09011KT 10SM OVC065 11/10 A2948 RMK AO2 SLP971 T01110100 PAMH 261556Z AUTO 00000KT 10SM OVC017 04/02 A2952 RMK AO2 SLP999 T00440017 PAMK 261556Z AUTO 01011KT 10SM OVC026 02/M03 A2965 RMK AO2 SLP041 T00171033 FZRANO PNO $ PAMM 261556Z AUTO 15005KT 9SM -RA FEW030 BKN048 OVC060 11/09 A2980 RMK AO2 RAB52 SLP082 T01110094 PNO $ PAMO 261502Z AUTO 35006KT 10SM OVC031 01/M02 A2965 RMK AO2 SLP047 60000 T00061022 58005 FZRANO PAMR 261553Z 00000KT 10SM BKN065 BKN080 OVC090 07/05 A2944 RMK AO2 SLP970 T00670050 PANA 261256Z AUTO 35006KT 10SM CLR M01/M02 A2960 RMK AO2 SLP024 T10111022 PWINO FZRANO $ PANC 261553Z 00000KT 10SM FEW060 BKN080 BKN095 07/07 A2944 RMK AO2 SLP970 T00720067 PANI 261556Z AUTO 33004KT 10SM FEW047 BKN100 M01/M03 A2956 RMK AO2 SLP011 T10061033 FZRANO PANN 261553Z AUTO 08003KT 10SM OVC012 05/03 A2952 RMK AO2 SLP003 T00500028 TSNO $ PANV 261556Z AUTO 34004KT 10SM CLR M02/M05 A2957 RMK AO2 SLP097 T10171050 FZRANO TSNO PANW 261556Z AUTO 36009KT 10SM -RA SCT006 SCT014 OVC047 01/01 A2948 RMK AO2 UPE49RAB49 SLP988 P0000 T00110006 FZRANO PAOH 261556Z AUTO 00000KT 10SM OVC065 08/08 A2965 RMK AO2 SLP041 T00780078 $ PAOM 261553Z 09003KT 10SM OVC036 00/M06 A2968 RMK AO2 SLP052 T00001056 PAOO 261556Z AUTO 33008KT 10SM OVC037 02/M02 A2966 RMK AO2 SLP051 T00171022 FZRANO TSNO PAOR 261553Z AUTO 00000KT OVC009 05/03 A2952 RMK AO2 SLP013 T00500033 TSNO $ PAOT 261553Z 05004KT 10SM CLR M03/M04 A2969 RMK AO2 SLP053 T10281044 $ PAOU 261556Z AUTO 34006KT 10SM BKN041 OVC047 06/01 A2954 RMK AO2 RAB33E45 SLP002 T00560011 PNO $ PAPB 261553Z AUTO 04013KT 10SM CLR A2966 RMK AO2 SLPNO TSNO PAPG 261556Z 00000KT 10SM FEW045 SCT055 OVC070 09/09 A2974 RMK AO2 RAE26 SLP076 P0004 T00940089 PAPH 261556Z AUTO 22009KT 10SM FEW028 OVC038 05/03 A2951 RMK AO2 SLP994 T00500028 PAPM 261556Z AUTO 35011KT 10SM CLR 00/M01 A2953 RMK AO2 SLP002 T00001011 FZRANO PAPN 261556Z AUTO 22009KT 8SM BKN041 OVC050 05/04 A2934 RMK AO2 SLP948 T00500039 PAPO 261556Z AUTO 03021G24KT 10SM BKN018 BKN028 OVC050 02/M02 A2981 RMK AO2 SLP092 T00221017 FZRANO PAPT 261452Z 00000KT 7SM BKN060 01/01 A2942 RMK NO SPECI. FIRST PAQH 261556Z AUTO 34008KT 10SM CLR M01/M02 A2957 RMK AO2 SLP013 T10111022 FZRANO PAQT 261447Z 03007KT 3SM -SN BR OVC050 M02/M02 A2982 RMK (SCC FSS) PARC 261456Z AUTO 30004KT 10SM SCT039 BKN048 OVC065 01/00 A2959 RMK AO2 SLP062 T00060000 53005 FZRANO PARS 261556Z AUTO 33005KT 10SM CLR M01/M04 A2959 RMK AO2 SLP023 T10061039 FZRANO $ PASA 261556Z AUTO 35018G24KT 10SM SCT021 BKN029 03/M01 A2982 RMK AO2 SLP099 T00331006 PASC 261553Z 06008KT 10SM BKN013 OVC022 M01/M03 A2979 RMK AO2 SLP089 P0000 T10111028 PASD 261556Z 32004KT 10SM FEW025 04/02 A2954 RMK AO2 SLP003 T00390017 PNO $ PASI 261553Z 12004KT 10SM FEW004 BKN018 BKN050 10/09 A2967 RMK AO2 SLP046 T01000089 PASK 261556Z AUTO 00000KT 10SM BKN050 M03/M03 A2970 RMK AO2 SLP055 T10281033 FZRANO PASL 261556Z AUTO 00000KT 10SM BKN040 OVC095 01/M03 A2954 RMK AO2 SLP995 T00061033 FZRANO PASM 261556Z AUTO 34010KT 10SM OVC032 01/M02 A2965 RMK AO2 SLP048 T00061022 FZRANO PASO 261553Z AUTO 00000KT 10SM SCT001 BKN060 OVC120 08/07 A2943 RMK AO2 SLP967 T00780072 TSNO $ PASV 261555Z AUTO 03001KT 10SM SCT090 SCT140 00/00 A2942 RMK AO2 SLP978 T10010000 $ PASX 261556Z AUTO 07004KT 10SM OVC060 06/06 A2945 RMK AO2 RAE08 SLP983 P0000 T00610061 PASY 261535Z 34019G26KT 7SM FEW019 BKN110 06/02 A2985 RMK AO2A RAE05 SLP110 RVRNO PNO $ PATA 261552Z 00000KT 10SM FEW033 BKN048 BKN090 02/M01 A2957 RMK AO2 SLP019 T00171011 PATC 261555Z AUTO 04018KT 10SM BKN026 BKN065 01/M01 A2973 RMK AO2 SHRAB1452E1530SHSNB1456E1509 SLP071 T00081012 PATE 261556Z AUTO 06005KT 10SM OVC039 00/M03 A2971 RMK AO2 SLP066 T00001028 FZRANO PATG 261556Z AUTO 35007KT 10SM OVC120 01/M03 A2950 RMK AO2 SLP085 T00111028 FZRANO PATK 261553Z 00000KT 10SM OVC060 05/03 A2946 RMK AO2 SLP979 T00500033 PATL 261555Z AUTO VRB02KT 10SM OVC017 01/M01 A2954 RMK AO2 SLP014 T00101009 PATO 261453Z AUTO 08008KT 10SM -RA 08/08 A2947 RMK AO2 RAB38 SLP981 P0000 60000 T00830078 TSNO $ PATQ 261439Z AUTO 05011KT 10SM BKN008 OVC024 M01/M02 A2982 RMK AO2 FZRANO TSNO PAUN 261556Z AUTO 12006KT 10SM CLR M06/M07 A2965 RMK AO2 SLP044 T10611072 FZRANO PNO $ PAUT 261555Z AUTO 36006KT 10SM SCT016 SCT021 SCT025 05/04 A2954 RMK AO2 T00540036 PWINO PAVA 261556Z AUTO 02007KT 10SM FEW036 01/M01 A2967 RMK AO2 SLP050 T00061011 FZRANO PNO $ PAVC 261556Z AUTO 02004KT 10SM SCT032 03/01 A2955 RMK AO2 SLP007 T00280006 PAVD 261556Z 14003KT 10SM FEW002 BKN060 BKN200 07/06 A2959 RMK AO2 RAE19 SLP019 P0001 T00720061 PAVL 261553Z AUTO 02016KT 10SM CLR M03/M05 A2972 RMK AO2 SLP065 T10281050 TSNO PAWD 261553Z AUTO 34005KT 10SM -RA OVC050 08/08 A2946 RMK AO2 SLP976 P0009 T00830078 TSNO PAWG 261556Z 07008KT 10SM OVC055 11/08 A2977 RMK AO2 SLP080 T01060083 PAWM 261556Z AUTO 35007KT 10SM OVC035 M02/M05 A2967 RMK AO2 SLP054 T10221050 FZRANO PNO $ PAWN 261556Z AUTO 35005KT 10SM CLR M07/M08 A2972 RMK AO2 SLP075 T10671078 FZRANO PAWS 261556Z AUTO 00000KT 10SM OVC060 07/06 A2946 RMK AO2 RAB01E31 SLP981 P0000 T00670056 PAYA 261553Z AUTO 07005KT 10SM OVC025 09/08 A2956 RMK AO2 SLP010 T00890083 TSNO PAZK 261556Z AUTO 33005KT 10SM OVC034 03/01 A2946 RMK AO2 SLP009 T00280006 PFCL 261556Z AUTO 04006KT 10SM OVC065 03/M01 A2949 RMK AO2 SLP978 T00331006 TSNO PFEL 261556Z AUTO 33006KT 10SM OVC034 M01/M05 A2966 RMK AO2 SLP047 T10111050 FZRANO PFKT 261556Z AUTO 34012KT 10SM OVC044 01/M02 A2973 RMK AO2 SLP068 T00111022 FZRANO PFKW 261556Z AUTO 34006KT 10SM CLR M02/M03 A2957 RMK AO2 SLP014 T10171028 FZRANO PFNO 261556Z AUTO 06008KT 8SM CLR M04/M06 A2970 RMK AO2 SLP141 T10441061 FZRANO PFYU 261456Z 04004KT 10SM OVC110 01/M01 A2961 PGSN 261554Z 00000KT 10SM CLR 28/25 A2982 RMK AO2 SLP118 T02780250 PGUA 261556Z 24003KT 10SM FEW012 BKN180 26/24 A2985 RMK AO2A SLP099 T02560240 $ PGUM 261554Z 17003KT 10SM SCT080 27/25 A2984 RMK AO2 SLP096 T02720250 PHBK 261556Z AUTO 07003KT 10SM CLR 24/16 A2999 RMK AO2 SLP159 T02390161 PHHI 261556Z AUTO 00000KT 10SM CLR 20/18 A3001 RMK AO2 SLP153 T02030180 $ PHJR 261553Z AUTO 07003KT 10SM CLR 22/18 A3001 RMK AO2 SLP167 T02220183 TSNO PHKO 261553Z AUTO 10003KT 10SM FEW075 25/18 A2996 RMK AO2 SLP145 T02500178 TSNO PHLI 261553Z AUTO 06010KT 10SM CLR 26/21 A3002 RMK AO2 SLP163 T02610211 TSNO PHMK 261554Z 03005KT 10SM SCT050 24/19 A3001 RMK AO2 SLP162 T02440189 $ PHNG 261557Z 08007KT 10SM FEW030 25/20 A2998 RMK AO2 SLP145 T02500200 $ PHNL 261553Z 08004KT 10SM FEW024 23/18 A2999 RMK AO2 SLP156 T02330183 PHNY 261556Z AUTO 03005KT 10SM BKN046 20/ A3005 RMK AO2 SLP156 T0200 PHOG 261554Z 05010KT 10SM FEW035 SCT045 SCT065 26/18 A2999 RMK AO2 SLP159 T02560183 PHSF 261556Z AUTO 13003KT 10SM CLR 06/01 A3031 RMK AO2 SLP167 WND DATA ESTMD T00610013 $ PHTO 261553Z 22006KT 10SM FEW035 21/18 A3000 RMK AO2 SLP157 T02110178 PKMR 261458Z 12005KT 15SM FEW015 SCT120 OVC300 29/25 A2979 RMK SLP090 8/178 T02850248 57017 PKWA 261540Z AUTO 00000KT 10SM SCT060 28/25 A2984 RMK AO2 T02800251 PLCH 261500Z 10005KT 9999 SCT020 25/24 Q1010 PMDY 261556Z AUTO 00000KT 9SM CLR 24/21 A3007 RMK AO2 SLP181 T02390211 PPIT 261556Z AUTO 36010KT 10SM CLR 00/M01 A2959 RMK AO2 SLP023 T00001006 FZRANO TSNO PPIZ 261556Z AUTO 02006KT 9SM -SN FEW004 BKN030 OVC046 M01/M02 A2983 RMK AO2 SNB45 SLP106 P0000 T10111017 FZRANO PTKK 261550Z 00000KT 15SM FEW014 SCT120 OVC280 26/24 A2983 RMK SLP101 T02550242 PTPN 261450Z 14000KT 15SM BKN018 OVC300 29/26 A2985 RMK LAST PTRO 261350Z 07005KT 14SM SCT016 BKN110 BKN290 27/24 A2984 PTTP 261552Z 14003KT 15SM SCT018 BKN130 OVC300 26/24 A2986 RMK SLP112 T02560239 PTYA 261554Z 00000KT 12SM FEW016 BKN300 27/26 A2982 RMK SLP098 T02690256 RCFN 261200Z 36005KT 310V050 9999 VCSH FEW008 SCT018 BKN040 23/22 Q1012 NOSIG RMK A2990 RA AMT 0.2MM RCKH 261530Z 07004KT 8000 FEW015 BKN025 BKN040 28/23 Q1010 NOSIG RMK A2984 RCMQ 261500Z 01009KT 9999 FEW012 SCT030 BKN060 24/18 Q1011 RMK A2986 RCNN 261500Z 10001KT 9999 FEW012 BKN060 27/22 Q1010 RMK A2984 RCSS 261530Z 10011KT 9999 -RA FEW007 BKN025 BKN040 22/21 Q1013 NOSIG RMK A2992 RCTP 261530Z 04015KT 9999 -RA SCT010 BKN020 BKN040 22/21 Q1012 NOSIG RMK A2991 RJAA 261530Z 01006KT 9999 -RA FEW009 BKN030 18/17 Q1009 BECMG FEW005 BKN008 RJAH 261500Z 01008KT 9999 -RA FEW012 BKN015 18/16 Q1009 RJAW 261500Z 13002KT 9999 SCT015 SCT230 28/25 Q1008 RMK 3CU015 A2979 RJBB 261530Z AUTO 34014KT 9999 NSC 23/20 Q1010 NOSIG RJBE 261300Z 32006KT 9999 FEW025 BKN/// 23/18 Q1010 RJCB 261128Z 02006KT 340V070 3000 -SHRA BR FEW002 BKN003 BKN010 12/11 Q1014 RMK 1ST002 5ST003 7ST010 A2997 RJCC 261530Z 33011KT 9999 FEW030 BKN100 14/11 Q1011 RJCH 261100Z 04006KT 360V090 9999 FEW020 BKN070 17/12 Q1011 RJCK 261100Z 02017KT 4500 -SHRA BR FEW002 BKN008 BKN012 11/11 Q1013 RJCM 261100Z 03011KT 9999 -SHRA FEW010 SCT020 BKN030 13/11 Q1016 RJCO 261100Z 06006KT 9999 FEW020 SCT050 BKN100 15/11 Q1014 RJDC 261200Z 36006KT 320V040 9999 FEW025 BKN070 21/17 Q1012 RJDT 261100Z 01009G21KT 330V060 9999 FEW010 BKN015 20/17 Q1014 RJEC 261100Z 01013KT 9999 FEW010 SCT050 BKN090 14/09 Q1014 RJFF 261530Z AUTO VRB02KT 9999 NCD 20/17 Q1013 NOSIG RJFK 261200Z VRB02KT 9999 FEW030 BKN035 BKN/// 20/19 Q1012 RJFM 261200Z 27002KT 9999 FEW030 BKN050 BKN/// 24/19 Q1010 RJFO 261300Z 32006KT 9999 FEW030 BKN080 BKN/// 21/16 Q1012 RJFR 261500Z 35008KT 9999 FEW025 SCT030 21/17 Q1013 RJFS 261400Z 01007KT 9999 FEW030 19/16 Q1012 RJFT 261200Z 03004KT 9999 FEW030 SCT/// 19/16 Q1012 RJFU 261200Z 35011KT 9999 FEW030 SCT/// 22/17 Q1012 RJGG 261530Z 31011KT 9999 FEW020 BKN170 BKN/// 23/18 Q1007 NOSIG RJKI 261500Z AUTO 27008KT 9999 FEW023 SCT110 BKN130 26/22 Q1010 RJNK 261500Z VRB01KT 3000 SHRA FEW008 SCT015 BKN020 19/19 Q1010 RJNS 261200Z 36003KT 330V030 9999 FEW005 BKN015 20/20 Q1009 RJNT 261200Z 12003KT 060V210 9999 -SHRA FEW010 SCT030 BKN130 20/19 Q1008 RJOA 261300Z 33009KT 9999 FEW015 BKN060 18/15 Q1012 RJOB 261200Z 33003KT 250V030 9999 FEW015 BKN080 20/16 Q1011 RJOC 261100Z 01015KT 9999 -SHRA FEW015 SCT025 BKN040 22/17 Q1012 RJOH 261500Z 34009KT 9999 FEW015 SCT030 BKN050 20/18 Q1013 RJOI 261455Z 29007KT 9999 FEW030 FEW070 19/15 A2989 RMK SLP123 T01940150 402720194 50003 RJOK 261100Z 36005KT 9999 FEW015 SCT080 BKN180 23/17 Q1009 RJOM 261200Z 01013KT 9999 FEW025 SCT050 BKN070 23/17 Q1011 RJOO 261100Z 33003KT 9999 FEW020 SCT030 BKN070 22/20 Q1009 RMK 1CU020 3CU030 5AC070 A2981 RJOR 261200Z 36019KT 9999 FEW015 SCT030 BKN040 22/19 Q1011 RJOS 261500Z 31007KT 9999 VCSH SCT025 BKN050 22/17 Q1010 RJOT 261200Z 23006KT 9999 FEW020 SCT100 BKN170 19/19 Q1011 RJOZ 261137Z 07004KT 9999 FEW025 20/17 Q1012 RMK 1CU025 A2990 RJSA 261200Z 08008KT 9999 FEW010 BKN035 BKN080 15/11 Q1011 RJSD 261500Z AUTO 27003KT 9999 FEW029 SCT039 BKN040 20/19 Q1008 RJSF 261100Z 11003KT 060V140 9999 FEW005 SCT010 BKN015 16/15 Q1011 RJSH 261122Z 08011G21KT 030V120 9999 SCT025 BKN045 BKN080 17/13 Q1012 RMK 3CU025 5SC045 7AC080 A2988 RJSK 261200Z 12006KT 080V160 9999 -SHRA FEW015 SCT040 BKN050 17/12 Q1009 RJSM 261500Z 27006KT 8000 FEW008 BKN025 BKN045 14/14 Q1011 RJSN 261200Z 17011KT 9999 FEW015 SCT030 BKN050 20/18 Q1007 RJSS 261200Z 08012KT 9999 FEW005 BKN012 BKN020 18/16 Q1010 RJSY 261200Z 09012KT 9999 -SHRA FEW005 SCT010 BKN020 17/16 Q1007 RJTE 261519Z 03005KT 360V070 9999 FEW008 BKN012 BKN025 20/18 Q1009 RMK 1ST008 5SC012 7SC025 A2980 RJTL 261351Z 01004KT 340V040 5000 -RA BR FEW006 BKN010 BKN020 18/17 Q1009 RMK 2ST006 5ST010 7SC020 A2981 RJTR 261503Z AUTO 32004KT 5SM BR BKN007 OVC012 17/17 A2982 RMK AO2 CIG 007V010 SLP099 RJTT 261530Z 01010KT 9999 -RA FEW006 SCT009 BKN030 19/18 Q1009 TEMPO FEW008 BKN012 RJTY 261556Z AUTO 00000KT 10SM SCT010 OVC014 17/17 A2987 RMK AO2 CIG 009V014 CIG 013 RWY18 SLP116 T01730168 FZRANO $ RKJB 261500Z AUTO 10004KT 9000 NCD 18/18 Q1016 RKJK 261556Z AUTO 05005KT 10SM CLR 18/13 A3001 RMK AO2 SLP166 T01820128 $ RKNN 261414Z 07006KT 8000 BR SCT020 BKN030 17/16 A3011 RMK CIG030 RKNY 261500Z AUTO 33004KT 7000 ///015/// ///042/// 16/15 Q1020 RKPC 261500Z 14005KT CAVOK 20/17 Q1016 NOSIG RKPK 261500Z 36007KT 9999 FEW030 19/13 Q1016 RKSG 261556Z 00000KT 7SM FEW070 16/12 A3007 RMK AO2A SLP185 T01590118 $ RKSI 261530Z 05012KT CAVOK 17/09 Q1018 NOSIG RKSM 261500Z 02005KT 9999 SKC 17/12 A3009 RKSO 261458Z 05004KT 7SM CLR 17/13 A3006 RMK AO2A SLP182 T01680131 402520129 52006 $ RKSS 261500Z 01007KT CAVOK 16/13 Q1019 NOSIG RKSY 261558Z AUTO 00000KT 9999 SCT085 18/12 A3007 RMK AO2 SLP186 T01780116 RKTN 261500Z 07003KT 9999 BKN040 BKN070 17/14 Q1017 RKTU 261500Z 07005KT CAVOK 15/13 Q1018 ROAH 261530Z 36021KT 9999 VCSH FEW020 BKN110 24/20 Q1011 RODN 261556Z AUTO 36008G16KT 10SM BKN110 24/19 A2986 RMK AO2 RAE10 SLP117 P0000 T02410189 $ ROIG 261100Z 01007KT 9999 FEW025 BKN060 26/23 Q1010 ROMD 261500Z AUTO 31003KT 9999 FEW023 SCT050 OVC190 27/24 Q1009 ROMY 261100Z 03007KT 9999 FEW027 BKN080 26/22 Q1010 RORK 261500Z AUTO 33004KT 9999 FEW023 SCT060 BKN120 28/23 Q1009 RORY 261500Z AUTO 35007KT 9999 NSC 25/19 Q1011 ROTM 261456Z 01011KT 9999 FEW023 BKN100 24/22 A2988 RMK SLP103 T02390222 402830233 51002 ROYN 261500Z AUTO 05014KT 9999 SCT036 BKN038 OVC060 27/21 Q1011 RPLB 261500Z 05005KT 9999 SCT020 BKN080 26/25 Q1011 NOSIG RMK A2925 RPLC 261500Z 35004KT 6000 SCT020 OVC090 26/24 Q1011 RMK A2985 RPLI 261500Z 16005KT 120V210 8000 FEW017CB BKN018 OVC070 26/25 Q1011 RETSRA RMK A2986 RPLL 261500Z VRB02KT 9999 FEW025 SCT100 28/25 Q1010 NOSIG RMK A2983 RPMD 261500Z 32003KT 9999 FEW016 SCT290 25/24 Q1011 RMK A2985 RPMZ 261500Z 13004KT 080V190 9999 -SHRA FEW017 OVC090 27/24 Q1011 RMK A2925 RPVD 261500Z 22002KT 9999 -SHRA FEW014CB FEW015 BKN070 27/25 Q1010 RMK A2983 CB/LTG OCNL W RPVM 261500Z 30002KT 9999 FEW020 SCT100 OVC250 27/23 Q1011 RMK A2985 RPVP 261500Z 25004KT 9999 FEW019 SCT250 27/25 Q1010 RMK A2983 SAAC 261500Z 09014KT CAVOK 23/15 Q1004 SAAG 261500Z 09015KT 9999 OVC030 20/17 Q1003 SAAJ 261500Z 07007KT 9999 OVC003 17/16 Q1006 SAAP 261500Z 05014KT CAVOK 23/16 Q1002 SAAR 261500Z 07022KT 9999 SCT026 OVC200 23/16 Q1003 SAAV 261500Z 14010KT CAVOK 25/17 Q1001 SABE 261500Z 10009KT 6000 -RA OVC004 16/16 Q1007 RETSRA BECMG 7000 -RADZ BR BKN005 FEW035CB OVC040 SACO 261500Z 22011KT 9999 SCT009 OVC021 17/13 Q1007 NOSIG SADF 261500Z 09008KT 020V110 3500 -TSRA OVC003 FEW045CB 16/16 Q1006 SADM 261500Z 07008KT 3500 -RABR BKN006 OVC100 16/16 Q1007 RETSRA SADO 261500Z 14004KT 4000 -TSRA BR SCT015 OVC030 FEW045CB 16/15 Q1008 SADP 261400Z 06009KT 5000 TSRA BKN006 FEW045CB 16/16 Q1007 SAEZ 261500Z 14006KT 5000 -RA OVC004 16/15 Q1007 NOSIG SAME 261500Z 18013KT 9999 BKN040 SCT100 18/08 Q1013 SAMM 261400Z 27015KT CAVOK 14/M22 Q1017 SAMR 261400Z 18006KT 9999 FEW045 BKN100 14/10 Q1015 SANC 261500Z 00000KT CAVOK 32/11 Q1005 SANE 261500Z 18011KT CAVOK 32/17 Q1001 SANL 261400Z 16009KT CAVOK 24/14 Q1007 SANT 261500Z 20010KT 5000 FU NSC 32/17 Q1003 SANU 261500Z 18017KT 9999 BKN030 SCT060 19/10 Q1013 SAOC 261500Z 23010KT 1500 +DZ BR BKN004 OVC008 13/13 Q1009 SAOR 261015Z 23004KT 0600 DZ FG OVC003 12/12 Q1009 SAOU 261500Z 16012KT 9999 -DZ BKN020 OVC025 14/13 Q1012 RMK ESTIMATED WIND SARC 261500Z 05024KT 3000 FU NSC 39/13 Q1000 SARE 261400Z 36017KT 330V030 7000 NSC 37/14 Q1001 SARF 261500Z 36017KT 4000 FU NSC 39/16 Q1002 SARI 261500Z 36012KT CAVOK 35/14 Q1008 SARL 261500Z 09009KT 5000 FU NSC 30/19 Q1002 SARP 261500Z 36010KT 9999 NSC 36/15 Q1005 SASA 261500Z 05005KT 8000 NSC 32/10 Q1006 SASJ 261400Z 18005KT 110V240 8000 NSC 32/12 Q1004 SATR 261400Z 36008KT 5000 FU NSC 35/15 Q0999 SAVC 261500Z 27011KT CAVOK 20/01 Q1013 SAVE 261500Z 25011KT 210V300 CAVOK 13/M01 Q1018 SAVT 261500Z 20012KT CAVOK 20/M05 Q1013 SAVV 261500Z 29004KT 250V340 CAVOK 18/13 Q1012 SAVY 261200Z 02006KT CAVOK 14/M02 Q1012 SAWC 261500Z 27025KT 9999 FEW035 SCT200 13/M03 Q1008 SAWE 261500Z 27020G30KT 9999 BKN020 08/01 Q1002 SAWG 261400Z 23013KT 9999 SCT035 SCT200 11/M01 Q1006 SAWH 261500Z 27016KT 9999 VCSH BKN100 06/M06 Q1000 SAZB 261500Z 16004KT CAVOK 17/13 Q1012 SAZG 261400Z 18012KT 3000 -RA BKN010 OVC050 13/13 Q1010 SAZM 261500Z 09008KT 8000 OVC007 13/12 Q1012 SAZN 261400Z 25008KT 9999 SCT030 OVC040 14/06 Q1016 SAZR 261500Z 16009KT 2500 -RABR BKN002 OVC100 13/13 Q1011 SAZS 261500Z 29020KT CAVOK 12/01 Q1019 SAZT 261400Z 09015KT 8000 OVC008 13/12 Q1011 SAZY 261400Z 27021G30KT 9999 FEW028 SCT100 SCT200 11/02 Q1018 SBAF 261500Z 22008KT CAVOK 31/21 Q1013 SBAN 261500Z VRB05KT 9999 FEW035 29/06 Q1020 SBAR 261600Z 12010KT 9999 SCT020 29/19 Q1014 SBAT 261300Z 33003KT 9999 SCT008 SCT070 25/22 Q1015 SBAX 261500Z AUTO VRB05KT CAVOK 29/10 Q1019 SBBE 261600Z 35008KT 310V020 9999 SCT040 FEW050TCU 30/24 Q1011 SBBG 261500Z AUTO 08013KT CAVOK 20/16 Q1008 RETSRA SBBH 261500Z 07005KT CAVOK 29/08 Q1019 SBBI 261500Z 34012KT CAVOK 28/11 Q1017 SBBQ 261500Z 01006KT 9999 SCT030 27/11 Q1022 SBBR 261600Z 36005KT 9999 FEW040 32/08 Q1018 SBBU 261100Z 06007KT CAVOK 24/17 Q1017 SBBV 261600Z 06006KT 9999 BKN035 33/20 Q1013 SBBW 261400Z 29003KT 9999 FEW020 36/19 Q1014 SBCA 261100Z 05018KT CAVOK 25/14 Q1015 SBCB 261600Z 06017KT CAVOK 27/21 Q1013 SBCC 261500Z 30005KT 9999 SCT030 SCT100 25/18 Q1015 SBCF 261600Z 15005KT 9999 FEW048 30/11 Q1018 SBCG 261500Z 34015KT CAVOK 37/10 Q1011 SBCI 261300Z AUTO 07004KT 360V120 9999 FEW028 30/22 Q1014 SBCJ 261600Z 04004KT 8000 SCT025 28/21 Q1016 SBCO 261500Z 13010KT 080V180 CAVOK 25/18 Q1009 SBCP 261600Z 10012KT 9999 FEW020 30/20 Q1013 SBCR 261600Z 33012KT 300V010 5000 FU SCT035 41/16 Q1005 SBCT 261500Z 31013KT CAVOK 29/09 Q1017 SBCX 261100Z 03008KT CAVOK 20/10 Q1014 SBCY 261600Z 31013KT CAVOK 38/17 Q1010 SBCZ 261500Z 35004KT 9999 BKN025 31/25 Q1016 SBDN 261500Z 02007KT CAVOK 35/10 Q1013 SBEG 261600Z 30010KT 9999 SCT004 SCT017 BKN070 23/22 Q1013 SBES 261500Z 06013KT CAVOK 29/23 Q1013 SBFI 261600Z 35019KT CAVOK 37/13 Q1007 SBFL 261600Z 01013KT CAVOK 27/14 Q1011 SBFN 261600Z 16012KT 9999 SCT019 29/23 Q1012 SBFS 261500Z 05011KT CAVOK 27/21 Q1015 SBFZ 261600Z 09018KT 9999 FEW030 30/20 Q1011 SBGL 261500Z 36005KT 330V080 CAVOK 30/20 Q1012 SBGM 261500Z 34009KT CAVOK 29/20 Q1015 SBGO 261600Z 22006KT 170V280 CAVOK 34/09 Q1016 SBGR 261600Z 31014KT 9999 FEW030 31/11 Q1015 SBGW 261500Z VRB04KT 9999 FEW030 31/15 Q1015 SBHT 261500Z /////KT 9999 BKN025 ///// Q1013 SBIH 261500Z /////KT 9999 FEW020 BKN080 30/23 Q1013 SBIL 261500Z 12008KT 9999 FEW025TCU SCT030 27/22 Q1017 SBIZ 261500Z 04006KT 9999 BKN025 32/22 Q1012 SBJP 261600Z 11011KT 070V150 9999 FEW030 30/21 Q1013 SBJR 261500Z 17007KT 4000 HZ NSC 27/22 Q1013 SBJU 261500Z 18008KT CAVOK 32/12 Q1017 SBJV 261500Z 12008KT CAVOK 24/18 Q1013 SBKG 261500Z 11009KT 9999 SCT030 29/16 Q1015 SBKP 261600Z 28009KT 210V350 9999 FEW030 33/09 Q1015 SBLE 261300Z AUTO 18004KT 110V230 9999 BKN028 OVC034 23/18 Q1020 SBLO 261600Z 02013KT CAVOK 36/11 Q1013 SBLS 261500Z VRB03KT 9999 FEW027 29/12 Q1019 SBMA 261500Z 04010KT 9999 SCT020 32/22 Q1013 SBME 261500Z 08010KT CAVOK 34/21 Q1013 SBMG 261400Z 02013G23KT 360V070 CAVOK 33/14 Q1013 SBMK 261300Z 06009KT 030V120 CAVOK 27/12 Q1019 SBMN 261600Z 35012KT 9999 FEW015 BKN070 24/22 Q1013 SBMO 261600Z 14008KT 9999 SCT033 28/19 Q1014 SBMQ 261600Z 10010KT 9999 FEW027 33/25 Q1011 SBMS 261500Z 15003KT 9999 BKN030 35/17 Q1012 SBMT 261400Z VRB02KT CAVOK 27/16 Q1017 SBMY 261100Z AUTO 23003KT 200V260 CAVOK 24/23 Q1013 SBNF 261500Z 06012KT CAVOK 23/18 Q1013 SBNM 261500Z AUTO 35016KT CAVOK 33/16 Q1007 SBNT 261500Z 10015KT 9999 SCT025 28/21 Q1013 SBOI 261600Z 15004KT 9999 SCT030 33/22 Q1011 SBPA 261600Z 12010KT 9999 FEW047 SCT100 27/18 Q1007 SBPC 261500Z /////KT 9999 FEW020 27/11 Q//// SBPJ 261600Z 28010KT 9999 SCT030 32/20 Q1012 SBPL 261500Z 14016KT 9999 BKN032 31/15 Q1015 SBPP 261600Z 33012KT CAVOK 36/12 Q1010 SBPR 261500Z 03006KT 9999 FEW020 31/11 Q1020 SBPS 261600Z 10010KT 9999 FEW020 27/19 Q1017 SBPV 261600Z 36004KT 9999 SCT015 BKN100 26/22 Q1014 SBRB 261600Z 35005KT 9999 FEW040 32/22 Q1014 SBRF 261600Z 14010KT 9999 SCT025 29/21 Q1013 SBRJ 261500Z 16013KT CAVOK 26/22 Q1013 SBRP 261600Z 31009KT CAVOK 35/06 Q1013 SBSC 261500Z 20009KT CAVOK 26/21 Q1013 SBSG 261600Z 15015KT 9999 BKN033 29/21 Q1013 SBSJ 261500Z 08004KT 9000 NSC 29/14 Q1016 SBSL 261600Z 06012KT 9999 BKN030 31/23 Q1011 SBSM 261400Z 11014KT 090V150 CAVOK 22/17 Q1008 SBSN 261500Z 09006KT 9999 FEW017 BKN100 28/25 Q1013 SBSP 261600Z 33012KT CAVOK 31/11 Q1016 SBSR 261500Z 33005KT CAVOK 35/01 Q1014 SBST 261500Z 24005KT 210V290 8000 FEW018 BKN043 26/20 Q1013 SBSV 261600Z 12008KT 080V160 9999 FEW020 27/21 Q1015 SBTA 261500Z 12004KT 9999 FEW025 29/17 Q1015 SBTE 261600Z 14006KT 9999 SCT040 35/17 Q1010 SBTF 261500Z 03002KT 9999 BKN011 BKN080 25/24 Q1015 SBTK 261100Z AUTO VRB02KT 8000 FEW001 22/22 Q1014 SBTT 261600Z 30007KT 9999 FEW012 BKN080 27/23 Q1015 SBUA 261500Z 35004KT 9999 SCT015 SCT100 29/25 Q1015 SBUL 261500Z 03005KT CAVOK 30/07 Q1019 SBUR 261500Z 36009KT CAVOK 32/04 Q1017 SBVH 261500Z 35005KT 300V360 CAVOK 28/18 Q1016 SBVT 261600Z 06014KT 9999 FEW035 28/21 Q1015 SBYS 261500Z 34008KT 280V040 CAVOK 35/13 Q1015 SCAP 261500Z AUTO 22012G22KT 180V260 9999 ////// 13/02 Q1024 SCAR 261500Z 23006KT 9999 OVC029 17/11 Q1019 SCAT 261500Z 27006KT 250V310 9999 OVC015 13/09 Q1022 SCBA 261500Z 29028KT 270V330 9999 FEW050 10/00 Q1016 SCCF 261500Z 26012KT CAVOK 21/M11 Q1027 SCCH 261500Z VRB02KT 5000 HZ SCT020 BKN040 13/08 Q1024 SCCI 261500Z 25030KT 9999 FEW025 07/M01 Q1004 NOSIG SCCY 261500Z VRB07G17KT 9999 FEW040 12/02 Q1018 SCDA 261500Z 24015KT 9999 FEW030 18/10 Q1019 SCEL 261600Z 31004KT 240V030 9999 FEW030 15/04 Q1022 NOSIG SCFA 261500Z 21012KT 9999 OVC034 16/10 Q1020 NOSIG SCFM 261500Z 26015KT 9999 SCT020 07/M01 Q1005 SCFT 261500Z AUTO VRB10KT 9999 SCT049/// 14/02 Q1021 SCGE 261500Z 20004KT 140V240 9999 BKN015 11/10 Q1025 SCGZ 261500Z 27029G42KT 9999 FEW043 SCT076 07/M07 Q0998 SCIC 261500Z VRB04KT 9999 SCT005 14/05 Q1023 SCIE 261500Z 02005KT 330V050 9999 FEW030 BKN050 12/07 Q1024 SCIP 261500Z 08008KT 360V090 9999 BKN025 19/14 Q1029 NOSIG SCJO 261500Z 24005KT 9999 OVC007 10/09 Q1024 SCMK 261500Z VRB03KT 9999 OVC040 11/07 Q1024 SCNT 261500Z 22016G28KT 190V280 9999 BKN030 07/M01 Q1009 SCON 261500Z AUTO 23005KT 9999 BKN040/// OVC046/// 10/06 Q1025 SCPQ 261500Z 24004KT 160V300 9999 BKN020 ///// Q1024 SCQP 261500Z 30003KT 270V330 9999 FEW018 SCT021 BKN042 12/08 Q1024 SCRD 261500Z 22006KT 9999 FEW020 14/05 Q1023 SCRG 261500Z 27001KT 9999 BKN030 12/06 Q//// SCRM 261500Z 10033KT 0200 SN BLSN SCT005 OVC010 M10/M11 Q0973 NOSIG SCSE 261500Z 30008KT 250V330 CAVOK 16/07 Q1021 SCSN 261500Z 26008KT 9999 SCT027 13/08 Q1024 SCTB 261500Z 20003KT 9999 FEW060 13/04 Q1023 SCTE 261500Z 23006KT 180V270 9999 BKN013 OVC020 10/07 Q1024 NOSIG SCTN 261500Z 23006KT 2000 -DZ OVC008 08/08 Q1024 SCVD 261500Z VRB02KT 9999 BKN028 BKN060 13/09 Q1024 SCVM 261600Z 26010KT 9999 FEW035 17/09 Q1023 SECA 261500Z 14002KT CAVOK 24/13 Q1021 SECO 261500Z 07004KT 9999 FEW020 SCT100 29/23 Q1016 RMK A3003 SECU 261500Z 00000KT 9999 FEW040 BKN300 17/09 Q1030 SEGS 261500Z 15009KT 9999 SCT020 24/19 Q1016 A3002 SEGU 261500Z 21006KT 9999 FEW016 BKN026 SELT 261500Z 18013KT 9999 FEW033 SCT100 14/04 Q1033 SEMC 261500Z 10004KT 9999 FEW040 24/16 Q1021 RMK A3017 SEMT 261500Z 31003KT 9999 SCT020 SCT026 25/21 Q1016 RMK A3002 SENL 261500Z 05003KT 9999 FEW020 BKN100 30/21 Q1018 RMK A3006 SEQM 261500Z VRB04KT 9999 FEW030 BKN300 19/03 Q1029 NOSIG RMK A3039 SESA 261500Z 24006KT CAVOK 23/19 Q1017 RMK A3004 SESM 261500Z 15003KT 9999 SCT026 25/19 Q1021 RMK A3015 SEST 261500Z 16015KT 9999 SCT016 BKN050 22/19 Q1015 RMK A2997 SETN 261500Z 22005KT 9999 FEW026 BKN120 28/24 Q1015 A2999 SFAL 261350Z 25021KT CAVOK 12/03 Q1004 SGAS 261600Z 36022KT 230V030 CAVOK 41/12 Q1003 SGEN 261600Z 36022KT 7000 FU NSC 37/12 Q1004 SGES 261500Z 04017KT CAVOK 37/13 Q1008 SKAR 261500Z 01004KT┬ 9999 BKN023 24/18 A3019 SKBG 261600Z 34006KT 9999 SCT012 SCT240 25/19 A3008 SKBO 261600Z 08005KT 9999 VCSH SCT023 SCT070 17/09 A3042 REDZ NOSIG RMK VCSH/S/W SKBQ 261600Z 05004KT 9999 SCT015 SCT200 30/26 A2993 NOSIG SKCC 261500Z 22007KT 9999 FEW022 SCT090 31/20 A3000 SKCG 261600Z 21010KT 180V250 9999 FEW015 BKN200 31/25 A2989 SKCL 261500Z 05003KT 9000 FEW020 BKN100 25/18 A3012 NOSIG RMK HZ SKEJ 261400Z VRB02KT 9999 SCT010 BKN120 24/23 A2996 SKIP 261500Z 13008KT 9999 FEW020 SCT200 14/05 A3050 SKLC 261400Z 19006KT 9999 SCT010 26/24 A2997 SKLT 261600Z 31005KT 270V350 9999 FEW015 BKN100 28/24 A2997 SKMD 261500Z 02006KT 9999 VCSH SCT020 BKN080 22/16 A3025 RMK VCSH/N/NW SKMR 261500Z 27006KT 9999 FEW020 30/24 A2995 SKNV 261500Z 21005KT 180V240 9999 FEW035 BKN130 29/16 A3005 SKPC 261500Z 08008KT 9999 FEW020 30/23 A2996 SKPE 261500Z 33006KT 9999 SCT015 23/19 A3018 SKPS 261400Z 35005KT 9999 FEW028 SCT080 19/09 A3024 SKPV 261500Z 14004KT 9999 SCT017 BKN200 30/28 A2997 REDZ SKRG 261600Z 07004KT 9999 BKN015 19/14 A3038 NOSIG SKRH 261500Z 09010KT 9999 SCT015 SCT200 32/25 A2993 SKSM 261500Z 21006KT 9999 SCT020 SCT200 30/27 A2995 SKSP 261600Z 11007G20KT 020V190 9999 3000W TSRA FEW012CB SCT014 23/22 A2997 RMK CB/W/NW SKUC 261500Z 04003KT 9999 SCT020 32/25 A2998 SKUI 261500Z 23003KT 9999 SCT015 SCT100 26/23 A2997 METAR SKMZ 261500Z 31006KT 8000 VCFG SCT010 BKN090 17/13 A3042 SKVP 261500Z 26003KT 9999 FEW020 31/23 A2999 SKVV 261500Z 21004KT 9999 SCT017 BKN090 28/22 A3006 SLAL 261500Z 32008KT 9999 NSC 23/M05 Q1028 SLCB 261500Z 24003KT 9999 NSC 25/03 Q1023 SLCP 261500Z 33017KT 6000 FEW020 31/21 Q1015 SLET 261500Z 31030G46KT 6000 FEW017 31/21 Q1007 SLLP 261500Z 19005KT 9999 FEW017 14/M10 Q1039 SLMG 261500Z 34015KT 8000 BKN/080 32/20 Q1012 SLRQ 261500Z 36008KT 6000 FEW020 31/27 Q1011 SLSA 261500Z 34015G25KT 8000 NSC 32/21 Q1013 SLSI 261500Z 33015G25KT 5000 FU NSC 33/21 Q1011 SLTJ 261500Z 13004KT 9999 NSC 31/06 Q1012 SLTR 261500Z 33015G25KT 5000 FU NSC 33/22 Q1011 SLVR 261500Z 34023G36KT 7000 FEW015 34/23 Q1008 SMJP 261600Z VRB03KT 9999 BKN030 32/24 Q1011 NOSIG SMZO 261600Z 02004KT 9999 BKN025 32/24 Q1011 NOSIG SOCA 261530Z AUTO 06006KT 350V130 9999 FEW038 32/22 Q1011 NOSIG SPCL 261500Z 03007KT 9999 FEW020 30/22 Q1016 RMK BIRD HAZARD RWY 02/20 PP000 SPGM 261500Z 07003KT 9999 FEW040 28/20 Q1018 RMK PP000 SPHI 261500Z 20010KT 170V230 CAVOK 21/15 Q1017 RMK BIRD HAZARD RWY 19/01 PP000 SPHO 261500Z VRB03KT 9999 FEW025 20/03 Q1030 RMK PP000 SPJC 261600Z 27006KT 240V320 9999 SCT011 OVC015 17/11 Q1019 NOSIG RMK PP000 SPJJ 261500Z 19008KT 9999 SCT040TCU 17/07 Q1034 RMK PP000 SPJL 261500Z 23003KT CAVOK 13/M14 Q1037 RMK PP000 SPJR 261530Z 17006KT 130V230 9999 FEW026 21/06 Q1029 SPLO 261500Z 14008KT 9999 OVC025 18/14 Q1019 RMK PP000 SPME 261500Z /////KT 9999 SCT015 24/20 Q1016 RMK BIRD HAZARD RWY 32/14 TX26.8/TN19.6 PP000 SPMS 261500Z 00000KT 9999 FEW015 29/22 Q//// RMK BIRD HAZARD RWY09/27 PP000 SPNC 261500Z 18003KT 9999 FEW040 25/13 Q1025 RMK PP000 SPPY 261400Z 24004KT 9999 FEW015 14/11 Q1030 RMK PP000 SPQT 261500Z 02010KT 340V060 CAVOK 29/22 Q1015 NOSIG RMK BIRD HAZARD RWY 06/24 PP000 SPQU 261500Z 24007KT 180V270 CAVOK 21/M08 Q1028 NOSIG RMK PP000 SPSO 261500Z 27007KT 8000 FEW020 19/14 Q1018 RMK BIRD HAZARD RWY 22/04 PP000 SPST 261500Z 26003KT 9999 FEW012 28/22 Q1016 RMK BIRD HAZARD RWY 17/35 PP000 SPTN 261500Z 25004KT 210V340 9999 OVC033 15/11 Q1020 RMK PP000 SPTU 261500Z 36005KT 270V070 9999 SCT030 31/23 Q1013 RMK BIRD HAZARD RWY 01/19 PP000 SPUR 261500Z 11004KT CAVOK 23/15 Q1017 RMK BIRD HAZARD RWY 19/01 PP000 SPYL 261500Z 16011KT CAVOK 24/18 Q1017 RMK BIRD HAZARD RWY 17/35 PP000 SPZO 261530Z 24007KT 9999 FEW050 19/00 Q1033 NOSIG RMK BIRD HAZARD RWY 28 SUAA 261500Z 08005KT 4000 RA SCT010 OVC070 15/15 Q1010 SUCA 261600Z 08010KT 9999 -TSRA BKN010 FEW040CB OVC080 16/16 Q1006 SUDU 261200Z 34008KT 4000 TS-RA BR FEW008 SCT017 FEW040CB 16/16 Q1011 SULS 261600Z 06005KT 1000 -RA BR SCT010 OVC080 16/15 Q1010 SUMU 261600Z 09009KT 1200 R24/P2000U R19/P2000U RA BR SCT002 BKN010 OVC080 15/15 Q1009 NOSIG SUSO 261600Z 10016KT CAVOK 23/16 Q1003 SVBI 261302Z AUTO 30003KT NCD 32/21 Q1017 SVBM 261500Z 07006KT 9999 SCT020 27/19 Q1016 SVBS 261302Z AUTO 02002KT NCD 26/// Q1017 SVFM 261302Z AUTO 00000KT NCD 23/14 Q1017 SVGD 261302Z AUTO 31002KT NCD 27/25 Q1015 SVGU 261302Z AUTO 18002KT NCD 33/22 Q1015 SVJM 261302Z AUTO 35002KT NCD 24/21 Q1015 SVMC 261302Z AUTO 04003KT NCD 28/24 Q1013 SVMG 261500Z /////KT 9999 FEW010 //// Q1014 NOSIG SVMI 261600Z 09006KT 9999 FEW016 31/24 Q1015 SYCJ 261500Z 32005KT 240V010 9999 FEW018CB SCT019 BKN090 30/25 Q1013 NOSIG RMK CB NNE E-SSW VCSH SSW SYEC 261500Z 36008KT 9999 FEW020CB SCT021 30/25 Q1013 NOSIG RMK CB SW&W-E SYLT 261500Z NI SYMB 261500Z 22008KT 9999 BKN021 BKN100 30/24 Q//// NOSIG TAPA 261500Z 08011KT 040V120 9999 FEW016CB SCT018 31/24 Q1015 NOSIG TBPB 261500Z 09016KT 9999 SCT018 32/25 Q1013 NOSIG TDCF 261500Z 23002KT 9999 BKN020 33/26 Q1014 TDPD 261500Z 11006KT 9999 FEW020 FEW///CB 31/26 Q1015 TFFF 261530Z AUTO 09009KT 030V140 9999 FEW036 32/24 Q1014 TEMPO 4000 SHRA SCT020TCU TFFR 261530Z AUTO 16009KT 9999 SCT022/// BKN029/// BKN045/// ///CB 29/25 Q1014 TEMPO 4000 SHRA TGPY 261500Z 35007KT 9999 FEW014CB SCT017TCU 31/26 Q1014 NOSIG CB-SSE/S/SSW TCU-N ADJ SHRA-SE/NW TIST 261553Z 03010G16KT 10SM FEW031 32/23 A2999 RMK AO2 SLP155 T03170233 TISX 261553Z 04013KT 10SM CLR 32/24 A3000 RMK AO2 SLP156 T03220244 TJBQ 261550Z 08010G15KT 10SM CLR 31/24 A3002 TJIG 261550Z 07007KT 10SM SCT040 SCT080 31/24 A3000 TJNR 261553Z AUTO 04010KT 10SM CLR 32/24 A3001 RMK AO2 SLP162 T03170244 TJSJ 261556Z 07010KT 10SM SCT026 SCT060 31/25 A3000 RMK AO2 SLP159 T03110250 TKPK 261500Z 06011KT 9999 FEW014CB 31/24 Q1016 TKPN 261500Z 08012KT 9999 SCT018 SCT043 28/26 Q1015 TLPC 261500Z 03008KT 9999 BKN025 32/25 Q1014 NOSIG TLPL 261600Z 12015KT 9999 SCT024 33/25 Q1013 NOSIG TNCA 261500Z 09015KT 9999 SCT023 33/23 Q1014 NOSIG TNCB 261455Z 09011KT 060V130 9999 SCT025 BKN028 32/23 Q1014 TNCC 261500Z 09010KT 9999 SCT021 32/24 Q1015 NOSIG TNCE 261455Z AUTO 02005KT 300V090 //// // ///////// 27/25 Q1016 RE// TNCM 261500Z 03010KT 9999 SCT018TCU 32/24 Q1017 NOSIG RMK CB-SE/S/TCU-ESE TQPF 261500Z 06008KT 9999 SCT018TCU 31/24 Q1017 RMK TCU-SE SW TRPG 261525Z 08009G20KT 010V130 9999 VCSH FEW016CB SCT016 30/26 Q1017 RMK CB-E TTCP 261500Z 03007KT 9999 VCSH FEW012CB 32/25 Q1013 RMK CB-S TTPP 261500Z 00000KT 9999 BKN020 33/22 Q1013 NOSIG TUPJ 261600Z 05005KT 10SM SCT019 31/25 A3001 RMK Q1016 VIS16KM TVSA 261500Z 04008KT 020V080 9999 FEW022 31/25 Q1014 NOSIG TXKF 261555Z 13010KT 9999 SCT030 SCT300 27/20 Q1022 UAAA 261530Z 00000MPS 5000 FU BKN200 08/M02 Q1020 R05R/CLRD65 NOSIG UAAH 261130Z 06005MPS 9999 FEW048 14/M01 Q1023 R05/0///60 NOSIG RMK QFE730/0973 UAAT 261030Z 04010MPS 9999 NSC 15/M05 Q1019 R02/CLRD65 NOSIG RMK QFE712/0950 UACC 261530Z 04001MPS CAVOK 05/02 Q1030 R04/0///70 NOSIG RMK QFE741/0988 UACK 261130Z 36003MPS 320V030 9999 FEW045 12/01 Q1031 R02/090070 NOSIG RMK QFE749/0999 UACP 261130Z 29003MPS 250V310 9999 SCT046 12/02 Q1032 R23/0/0060 NOSIG RMK QFE761/1015 UADD 261530Z 07009MPS 9999 SCT046 OVC100 13/M06 Q1016 R31/0///65 NOSIG RMK QFE704/0939 UAII 261530Z 09007MPS 9999 SCT046CB 17/M03 Q1013 R10/0///70 NOSIG RMK QFE725/0966 UAKD 261430Z 06007MPS 9999 SCT060CB 09/01 Q1027 R04/0///65 NOSIG RMK QFE736/0982 UAKK 261530Z 04004MPS 9999 SCT045 05/04 Q1029 R05/1///65 NOSIG RMK QFE724/0965 UAOO 261500Z 05006MPS 020V080 CAVOK 14/M05 Q1021 NOSIG RMK QFE754/1006 UARR 261530Z 07004MPS CAVOK 11/03 Q1030 R04/CLRD70 NOSIG RMK QFE769/1026 UASK 261530Z 15002MPS 9999 -SHRA OVC032CB 07/06 Q1025 R30/290250 NOSIG RMK QFE743/0991 UASP 261530Z 29002MPS 6000 NSC 05/04 Q1029 R03/0///70 NOSIG RMK QFE761/1015 UASS 261430Z 03004MPS 9999 -SHRA BKN043CB 08/05 Q1027 R08/2///57 NOSIG RMK QFE749/0999 UATE 261530Z 08005MPS CAVOK 18/M06 Q1018 R12/0///70 NOSIG RMK QFE761/1015 UATG 261530Z 07004MPS CAVOK 15/M01 Q1024 R14/CLRD70 NOSIG RMK QFE770/1027 UATT 261530Z 09003MPS CAVOK 12/M03 Q1031 R13/70D NOSIG RMK QFE754/1005 UAUU 261530Z 00000MPS CAVOK 09/03 Q1032 R33/CLRD70 NOSIG RMK QFE758/1011 UBBB 261530Z 07006KT CAVOK 23/15 Q1013 R88/D NOSIG UBBG 261530Z 16004KT 130V190 9999 FEW050CB BKN100 22/16 Q1012 R12/CLRD// NOSIG UBBL 261600Z 00000KT 9000 NSC 21/18 Q1012 R33/CLRD// NOSIG RMK MT OP UBBN 261500Z 34006KT 9999 FEW046CB SCT100 26/08 Q1009 R14R/CLRD// NOSIG RMK MT OP QFE682 UBBQ 261535Z 00000KT 9999 FEW050CB BKN100 22/11 Q1013 R34/CLRD// RMK MT PT OBSC UBBY 261500Z 08004KT 9999 FEW060 BKN100 22/16 Q1016 R33/CLRD// NOSIG RMK MT OP UBEE 261500Z 16002KT 9999 VCTS SCT036CB OVC100 24/16 Q1011 R30/CLRD// NOSIG UCFL 261500Z 08008MPS 9999 BKN110 13/05 Q1016 R07/CLRD// UCFM 261530Z 05007MPS 9999 FEW066CB 12/M05 Q1017 R08/0///95 TEMPO 05007G12MPS UCFO 261530Z 13001MPS 6000 FEW050CB BKN116 16/07 Q1013 R12/0///95 NOSIG UDSG 261530Z VRB09KT 9999 -TSRA SCT040CB BKN040 17/10 Q1016 R02/CLRD70 NOSIG UDYZ 261530Z 28014KT 9999 -SHRA BKN040CB 21/11 Q1012 R09/010070 TEMPO 24020G30KT -TSRA UEEE 261530Z 13004MPS 5000 FU SCT050CB 14/02 Q1007 R23L/09//60 NOSIG RMK QFE746 UERP 261500Z 32003MPS 4100 FU SCT100 03/M01 Q1007 NOSIG RMK QFE711 UERR 261500Z 36004MPS 2500 HZ NSC 03/02 Q1004 R25/250337 NOSIG RMK QFE722/0963 UGKO 261530Z 29004KT CAVOK 23/20 Q1009 NOSIG UGSB 261530Z 00000KT 9999 FEW035 24/21 Q1010 NOSIG UGTB 261530Z 16006KT 9999 SCT054CB 22/14 Q1015 NOSIG UHBB 261500Z 18004MPS 9999 FEW033 14/12 Q1017 R36/090060 NOSIG RMK QFE745/0994 UHHH 261530Z 09002MPS CAVOK 08/06 Q1023 R05R/090060 NOSIG RMK QFE761/1015 UHMA 261500Z 02002MPS CAVOK M07/M08 Q1019 R01/////// NOSIG RMK TDZ R01/02002G03MPS END R01/03003G04MPS QFE760/1014 UHMM 261500Z 14001MPS 5000 2200E FU NSC M05/M07 Q1025 RMK QFE753 R28/10002MPS UHPP 261500Z 36003MPS 9999 NSC M00/M01 Q1026 R16R/CLRD70 NOSIG RMK QFE766/1022 UHSS 261500Z 04004MPS 9999 SCT030CB 13/08 Q1022 RMK MT OBSC QFE765/1021 UHWW 261530Z 00000MPS 9999 NSC 10/10 Q1020 R25L/0///70 NOSIG RMK QFE764 UIAA 261530Z AUTO 21004MPS 9999 NCD 05/M00 Q1009 RMK QFE698/0931 UIBB 261530Z 29006MPS 9999 BKN016CB 06/03 Q1014 R30/60D NOSIG RMK QFE717/0957 UIII 261530Z 30007MPS 9999 OVC039CB 08/03 Q1017 R30/290150 NOSIG RMK QFE718/0957 UIUU 261530Z 29008MPS 9999 -SHRA SCT040CB 05/04 Q1014 R26/290155 NOSIG RMK QFE716/0955 UKBB 261530Z 12006MPS CAVOK 25/10 Q1006 R18L/CLRD// TEMPO 14010G15MPS UKDD 261500Z 11005MPS CAVOK 25/07 Q1009 R08/090070 TEMPO 13009G14MPS UKDE 261530Z 11004MPS 070V140 CAVOK 25/11 Q1009 R02R/090070 NOSIG UKDR 261530Z 14008MPS 100V170 CAVOK 26/10 Q1007 R18/09//70 TEMPO 14008G13MPS UKHH 261530Z 10008MPS CAVOK 23/02 Q1013 R07/0///81 TEMPO 14009G16MPS UKKK 261530Z 11006MPS CAVOK 24/11 Q1006 R08/70D TEMPO 11010G16MPS UKKM 261530Z 11003MPS 080V140 CAVOK 24/12 Q1005 R15/CLRD70 NOSIG UKLI 261530Z 12005MPS 070V150 9999 FEW030CB BKN040 22/15 Q0996 R10/090070 TEMPO 14015G20MPS 2100 -TSRAGR BKN007 BKN010CB UKLL 261537Z 25004MPS 210V300 2700 -SHRA SCT025CB BKN025 13/12 Q0998 R31/290055 TEMPO 27010G16MPS UKLR 261500Z 12008MPS 080V150 CAVOK 24/12 Q1000 NOSIG UKLU 261500Z 14003MPS 9999 -RA OVC010 16/14 Q0997 R10/290260 NOSIG UKOH 261530Z 18003MPS 140V230 CAVOK 25/13 Q1005 NOSIG UKON 261400Z 18006MPS CAVOK 27/14 Q1005 R04/090075 NOSIG UKOO 261530Z 14007MPS 9999 BKN013 22/20 Q1003 R16/090060 NOSIG UKWW 261530Z 13007MPS 9999 NSC 23/12 Q1002 R13/0///65 NOSIG ULAA 261530Z 17003MPS 130V210 CAVOK 15/11 Q1020 R08/CLRD68 NOSIG RMK QFE764/1019 ULLI 261530Z 13002MPS CAVOK 18/11 Q1015 R10R/090060 NOSIG ULMM 261530Z 25001MPS 9999 -SHRA SCT026CB 06/06 Q1019 R31/290160 NOSIG RMK QFE757 ULOO 261530Z 11002MPS 070V140 CAVOK 20/11 Q1012 R19/090070 NOSIG RMK QFE755 ULPB 261530Z VRB01MPS CAVOK 13/12 Q1018 R19/09//60 NOSIG RMK QFE760/1013 ULWC 261530Z 15002MPS CAVOK 16/08 Q1022 R21/010065 NOSIG RMK QFE756/1009 UMBB 261300Z 14008G13MPS 9999 BKN041 25/13 Q0998 NOSIG UMGG 261530Z 09007MPS CAVOK 24/09 Q1010 R10/D NOSIG UMII 261500Z 11006G09MPS 070V150 CAVOK 20/09 Q1012 R05/CLRD// NOSIG UMKK 261530Z 09005MPS CAVOK 22/17 Q0997 R06/CLRD95 NOSIG RMK QFE747/0996 UMMG 261515Z 12008G13MPS CAVOK 25/09 Q0999 NOSIG UMMS 261530Z 10004G07MPS 070V130 CAVOK 20/11 Q1007 R13L/CLRD// R13R/////// NOSIG UMOO 261530Z 10004G07MPS 9000 NSC 21/07 Q1009 R13/CLRD// NOSIG UNAA 261530Z 16001MPS 6000 NSC 04/01 Q1023 R20/CLRD65 NOSIG RMK QFE745 UNBB 261530Z 01002MPS CAVOK 05/00 Q1026 R24/CLRD66 NOSIG RMK QFE747 UNEE 261530Z 33003MPS 9999 OVC040 05/03 Q1026 R23/CLRD60 NOSIG RMK QFE746 UNKL 261530Z 28004MPS 9999 SCT034 08/04 Q1022 R11/CLRD65 NOSIG RMK QFE741 UNNT 261530Z 34001MPS 9999 OVC038 06/03 Q1027 R07/090070 R16/090070 NOSIG RMK QFE760/1014 UNOO 261530Z 32002MPS CAVOK 05/00 Q1031 R25/CLRD60 NOSIG RMK QFE765 UNTT 261530Z 28002MPS 9999 BKN023 06/03 Q1026 R21/190055 NOSIG RMK QFE754 UOOO 261500Z 21012MPS 9999 BKN022 06/03 Q1009 R19/CLRD60 RMK QFE740/0987 URFF 261530Z 28002MPS CAVOK 23/16 Q1006 R01/090095 NOSIG URKA 261530Z 16004MPS 090V220 9999 FEW/// SCT/// 24/17 Q1009 R22/010065 TEMPO 3000 -TSRA SCT010 BKN020CB RMK QFE751/1002 URKK 261530Z 27002MPS 9999 -SHRA SCT046CB 22/19 Q1009 R23L/290060 TEMPO 3000 -TSRA SCT010 BKN030CB RMK QFE753 URMG 261530Z 10006MPS 9999 SCT016CB BKN/// 21/17 Q1013 R08/090070 NOSIG RMK QFE745/0994 URML 261530Z 14008MPS 9999 SCT022 21/17 Q1013 R14/01//70 NOSIG RMK QFE760/1013 URMM 261530Z 12004MPS 9999 SCT045 20/12 Q1013 R12/090070 NOSIG RMK QFE732/0976 URMN 261530Z 27002MPS 9999 BKN021CB OVC/// 18/14 Q1013 R24/010070 NOSIG RMK QFE723 URMO 261530Z 19001MPS 9000 -SHRA BKN038CB 17/16 Q1014 R09/290150 NOSIG RMK QFE717/0956 URMT 261530Z 11010MPS 8000 NSC 20/11 Q1014 R07/010070 NOSIG RMK QFE720 URRP 261530Z 10008MPS 9999 FEW/// 26/04 Q1013 R05/CLRD70 TEMPO 13010G16MPS RMK QFE755/1007 URSS 261530Z 04003MPS 9999 NSC 23/16 Q1009 R02/010070 R06/010070 NOSIG RMK R06/07005MPS QFE755 URWA 261530Z 08007MPS CAVOK 15/05 Q1021 R09/010070 NOSIG RMK QFE768/1024 URWI 261530Z 11010MPS CAVOK 19/02 Q1017 TEMPO 12013G21MPS 2000 -DS URWW 261530Z 10008MPS CAVOK 18/M02 Q1022 R06/010070 NOSIG USCC 261530Z 18001MPS 7000 NSC 08/05 Q1032 R27/000060 NOSIG RMK QFE753 USCM 261530Z 07001MPS 9999 NSC 10/M00 Q1032 R36/090060 NOSIG RMK QFE735 USHH 261530Z 18002MPS CAVOK 12/09 Q1027 R24/010060 NOSIG USNN 261530Z 00000MPS CAVOK 05/03 Q1027 R21/0///65 NOSIG RMK QFE765 USPP 261530Z 22003MPS CAVOK 09/05 Q1031 R21/090060 NOSIG RMK QFE762 USRR 261530Z 24003MPS 9999 SCT033 09/05 Q1027 R25/CLRD60 NOSIG RMK QFE765 USSS 261530Z 00000MPS 9000 NSC 04/04 Q1032 R26R/010060 NOSIG RMK QFE753/1004 USTR 261530Z 25003MPS CAVOK 08/05 Q1031 R21/CLRD65 R30/////99 NOSIG RMK QFE763/1018 UTAA 261500Z 07004KT 9999 NSC 24/01 Q1013 R88/CLRD70 NOSIG UTAK 261500Z 09012KT CAVOK 26/M04 Q1012 R16R/CLRD70 NOSIG UTAM 261500Z 35002KT 6000 SCT230 20/03 Q1014 R88/CLRD70 NOSIG UTAT 261500Z 05012KT CAVOK 16/M02 Q1017 R08/CLRD70 NOSIG UTAV 261400Z 33010KT CAVOK 23/M01 Q1012 R31/CLRD70 NOSIG UTDD 261530Z VRB02MPS 9999 NSC 19/M00 Q1014 R09/D NOSIG RMK QFE692/0923 UTDK 261530Z 02003MPS 9999 NSC 19/04 Q1013 R01/09//70 RMK QFE703/0937 UTDL 261530Z 25004MPS 9999 FEW086 17/04 Q1013 R26/CLRD70 NOSIG RMK QFE722/0963 UTDT 261530Z 16003MPS 9999 NSC 20/M00 Q1011 R35/////// RMK QFE719/0959 UTFF 261300Z 35004KT 9999 NSC 21/03 Q1012 R99/CLRD70 UTFN 261530Z 33006KT 9000 NSC 17/07 Q1012 R28/CLRD70 NOSIG UTNN 261530Z 01008KT CAVOK 14/M04 Q1019 R33/CLRD60 NOSIG UTNU 261530Z 02008KT CAVOK 13/M01 Q1017 R31/CLRD70 NOSIG UTSA 261530Z 01010KT 9999 NSC 19/M03 Q1013 R07/CLRD70 NOSIG UTSB 261530Z 34010KT CAVOK 17/M01 Q1013 R01/CLRD70 NOSIG UTSK 261500Z 15004KT CAVOK 20/03 Q1012 R16/CLRD70 UTSS 261500Z 15008KT 6000 NSC 17/M00 Q1013 R09/70D NOSIG UTST 261530Z 22004KT CAVOK 18/01 Q1012 R88/CLRD70 NOSIG UTTT 261530Z 16004KT 4000 FU NSC 17/05 Q1013 R08R/CLRD70 NOSIG UUBC 261530Z 09003MPS CAVOK 18/08 Q1019 R31/CLRD60 NOSIG RMK QFE747/0996 UUBP 261500Z 08004MPS CAVOK 21/07 Q1014 R16/CLRD70 NOSIG RMK QFE742/0990 UUBW 261530Z 08003MPS CAVOK 16/08 Q1021 R30/010060 NOSIG UUDD 261530Z 10004MPS CAVOK 16/07 Q1021 R14R/CLRD60 NOSIG UUDL 261530Z 12002MPS CAVOK 15/07 Q1024 R23/////// NOSIG RMK QFE760 UUEE 261530Z 10004MPS CAVOK 17/07 Q1021 R06R/CLRD62 R06L/CLRD62 NOSIG UUMO 261530Z 11004MPS CAVOK 17/08 Q1021 R08/090060 NOSIG RMK QFE751/1001 UUOB 261530Z 12009MPS CAVOK 21/06 Q1015 R11/010060 NOSIG UUOK 261530Z 13007MPS CAVOK 22/00 Q1015 R12/CLRD65 NOSIG RMK QFE743/0991 UUOL 261530Z 11005MPS CAVOK 21/04 Q1020 R15/090060 NOSIG UUOO 261530Z 12004MPS CAVOK 20/02 Q1019 R12/090070 NOSIG RMK QFE750 UUWW 261530Z 10004MPS CAVOK 17/07 Q1021 R06/000070 NOSIG UUYY 261530Z 20001MPS CAVOK 11/10 Q1028 R18/61D NOSIG RMK QFE762/1016 UWGG 261530Z VRB01MPS CAVOK 15/07 Q1026 R18L/090070 NOSIG UWKD 261530Z 12005MPS CAVOK 10/05 Q1030 R11/CLRD60 NOSIG RMK QFE762/1017 UWKE 261530Z 17002MPS CAVOK 16/01 Q1031 R21/090070 NOSIG RMK QFE757/1009 UWKS 261530Z 13003MPS CAVOK 13/05 Q1029 R06/010060 NOSIG RMK QFE756 UWLW 261500Z 16003MPS 8000 NSC 14/03 Q1030 R20/CLRD60 NOSIG RMK QFE767 UWOO 261530Z 04002MPS CAVOK 08/01 Q1032 R26/65D NOSIG RMK QFE763/1018 UWOR 261500Z 00000MPS CAVOK 11/M00 Q1032 R25/CLRD65 NOSIG RMK QFE750/1000 UWSG 261530Z 10005MPS CAVOK 17/02 Q1027 R08/CLRD70 NOSIG RMK QFE768/1024 UWUU 261530Z 13002MPS CAVOK 08/02 Q1032 R32L/0///60 NOSIG UWWW 261530Z 18002MPS CAVOK 14/01 Q1031 R15/CLRD60 NOSIG RMK QFE761/1015 VAAH 261530Z 20008KT 4000 HZ FEW020 SCT025 31/27 Q1006 NOSIG VAAU 261500Z 27002KT 6000 SCT020 BKN100 25/23 Q1010 NOSIG VABB 261530Z 26006KT 4000 HZ SCT020 SCT100 29/24 Q1008 NOSIG VABO 261500Z 18006KT 6000 FEW020 30/23 Q1005 NOSIG VABP 261530Z 19003KT 2000 BR SCT020 24/24 Q1009 TEMPO 1500 BR VABV 261200Z 19005KT 6000 FEW020 SCT025 31/24 Q1004 VAID 261500Z 00000KT 5000 HZ FEW025 25/21 Q1009 NOSIG VAJB 261300Z 25004KT 3000 HZ SCT025 28/24 Q1005 VAJJ 261230Z 26007KT 5000 SCT020 SCT025 29/24 Q1006 NOSIG VAKP 261100Z 25004KT 7000 SCT012 SCT018 BKN100 25/22 Q1009 VANP 261530Z 00000KT 2500 HZ SCT018 OVC080 27/24 Q1008 NOSIG VAOZ 261430Z 25003KT 6000 FEW020 SCT250 22/21 Q1011 NOSIG VARK 261200Z 29009KT 6000 FEW020 FEW025TCU 33/21 Q1004 VASU 261530Z 20006KT 6000 FEW020 SCT080 28/24 Q1007 NOSIG VAUD 261530Z 19003KT 4000 HZ FEW030 26/22 Q1008 NOSIG VCBI 261510Z 24004KT 9999 SCT017 28/25 Q1011 NOSIG VCRI 261510Z 22006KT 9999 FEW020CB 27/26 Q1011 NOSIG N VDPP 261530Z 22005KT 9000 -RA SCT015 SCT040 27/25 Q1008 VDSR 261530Z 22002KT 9000 SCT017 28/28 Q1007 VDSV 261530Z VRB01KT 9000 SCT015 SCT040 28/25 Q1009 VEAT 261230Z 17003KT 3000 -TSRA FEW010 SCT018 FEW030CB BKN100 26/25 Q1004 NOSIG VEBN 261530Z 14003KT 2500 BR SCT100 29/26 Q1003 NOSIG VEBS 261530Z 19009KT 3500 HZ SCT018 SCT100 28/27 Q1005 NOSIG VECC 261530Z 15005KT 3500 HZ FEW018 FEW030CB BKN100 28/27 Q1004 NOSIG VEGT 261530Z 00000KT 2500 BR SCT018 FEW025CB BKN100 28/28 Q1005 NOSIG VEGY 261500Z 00000KT 3500 BR SCT018 BKN100 26/25 Q1003 VEIM 261200Z 27002KT 5000 BR FEW010 SCT018 BKN100 22/18 Q1009 NOSIG VEJH 261230Z 00000KT 3000 HZ BKN018 BKN090 30/25 Q1002 VEJS 261200Z 00000KT 4000 HZ SCT015 SCT025 BKN100 32/24 Q1001 VEKO 261200Z 32002KT 6000 SCT100 34/27 Q1001 VELP 261200Z 18004KT 2000 -RA SCT008 SCT018 FEW030CB BKN100 24/24 Q1007 NOSIG VELR 261230Z 19003KT 3000 BR FEW008 SCT090 27/26 Q1003 VEMN 261300Z 09003KT 3000 BR FEW008 SCT018 FEW025CB BKN100 27/26 Q1004 NOSIG VEPT 261530Z 09005KT 4000 HZ FEW018 SCT100 24/22 Q1003 NOSIG VERC 261530Z 00000KT 3000 HZ SCT015 BKN100 26/23 Q1008 NOSIG VERP 261500Z 18006KT 3000 BR FEW020 BKN090 28/26 Q1006 NOSIG VGEG 261500Z 16006KT 4500 SCT017 BKN100 26/25 Q1006 NOSIG VGHS 261530Z 14008KT 3500 HZ BKN010 BKN100 29/25 Q1005 NOSIG VHHH 261530Z 10013KT 9999 FEW023 SCT045 29/23 Q1010 NOSIG VIAR 261530Z 00000KT 3000 BR NSC 28/23 Q1004 NOSIG VIDD 261300Z 24005KT 3000 HZ SCT035 BKN100 31/23 Q1002 NOSIG VIDN 261200Z 00000KT 4000 HZ SCT030 30/22 Q1003 VIDP 261530Z 31004KT 3000 HZ SCT035 BKN100 28/21 Q1004 NOSIG VIGG 261100Z 21003KT 6000 FEW035 30/21 Q1008 VIJP 261530Z 00000KT 3000 BR SCT030 FEW035CB BKN100 26/23 Q1007 NOSIG VILK 261530Z 00000KT 4000 BR SCT020 29/27 Q1003 NOSIG VLLB 261300Z 00000KT 9999 SCT017 SCT060 28/24 Q1005 NOSIG VLLN 261200Z 14002KT 6000 FEW040 SCT100 24/23 Q1008 NOSIG VLPS 261100Z 18002KT 9999 FEW020TCU BKN200 26/24 Q1007 NOSIG VLSK 261200Z 18004KT 3000 BR SCT018 SCT093 29/25 Q1007 NOSIG VLVT 261300Z 00000KT 4000 TS FEW023CB SCT100 27/26 Q1007 CB OVER AD NOSIG VMMC 261530Z 11015KT 9999 FEW018 SCT045 29/25 Q1010 NOSIG VNKT 261550Z 22003KT 7000 FEW015 21/20 Q1012 NOSIG VOBG 261500Z 23003KT 5000 DZ BR SCT008 BKN080 23/19 Q1013 NOSIG VOBL 261530Z VRB02KT 6000 SCT012 BKN080 22/22 Q1015 NOSIG VOBM 261300Z 27006KT 6000 SCT007 SCT012 BKN080 22/21 Q1012 VOBZ 261530Z 20005KT 3000 BR SCT018 OVC080 26/23 Q1007 NOSIG VOCB 261530Z 23008KT 5000 BR SCT015 BKN080 25/23 Q1012 NOSIG VOCI 261530Z 00000KT 4000 BR SCT012 BKN080 27/25 Q1010 NOSIG VOCL 261530Z 36002KT 5000 HZ SCT012 FEW025TCU BKN080 26/24 Q1010 NOSIG VOGO 261530Z 26003KT 5000 VCSH FEW010 SCT014 BKN080 26/25 Q1009 TEMPO 4000 -RA/DZ VOHB 261200Z 26009KT 8000 SCT010 SCT015 BKN080 24/21 Q1012 VOHS 261530Z 26005KT 5000 -DZ SCT010 SCT015 OVC080 22/22 Q1012 NOSIG VOHY 261500Z VRB03KT 4000 BR SCT015 BKN100 21/21 Q1011 NOSIG VOKN 261530Z VRB01KT 3000 BR SCT008 SCT012 26/25 Q1011 NOSIG VOMD 261500Z 00000KT 6000 FEW020 SCT100 27/23 Q1010 NOSIG VOML 261530Z 00000KT 5000 BR FEW005 SCT012 OVC080 25/24 Q1010 NOSIG VOMM 261530Z VRB02KT 6000 FEW020 29/25 Q1009 NOSIG VOMY 261400Z 23010KT 6000 SCT015 BKN080 24/22 Q1012 VORY 261530Z 26008KT 6000 SCT018 OVC090 26/24 Q1007 NOSIG VOTK 261200Z 00000KT 6000 FEW020 FEW030CB SCT100 29/24 Q1007 NOSIG VOTP 261130Z 34005KT 6000 SCT020 SCT100 29/24 Q1006 NOSIG VOTR 261530Z VRB02KT 5000 HZ SCT016 BKN080 30/23 Q1009 NOSIG VOTV 261530Z 31005KT 3000 BR FEW015 28/27 Q1011 NOSIG VOVZ 261500Z 32004KT 4000 BR SCT018 OVC080 28/27 Q1005 NOSIG VQPR 261100Z 15005KT 6000 SCT010 OVC050 16/14 Q1018 VRMM 261500Z 30008KT 9999 FEW018 BKN280 29/25 Q1011 NOSIG VTBD 261530Z 23008KT 9999 FEW030 30/25 Q1009 NOSIG VTBS 261530Z 22005KT 9999 FEW020 29/26 Q1009 NOSIG VTBU 261530Z 23005KT 9999 FEW020 29/24 Q1009 NOSIG VTCC 261530Z VRB02KT 9999 FEW035 26/24 Q1010 NOSIG VTCH 261200Z 19003KT 9999 FEW020TCU BKN025 26/24 Q1007 NOSIG VTCL 261200Z VRB02KT 9999 FEW025 SCT100 29/24 Q1006 NOSIG VTCN 261200Z 00000KT 9999 FEW040 28/26 Q1006 NOSIG VTCP 261100Z 00000KT 9999 FEW010 31/24 Q1005 NOSIG VTCT 261500Z 31003KT 9999 FEW035 25/25 Q1010 NOSIG VTPB 261100Z 16003KT 110V220 9999 FEW025 31/25 Q1005 NOSIG VTPH 261100Z 14007KT 9999 FEW035 30/25 Q1006 NOSIG VTPM 261100Z 25006KT 230V290 9999 SCT030 28/25 Q1007 NOSIG VTPP 261300Z 00000KT CAVOK 28/26 Q1006 NOSIG VTSB 261500Z 22002KT 9999 FEW020 25/25 Q1011 VTSC 261500Z 00000KT 9999 FEW020 28/24 Q1011 NOSIG VTSE 261100Z VRB03KT 9999 FEW020 BKN100 29/24 Q1007 NOSIG VTSF 261300Z 00000KT 9999 FEW018 29/26 Q1009 NOSIG VTSG 261500Z VRB01KT 9999 FEW020 SCT100 25/24 Q1011 NOSIG VTSM 261500Z 00000KT 9999 FEW020 30/24 Q1011 NOSIG VTSP 261530Z 30006KT 9999 FEW020 SCT100 28/24 Q1011 NOSIG VTSR 261300Z 11002KT 9999 SCT020 27/25 Q1009 NOSIG VTSS 261530Z 23003KT 9999 FEW020 BKN100 27/24 Q1011 NOSIG VTST 261300Z 00000KT 7000 FEW025 27/25 Q1009 NOSIG VTUD 261300Z 00000KT CAVOK 28/26 Q1007 NOSIG VTUI 261200Z 00000KT 9999 FEW030 29/28 Q1006 NOSIG VTUK 261500Z VRB02KT 9000 FEW030 26/24 Q1009 NOSIG VTUL 261200Z 13003KT 100V160 8000 -TSRA SCT020CB BKN030 23/23 Q1007 RERA NOSIG VTUO 261500Z 02003KT 9999 SCT035 BKN100 27/24 Q1009 NOSIG VTUQ 261100Z 26003KT 9999 FEW030 28/25 Q1006 NOSIG VTUU 261500Z 00000KT CAVOK 25/24 Q1009 NOSIG VTUV 261400Z 00000KT 9999 FEW030 25/24 Q1008 NOSIG VTUW 261300Z 00000KT 9999 FEW020 29/27 Q1007 NOSIG VVCI 261530Z 10005KT 9999 FEW022 29/27 Q1008 NOSIG VVCR 261530Z 20001KT 9999 FEW015 BKN060 28/25 Q1009 NOSIG VVDN 261530Z 22002KT 9999 FEW017 28/25 Q1009 NOSIG VVNB 261530Z 11007KT 9999 SCT019 28/25 Q1008 NOSIG VVPB 261530Z VRB02KT 9999 FEW020 28/25 Q1008 NOSIG VVPQ 261530Z 30005KT 9999 SCT015 29/25 Q1008 NOSIG VVTS 261530Z VRB02KT 6000 -TSRA SCT015 SCT017CB 24/23 Q1008 NOSIG RMK CB OVER RWY VYMD 261130Z 17010KT 7000 SCT020 33/23 Q1003 NOSIG VYNT 261200Z 18008KT 6000 BKN016 FEW020CB BKN100 27/24 Q1007 VYYY 261530Z 32003KT 6000 SCT020 SCT110 27/24 Q1009 WAAA 261530Z VRB02KT 8000 FEW020 26/23 Q1010 NOSIG WADD 261530Z 15003KT 9999 FEW017 27/27 Q1013 NOSIG WADL 261530Z 15005KT 7000 FEW016 26/22 Q1013 NOSIG WAHS 261100Z 26005KT 7000 FEW014 30/23 Q1008 NOSIG WAJJ 261530Z 34002KT 8000 SCT013 25/23 Q1010 NOSIG WALL 261200Z 26002KT 9000 FEW020 28/26 Q1009 WAMM 261530Z VRB01KT 9000 FEW021 24/23 Q1010 NOSIG WAOO 261530Z AUTO 27002KT 5000 OVC140 26/26 Q1010 WAPP 261200Z 34005KT 9999 SCT018 26/25 Q1011 NOSIG WATT 261200Z 12005KT 8000 FEW018 27/21 Q1012 NOSIG WBGB 261500Z 14005KT 100V190 9999 SCT016 25/23 Q1011 WBGG 261530Z VRB02KT 9999 SCT020 24/23 Q1012 NOSIG WBGR 261500Z 17003KT 9999 SCT016 24/24 Q1011 WBGS 261500Z 14004KT 100V180 9999 SCT018 24/23 Q1012 WBGY 261500Z AUTO 00000KT //// // ////// 24/23 Q1012 WBKK 261530Z 20009KT 9999 FEW014 27/23 Q1010 NOSIG WBKL 261500Z VRB05KT 9999 FEW013 26/23 Q1011 WBKS 261500Z 00000KT 9999 FEW016 26/24 Q1010 WBKT 261500Z VRB02KT 9999 SCT014 25/24 Q1010 WBKW 261500Z VRB02KT 9999 FEW017 26/24 Q1011 WBSB 261530Z 15007KT 9999 FEW015 BKN140 26/23 Q1011 NOSIG WIBB 261530Z 00000KT 8000 BKN010 24/23 Q1013 WIDD 261200Z 22003KT 9000 -RA SCT014 26/25 Q1012 NOSIG WIHH 261500Z 00000KT 6000 SCT022 26/21 Q1012 NOSIG WIII 261600Z 18003KT 6000 SCT022 26/21 Q1012 NOSIG WIPP 261300Z 25001KT 9999 FEW010 26/23 Q1011 NOSIG WMAU 261500Z AUTO VRB05KT //// // ////// 25/24 Q1013 WMBA 261500Z 00000KT 6000 FEW010 SCT030 25/24 Q1012 WMKA 261500Z 00000KT 9999 FEW030 27/26 Q1011 WMKB 261500Z 19003KT 140V240 8000 SCT024 28/24 Q1012 NOSIG WMKC 261500Z VRB02KT 9999 FEW020 27/24 Q1011 WMKD 261500Z 23004KT 150V260 9000 -RA FEW017CB SCT024 25/23 Q1012 RETSRA BECMG 9999 NSW WMKE 261500Z AUTO 25010KT 210V330 //// // ////// 23/22 Q1012 WMKI 261500Z VRB01KT 8000 -RA FEW006 SCT026 24/22 Q1013 WMKJ 261500Z 28006KT 210V010 5000 -TSRA FEW010 FEW017CB SCT020 24/23 Q1013 RERA WMKK 261530Z VRB03KT 7000 -TSRA FEW008 FEW017CB 24/23 Q1014 NOSIG WMKL 261500Z VRB02KT 9999 FEW026 28/26 Q1012 WMKM 261500Z VRB01KT 7000 -RA FEW010 FEW017CB SCT027 24/24 Q1014 WMKN 261500Z 18004KT 120V240 9999 -TSRA FEW017CB SCT022 25/23 Q1011 WMKP 261530Z 00000KT 9000 FEW025 27/25 Q1012 NOSIG WMSA 261500Z 15004KT 100V170 9000 FEW017CB 26/25 Q1014 WSAP 261500Z 30002KT 8000 -SHRA FEW015CB FEW017TCU BKN160 25/24 Q1012 RESHRA WSSL 261500Z VRB02KT 8000 -RA FEW015 FEW018TCU FEW020CB BKN150 24/23 Q1013 RETS WSSS 261530Z 30004KT 270V330 8000 -RA FEW014 SCT040 OVC160 25/23 Q1013 RERA TEMPO FM1630 TL1715 4000 SHRA YABA 261500Z AUTO 28007KT 9999 // SCT031 SCT063 11/11 Q1013 YAMB 261530Z AUTO 23004KT 9999 // NCD 07/M02 Q1019 YARG 261500Z AUTO 09004KT 9999 // NCD 27/19 Q1013 YAYE 261500Z AUTO 12006KT 9999 // NCD 18/M03 Q1018 YBAS 261530Z AUTO 08009KT 9999 // NCD 17/M04 Q1020 RF00.0/000.0 YBBN 261530Z 22008KT CAVOK 13/M04 Q1019 NOSIG YBCG 261530Z AUTO 23003KT 9999 // NCD 07/05 Q1018 RF00.0/000.2 YBCS 261530Z AUTO 00000KT 9999 // SCT115 21/20 Q1014 NOSIG YBCV 261500Z AUTO 14003KT 9999 // NCD 08/M05 Q1020 YBDV 261500Z AUTO 17006KT //// // ////// 12/M03 Q1022 YBHI 261500Z AUTO 00000KT 9999 // NCD 09/02 Q1023 YBHM 261530Z AUTO 33002KT 9999 // NCD 21/19 Q1016 RF00.0/000.0 YBLN 261500Z AUTO 07003KT 9999 // ////// 09/09 Q1014 YBMA 261530Z AUTO 14005KT 9999 // NCD 21/M02 Q1017 RF00.0/000.0 YBMK 261500Z AUTO 27003KT 9999 // NCD 16/14 Q1016 YBNA 261500Z AUTO 27004KT 9999 // NCD 09/03 Q1018 YBOK 261500Z AUTO 01004KT 9999 // NCD 02/M05 Q1020 YBPN 261500Z AUTO 00000KT 9999 // NCD 16/14 Q1016 YBRK 261530Z AUTO 15005KT 9999 // NCD 18/04 Q1017 RF00.0/000.0 YBRM 261530Z AUTO 28005KT 9999 // NCD 26/23 Q1011 RF00.0/000.0 YBTL 261530Z AUTO 26003KT 9999 // NCD 21/21 Q1015 YBUD 261500Z AUTO 19005KT 9999 // NCD 14/01 Q1018 YBWP 261500Z AUTO 06007KT 9999 // NCD 25/20 Q1013 YBWX 261500Z AUTO 23024KT //// // ////// 22/17 Q1013 YCAR 261500Z AUTO 18010KT 9999 // NCD 19/15 Q1016 YCAS 261500Z AUTO 31005KT //// // ////// 08/02 Q1019 YCBA 261500Z AUTO 04003KT 9999 // NCD 04/03 Q1023 YCBB 261500Z AUTO 25007KT 9999 // NCD 06/01 Q1021 YCBP 261500Z AUTO 09016KT 9999 // NCD 12/M01 Q1022 YCCY 261500Z AUTO 18005KT 9999 // NCD 20/M01 Q1016 YCDU 261500Z AUTO 08009KT 9999 // NCD 07/05 Q1023 YCFS 261530Z AUTO 00000KT 9999 // NCD 06/03 Q1018 RF00.0/000.0 YCIN 261530Z AUTO 25009KT //// // ////// 27/15 Q1010 RF00.0/000.0 PRESENT WEATHER SENSOR US YCNM 261500Z AUTO 00000KT //// // ////// 03/02 Q1022 YCOM 261531Z AUTO 28015G25KT 9999 // BKN062 04/M02 Q1013 YDBY 261500Z AUTO 22011KT 9999 // NCD 28/16 Q1010 YEML 261500Z AUTO 15011KT 9999 // NCD 17/M03 Q1018 YESP 261500Z AUTO 03011KT 9999 // SCT064 OVC110 12/10 Q1012 YFRT 261530Z AUTO 09019KT 9999 // NCD 13/04 Q1014 RF00.0/000.0 YGEL 261530Z AUTO 01004KT 9999 // SCT029 SCT036 SCT048 14/12 Q1016 YGFN 261500Z AUTO 21003KT 9999 // NCD 08/M01 Q1019 YGLA 261530Z AUTO 19002KT 9999 // NCD 16/09 Q1018 RF00.0/000.0 YGTE 261500Z AUTO 00000KT 9999 // NCD 22/21 Q1012 YGTH 261500Z AUTO 27003KT 9999 // NCD 04/03 Q1021 YHID 261530Z AUTO 13010KT 9999 // NCD 25/22 Q1011 RF00.0/000.0 YHUG 261500Z AUTO 03003KT 9999 // NCD 18/M02 Q1017 YKRY 261500Z AUTO 00000KT 9999 // NCD 04/M03 Q1020 YLEC 261500Z AUTO 20006KT 9999 // NCD 10/01 Q1023 YLHI 261530Z AUTO 25024KT 9999 // SCT048 SCT054 SCT082 18/11 Q1014 YLIS 261500Z AUTO 05006KT 360V100 9999 // NCD 07/00 Q1019 YLRE 261500Z AUTO 16008KT 9999 // NCD 16/M03 Q1019 YMAV 261530Z AUTO 27008KT 9999 // SCT028 BKN034 OVC074 09/09 Q1019 YMAY 261500Z AUTO 25003KT 9999 // NCD 06/05 Q1019 YMDG 261500Z AUTO 33005KT 9999 // NCD 02/02 Q1020 YMEK 261500Z AUTO 23006KT 9999 // NCD 18/01 Q1015 YMEN 261500Z AUTO 25012KT 9999 // SCT042 SCT052 BKN066 09/07 Q1019 YMER 261500Z AUTO 28005KT //// // BKN069 10/03 Q1014 YMHB 261530Z AUTO 26015KT 9999 // SCT034 SCT039 SCT046 06/M00 Q1013 YMIA 261500Z AUTO 25004KT 9999 // NCD 06/04 Q1024 YMLT 261530Z AUTO 01005KT 9999 // SCT056 02/M04 Q1013 RF00.0/000.0 YMML 261530Z 27010KT 9999 FEW020 SCT027 BKN039 09/07 Q1019 INTER 1600/1800 5000 SHRA SCT008 BKN010 YMOR 261500Z AUTO 20004KT 9999 // NCD 05/M01 Q1021 YMTG 261553Z AUTO 28005KT 9999 // SCT004 SCT007 BKN010 08/07 Q1022 YNAR 261500Z AUTO 26008KT 9999 // NCD 07/03 Q1021 YNBR 261500Z AUTO 14005KT 9999 // NCD 08/M01 Q1021 YNTN 261500Z AUTO 17009KT 9999 // NCD 26/05 Q1013 YNWN 261500Z AUTO 25006KT 9999 // NCD 22/M01 Q1013 YOLD 261500Z AUTO 06005KT 9999 // NCD 10/00 Q1023 YPAD 261530Z 00000KT 9999 FEW020 07/05 Q1024 NOSIG YPBO 261500Z AUTO 21006KT 9999 // NCD 23/04 Q1014 YPCC 261530Z AUTO 09014KT 9999 // SCT018 27/24 Q1014 RF00.0/000.0 YPDN 261530Z AUTO 33004KT 9999 // NCD 28/24 Q1011 YPEA 261541Z AUTO 02001KT 9999 // SCT001 SCT036 BKN051 11/10 Q1015 YPGV 261530Z AUTO 17003KT 9999 // SCT013 24/22 Q1012 RF00.0/000.0 YPJT 261530Z AUTO 00000KT 6000 // NCD 11/11 Q1014 RF00.0/005.2 YPKG 261530Z AUTO 24015KT 9999 // NCD 18/05 Q1012 RF00.0/000.0 YPKU 261530Z AUTO 18003KT 9999 // SCT120 27/22 Q1011 RF00.0/000.0 YPLM 261530Z AUTO 21011KT 9999 // NCD 18/12 Q1015 RF00.0/000.0 YPPD 261530Z AUTO 28011KT 9999 // NCD 24/20 Q1011 RF00.0/000.0 YPPH 261530Z 02005KT 9999 FEW030 12/11 Q1014 NOSIG YPTN 261530Z AUTO 26002KT 9999 // BKN085 30/18 Q1011 RF00.0/000.0 YPWR 261530Z AUTO 10007KT 9999 // NCD 10/03 Q1023 RF00.0/000.0 YPXM 261558Z AUTO 13012KT 9999 // SCT012 BKN021 BKN027 24/22 Q1015 YRMD 261500Z AUTO 14007KT 9999 // NCD 19/01 Q1017 YSCB 261530Z AUTO 31010KT 9999 // OVC049 06/01 Q1016 YSDU 261530Z AUTO 28005KT 9999 // NCD 02/01 Q1021 RF00.0/000.2 YSNF 261530Z AUTO 33005KT 9999 // SCT050 OVC064 18/17 Q1015 YSNW 261500Z AUTO 29013KT 9999 // NCD 11/01 Q1015 YSRI 261530Z AUTO 33006KT 9999 // NCD 09/02 Q1017 RF00.0/000.2 YSSY 261530Z 29010KT CAVOK 11/01 Q1017 FM1530 MOD TURB BLW 5000FT YSTW 261530Z AUTO 00000KT 9999 // NCD 03/00 Q1021 RF00.0/000.0 YSWG 261500Z AUTO 31005KT 9999 // NCD 04/04 Q1019 YTEF 261514Z AUTO 30015KT 9999 -RA SCT125 29/13 Q1011 YTNK 261500Z AUTO 12017KT 9999 // SCT115 24/M00 Q1016 YTRE 261500Z AUTO 29005KT 9999 // NCD 11/01 Q1018 YWGT 261500Z AUTO 29006KT 9999 // SCT040 BKN084 07/05 Q1019 YWHA 261500Z AUTO 13005KT 9999 // NCD 10/06 Q1024 YWLM 261530Z AUTO 30007KT 9999 // NCD 08/03 Q1018 ZBAA 261530Z 04001MPS 6000 NSC 15/15 Q1019 NOSIG ZBAD 261530Z 18003MPS CAVOK 17/15 Q1019 NOSIG ZBHH 261500Z 14002MPS 8000 NSC 14/11 Q1019 NOSIG ZBSJ 261500Z VRB01MPS 4000 BR NSC 16/15 Q1018 NOSIG ZBTJ 261530Z VRB01MPS 4500 BR NSC 17/16 Q1019 NOSIG ZBYN 261530Z 09004MPS 5000 HZ NSC 17/12 Q1020 NOSIG ZGGG 261530Z 01004MPS 320V030 6000 -SHRA FEW016 FEW040CB BKN040 23/22 Q1011 RESHRA NOSIG ZGHA 261500Z VRB01MPS 8000 NSC 19/19 Q1016 NOSIG ZGKL 261500Z 06002MPS 010V090 7000 -RA FEW030 BKN043 OVC060 19/18 Q1015 NOSIG ZGNN 261500Z 04003MPS 9999 -SHRA FEW004 SCT008 FEW026CB BKN026 22/21 Q1011 NOSIG ZGOW 261500Z 08004MPS 9999 SCT050 26/20 Q1012 NOSIG ZGSZ 261500Z 09003MPS 060V120 9999 FEW031 28/23 Q1011 NOSIG ZHCC 261500Z 02002MPS 4000 HZ NSC 23/16 Q1018 NOSIG ZHHH 261500Z 13006MPS 110V170 2800 -RA BR FEW010 SCT020 22/20 Q1016 BECMG TL1500 3200 BR ZJHK 261500Z 13002MPS CAVOK 27/27 Q1009 NOSIG ZJSY 261500Z 08002MPS 050V110 CAVOK 28/25 Q1009 NOSIG ZLLL 261500Z 11003MPS 080V140 9999 SCT046 15/08 Q1017 NOSIG ZLXY 261500Z 05005MPS 6000 NSC 20/16 Q1015 NOSIG ZMUB 261600Z VRB01MPS CAVOK M01/M08 Q1017 NOSIG RMK QFE655.7 57 ZPPP 261500Z 01003MPS 5000 BR SCT006 OVC033 15/15 Q1021 NOSIG ZSAM 261500Z 07007MPS 9999 BKN033 23/17 Q1013 NOSIG ZSFZ 261500Z 33002MPS 290V010 8000 -SHRA SCT020 BKN050 19/18 Q1015 NOSIG ZSHC 261530Z 11001MPS CAVOK 22/19 Q1015 NOSIG ZSNB 261500Z 30002MPS CAVOK 19/17 Q1015 NOSIG ZSNJ 261500Z 07003MPS CAVOK 20/17 Q1017 NOSIG ZSOF 261500Z 08002MPS 8000 NSC 20/17 Q1017 NOSIG ZSPD 261530Z 05004MPS 9999 -SHRA SCT023 22/19 Q1016 NOSIG ZSQD 261500Z VRB01MPS 9999 SCT050 19/16 Q1019 NOSIG ZSSS 261530Z 04004MPS 9999 FEW020 22/19 Q1016 NOSIG ZUCK 261500Z 02002MPS CAVOK 20/18 Q1015 NOSIG ZUGY 261500Z 03003MPS 9999 FEW010 BKN016 OVC040 15/14 Q1018 NOSIG ZUUU 261500Z 36001MPS 7000 -SHRA SCT008 FEW030TCU SCT030 18/18 Q1016 NOSIG ZWSH 261500Z 10002MPS 8000 BKN040 22/M03 Q1008 NOSIG ZWWW 261530Z 30003MPS CAVOK 12/M01 Q1023 NOSIG ZYCC 261500Z VRB01MPS CAVOK 11/09 Q1019 NOSIG ZYHB 261500Z 18002MPS CAVOK 13/11 Q1019 NOSIG ZYTL 261530Z 28001MPS 7000 NSC 17/16 Q1019 NOSIG ZYTX 261530Z 12002MPS 050V170 CAVOK 15/12 Q1018 NOSIG
More info

Charts for


NOTAM


Warning: file_get_contents(http://api.vateud.net/notams/.json): failed to open stream: Redirection limit reached, aborting in /var/www/customers/vh-7192/web/home/phpvms/core/common/NOTAMSData.class.php on line 18

Warning: Invalid argument supplied for foreach() in /var/www/customers/vh-7192/web/home/phpvms/core/common/NOTAMSData.class.php on line 22